Flight Booking
Flight Operations | Kenya Airways Virtual © 2019

Schedule Search

Confused Where to Fly? How About MYAM (Marsh Harbour Airport), click this link to view schedules from this airport!

Generate Rosters

Caution : durations are flexible (+/-) 2 hours


-- Flight Category --

JumpSeat Travel

Jumpseat tickets will cost you vMoney.

Current Account Balance : $
Last Jumpseat Flight : No Jumpseat flights!

Crew Information


Pilot Name :
ID # :
Hub :
Last Flight : New Hire, Stationed at Base

Location

AT BASE

Airport Information

No Records Found
METAR

TAF AGGH 061114Z 0612/0712 VRB03KT 9999 SCT016 PROB40 INTER 0612/0618 5000 SHRA BKNO15 T 25 24 23 26 Q 1009 1007 1006 1008 ANYN 060328Z 0606/0706 32008KT 9999 -SHRA BKN018 OVC030 PROB30 INTER 0606/0618 3500M +TSRA BKN008 SCT018CB T 26 25 25 25 Q 1008 1010 1009 1007= AYPY 060330Z 0606/0706 18012KT 9999 SCT020 FEW020CB FM061000 17008KT 9999 SCT040 T 31 28 27 26 Q 1007 1008 1010 1009 BGSF 061054Z 0612/0624 06008KT 9999 FEW200 BGTL 061200Z 0612/0716 24009KT 9999 FEW035 SCT120 QNH2965INS BECMG 0621/0622 09012G18KT 9999 SKC 520009 QNH2945INS BECMG 0705/0706 10012KT 9999 SKC QNH2945INS BECMG 0712/0713 10012G18KT 9999 SKC QNH2947INS TXM15/0613Z TNM20/0622Z BIAR 061038Z 0612/0712 33010KT 9999 FEW025 BKN035 TXM00/0612Z TNM07/0703Z PROB40 TEMPO 0612/0616 5000 SHSN BKN015 BECMG 0621/0623 VRB02KT FEW030 BIEG 061038Z 0612/0712 33006KT 9999 FEW030 SCT045 TXM00/0612Z TNM07/0702Z TEMPO 0612/0615 5000 SHSN BKN018 BIKF 061038Z 0612/0712 03012KT 9999 SCT020 TXM01/0612Z TNM05/0621Z BECMG 0618/0620 09010KT CAVOK BECMG 0706/0708 07018KT 9999 BKN025 BECMG 0709/0711 07027G40KT BIRK 061038Z 0612/0712 36013KT CAVOK TXM00/0612Z TNM05/0621Z BECMG 0612/0614 09008KT BECMG 0706/0708 07018KT 9999 SCT030 BECMG 0709/0711 08026G38KT BKPR 061130Z 0612/0712 18006KT 9999 SCT070 TEMPO 0622/0704 3000 RA BKN012 CBBC 060204Z 0602/0606 08005KT P6SM SCT020 OVC040 TEMPO 0602/0606 5SM -SHRASN BR OVC020 RMK FCST BASED ON AUTO OBS. AUTO OBS REP NON-REPRESENTATIVE PCPN TYPE NXT FCST WILL BE ISSUED AT 061345Z CWSA 060838Z 0609/0621 28020G30KT P6SM SCT020 TEMPO 0609/0615 BKN020 FM061500 26020G30KT P6SM BKN030 TEMPO 0615/0621 5SM -SHRA BR RMK FCST BASED ON AUTO OBS. PCPN SENSORS INOP. NXT FCST BY 061400Z CWWU 061200Z 0612/0712 VRB03KT P6SM -SHRA SCT004 BKN033 BKN085 FM061400 23010KT P6SM BKN010 OVC020 FM062100 23012G18KT P6SM SCT025 TEMPO 0621/0700 6SM -SHRA BKN020 FM070500 21012G18KT P6SM BKN025 TEMPO 0706/0709 6SM -SHRA RMK NXT FCST BY 061800Z CYAH 061138Z 0612/0622 28005KT P6SM FEW020 BKN060 TEMPO 0612/0616 4SM -SN BKN020 OVC060 FM061600 27005KT P6SM SCT015 OVC030 TEMPO 0616/0621 3SM -SN SCT008 OVC015 PROB30 0616/0621 2SM -SN OVC008 FM062100 25005KT 2SM -SN OVC008 PROB40 0621/0622 OVC005 RMK FCST BASED ON AUTO OBS. NXT FCST BY 061800Z CYAM 061008Z 0610/0620 VRB03KT P6SM -SN SCT015 BKN030 TEMPO 0610/0611 2SM -SN BKN015 OVC030 FM061100 VRB03KT 1SM -SN VV008 TEMPO 0611/0613 4SM -SN BKN015 OVC025 FM061300 30010G20KT P6SM -SHSN SCT015 BKN030 TEMPO 0613/0620 11/2SM -SHSN BLSN BKN015 OVC025 BECMG 0614/0616 31020G30KT RMK NXT FCST BY 061400Z CYAT 061209Z 0612/0620 30010KT 5SM -SHSN OVC012 TEMPO 0612/0616 P6SM NSW FM061600 30010KT P6SM BKN015 BECMG 0616/0618 SCT015 RMK FCST BASED ON AUTO OBS. NXT FCST BY 061400Z CYAW 061105Z 0612/0624 26010G20KT P6SM BKN040 TEMPO 0612/0619 4SM -SHSN BKN020 OVC040 FM061900 26012G22KT P6SM BKN030 FM062200 26012KT P6SM BKN030 OVC100 RMK NXT FCST BY 061800Z CYAY 061248Z 0612/0620 24008KT 6SM -SN SCT006 OVC012 TEMPO 0612/0616 1SM -SN BKN006 OVC012 FM061600 24012KT P6SM -SN OVC040 TEMPO 0616/0620 5SM -SN OVC020 RMK FCST BASED ON AUTO OBS. NXT FCST BY 061400Z CYBC 060738Z 0608/0620 27008KT P6SM FEW040 BKN100 TEMPO 0608/0615 P6SM -SHSN BKN040 OVC100 BECMG 0613/0615 27012G22KT FM061500 27012G22KT P6SM SCT040 RMK FCST BASED ON AUTO OBS. NXT FCST BY 061400Z CYBG 061130Z 0612/0712 29018G28KT P6SM SCT015 BKN040 TEMPO 0612/0618 5SM -SN BKN015 OVC040 BECMG 0612/0614 29012G22KT FM061800 28012KT P6SM BKN030 FM070200 29008KT 6SM -SN FEW015 OVC030 RMK NXT FCST BY 061500Z CYBK 061138Z 0612/0624 29010KT P6SM FEW015 SCT090 RMK NXT FCST BY 061800Z CYBL 060434Z 0604/0605 VRB03KT P6SM -RA SCT005 OVC015 TEMPO 0604/0605 2SM -DZ BR BKN005 OVC012 RMK NXT FCST WILL BE ISSUED AT 061545Z CYBN 061226Z 0612/0624 VRB03KT 3/4SM -SN OVC004 TEMPO 0612/0616 3SM -SN SCT004 OVC020 FM061600 32005KT P6SM BKN012 OVC030 TEMPO 0616/0624 SCT012 OVC030 BECMG 0622/0624 30012KT RMK FCST BASED ON AUTO OBS. NXT FCST BY 061800Z CYBR 061142Z 0612/0624 26010KT P6SM SCT250 FM061600 15008KT P6SM BKN015 TEMPO 0616/0622 4SM -SN BR BKN007 FM062200 28010KT P6SM BKN012 RMK NXT FCST BY 061800Z CYBW 061238Z 0613/0701 31008KT P6SM FEW070 SCT180 BECMG 0620/0622 19006KT FM062200 19006KT P6SM SCT200 RMK FCST BASED ON AUTO OBS. NXT FCST BY 061800Z CYBX 060739Z 0608/0620 VRB03KT 3SM -SN BKN020 OVC030 TEMPO 0608/0610 11/2SM -SN OVC008 FM061000 28005KT P6SM -SN SCT020 OVC030 TEMPO 0610/0620 3SM -SN BKN020 OVC030 BECMG 0616/0618 26010KT RMK NXT FCST BY 061400Z CYCA 060739Z 0608/0620 FCST NOT AVBL DUE NO OBS RMK FCST BASED ON AUTO OBS. NXT FCST BY 061400Z CYCB 061238Z 0613/0701 VRB03KT 2SM -SN FEW009 OVC020 TEMPO 0613/0622 6SM IC SCT020 BKN040 BECMG 0613/0615 03012KT FM062200 03015KT P6SM SCT020 TEMPO 0622/0701 BKN020 RMK NXT FCST BY 061900Z CYCO 061238Z 0613/0701 26018KT 6SM -SN OVC040 TEMPO 0613/0616 21/2SM -SHSN BLSN OVC020 BECMG 0614/0616 36020G30KT FM061600 36020G30KT P6SM SCT020 BKN040 TEMPO 0616/0621 4SM -SHSN BLSN OVC020 PROB30 0616/0621 2SM -SHSN BLSN FM062100 36015KT P6SM SCT020 TEMPO 0621/0701 BKN020 RMK NXT FCST BY 061900Z CYCX 061130Z 0612/0624 24008KT P6SM SCT020 TEMPO 0612/0614 BKN020 BECMG 0614/0616 24010G20KT FM062200 25010KT P6SM BKN030 RMK NXT FCST BY 061800Z CYCY 061238Z 0613/0701 30015KT P6SM SCT020 BKN060 TEMPO 0613/0616 4SM -SN BKN020 OVC040 FM061600 28010KT P6SM FEW020 RMK FCST BASED ON AUTO OBS. NXT FCST BY 061900Z CYDB 061138Z 0612/0624 29005KT 2SM HZ OVC005 TEMPO 0612/0615 P6SM NSW OVC012 FM061500 VRB03KT 2SM BR OVC006 TEMPO 0615/0624 P6SM NSW OVC012 RMK FCST BASED ON AUTO OBS. NXT FCST BY 061800Z CYDF 060739Z 0608/0620 24008KT P6SM -SHSN SCT015 BKN040 TEMPO 0608/0620 5SM -SHSN BKN015 OVC040 BECMG 0613/0615 26012G22KT RMK NXT FCST BY 061400Z CYDN 061142Z 0612/0624 23008KT P6SM SCT200 FM061800 24012KT P6SM SCT020 BKN050 TEMPO 0618/0624 P6SM -SN BKN020 RMK FCST BASED ON AUTO OBS. NXT FCST BY 061800Z CYDP 061038Z 0611/0623 28008KT P6SM SCT030 BKN100 TEMPO 0611/0618 5SM -SN BKN030 OVC100 FM061800 30012KT 6SM -SN OVC030 TEMPO 0618/0623 2SM -SN OVC020 RMK NXT FCST BY 061400Z CYDQ 061238Z 0613/0701 VRB03KT P6SM SKC BECMG 0614/0616 24008KT FM062100 24008KT P6SM SCT140 RMK FCST BASED ON AUTO OBS. NXT FCST BY 061900Z CYED 061130Z 0612/0624 24005KT P6SM BKN100 OVC220 FM061400 21005KT P6SM FEW160 BKN220 FM062000 VRB03KT P6SM BKN080 RMK FCST BASED ON AUTO OBS. NXT FCST BY 061800Z CYEG 061138Z 0612/0712 VRB03KT P6SM BKN100 BECMG 0615/0617 16006KT FM062100 16008KT P6SM SCT060 BKN150 FM070400 16008KT P6SM FEW010 BKN060 FM070800 36005KT 5SM -SN SCT008 BKN040 OVC080 RMK NXT FCST BY 061500Z CYEK 061138Z 0612/0624 26006KT P6SM SCT030 BKN070 TEMPO 0612/0620 21/2SM -SN BR OVC030 BECMG 0616/0618 32010KT FM062000 32010KT P6SM SCT030 RMK FCST BASED ON AUTO OBS. NXT FCST BY 061800Z CYEN 061142Z 0612/0624 08005KT P6SM BKN050 TEMPO 0612/0618 1SM BR FM061800 24008KT P6SM SCT060 BKN100 RMK FCST BASED ON AUTO OBS. NXT FCST BY 061800Z CYER 061209Z 0612/0620 26010KT 5SM -SN OVC009 BECMG 0612/0614 P6SM NSW SKC RMK FCST BASED ON AUTO OBS. NXT FCST BY 061400Z CYEU 061038Z 0611/0623 ADVISORY OFFSITE 14005KT P6SM SCT030 BKN060 TEMPO 0611/0623 3SM -SN OVC030 RMK NXT FCST BY 061800Z CYEV 061238Z 0613/0701 29012G22KT 5SM -SN BKN015 OVC060 TEMPO 0613/0701 P6SM -SN SCT015 BKN050 BECMG 0620/0622 29007KT RMK NXT FCST BY 061900Z CYFB 061138Z 0612/0712 35015G25KT 6SM BLSN SCT040 BKN090 TEMPO 0612/0622 21/2SM BLSN BKN040 PROB30 0612/0622 11/2SM BLSN FM062200 33015KT P6SM SKC BECMG 0704/0706 34008KT RMK NXT FCST BY 061800Z CYFC 061138Z 0612/0624 26010KT P6SM SCT020 TEMPO 0612/0615 BKN020 BECMG 0613/0615 26010G20KT FM061500 26010G20KT P6SM BKN040 FM062200 27008KT P6SM SCT040 BKN080 RMK FCST BASED ON AUTO OBS. NXT FCST BY 061800Z CYFS 061138Z 0612/0624 VRB03KT P6SM FEW150 TEMPO 0612/0624 5SM IC RMK NXT FCST BY 061800Z CYGK 061238Z 0613/0701 06006KT 3/4SM -SN VV005 TEMPO 0613/0616 21/2SM -SN SCT008 OVC015 FM061600 05007KT 2SM -SN BKN007 OVC015 TEMPO 0616/0618 6SM -SN OVC025 PROB30 0616/0618 11/2SM -SN FM061800 02010KT P6SM SCT015 OVC030 TEMPO 0618/0620 5SM -SN OVC020 FM062000 36007KT P6SM SCT015 BKN050 RMK NXT FCST BY 062000Z CYGL 061138Z 0612/0712 25005KT P6SM -SN OVC025 TEMPO 0612/0615 21/2SM -SN BR OVC020 FM061500 29008KT P6SM FEW020 BKN060 TEMPO 0615/0624 4SM -SHSN BKN020 OVC060 FM070000 27008KT 21/2SM -SHSN BKN008 OVC020 FM070600 23007KT P6SM -SN OVC008 PROB30 0709/0712 OVC007 RMK NXT FCST BY 061800Z CYGP 060738Z 0608/0620 VRB03KT P6SM SCT040 BKN090 BECMG 0613/0615 27012KT RMK NXT FCST BY 061400Z CYGQ 061305Z 0613/0620 31010G20KT P6SM -SN BKN025 TEMPO 0613/0618 3SM -SHSN OVC020 FM061800 27007KT P6SM SCT015 BECMG 0618/0620 22007KT RMK NXT FCST BY 061400Z CYGR 061138Z 0612/0624 27015G25KT 4SM -SHSN OVC020 TEMPO 0612/0616 P6SM NSW SCT020 OVC030 FM061600 27020G30KT P6SM BKN030 TEMPO 0616/0624 2SM -SHSN BLSN BKN020 RMK NXT FCST BY 061400Z CYGT 061238Z 0613/0622 28008KT P6SM FEW030 SCT060 TEMPO 0613/0622 BKN020 RMK NXT FCST BY 061900Z CYGV 060738Z 0608/0620 VRB03KT P6SM FEW020 BKN120 TEMPO 0608/0618 5SM -SN BKN020 OVC120 BECMG 0615/0617 27010KT FM061800 27010KT 2SM -SN BKN015 OVC030 RMK FCST BASED ON AUTO OBS. NXT FCST BY 061400Z CYGW 061138Z 0612/0624 30012KT P6SM -SHSN BKN030 TEMPO 0612/0624 11/2SM -SHSN BKN020 RMK FCST BASED ON AUTO OBS. NXT FCST BY 061800Z CYGX 061305Z 0613/0701 20008KT P6SM BKN020 TEMPO 0613/0615 SCT020 FM061500 22010KT P6SM -SN OVC025 TEMPO 0615/0701 4SM -SN OVC020 RMK NXT FCST BY 061900Z CYHD 060738Z 0608/0620 30010KT 4SM -SHSN OVC020 TEMPO 0608/0612 P6SM NSW BKN025 BECMG 0608/0610 27008KT FM061200 26008KT P6SM SCT015 TEMPO 0612/0618 6SM -SN BKN015 FM061800 23008KT 4SM -SN BKN015 BKN130 RMK FCST BASED ON AUTO OBS. NXT FCST BY 061400Z CYHK 061138Z 0612/0624 24006KT 6SM IC BKN060 TEMPO 0612/0624 2SM -SN BR OVC040 BECMG 0618/0620 34006KT RMK FCST BASED ON AUTO OBS. NXT FCST BY 061800Z CYHM 061320Z 0613/0712 22005KT P6SM -RASN FEW015 OVC030 TEMPO 0613/0616 5SM -RA BR BKN015 OVC030 BECMG 0613/0615 27012KT FM061600 30012G22KT P6SM BKN015 BKN040 FM062100 29012G22KT P6SM BKN030 TEMPO 0621/0623 P6SM -SHSN BECMG 0700/0702 29008KT FM070600 29008KT P6SM SCT030 FM071000 29008KT P6SM BKN030 RMK NXT FCST BY 061800Z CYHU 061303Z 0613/0712 24007KT 21/2SM -SN SCT020 OVC030 TEMPO 0613/0615 6SM -SN OVC040 FM061500 25008KT 5SM -SN BKN020 OVC030 TEMPO 0615/0623 P6SM NSW SCT020 OVC030 PROB30 0615/0620 21/2SM -SN FM062300 28007KT P6SM BKN030 BKN100 RMK FCST BASED ON AUTO OBS. NXT FCST BY 061800Z CYHY 061138Z 0612/0624 VRB03KT P6SM FEW020 SCT120 TEMPO 0612/0620 P6SM -SN BKN020 FM062000 27005KT P6SM SCT020 TEMPO 0620/0624 BKN020 RMK NXT FCST BY 061800Z CYHZ 061138Z 0612/0712 27012KT 4SM -SHSN BKN015 OVC030 TEMPO 0612/0616 P6SM NSW SCT015 BKN030 FM061600 27012G22KT P6SM BKN030 TEMPO 0616/0618 5SM -SHSN BKN020 BECMG 0621/0623 25010KT FM070400 24005KT 5SM -SN SCT008 OVC015 FM070700 33006KT 3SM -SN BKN008 OVC015 PROB30 0707/0712 2SM -SN BKN003 OVC008 RMK NXT FCST BY 061500Z CYIO 061238Z 0613/0701 VRB03KT P6SM FEW080 FM061900 VRB03KT P6SM SCT020 BKN080 TEMPO 0619/0701 21/2SM -SHSN OVC020 RMK FCST BASED ON AUTO OBS. NXT FCST BY 061900Z CYIV 061238Z 0613/0701 22006KT P6SM SCT020 TEMPO 0613/0618 BKN020 FM061800 22012KT P6SM -SN OVC015 RMK NXT FCST BY 061900Z CYJT 061139Z 0612/0712 27010KT P6SM SCT015 BKN030 TEMPO 0612/0616 2SM -SHSN BKN015 OVC030 PROB40 0612/0616 11/2SM -SHSN OVC006 FM061600 26015G25KT 6SM -SHSN BKN025 OVC040 TEMPO 0616/0712 11/2SM -SHSN OVC006 PROB30 0618/0706 3/4SM -SHSN RMK NXT FCST BY 061800Z CYKA 061238Z 0613/0701 12006KT P6SM SCT020 OVC080 TEMPO 0613/0619 5SM -SHSN BKN020 OVC080 FM061900 10008KT P6SM SCT020 BKN040 RMK NXT FCST BY 061900Z CYKF 061136Z 0611/0620 VRB03KT P6SM -SN SCT015 OVC025 TEMPO 0611/0614 11/2SM -SN SCT006 OVC015 PROB30 0611/0613 2SM -FZDZ -SN BR FM061400 32012KT 6SM -SN OVC025 TEMPO 0614/0616 2SM -SN SCT007 OVC015 FM061600 32012G22KT P6SM -SN BKN020 BECMG 0617/0619 33015G25KT RMK FCST BASED ON AUTO OBS. NXT FCST BY 061400Z CYKJ 061238Z 0613/0624 30010KT P6SM -SN FEW007 OVC015 TEMPO 0613/0615 3SM -SN BKN007 OVC015 FM061500 28010KT P6SM -SN BKN025 TEMPO 0615/0619 5SM -SN OVC020 FM061900 28008KT 6SM -SN BKN025 TEMPO 0619/0624 2SM -SN SCT008 OVC015 BECMG 0620/0622 24006KT RMK FCST BASED ON AUTO OBS. NXT FCST BY 061900Z CYKL 060739Z 0608/0620 34008KT P6SM -SN BKN040 OVC080 TEMPO 0608/0620 2SM -SN OVC020 BECMG 0614/0616 31012KT RMK FCST BASED ON AUTO OBS. NXT FCST BY 061400Z CYLD 061301Z 0613/0701 32005KT 1/4SM +SHSN VV005 TEMPO 0613/0614 3SM -SN OVC015 FM061400 16005KT 6SM -SHSN SCT012 OVC025 TEMPO 0614/0616 11/2SM -SHSN OVC020 PROB30 0614/0615 1/2SM SHSN VV010 FM061600 34008KT 5SM -SN BKN015 TEMPO 0616/0623 P6SM NSW BKN025 RMK NXT FCST BY 062000Z CYLL 061138Z 0612/0624 23008KT 6SM BR SKC TEMPO 0612/0615 2SM BR SCT003 FM061500 26008KT P6SM SCT140 SCT220 PROB30 0615/0617 2SM BR SCT005 FM061900 21008KT P6SM FEW100 SCT220 RMK FCST BASED ON AUTO OBS. NXT FCST BY 061800Z CYLW 061238Z 0613/0701 VRB03KT P6SM SCT015 OVC030 TEMPO 0613/0619 5SM -SHRASN BR BKN015 OVC030 FM061900 16006KT P6SM SCT020 OVC050 RMK FCST BASED ON AUTO OBS. NXT FCST BY 061900Z CYMA 061138Z 0612/0624 VRB03KT P6SM FEW090 TEMPO 0612/0624 5SM IC RMK NXT FCST BY 061800Z CYMH 060938Z 0610/0622 FCST NOT AVBL DUE NO OBS RMK FCST BASED ON AUTO OBS. NXT FCST BY 061400Z CYMJ 061130Z 0612/0624 19010KT P6SM SCT050 BKN130 PROB40 0612/0615 3/4SM BR FM061900 31006KT P6SM BKN090 RMK NXT FCST BY 061800Z CYMM 061317Z 0613/0701 VRB03KT 1/2SM FZFG BKN003 TEMPO 0613/0617 4SM -SN BR SCT005 BKN080 PROB40 0613/0617 1/4SM FZFG VV002 FM061700 VRB03KT 1SM BR SCT005 BECMG 0617/0619 P6SM NSW FM061900 VRB03KT P6SM SKC RMK FCST BASED ON AUTO OBS. NXT FCST BY 061900Z CYMO 061138Z 0612/0624 26005KT P6SM FEW050 OVC100 TEMPO 0612/0614 4SM -SHSN OVC050 FM061400 29008KT 6SM -SN SCT008 OVC025 TEMPO 0614/0619 2SM -SN BKN008 OVC025 FM061900 29012KT 3SM -SN BKN012 OVC025 RMK FCST BASED ON AUTO OBS. NXT FCST BY 061800Z CYMT 061238Z 0613/0701 28010KT P6SM SCT015 BKN025 TEMPO 0613/0701 3SM -SHSN OVC015 RMK FCST BASED ON AUTO OBS. NXT FCST BY 061800Z CYMX 061138Z 0612/0712 24005KT P6SM BKN120 TEMPO 0612/0614 P6SM -SN BKN020 BKN120 FM061400 24008KT 6SM -SN BKN020 OVC030 TEMPO 0614/0621 P6SM NSW SCT020 OVC030 FM062100 28008KT P6SM BKN030 BKN080 RMK NXT FCST BY 061800Z CYNA 060738Z 0608/0620 VRB03KT P6SM SCT012 BKN160 TEMPO 0608/0620 5SM -SN BKN012 OVC160 BECMG 0613/0615 29008KT RMK FCST BASED ON AUTO OBS. NXT FCST BY 061400Z CYNE 061238Z 0613/0701 19008KT P6SM -SN OVC025 TEMPO 0613/0621 4SM -SN OVC020 FM062100 24008KT P6SM BKN025 TEMPO 0621/0701 5SM -SN BKN020 RMK FCST BASED ON AUTO OBS. NXT FCST BY 061900Z CYOD 061130Z 0612/0712 22005KT P6SM FEW240 FM070000 21005KT P6SM SCT150 BKN240 FM070900 VRB03KT P6SM FEW070 BKN120 RMK NXT FCST BY 061800Z CYOJ 061238Z 0613/0701 VRB03KT P6SM BKN025 BKN060 TEMPO 0613/0616 3SM -SN BKN020 OVC060 FM061600 13005KT P6SM -SN FEW008 BKN020 OVC080 TEMPO 0616/0621 2SM -SHSN SCT008 OVC015 FM062100 VRB03KT P6SM SCT015 BKN060 TEMPO 0621/0701 5SM -SN BKN015 OVC060 RMK FCST BASED ON AUTO OBS. NXT FCST BY 061900Z CYOO 060739Z 0608/0620 VRB03KT P6SM -SN BKN050 OVC070 TEMPO 0608/0609 5SM -SN BKN020 OVC050 PROB30 0608/0609 2SM -SN FM060900 VRB03KT 3/4SM -SN BKN007 OVC015 TEMPO 0609/0615 3SM -SN OVC025 PROB30 0612/0614 1/2SM SN VV006 FM061500 02008KT 2SM -SN BKN007 OVC015 FM061700 30010G20KT P6SM -SN BKN020 BECMG 0617/0619 30012G22KT RMK FCST BASED ON AUTO OBS. NXT FCST BY 061400Z CYOW 061209Z 0612/0712 21005KT 2SM -SN BKN015 OVC030 TEMPO 0612/0615 4SM -SN SCT020 OVC040 FM061500 28005KT 4SM -SN BKN020 OVC040 TEMPO 0615/0620 6SM -SN OVC040 PROB30 0615/0618 11/2SM -SN OVC015 FM062000 30008KT P6SM OVC030 FM062200 32008KT P6SM BKN040 FM070300 32008KT P6SM BKN030 BKN070 RMK NXT FCST BY 061500Z CYOY 061130Z 0612/0624 23005KT P6SM BKN025 OVC080 TEMPO 0612/0619 5SM -SN BKN020 OVC080 RMK FCST BASED ON AUTO OBS 061200-061400Z. NXT FCST BY 061800Z CYPA 061304Z 0613/0701 VRB03KT P6SM SKC TEMPO 0613/0617 3SM BR PROB30 0613/0617 1/2SM FZFG VV002 FM061900 28006KT P6SM FEW240 RMK NXT FCST BY 061900Z CYPE 061238Z 0613/0701 21008KT P6SM SKC FM061900 23010KT P6SM FEW240 RMK NXT FCST BY 061900Z CYPG 061315Z 0613/0701 VRB03KT P6SM FEW170 BKN240 BECMG 0614/0616 20008KT FM061900 18010KT P6SM SCT012 TEMPO 0619/0624 4SM -SN BKN012 FM070000 22005KT P6SM BKN012 RMK NXT FCST BY 061800Z CYPH 061138Z 0612/0624 35008KT P6SM OVC030 TEMPO 0612/0624 3SM -SHSN OVC020 PROB30 0612/0624 21/2SM -SHSN RMK FCST BASED ON AUTO OBS. NXT FCST BY 061800Z CYPL 060738Z 0608/0620 32010KT P6SM -SN OVC030 TEMPO 0608/0611 4SM -SHSN OVC020 FM061100 29008KT P6SM SCT015 TEMPO 0611/0616 6SM -SN BKN015 FM061600 25006KT P6SM FEW015 BECMG 0616/0618 22010KT RMK FCST BASED ON AUTO OBS. NXT FCST BY 061400Z CYPQ 061041Z 0611/0623 VRB03KT 1SM -SN BKN007 OVC015 TEMPO 0611/0615 3SM -SN OVC025 FM061500 04007KT 2SM -SN BKN007 OVC015 TEMPO 0615/0617 6SM -SN SCT007 OVC015 FM061700 35010G20KT P6SM -SN BKN020 FM061900 33012KT P6SM BKN020 FM062100 30008KT P6SM BKN030 RMK FCST BASED ON AUTO OBS. NXT FCST BY 061400Z CYPR 061238Z 0613/0701 08005KT P6SM SCT150 RMK FCST BASED ON AUTO OBS. NXT FCST BY 061900Z CYPX 061138Z 0612/0624 14006KT P6SM SCT020 OVC030 TEMPO 0612/0624 21/2SM -SN BKN020 OVC030 RMK FCST BASED ON AUTO OBS. NXT FCST BY 061800Z CYPY 061238Z 0613/0701 VRB03KT P6SM FEW020 SCT060 TEMPO 0613/0615 5SM -SN BKN020 BKN060 FM061500 05006KT P6SM -SN BKN030 BKN060 TEMPO 0615/0619 21/2SM -SN BKN020 OVC060 FM061900 05006KT 6SM -SN BKN020 OVC040 TEMPO 0619/0701 11/2SM -SHSN SCT008 OVC012 RMK FCST BASED ON AUTO OBS. NXT FCST BY 061800Z CYQA 061238Z 0613/0701 VRB03KT 6SM -SN OVC030 TEMPO 0613/0615 1SM -SN OVC008 FM061500 VRB03KT 6SM -SN SCT008 OVC040 TEMPO 0615/0617 2SM -SN OVC008 FM061700 31008KT P6SM SCT015 BKN040 TEMPO 0617/0701 4SM -SN OVC015 PROB30 0621/0701 2SM -SHSN RMK FCST BASED ON AUTO OBS. NXT FCST BY 062000Z CYQB 061138Z 0612/0712 26010G20KT P6SM SCT025 BKN080 TEMPO 0612/0624 4SM -SN BKN020 BKN070 BECMG 0616/0618 26010KT FM070000 28007KT P6SM SCT030 BKN080 RMK NXT FCST BY 061800Z CYQD 061304Z 0613/0701 18006KT P6SM OVC015 TEMPO 0613/0618 5SM -SN OVC009 FM061800 26010KT P6SM BKN020 TEMPO 0618/0701 SCT020 RMK FCST BASED ON AUTO OBS. NXT FCST BY 061900Z CYQF 061138Z 0612/0624 VRB03KT P6SM OVC070 BECMG 0616/0618 21005KT FM062000 16008KT P6SM SCT080 BKN220 RMK NXT FCST BY 061800Z CYQG 061138Z 0612/0712 25007KT P6SM OVC140 TEMPO 0612/0613 BKN020 OVC100 FM061300 27012KT P6SM OVC025 TEMPO 0613/0615 P6SM -RA OVC020 FM061500 33012G22KT P6SM BKN025 FM062300 30012KT P6SM FEW025 BECMG 0702/0704 31008KT FM070600 32005KT P6SM FEW020 BKN180 RMK FCST BASED ON AUTO OBS. NXT FCST BY 061800Z CYQH 061138Z 0612/0624 VRB03KT P6SM OVC100 FM061600 28005KT P6SM SCT020 BKN050 OVC100 TEMPO 0616/0624 5SM -SN BKN020 OVC050 RMK NXT FCST BY 061800Z CYQI 061138Z 0612/0624 30012G22KT P6SM BKN030 TEMPO 0612/0615 4SM -SHSNRA BKN020 FM062100 27012KT 3SM -RASN SCT007 OVC015 RMK NXT FCST BY 061800Z CYQK 061225Z 0612/0620 28005KT 4SM -SHSN OVC006 TEMPO 0612/0616 P6SM -SN SCT006 OVC010 FM061600 20010KT P6SM BKN015 BKN130 RMK NXT FCST BY 061400Z CYQL 061138Z 0612/0624 VRB03KT 1/4SM FZFG VV002 TEMPO 0612/0617 21/2SM BR SCT003 SCT070 BECMG 0614/0616 25008KT FM061700 25008KT 2SM BR SCT005 SCT140 BECMG 0617/0619 P6SM NSW SKC FM061900 26010KT P6SM FEW140 RMK FCST BASED ON AUTO OBS. NXT FCST BY 061800Z CYQM 061138Z 0612/0712 26010KT P6SM FEW020 TEMPO 0612/0615 BKN020 FM061500 27012G22KT P6SM SCT030 FM062000 26010KT P6SM BKN030 FM070600 25008KT P6SM SCT030 BKN080 BECMG 0706/0708 29008KT RMK NXT FCST BY 061800Z CYQQ 061139Z 0612/0712 VRB03KT 3SM -RA BR FEW003 BKN005 OVC008 TEMPO 0612/0702 6SM -RA BR SCT005 OVC012 BECMG 0620/0622 14008KT FM070200 14012G22KT P6SM BKN012 OVC020 TEMPO 0702/0712 5SM -DZ BR BKN008 OVC012 RMK NXT FCST BY 061800Z CYQR 061142Z 0612/0712 12008KT P6SM SCT050 BKN120 TEMPO 0612/0614 FEW005 BKN050 FM061400 14008KT P6SM SCT005 BKN040 TEMPO 0614/0622 3SM BR BKN005 FM062200 33005KT P6SM SCT012 BKN100 RMK NXT FCST BY 061800Z CYQT 060738Z 0608/0620 31012KT P6SM OVC025 TEMPO 0608/0613 4SM -SHSN OVC020 FM061300 30010KT P6SM SCT015 TEMPO 0613/0618 6SM -SN BKN015 FM061800 29010KT P6SM FEW015 RMK NXT FCST BY 061400Z CYQU 061238Z 0613/0701 VRB03KT P6SM SCT170 BECMG 0616/0618 25006KT RMK NXT FCST BY 061900Z CYQV 061142Z 0612/0624 21010KT P6SM SCT140 BKN180 FM061500 19008KT P6SM FEW015 BKN050 TEMPO 0615/0624 BKN012 OVC040 RMK FCST BASED ON AUTO OBS. NXT FCST BY 061800Z CYQW 061142Z 0612/0624 26006KT 2SM BR OVC003 TEMPO 0612/0618 5SM BR SCT004 PROB30 0612/0618 1/2SM FZFG VV002 FM061800 30004KT P6SM FEW004 BKN100 RMK FCST BASED ON AUTO OBS. NXT FCST BY 061800Z CYQX 061139Z 0612/0712 24012KT P6SM FEW004 SCT012 TEMPO 0612/0614 BKN004 OVC012 FM061400 26012G22KT P6SM BKN015 TEMPO 0614/0618 BKN025 FM061800 26012G22KT P6SM BKN025 TEMPO 0618/0702 21/2SM -SHSN BKN020 FM070200 24015KT P6SM SCT020 BECMG 0710/0712 24010KT RMK NXT FCST BY 061800Z CYQY 061138Z 0612/0624 26010KT P6SM SCT015 TEMPO 0612/0615 5SM -SN BKN015 FM061500 26012G22KT P6SM BKN030 TEMPO 0618/0624 5SM -SHSN RMK NXT FCST BY 061800Z CYQZ 061138Z 0612/0624 VRB03KT 21/2SM -SN OVC030 TEMPO 0612/0624 P6SM -SN SCT030 OVC050 RMK FCST BASED ON AUTO OBS. NXT FCST BY 061900Z CYRB 061138Z 0612/0712 29010KT P6SM SCT020 BKN110 TEMPO 0612/0618 2SM -SHSN OVC020 BECMG 0612/0614 35015KT FM061800 02018KT P6SM FEW020 TEMPO 0618/0621 5SM -SN BLSN BECMG 0619/0621 06010KT RMK NXT FCST BY 061800Z CYRJ 061238Z 0613/0701 28008KT P6SM SCT020 BKN140 TEMPO 0613/0701 5SM -SHSN BKN020 OVC140 RMK NXT FCST BY 062000Z CYRL 061138Z 0612/0624 24005KT P6SM SCT010 TEMPO 0612/0618 4SM -SN IC BKN010 PROB30 0612/0618 BKN008 FM061800 19010KT 3SM -SN OVC008 TEMPO 0618/0622 6SM -SN SCT008 OVC025 FM062200 22012KT P6SM -SN BKN015 RMK NXT FCST BY 061400Z CYRQ 061226Z 0612/0620 23008KT P6SM OVC040 TEMPO 0612/0620 5SM -SN OVC020 RMK FCST BASED ON AUTO OBS. NXT FCST BY 061400Z CYRT 061138Z 0612/0624 26005KT P6SM FEW015 SCT080 BECMG 0612/0614 32008KT RMK NXT FCST BY 061800Z CYSB 060738Z 0608/0620 VRB03KT P6SM BKN025 OVC120 TEMPO 0608/0615 5SM -SN BKN020 OVC060 BECMG 0609/0611 04006KT FM061500 VRB03KT 2SM -SN OVC020 TEMPO 0615/0620 6SM -SN SCT020 OVC040 RMK NXT FCST BY 061400Z CYSC 061038Z 0611/0623 25008KT 5SM -SN OVC020 TEMPO 0611/0615 P6SM NSW SCT020 OVC050 FM061500 25008KT P6SM SCT020 OVC050 TEMPO 0615/0623 2SM -SHSN BKN020 OVC050 BECMG 0618/0620 VRB03KT RMK FCST BASED ON AUTO OBS. NXT FCST BY 061800Z CYSF 061138Z 0612/0624 28005KT P6SM BKN070 TEMPO 0612/0620 SCT070 FM062000 VRB03KT P6SM SKC RMK FCST BASED ON AUTO OBS. NXT FCST BY 061800Z CYSJ 061138Z 0612/0624 24005KT P6SM SCT020 TEMPO 0612/0614 BKN020 BECMG 0612/0614 28008KT FM061400 28010G20KT P6SM SCT030 FM062100 28008KT P6SM SCT030 BKN080 RMK NXT FCST BY 061800Z CYSM 061138Z 0612/0624 VRB03KT P6SM FEW070 SCT180 FM062000 13004KT P6SM FEW015 FEW120 RMK NXT FCST BY 061800Z CYTE 061238Z 0613/0701 05006KT P6SM SCT008 BKN025 TEMPO 0613/0701 1SM -SHSN BR VV008 RMK FCST BASED ON AUTO OBS. NXT FCST BY 061900Z CYTH 061238Z 0613/0701 17004KT P6SM -SN OVC025 TEMPO 0613/0701 3SM -SN OVC015 RMK NXT FCST BY 061900Z CYTL 061116Z 0611/0620 28005KT P6SM SCT015 TEMPO 0611/0615 6SM -SN BKN015 FM061500 26005KT P6SM SKC BECMG 0615/0617 22010KT RMK FCST BASED ON AUTO OBS. NXT FCST BY 061400Z CYTR 061127Z 0612/0712 08005KT 1SM -SN BKN008 OVC020 TEMPO 0612/0616 3SM -SN SCT008 OVC020 FM061600 01008KT 5SM -SN BKN010 OVC025 TEMPO 0616/0620 P6SM NSW SCT010 OVC025 FM062000 34010KT P6SM BKN020 OVC025 BECMG 0622/0624 VRB03KT FM070200 VRB03KT 5SM -SHSN BKN015 OVC040 RMK NXT FCST BY 061800Z CYTS 060738Z 0608/0620 VRB03KT P6SM BKN030 TEMPO 0608/0612 4SM -SN BKN020 FM061200 VRB03KT 2SM -SN OVC020 TEMPO 0612/0619 6SM -SN SCT020 OVC040 PROB30 0613/0619 11/2SM -SN FM061900 30010G20KT 4SM -SN BKN020 OVC040 RMK NXT FCST BY 061400Z CYTZ 061005Z 0610/0708 VRB03KT 1SM -SN SCT007 OVC015 TEMPO 0610/0615 3SM -SN OVC025 PROB30 0610/0615 3/4SM -SN BKN007 OVC015 FM061500 35010KT 2SM -SN SCT007 OVC015 TEMPO 0615/0617 6SM -SN FM061700 30012G22KT P6SM -SN BKN020 BECMG 0617/0619 30015G25KT FM062100 30012G22KT P6SM BKN030 TEMPO 0622/0624 P6SM -SHSN BECMG 0700/0702 29012KT FM070300 29012KT P6SM BKN030 FM070600 30008KT P6SM SCT030 RMK FCST BASED ON AUTO OBS. NXT FCST BY 061400Z CYUB 060516Z 0605/0606 27035KT 1/4SM -SN BLSN VV008 TEMPO 0605/0606 4SM -SN FEW015 OVC030 RMK NXT FCST WILL BE ISSUED AT 061545Z CYUL 061317Z 0613/0712 26006KT 4SM -SN OVC040 TEMPO 0613/0615 6SM -SN OVC050 FM061500 25008KT 5SM -SN BKN020 OVC030 TEMPO 0615/0622 P6SM NSW SCT020 OVC030 FM062200 28008KT P6SM BKN030 BKN080 RMK NXT FCST BY 061500Z CYUX 061238Z 0613/0701 30010KT P6SM FEW030 SCT060 TEMPO 0613/0701 BKN020 RMK FCST BASED ON AUTO OBS. NXT FCST BY 061900Z CYUY 061138Z 0612/0624 VRB03KT P6SM SCT015 OVC030 TEMPO 0612/0620 4SM -SN OVC015 FM062000 30005KT 3SM -SN BKN020 OVC050 RMK NXT FCST BY 061800Z CYVC 061238Z 0613/0701 24004KT P6SM SKC TEMPO 0613/0621 P6SM -SN BKN015 FM062100 25008KT P6SM FEW020 RMK NXT FCST BY 061900Z CYVM 061238Z 0613/0701 01010KT P6SM -SN BKN020 TEMPO 0613/0701 P6SM NSW SCT020 RMK FCST BASED ON AUTO OBS. NXT FCST BY 061900Z CYVO 061138Z 0612/0624 VRB03KT P6SM -SN SCT015 BKN040 TEMPO 0612/0613 2SM -SN BKN015 OVC030 FM061300 33007KT P6SM SCT015 OVC060 TEMPO 0613/0624 P6SM -SN OVC015 BECMG 0622/0624 28005KT RMK NXT FCST BY 061800Z CYVP 061138Z 0612/0624 31010KT P6SM -SN SCT009 OVC025 TEMPO 0612/0614 2SM -SHSN BKN009 OVC020 FM061400 31012G22KT 6SM -SN SCT005 OVC020 TEMPO 0614/0624 1SM -SHSN BLSN OVC005 RMK NXT FCST BY 061800Z CYVQ 061138Z 0612/0624 VRB03KT P6SM FEW020 SCT120 TEMPO 0612/0615 5SM -SN BKN020 FM061500 28005KT P6SM -SN SCT020 BKN060 TEMPO 0615/0621 3SM -SN BKN020 OVC060 FM062100 28005KT P6SM SCT020 BKN030 TEMPO 0621/0624 P6SM -SN BKN020 RMK NXT FCST BY 061800Z CYVR 061329Z 0613/0718 VRB03KT P6SM SCT008 BKN030 OVC060 TEMPO 0613/0618 P6SM -SHRA BKN008 OVC030 FM061800 08006KT P6SM SCT012 BKN050 FM070000 10006KT P6SM SCT020 OVC050 TEMPO 0700/0709 P6SM -SHRA BKN020 OVC050 FM070900 09006KT 6SM -SHRA OVC020 RMK NXT FCST BY 061500Z CYVV 061138Z 0612/0624 06012KT 3/4SM -SN VV006 TEMPO 0612/0614 3SM -SN OVC015 FM061400 04012KT 6SM -SN OVC015 TEMPO 0614/0619 21/2SM -SHSN BECMG 0617/0618 31015KT FM061900 31015G25KT 2SM -SHSN OVC015 PROB40 0619/0622 3/4SM -SHSN BLSN VV006 FM062200 31015G25KT P6SM -SHSN BKN025 TEMPO 0622/0624 21/2SM -SHSN RMK NXT FCST BY 061400Z CYWA 061317Z 0613/0624 VRB03KT 2SM -SN BKN012 OVC050 TEMPO 0613/0614 6SM -SN SCT012 OVC050 FM061400 34005KT P6SM BKN015 OVC080 TEMPO 0614/0618 SCT015 OVC080 FM061800 33005KT P6SM SCT025 OVC100 RMK FCST BASED ON AUTO OBS. NXT FCST BY 061800Z CYWG 061142Z 0612/0712 19006KT P6SM BKN015 TEMPO 0612/0615 SCT020 FM061500 18010KT P6SM SCT250 FM062100 18015KT P6SM SCT020 OVC040 TEMPO 0621/0703 4SM -SN OVC020 FM070300 19008KT P6SM BKN015 TEMPO 0703/0712 BKN008 RMK NXT FCST BY 061800Z CYWK 061214Z 0612/0620 28006KT 6SM -SN OVC015 TEMPO 0612/0614 3/4SM -SN FM061400 32012KT P6SM -SN OVC030 TEMPO 0614/0620 21/2SM -SN RMK FCST BASED ON AUTO OBS. NXT FCST BY 061400Z CYWL 061238Z 0613/0701 VRB03KT P6SM -SN OVC040 TEMPO 0613/0622 4SM -SN OVC020 FM062200 VRB03KT P6SM SCT030 BKN060 TEMPO 0622/0701 5SM -SN BKN030 RMK NXT FCST BY 061900Z CYXC 061238Z 0613/0701 VRB03KT P6SM BKN020 TEMPO 0613/0619 SCT020 BKN040 FM061900 16008KT P6SM FEW020 BKN060 RMK NXT FCST BY 061900Z CYXE 061142Z 0612/0712 23004KT 1/4SM FZFG VV001 TEMPO 0612/0617 3SM BR BKN003 FM061700 20008KT P6SM SCT003 BKN100 TEMPO 0617/0619 3SM BR FM061900 22006KT P6SM FEW010 BKN090 BECMG 0622/0624 16006KT RMK NXT FCST BY 061800Z CYXH 061138Z 0612/0624 VRB03KT P6SM FEW005 SCT220 TEMPO 0612/0618 4SM BR SCT005 PROB30 0612/0617 1/4SM FZFG VV002 FM061800 VRB03KT P6SM SCT140 BECMG 0619/0621 12005KT RMK FCST BASED ON AUTO OBS. NXT FCST BY 061800Z CYXJ 061238Z 0613/0701 22010KT P6SM SKC FM061800 25010KT P6SM FEW220 RMK NXT FCST BY 061900Z CYXL 060738Z 0608/0620 34010KT 4SM -SHSN OVC020 TEMPO 0608/0613 P6SM NSW BKN025 FM061300 31005KT P6SM SCT015 TEMPO 0613/0619 6SM -SN BKN015 BECMG 0614/0616 24008KT FM061900 24008KT 4SM -SN BKN015 BKN130 RMK NXT FCST BY 061400Z CYXR 061238Z 0613/0701 VRB03KT P6SM SCT030 OVC120 TEMPO 0615/0618 4SM -SN BKN020 BKN080 FM061800 32006KT P6SM -SN SCT020 OVC040 TEMPO 0618/0701 2SM -SN OVC020 RMK FCST BASED ON AUTO OBS. NXT FCST BY 061800Z CYXS 061238Z 0613/0701 VRB03KT P6SM SCT020 OVC030 TEMPO 0613/0618 P6SM -SN BKN020 FM061800 VRB03KT 5SM -SN SCT012 OVC025 TEMPO 0618/0701 2SM -SN BKN012 RMK FCST BASED ON AUTO OBS. NXT FCST BY 061900Z CYXT 061238Z 0613/0701 01018G28KT P6SM FEW200 RMK NXT FCST BY 061900Z CYXU 061138Z 0612/0712 20006KT 5SM -RA BR OVC020 TEMPO 0612/0615 P6SM -RA OVC030 BECMG 0612/0614 24008KT FM061500 30012G22KT P6SM BKN015 BKN040 TEMPO 0615/0620 SCT015 BKN040 FM062000 32015G25KT 6SM -SHSN BKN020 PROB30 0620/0623 11/2SM -SHSN VV010 FM070000 31012G22KT 6SM -SHSN BKN020 BECMG 0703/0705 32012KT FM070900 30008KT P6SM SCT030 RMK NXT FCST BY 061800Z CYXX 061138Z 0612/0712 04006KT P6SM FEW040 BKN060 OVC080 TEMPO 0612/0618 6SM -RA BR SCT020 OVC040 FM061800 05006KT P6SM FEW020 BKN060 FM070000 06008KT P6SM BKN060 TEMPO 0700/0709 P6SM -RA OVC060 FM070900 08006KT 6SM -SHRA OVC015 RMK NXT FCST BY 061800Z CYXY 061138Z 0612/0624 32005KT 4SM -SN BR BKN008 OVC015 TEMPO 0612/0617 P6SM NSW SCT008 BKN015 OVC040 FM061700 VRB03KT P6SM SCT015 BKN040 TEMPO 0617/0624 5SM -SN BKN020 OVC040 RMK NXT FCST BY 061800Z CYXZ 061238Z 0613/0624 36010KT P6SM -SN OVC040 TEMPO 0613/0621 3SM -SHSN BKN020 FM062100 32006KT P6SM SCT015 RMK NXT FCST BY 062000Z CYYB 060738Z 0608/0620 32010KT 2SM -SN OVC015 TEMPO 0608/0610 6SM -SN SCT015 OVC040 FM061000 03007KT P6SM BKN025 OVC120 TEMPO 0610/0619 5SM -SN BKN020 OVC060 FM061900 34008KT 3SM -SN BKN020 OVC040 RMK FCST BASED ON AUTO OBS. NXT FCST BY 061400Z CYYC 061138Z 0612/0712 35004KT P6SM FEW080 SCT200 BECMG 0620/0622 17008KT FM070000 20008KT P6SM SCT200 BECMG 0702/0704 27006KT RMK NXT FCST BY 061500Z CYYE 061238Z 0613/0701 VRB03KT P6SM -SN OVC010 TEMPO 0613/0618 3SM -SN BR OVC008 FM061800 VRB03KT P6SM SCT010 BKN080 TEMPO 0618/0701 4SM -SN BKN010 BKN080 RMK NXT FCST BY 061900Z CYYF 061238Z 0613/0701 15008KT P6SM SCT020 OVC030 TEMPO 0613/0619 6SM -SHRA BKN020 OVC040 FM061900 18012KT P6SM SCT020 BKN060 RMK NXT FCST BY 061900Z CYYG 061138Z 0612/0624 25008KT P6SM SCT015 BKN100 TEMPO 0612/0613 P6SM -SHSN BKN015 OVC100 FM061300 26012G22KT P6SM FEW020 BKN030 TEMPO 0613/0620 4SM -SHSN BKN020 OVC030 FM062000 26012KT P6SM BKN030 RMK NXT FCST BY 061800Z CYYH 061138Z 0612/0624 14005KT P6SM FEW040 BKN070 TEMPO 0612/0624 5SM -SN IC FEW020 BKN040 BECMG 0612/0614 06007KT RMK NXT FCST BY 061800Z CYYJ 061138Z 0612/0712 28005KT P6SM SCT015 BKN050 OVC120 TEMPO 0612/0615 P6SM -RA SCT008 OVC015 FM061500 28005KT P6SM BKN060 BECMG 0621/0623 VRB03KT FM070000 30006KT P6SM SCT030 BKN060 TEMPO 0700/0709 P6SM -SHRA OVC030 FM070900 20006KT P6SM BKN015 RMK NXT FCST BY 061800Z CYYL 061238Z 0613/0701 VRB03KT 6SM -SN BKN025 OVC100 TEMPO 0613/0618 3SM -SN OVC020 FM061800 32010KT P6SM BKN030 TEMPO 0618/0701 5SM -SN OVC020 RMK FCST BASED ON AUTO OBS. NXT FCST BY 061900Z CYYN 061142Z 0612/0624 20010KT P6SM SCT200 PROB30 0612/0616 1SM BR BKN003 FM061600 22007KT P6SM FEW003 BKN200 RMK FCST BASED ON AUTO OBS. NXT FCST BY 061800Z CYYQ 061142Z 0612/0712 22008KT P6SM -SN OVC040 TEMPO 0612/0613 4SM -SN OVC030 FM061300 24010KT P6SM -SN SCT015 OVC030 TEMPO 0613/0621 2SM -SN VV015 FM062100 30015KT P6SM BKN020 TEMPO 0622/0704 SCT020 FM070400 27010KT P6SM FEW020 RMK NXT FCST BY 061800Z CYYR 061130Z 0612/0712 28005KT 6SM -SN SCT010 OVC030 TEMPO 0612/0619 4SM -SN BKN010 OVC030 PROB30 0612/0615 2SM -SN VV008 FM061900 27005KT P6SM -SN FEW010 OVC040 FM070200 27008KT P6SM FEW020 BKN030 RMK NXT FCST BY 061800Z CYYT 061139Z 0612/0712 28008KT P6SM BKN015 OVC100 TEMPO 0612/0616 5SM BR BKN003 OVC015 FM061600 26012KT P6SM BKN025 TEMPO 0616/0622 P6SM -SHRA BKN015 BECMG 0616/0618 26012G22KT FM062200 26012G22KT P6SM BKN025 TEMPO 0622/0709 2SM -SHSN BKN020 PROB30 0622/0709 26020G30KT 3/4SM -SHSN VV008 FM070900 24012G22KT P6SM BKN020 RMK NXT FCST BY 061800Z CYYU 060738Z 0608/0620 VRB03KT P6SM SCT030 BKN080 TEMPO 0608/0610 2SM -SN BKN020 BKN060 FM061000 VRB03KT 1SM -SN VV008 TEMPO 0610/0617 4SM -SN SCT020 OVC040 BECMG 0614/0616 32010KT FM061700 32010G20KT P6SM -SN BKN020 RMK NXT FCST BY 061400Z CYYY 060738Z 0608/0620 27012G22KT P6SM -SN FEW015 OVC030 TEMPO 0608/0610 21/2SM -SHSN BKN015 OVC030 FM061000 27015G25KT P6SM -SN FEW015 OVC030 TEMPO 0610/0614 11/2SM -SHSN BLSN BKN015 OVC030 FM061400 28015G25KT P6SM BKN030 TEMPO 0614/0620 5SM -SHSN RMK NXT FCST BY 061400Z CYYZ 061138Z 0612/0718 08010KT 3SM -SN SCT007 OVC015 TEMPO 0612/0613 3/4SM -SN VV005 FM061300 08010KT 6SM -SN SCT007 OVC025 TEMPO 0613/0614 3/4SM -SN BKN007 OVC015 FM061400 34007KT P6SM -SN SCT007 OVC025 TEMPO 0614/0616 2SM -SN BKN015 OVC025 FM061600 33010G20KT P6SM -SN BKN020 BECMG 0616/0618 33012G25KT FM062100 30012G22KT P6SM BKN030 TEMPO 0621/0623 P6SM -SHSN BECMG 0623/0701 29012KT FM070500 30008KT P6SM SCT030 BECMG 0711/0713 27005KT FM071500 27005KT P6SM BKN040 BKN120 RMK NXT FCST BY 061500Z CYZE 061038Z 0611/0623 06006KT P6SM FEW020 BKN070 OVC120 TEMPO 0612/0618 3SM -SN OVC020 BECMG 0616/0617 30010G20KT FM061800 30015G25KT P6SM BKN030 RMK FCST BASED ON AUTO OBS. NXT FCST BY 061400Z CYZF 061138Z 0612/0712 24008KT P6SM FEW050 FM061400 25010KT P6SM SCT040 TEMPO 0614/0622 5SM IC BECMG 0620/0622 29007KT FM062200 29007KT P6SM SCT020 BKN060 TEMPO 0622/0712 4SM -SN BKN020 OVC060 BECMG 0710/0712 32008KT RMK NXT FCST BY 061800Z CYZH 061238Z 0613/0701 VRB03KT P6SM SKC PROB30 0613/0616 1SM BR SCT003 RMK FCST BASED ON AUTO OBS. NXT FCST BY 061900Z CYZP 061238Z 0613/0701 32008KT P6SM SCT010 TEMPO 0613/0619 BKN010 FM061900 32012KT P6SM FEW020 RMK FCST BASED ON AUTO OBS. NXT FCST BY 061900Z CYZR 060838Z 0609/0621 20008KT P6SM FEW020 BKN040 OVC070 TEMPO 0609/0613 P6SM -SHRASN OVC020 FM061300 28010KT P6SM OVC025 TEMPO 0613/0615 P6SM -SHRA OVC020 FM061500 32015G25KT P6SM SCT015 TEMPO 0615/0616 BKN015 RMK FCST BASED ON AUTO OBS. NXT FCST BY 061400Z CYZS 061238Z 0613/0701 35010KT P6SM FEW020 TEMPO 0615/0701 P6SM -SN BKN020 RMK NXT FCST BY 061900Z CYZT 061238Z 0613/0701 10012G22KT P6SM SCT015 OVC050 TEMPO 0613/0701 5SM -RA BR FEW008 BKN015 OVC050 RMK NXT FCST BY 061900Z CYZV 061138Z 0612/0712 29010KT P6SM BKN050 TEMPO 0612/0620 5SM -SN OVC050 FM062000 30010G20KT P6SM BKN080 BECMG 0700/0702 32010KT RMK NXT FCST BY 061800Z CYZX 061130Z 0612/0712 28012G22KT P6SM -SHSN BKN025 TEMPO 0612/0616 11/2SM -SHSN VV015 FM061600 28012G22KT P6SM BKN025 TEMPO 0616/0622 3SM -SHSN BKN020 BECMG 0620/0622 26008KT FM062200 26008KT 6SM -SHSN BKN020 TEMPO 0622/0702 11/2SM -SHSN VV015 BECMG 0700/0702 30005KT FM070600 30008KT 5SM -SN OVC015 RMK NXT FCST BY 061800Z CYZY 060638Z 0607/0609 VRB03KT P6SM BKN180 RMK FCST BASED ON AUTO OBS. NXT FCST WILL BE ISSUED AT 061445Z CZBF 060938Z 0610/0622 28010G20KT P6SM SCT020 BKN140 TEMPO 0610/0615 BKN020 OVC140 FM061500 27012G22KT P6SM BKN040 RMK FCST BASED ON AUTO OBS. NXT FCST BY 061400Z CZMD 061038Z 0611/0623 25010KT 4SM -SHSN OVC015 TEMPO 0611/0614 P6SM -SN BKN025 FM061400 25008KT P6SM SCT015 TEMPO 0614/0617 6SM -SN BKN015 FM061900 22008G18KT 4SM -SN OVC012 RMK FCST BASED ON AUTO OBS. NXT FCST BY 061800Z CZSJ 061049Z 0611/0623 27008KT 4SM -SHSN OVC012 TEMPO 0611/0613 P6SM -SN BKN025 PROB30 0611/0613 OVC009 FM061300 22008KT P6SM SCT015 TEMPO 0613/0616 6SM -SN BKN015 FM061800 21008G18KT 4SM -SN OVC012 RMK FCST BASED ON AUTO OBS. NXT FCST BY 061800Z CZUM 060739Z 0608/0620 30005KT 6SM -SN BKN040 OVC120 TEMPO 0608/0620 2SM -SN OVC020 BECMG 0614/0616 30010KT RMK FCST BASED ON AUTO OBS. NXT FCST BY 061400Z CZVL 061138Z 0612/0624 VRB03KT P6SM BKN140 FM061700 21005KT P6SM SCT100 BKN200 FM062200 16005KT P6SM SCT060 BKN150 RMK FCST BASED ON AUTO OBS. NXT FCST BY 061800Z DAAE 061100Z 0612/0712 14012KT 9999 FEW023 SCT100 BECMG 0620/0622 VRB02KT PROB30 TEMPO 0700/0708 3000 BR BKN008 DAAG 061100Z 0612/0712 20008KT 9999 FEW026= DABB 061100Z 0612/0712 35010KT 9999 FEW020 SCT090 BECMG 0619/1620 20008KT PROB30 TEMPO 0700/0708 3000 BR BKN008 DAAJ 061100Z 0612/0712 VRB02KT CAVOK BECMG 0613/0615 20010KT BECMG 0617/0620 VRB02KT DAAS 061100Z 0612/0712 21012KT 9999 FEW026 SCT090 PROB30 TEMPO 0615/0618 FEW026TCU BECMG 0620/0622 32008KT PROB30 TEMPO 0700/0708 3000 BR BKN008 DAAT 061100Z 0612/0712 10015KT CAVOK PROB40 TEMPO 0612/0618 12015G25KT PROB30 TEMPO 0706/0712 10015G30KT DAAV 061100Z 0612/0712 14012KT 9999 FEW023 SCT100 BECMG 0620/0622 VRB02KT PROB30 TEMPO 0700/0708 3000 BR BKN008 DABB 061100Z 0612/0712 35010KT 9999 FEW020 SCT090 BECMG 0619/1620 20008KT PROB30 TEMPO 0700/0708 3000 BR BKN008 DABC 061100Z 0612/0712 29010KT 9999 FEW026 SCT090 BECMG 0620/0622 VRB02KT PROB30 TEMPO 0700/0708 3000 BR SCT008 BECMG 0709/0711 28010KT DABS 061100Z 0612/0712 02010KT 9999 FEW030 SCT090 BECMG 0620/0622 VRB02KT PROB30 TEMPO 0700/0708 3000 BR SCT008 BECMG 0709/0711 28010KT DABT 061100Z 0612/0712 27012KT 9999 FEW030 SCT090 BECMG 0620/0622 VRB02KT PROB30 TEMPO 0700/0708 3000 BR SCT008 BECMG 0709/0711 26010KT DAOB 061100Z 0612/0712 08010KT CAVOK BECMG 0613/0615 14010KT DAOI 061100Z 0612/0712 06010KT CAVOK BECMG 0616/0618 VRB02KT BECMG 0710/0712 32010KT DAON 061100Z 0612/0712 VRB02KT 9999 FEW026 BECMG 0613/0615 34010KT BECMG 0618/0620 VRB02KT BECMG 0704/0706 22010KT SCT020 BKN100 DAOO 061100Z 0612/0712 VRB02KT 9999 FEW026 BECMG 0614/0616 18010KT BECMG 0620/0622 VRB02KT BECMG 0710/0712 28010KT DAUA 061100Z 0612/0712 08008KT CAVOK BECMG 0613/0615 18010KT BECMG 0618/0621 VRB02KT BECMG 0703/0706 04010KT DAUB 061100Z 0612/0712 02014KT 9999 FEW040 PROB30 TEMPO 0702/0712 FEW033CB DAUG 061100Z 0612/0712 06012KT CAVOK DAUH 061100Z 0612/0712 06008KT CAVOK DAUI 061100Z 0612/0712 08010KT 8000 NSC BECMG 0614/0616 16010KT BECMG 0618/0620 VRB02KT BECMG 0710/0712 20012KT DAUZ 061100Z 0612/0712 10014KT 9999 FEW046 BKN200 DBBB 061100Z 0612/0718 22010KT 9999 SCT012 PROB30 TEMPO 0704/0710 VRB03KT 4000 BR DFFD 061100Z 0612/0718 08008KT 8000 NSC TEMPO 0617/0621 3500 HZ TEMPO 0706/0710 2500 HZ DFOO 061100Z 0612/0712 VRB08KT CAVOK TEMPO 0706/0710 4000 HZ DGAA 061100Z 0612/0718 18012KT 9999 SCT024 TEMPO 0616/0620 TS FEW030CB BECMG 0623/0701 26010KT CAVOK DGSI 061100Z 0612/0712 14010KT 9999 SCT020 TEMPO 0615/0619 TS FEW030CB BECMG 0622/0624 23010KT CAVOK DIAP 061100Z 0612/0718 21010KT 8000 SCT012 PROB30 TEMPO 0612/0618 4000 TSRA BKN012 FEW020CB PROB30 TEMPO 0618/0624 TS SCT012 FEW020CB PROB30 TEMPO 0704/0710 4000 TSRA BKN012 FEW020CB PROB30 TEMPO 0712/0718 TS SCT012 FEW020CB DIBK 061100Z 0612/0712 22010KT 8000 SCT013 PROB30 TEMPO 0614/0620 TS CT013 FEW020CB PROB30 0702/0708 2000 BR DIYO 061100Z 0612/0712 26010KT 8000 SCT013 PROB30 TEMPO 0614/0620 TS CT013 FEW020CB PROB30 0702/0708 2000 BR DNAA 061100Z 0612/0718 08004KT CAVOK TEMPO 0612/0616 25010KT FEW014 DNCA 061100Z 0612/0718 29010KT 8000 BKN012 TEMPO 0613/0618 BKN013 FEW020CB PROB30 0614/0617 TS BECMG 0618/0620 00000KT SCT009 TEMPO 0704/0707 5000 BR HZ DNEN 061100Z 0612/0718 19010KT 8000 FEW013 BECMG 0618/0620 VRB02KT FEW010 PROB30 TEMPO 0704/0707 5000 HZ DNIL 061100Z 0612/0718 20010KT 9999 SCT013 BECMG 0617/0620 05008KT CAVOK DNIM 061100Z 0612/0718 23010KT 9999 BKN013 TEMPO 0614/0617 BKN013 FEW020CB BECMG 0618/0620 VRB02KT SCT010 TEMPO 0703/0707 3000 BR HZ DNJO 061100Z 0612/0718 08010KT CAVOK DNKA 061100Z 0612/0718 04010KT 8000 NSC DNKN 061100Z 0612/0718 06010KT CAVOK TEMPO 0618/0624 VRB02KT TEMPO 0706/0710 5000 HZ DNMA 061100Z 0612/0718 05008KT CAVOK TEMPO 0704/0709 5000 HZ DNMM 061100Z 0612/0718 26010KT 8000 BKN013 FEW020CB PROB30 TEMPO 0614/0619 TS BECMG 0619/0621 VRB02KT FEW010 DNPO 061100Z 0612/0718 24010KT 9999 BKN012 FEW020CB TEMPO 0612/0617 TS PROB30 0614/0616 5000 -TSRA BKN010 FEW019CB BECMG 0618/0620 VRB02KT SCT009 TEMPO 0703/0707 5000 BR DNSO 061100Z 0612/0718 12010KT CAVOK DNYO 061100Z 0612/0718 05008KT CAVOK DRRN 061100Z 0612/0718 08012KT 8000 NSC TEMPO 0617/0619 4000 DU DRZA 061100Z 0612/0712 10018KT 6000 NSC TEMPO 0612/0616 4000 BLDU DRZR 061100Z 0612/0712 07012KT 8000 NSC DTMB 061100Z 0612/0712 23006KT 8000 FEW016 PROB40 TEMPO 0705/0707 VRB03KT 4000 BR DTNH 061100Z 0612/0712 20006KT CAVOK PROB30 TEMPO 0705/0707 4000 BR BECMG 0707/0709 20010KT 9999 FEW026 DTTA 061100Z 0612/0712 18005KT 9999 FEW033 BECMG 0620/0622 VRB03KT BECMG 0707/0709 20006KT DTTJ 061100Z 0612/0712 11004KT CAVOK PROB30 TEMPO 0704/0706 3000 BR BECMG 0707/0709 18008KT 9999 FEW030 DTTX 061100Z 0612/0712 20005KT 8000 NSC BECMG 0617/0619 04005KT 9999 FEW026 PROB30 TEMPO 0704/0707 3000 BR BECMG 0707/0709 02012KT DTTZ 061100Z 0612/0712 09010KT CAVOK TEMPO 0620/0623 09017KT DXNG 061100Z 0612/0712 VRB05KT 8000 NSC= LFBD 061100Z 0612/0718 20005KT 5000 BR BKN004 TX12/0712Z TN06/0619Z BECMG 0612/0614 8000 NSW BKN010 PROB40 TEMPO 0614/0617 SCT010 BECMG 0618/0620 3000 BR BKN003 TEMPO 0700/0710 1500 RADZ OVC002 PROB40 TEMPO 0620/0710 0800 FG VV/// BECMG 0713/0715 9999 NSW OVC030 DXXX 061100Z 0612/0718 20010KT 9999 SCT015 TEMPO 0614/0622 TS BKN015 FEW020CB BECMG 0622/0624 26005KT BECMG 0708/0710 20010KT EBBR 061110Z 0612/0718 21016KT 7000 -RA SCT007 BKN012 TEMPO 0612/0618 21018G28KT 3000 RADZ BKN007 PROB30 TEMPO 0620/0622 23020G35KT 4000 SCT008 BKN012TCU BECMG 0622/0624 BKN018 PROB30 TEMPO 0704/0707 BKN012 EBCI 061110Z 0612/0718 21016KT 7000 -RA SCT007 BKN012 TEMPO 0612/0619 21018G28KT 3000 RADZ BKN005 PROB30 TEMPO 0620/0622 23020G35KT 4000 SCT006 BKN011TCU BECMG 0622/0624 BKN016 PROB40 TEMPO 0700/0707 BKN007 EBLG 061110Z 0612/0718 21016KT 7000 -RA SCT007 BKN012 TEMPO 0612/0621 21018G28KT 3000 RADZ BKN005 PROB30 TEMPO 0621/0623 23020G35KT 4000 SCT006 BKN011TCU BECMG 0623/0701 BKN016 PROB40 TEMPO 0701/0708 BKN007 EBOS 061110Z 0612/0718 21020KT 7000 -RA SCT008 BKN014 TEMPO 0612/0616 21020G30KT 3000 RADZ BKN008 TEMPO 0617/0619 23025G38KT PROB30 TEMPO 0618/0620 4000 SHRA SCT010 BKN014TCU BECMG 0620/0622 27018KT SCT018 BKN035 EDDB 061100Z 0612/0712 21012KT 9999 OVC020 BECMG 0612/0614 21015G25KT TEMPO 0618/0709 4000 -RA BKN012 EDDC 061100Z 0612/0712 20010KT CAVOK BECMG 0621/0624 22015G25KT EDDE 061100Z 0612/0712 23012KT 9999 BKN040 BECMG 0612/0615 23015G25KT PROB30 TEMPO 0619/0701 RA BECMG 0621/0624 23020G30KT EDDF 061100Z 0612/0718 20012KT 9999 BKN009 BECMG 0612/0615 BKN020 PROB30 TEMPO 0618/0624 22015G25KT 3000 RA BKN008 TEMPO 0700/0704 22015G25KT BKN008 EDDG 061100Z 0612/0712 21015G25KT 8000 BKN010 TEMPO 0612/0618 4000 RA BKN008 TEMPO 0619/0703 23020G30KT 4000 SHRA BKN004 BKN030TCU TEMPO 0703/0712 25013KT 4000 -RA BR BKN008 EDDH 061100Z 0612/0718 22015KT 9999 BKN008 TEMPO 0612/0621 23020G30KT TEMPO 0612/0708 2500 -RADZ PROB30 TEMPO 0612/0708 BKN004 TEMPO 0621/0705 23015G25KT BECMG 0702/0705 26010KT PROB30 TEMPO 0705/0707 29015G30KT BECMG 0707/0710 SCT012 BKN015 TEMPO 0710/0718 26015G25KT 4000 SHRA BKN012TCU EDDK 061100Z 0612/0718 18010KT 9999 BKN020 TEMPO 0612/0619 RA PROB30 TEMPO 0616/0621 4000 -RA BKN014 TEMPO 0621/0703 25015G30KT 4000 SHRA BKN012 BKN030TCU BECMG 0700/0703 25012KT TEMPO 0703/0710 BKN014 BECMG 0714/0717 24007KT EDDL 061100Z 0612/0718 19015G25KT 8000 BKN020 TEMPO 0612/0618 RA BKN012 PROB30 TEMPO 0616/0620 4000 -RA BKN008 TEMPO 0620/0703 25015G30KT 4000 SHRA BKN008 BKN030TCU BECMG 0702/0704 25013KT TEMPO 0703/0709 BKN008 TEMPO 0709/0714 BKN012 BECMG 0715/0718 23008KT EDDM 061100Z 0612/0718 22004KT CAVOK BECMG 0700/0702 25015G25KT TEMPO 0702/0705 RA BECMG 0714/0716 25008KT EDDN 061100Z 0612/0712 15008KT CAVOK TEMPO 0622/0704 RA BECMG 0700/0702 22010KT TEMPO 0702/0706 BKN012 BECMG 0704/0706 24015G25KT EDDP 061100Z 0612/0712 20012KT 9999 BKN040 BECMG 0612/0615 22015G25KT PROB30 TEMPO 0620/0702 RA BECMG 0622/0701 24020G30KT EDDR 061100Z 0612/0712 20008KT 3000 BR OVC002 BECMG 0612/0614 22013KT 8000 FEW005 BKN045 BECMG 0618/0622 BKN008 TEMPO 0619/0702 22015G25KT 3000 RA BR PROB30 TEMPO 0622/0702 1200 RA BKN003 TEMPO 0702/0708 22015G25KT 1200 BR BKN002 TEMPO 0710/0712 SCT008 EDDS 061100Z 0612/0712 VRB03KT CAVOK BECMG 0612/0614 21006KT PROB30 TEMPO 0622/0709 24015G25KT RA EDDT 061100Z 0612/0712 21012KT 9999 OVC020 BECMG 0612/0614 21015G25KT TEMPO 0618/0709 4000 -RA BKN012 EDDV 061100Z 0612/0712 20015KT 9999 SCT012 BKN020 TEMPO 0612/0706 24015G30KT 4000 -RADZ BKN008 BECMG 0703/0706 26015KT TEMPO 0706/0712 26015G25KT TEMPO 0709/0712 4000 SHRA BKN012TCU EDDW 061100Z 0612/0712 21015G25KT 9999 BKN008 TEMPO 0612/0624 23020G30KT TEMPO 0612/0706 2500 -RADZ PROB30 TEMPO 0612/0706 BKN004 BECMG 0704/0706 26012KT TEMPO 0706/0712 26015G25KT BECMG 0706/0709 SCT008 BKN015 TEMPO 0709/0712 4000 SHRA BKN012TCU EDFH 061147Z 0612/0712 23010KT 9999 BKN008 TEMPO 0612/0617 24015G25KT 4000 RA SCT005 BKN020 TEMPO 0617/0624 24020G30KT 2000 RA BKN004 PROB30 TEMPO 0622/0706 0900 -DZ FG BKN001 TEMPO 0700/0712 26015G25KT 2000 BR BKN004 EDLP 061100Z 0612/0712 21015G25KT 9999 BKN020 TEMPO 0612/0620 21020G30KT RA BKN014 TEMPO 0622/0705 23020G30KT 4000 SHRA BKN012 BKN030TCU TEMPO 0705/0710 25013KT BKN008 EDLV 061100Z 0612/0712 21015G25KT 9999 BKN010 TEMPO 0612/0617 RA BKN006 TEMPO 0620/0702 23020G30KT 4000 SHRA BKN004 BKN030TCU BECMG 0702/0705 25012KT TEMPO 0702/0710 BKN006 EDLW 061100Z 0612/0712 22015G25KT 8000 BKN020 TEMPO 0612/0619 RA BKN012 PROB30 TEMPO 0619/0621 BKN008 TEMPO 0621/0704 25020G30KT 4000 SHRA BKN008 BKN030TCU TEMPO 0704/0710 25013KT BKN008 BECMG 0710/0712 25013KT BKN012 EDNY 061100Z 0612/0712 23005KT 9999 BKN006 BECMG 0612/0614 SCT007 BECMG 0703/0706 22010KT TEMPO 0707/0710 BKN014 EDSB 061100Z 0612/0712 22008KT 6000 SCT003 PROB30 TEMPO 0612/0614 3000 BR BKN002 BECMG 0619/0621 20015KT TEMPO 0620/0702 4000 RA BKN014 TEMPO 0621/0706 21020G30KT TEMPO 0702/0706 BKN014 BECMG 0706/0708 21010KT EEEI 061130Z 0612/0712 21013KT 9999 BKN010 TEMPO 0612/0618 3000 RADZ BR OVC004 TEMPO 0614/0619 27014KT TEMPO 0702/0712 3000 RA BKN006 TEMPO 0704/0712 20016G26KT EETN 061121Z 0612/0712 21014KT 6000 BKN008 OVC015 TEMPO 0612/0619 27014KT 2000 RADZ BKN003 OVC008 BECMG 0619/0621 BKN012 SCT015CB TEMPO 0702/0712 19018G28KT 2000 RA BR BKN003 OVC005 EFHK 061119Z 0612/0712 23009KT 9999 -RA BKN008 TEMPO 0612/0615 7000 BKN010 TEMPO 0615/0619 3000 BR BKN004 BECMG 0619/0621 SCT010 BKN015 BECMG 0704/0706 6000 RA BKN006 TEMPO 0706/0712 20015G25KT 8000 -RA BKN004 EFJY 061127Z 0612/0712 20005KT 7000 -RA BKN004 TEMPO 0612/0621 2000 DZRA BKN007 BECMG 0621/0623 8000 BKN012 TEMPO 0623/0707 4000 BR BKN008 PROB30 TEMPO 0623/0706 0500 FG BKN001 TEMPO 0707/0712 2000 SN BKN001 EFKU 061223Z 0612/0712 23008KT 8000 -RA OVC003 TEMPO 0612/0703 0800 DZ BKN001 TEMPO 0703/0709 BKN006 BECMG 0709/0711 2500 -SN EFOU 061132Z 0612/0712 19006KT 9999 OVC003 TEMPO 0612/0704 1000 BR BKN001 BECMG 0704/0706 SCT005 BECMG 0709/0711 BKN007 EFRO 061323Z 0613/0712 22007KT 9999 FEW002 TEMPO 0613/0614 4000 BR BKN001 BECMG 0614/0616 0300 FZFG VV001 TEMPO 0616/0703 2000 BR BKN002 TEMPO 0703/0712 5000 BR BKN003 EFTP 061127Z 0612/0712 22006KT 9999 OVC007 TEMPO 0612/0619 1200 DZ BR BKN003 PROB30 TEMPO 0619/0621 2000 BR BKN015 TEMPO 0622/0709 BKN003 PROB40 TEMPO 0623/0709 0500 FG BKN001 TEMPO 0709/0712 4000 BR BKN004 EFTU 061124Z 0612/0712 25009KT 9999 OVC006 PROB40 TEMPO 0612/0616 4000 BR BKN004 BECMG 0616/0618 BKN015 BECMG 0701/0703 7000 -RA BKN010 TEMPO 0705/0712 3000 RA BKN003 EFVA 061127Z 0612/0712 15003KT 0800 FG VV002 TEMPO 0612/0619 0200 VV001 BECMG 0619/0621 9999 NSW FEW020 BECMG 0701/0703 0500 FZFG VV001 TEMPO 0703/0712 2000 BR BKN005 EGAA 061056Z 0612/0712 26012KT 9999 FEW015 SCT025 TEMPO 0612/0613 4000 +SHRA BKN009 BKN014CB PROB30 TEMPO 0613/0704 8000 -SHRA BKN014 BECMG 0704/0708 BKN006 TEMPO 0704/0712 6000 -RADZ BECMG 0706/0710 20009KT PROB40 0708/0712 BKN002 EGBB 061055Z 0612/0712 24012KT 9999 SCT020 TEMPO 0612/0618 26018G28KT 7000 SHRA PROB30 TEMPO 0614/0617 4000 +SHRA BKN014 EGCC 061055Z 0612/0718 21010KT 9999 BKN020 BECMG 0612/0615 27010KT TEMPO 0612/0618 27015G25KT 7000 SHRA PROB30 TEMPO 0612/0616 4000 +SHRA BKN007 PROB30 TEMPO 0618/0621 5000 -RADZ BKN009 BECMG 0708/0711 20009KT PROB30 TEMPO 0708/0718 BKN012 EGCN 061055Z 0612/0712 24010KT 9999 SCT025 TEMPO 0612/0617 7000 SHRA PROB30 TEMPO 0612/0616 26017G27KT 4000 +SHRA EGFF 061057Z 0612/0712 26020G30KT 9999 SCT025 TEMPO 0612/0618 27025G40KT 7000 SHRA BKN014 PROB30 TEMPO 0612/0616 4000 +SHRA BKN009CB BECMG 0618/0621 27014KT TEMPO 0702/0712 8000 BKN010 EGGD 061057Z 0612/0712 24018G28KT 9999 SCT020 BECMG 0612/0615 27025G35KT TEMPO 0612/0618 7000 SHRA BKN012 PROB30 TEMPO 0612/0617 4000 +SHRA BKN008CB BECMG 0615/0618 28015G25KT BECMG 0703/0706 20008KT TEMPO 0703/0712 8000 BKN008 EGGP 061055Z 0612/0712 27010KT 9999 BKN020 TEMPO 0612/0618 27015G25KT 7000 SHRA PROB30 TEMPO 0612/0616 4000 +SHRA BKN009 PROB30 TEMPO 0618/0624 BKN012 BECMG 0708/0711 20009KT EGGW 061302Z 0613/0712 24015KT 9999 SCT020 TEMPO 0613/0618 26020G35KT TEMPO 0615/0619 7000 SHRA BKN012 PROB30 TEMPO 0615/0618 4000 +SHRA BKN008CB TEMPO 0621/0709 8000 BKN008 EGKK 061057Z 0612/0718 23015KT 9999 BKN010 TEMPO 0612/0619 25017G27KT TEMPO 0612/0614 7000 -RA BKN006 PROB40 TEMPO 0612/0614 3000 RADZ BKN004 BECMG 0613/0615 SCT025 TEMPO 0614/0619 6000 SHRA BECMG 0621/0624 22005KT EGLL 061058Z 0612/0718 23014KT 9999 BKN014 BECMG 0612/0615 SCT030 TEMPO 0612/0614 23015G25KT 4000 RADZ TEMPO 0614/0619 25018G28KT 7000 SHRA PROB30 TEMPO 0615/0618 4000 +SHRA BKN012 EGNM 061236Z 0612/0712 26012KT 9999 SCT020 TEMPO 0612/0616 24015G25KT 7000 SHRA PROB30 TEMPO 0612/0616 26020G35KT 4000 +SHRA BKN008 TEMPO 0706/0712 9000 -RA BKN014 EGNT 061055Z 0612/0712 24014KT 9999 SCT020 TEMPO 0612/0615 7000 SHRA PROB30 TEMPO 0612/0615 26018G28KT 4000 +SHRA BKN014 PROB30 TEMPO 0615/0618 27015G25KT EGNX 061055Z 0612/0712 24014KT 9999 SCT020 TEMPO 0612/0618 26018G28KT 7000 SHRA PROB30 TEMPO 0614/0617 4000 +SHRA BKN014 EGPD 061057Z 0612/0712 27008KT 9999 SCT030 PROB30 TEMPO 0612/0709 6000 SHRA BKN014 EGPF 061057Z 0612/0712 24012KT 9999 SCT025 TEMPO 0612/0706 7000 -SHRA BKN012 PROB40 TEMPO 0612/0615 3000 +SHRA BKN009CB TEMPO 0706/0712 4000 RADZ BKN008 PROB30 TEMPO 0709/0712 BKN004 EGPH 061057Z 0612/0712 25009KT 9999 SCT025 PROB40 TEMPO 0612/0622 26015G25KT 7000 SHRA BKN014 PROB40 TEMPO 0708/0712 4000 RADZ BKN008 EGPK 061057Z 0612/0712 25012KT 9999 SCT025 TEMPO 0612/0706 7000 -SHRA BKN014 PROB40 TEMPO 0612/0615 3000 +SHRA BKN009CB TEMPO 0706/0712 7000 -RA BKN012 PROB30 TEMPO 0708/0712 4000 RADZ BKN008 EGQS 061032Z 0612/0706 26010KT 9999 FEW020 BKN030 TEMPO 0612/0706 7000 -SHRA SCT020 PROB40 TEMPO 0612/0621 3000 RADZ SCT012 BKN020 EGSS 061324Z 0613/0718 25016KT 9999 SCT022 TEMPO 0613/0618 26020G35KT TEMPO 0615/0620 7000 SHRA BKN014 PROB30 TEMPO 0615/0619 4000 +SHRA BKN009CB TEMPO 0621/0709 8000 BKN010 BECMG 0714/0717 19012KT EGUL 061300Z 0613/0719 22015G25KT 9999 BKN020 QNH2949INS TEMPO 0613/0617 BKN015 BECMG 0617/0618 27015G20KT 9000 -SHRA BKN010 QNH2961INS BECMG 0621/0622 27015G20KT 9999 NSW BKN020 QNH2971INS BECMG 0705/0706 25010G20KT 9999 SCT020 BKN040 QNH2985INS TX13/0613Z TN07/0706Z LAST NO AMDS AFT 0613 NEXT 0906 EGUN 061200Z 0612/0718 22015G25KT 9999 BKN015 QNH2953INS BECMG 0617/0618 27015G20KT 9000 -SHRA BKN010 QNH2961INS BECMG 0621/0622 27015G20KT 9999 NSW BKN020 QNH2971INS BECMG 0705/0706 25010G20KT 9999 SCT020 BKN040 QNH2985INS TX12/0613Z TN07/0706Z LAST NO AMDS AFT 0612 NEXT 0712 EGVN 061119Z 0612/0712 24013KT 9999 SCT010 BECMG 0612/0614 FEW016 TEMPO 0612/0617 26015G28KT TEMPO 0614/0619 BKN016 PROB30 TEMPO 0614/0617 4000 SHRA BKN014CB EGVO 061047Z 0612/0624 22016KT 9999 BKN008 BECMG 0612/0614 FEW020 TEMPO 0612/0613 5000 -RADZ BKN006 PROB40 TEMPO 0612/0617 23018G28KT PROB30 TEMPO 0614/0618 7000 SHRA SCT018 BECMG 0617/0619 26012KT EGWU 061036Z 0612/0706 25018G28KT 9999 BKN012 BECMG 0612/0614 FEW016 BKN028 TEMPO 0612/0618 5000 SHRA BKN016 BECMG 0617/0620 28012KT EGXC 061049Z 0612/0706 24016G26KT 9999 FEW018 BKN030 TEMPO 0612/0618 -SHRA SCT018 PROB30 TEMPO 0613/0617 4000 SHRA BKN014CB BECMG 0615/0618 26011KT EGXW 061041Z 0612/0706 22016G26KT 9999 FEW018 BECMG 0612/0614 25018G28KT PROB40 TEMPO 0612/0617 7000 SHRA BKN018TCU PROB30 TEMPO 0613/0617 4500 SHRA BKN014CB BECMG 0616/0619 26014KT PROB30 TEMPO 0617/0619 SCT020 EGYP 061002Z 0612/0706 22020KT 9999 BKN035 TEMPO 0612/0706 7000 SHRA BKN020 PROB40 TEMPO 0612/0624 4000 SHRASN PROB40 TEMPO 0700/0706 3000 SHRASN BKN010 EHAM 061118Z 0612/0718 21018G28KT 7000 -RA BKN006 PROB30 TEMPO 0612/0619 3500 RADZ BR BKN004 BECMG 0618/0621 9999 NSW BKN018 BECMG 0620/0623 29014G24KT TEMPO 0620/0623 30020G30KT 6000 SHRA RA BKN014 SCT018CB PROB30 TEMPO 0620/0623 30025G35KT 4000 TSRA BKN010 SCT015CB BECMG 0703/0706 27012KT SCT018 BKN025 PROB30 TEMPO 0707/0715 6000 -SHRA SCT015TCU BKN018 BECMG 0715/0718 23009KT EHBK 061102Z 0612/0718 21016G26KT 9000 -RA OVC017 TEMPO 0612/0622 3500 RADZ BKN008 BECMG 0622/0701 24012KT NSW TEMPO 0622/0702 5000 SHRA RA BKN008 SCT020CB PROB30 TEMPO 0702/0711 7000 -RA SCT008 BKN012 EHEH 061133Z 0612/0718 20015KT 9999 BKN007 OVC010 PROB30 TEMPO 0612/0618 4000 RADZ SCT004 OVC007 PROB40 TEMPO 0612/0618 21016G26KT BKN010 OVC012 BECMG 0618/0621 SCT012 BKN018 TEMPO 0621/0701 22017G32KT 4500 -SHRA SCT010 BKN015 SCT022CB PROB30 TEMPO 0621/0700 3000 SHRA TSRA BKN012 SCT018CB BECMG 0623/0701 26012KT SCT012 BKN020 EHGG 061311Z 0613/0718 21017G27KT 8000 -RA BKN006 TEMPO 0613/0621 2500 DZRA BR BKN004 TEMPO 0621/0701 4000 SHRA RA SCT014 SCT020CB BECMG 0622/0701 27012KT 9999 NSW SCT020 PROB30 TEMPO 0708/0715 7000 -SHRA BKN014 FEW015TCU BKN020 BECMG 0715/0718 24009KT PROB30 TEMPO 0715/0718 5000 -DZ SCT007 BKN012 EHGR 060913Z 0610/0622 21012KT 8000 BKN007 OVC010 PROB30 TEMPO 0606/0618 22017G27KT 2500 DZRA SCT004 OVC007 TEMPO 0610/0618 SCT012 BKN017 BECMG 0618/0621 SCT015 BKN020 TEMPO 0621/0622 22017G32KT 4500 -SHRA SCT010 BKN015 SCT022CB PROB30 TEMPO 0621/0622 3000 SHRA TSRA BKN012 SCT018CB EHKD 060912Z 0610/0622 21022KT 5000 BR BKN006 OVC010 TEMPO 0610/0618 22025G35KT 2500 RADZ BKN003 BECMG 0618/0620 9999 NSW BKN020 TEMPO 0619/0622 28017G32KT4000 SHRA SCT012 SCT018CB PROB40 TEMPO 0620/0622 3000 TSRA SHRA SCT010 SCT015CB BECMG 0620/0622 28015KT EHLE 061118Z 0612/0718 21020G30KT 6000 -RA BKN006 PROB40 TEMPO 0612/0622 2500 RADZ BR BKN004 BECMG 0621/0624 28014G24KT 9999 NSW BKN018 TEMPO 0621/0624 30020G30KT 6000 SHRA BKN014 SCT018CB BECMG 0701/0704 26012KT PROB30 TEMPO 0707/0715 7000 -SHRA SCT015TCU BKN018 BECMG 0715/0718 23009KT PROB40 TEMPO 0715/0718 5000 -DZ SCT007 BKN012 EHLW 060912Z 0610/0622 21022KT 5000 BR BKN006 OVC010 TEMPO 0610/0619 22025G35KT 2500 RADZ BKN003 BECMG 0619/0621 9999 NSW BKN020 TEMPO 0620/0622 28017G32KT 4000 SHRA SCT012 SCT018CB PROB40 TEMPO 0621/0622 3000 TSRA SHRA SCT010 SCT015CB BECMG 0621/0622 28015KT EHRD 061118Z 0612/0718 21018G28KT 7000 -RA BKN006 PROB30 TEMPO 0612/0619 3500 RADZ BR BKN004 BECMG 0618/0621 9999 NSW BKN018 BECMG 0620/0623 29014G24KT TEMPO 0620/0623 30020G30KT 6000 SHRA RA BKN014 SCT018CB PROB30 TEMPO 0620/0623 30025G35KT 4000 TSRA BKN010 SCT015CB BECMG 0703/0706 26012KT PROB30 TEMPO 0707/0715 6000 -SHRA SCT015TCU BKN018 BECMG 0715/0718 23009KT EHVK 060912Z 0610/0622 22017G27KT 8000 BKN007 OVC010 PROB30 TEMPO 0606/0618 2500 DZRA SCT004 OVC007 TEMPO 0610/0618 SCT012 BKN017 BECMG 0618/0621 SCT015 BKN020 TEMPO 0621/0622 22017G32KT 4500 -SHRA SCT010 BKN015 SCT022CB PROB30 TEMPO 0621/0622 3000 SHRA TSRA BKN012 SCT018CB EHWO 060913Z 0610/0622 21012KT 8000 BKN007 OVC010 PROB30 TEMPO 0610/0618 22017G27KT 2500 DZRA SCT004 OVC007 TEMPO 0610/0618 SCT012 BKN017 BECMG 0618/0621 SCT015 BKN020 TEMPO 0620/0622 22017G32KT 4500 -SHRA SCT010 BKN015 SCT022CB PROB30 TEMPO 0620/0622 3000 SHRA TSRA BKN012 SCT018CB EICK 061100Z 0612/0712 29018G31KT 9999 SCT018 SCT030 PROB30 TEMPO 0612/0613 -SHRA SCT018CB BECMG 0613/0615 29015G26KT BECMG 0615/0617 29014KT BECMG 0619/0621 25008KT BECMG 0706/0708 22008KT BECMG 0709/0711 22013KT BKN012 PROB30 TEMPO 0711/0712 BKN007 EIDW 061100Z 0612/0712 27019G31KT 9999 SCT018 SCT030 PROB40 TEMPO 0612/0613 28022G36KT TEMPO 0612/0613 4000 SHRA SCT010 SCT018CB BECMG 0616/0618 28015G26KT BECMG 0618/0620 26012KT BECMG 0709/0711 23012KT EIKN 061100Z 0612/0712 28015KT 9999 SCT018 BKN030 TEMPO 0612/0616 29018G29KT 7000 -SHRA SCT010 SCT018CB BECMG 0616/0618 28010KT BECMG 0622/0624 25006KT BECMG 0701/0704 22006KT BECMG 0706/0708 21011KT 4000 -RADZ BR BKN007 TEMPO 0708/0712 2000 BKN003 BECMG 0710/0712 21015G26KT EINN 061100Z 0612/0712 28020G32KT 9999 SCT018 SCT030 PROB40 TEMPO 0612/0615 -SHRA SCT012 SCT020CB BECMG 0613/0615 29016G27KT BECMG 0615/0617 29014KT BECMG 0619/0621 28009KT BECMG 0621/0623 25008KT BECMG 0704/0706 20007KT BECMG 0707/0709 17010KT TEMPO 0707/0712 BKN012 BECMG 0710/0712 20010KT EKAH 061110Z 0612/0712 22012KT 8000 BKN012 BECMG 0612/0614 2000 BR BKN004 TEMPO 0614/0623 23012G25KT 6000 SHRA BKN008 SCT015 BECMG 0623/0701 28012KT 9999 NSW SCT008 SCT015CB TEMPO 0701/0706 28015G25KT SHRA BKN010 TEMPO 0706/0712 29015G25KT SHRA EKBI 061110Z 0612/0712 23015KT 2000 RADZ BR BKN003 TEMPO 0612/0621 23015G25KT 5000 -RADZ BKN008 BECMG 0621/0623 28012KT 9999 NSW SCT008 BKN015CB TEMPO 0623/0707 29015G25KT SHRA BKN008 TEMPO 0707/0712 29015G25KT SHRA EKCH 061109Z 0612/0712 23018KT 8000 BKN008 TEMPO 0612/0619 22020G32KT 2500 RADZ BR BKN004 TEMPO 0619/0702 22020G32KT 2500 RADZ BR BKN004 SCT030CB BECMG 0702/0704 BKN018 TEMPO 0704/0706 26015G25KT SHRA BKN012 SCT015CB EKKA 061118Z 0612/0712 23015KT 2000 BR BKN003 TEMPO 0612/0618 5000 -SHRA BKN005 TEMPO 0618/0621 5000 -SHRA BKN008 FEW015CB BECMG 0621/0623 9999 NSW SCT008 BKN015 TEMPO 0623/0703 3000 SHRA BKN008 FEW015TCU BECMG 0703/0705 28018G28KT EKSP 061106Z 0612/0712 23020G32KT 1800 -RADZ BR BKN003 TEMPO 0612/0621 22018KT 5000 BKN008 BECMG 0621/0623 26015KT 9999 NSW BKN020 TEMPO 0623/0712 4000 SHRA BKN010 SCT020CB EKYT 061118Z 0612/0712 22015KT 8000 BKN015 BECMG 0612/0614 2500 BR BKN004 TEMPO 0614/0619 6000 -SHRA BKN008 BECMG 0619/0621 9999 NSW SCT010 BKN020 TEMPO 0621/0703 3000 SHRA BKN008 FEW015TCU BECMG 0703/0705 28018KT TEMPO 0705/0712 29020G32KT ELLX 061100Z 0612/0718 22013KT 0100 FG VV002 BECMG 0612/0613 2000 RA BR BKN005 BECMG 0620/0623 0300 -DZRA FG BKN002 BECMG 0708/0710 3000 BKN005 BECMG 0712/0714 6000 BKN010 ENAN 061100Z 0612/0712 15018KT 9999 SCT040 PROB40 TEMPO 0612/0712 4000 SHRASN SCT015CB BKN020 BECMG 0707/0709 04020KT ENBO 061100Z 0612/0712 14009KT 9999 -SHRA FEW012TCU BKN040 TEMPO 0612/0712 4000 SHRASNGS BKN012CB TEMPO 0612/0622 22015G25KT BECMG 0617/0619 22020KT TEMPO 0622/0706 24025G35KT PROB30 TEMPO 0616/0709 TS ENBR 061100Z 0612/0712 VRB06KT 9999 -RA FEW010 BKN020 TEMPO 0612/0621 3000 RADZ BR BKN008 BECMG 0618/0621 32010KT TEMPO 0621/0706 32015G25KT 4000 SHRA BKN012CB ENDU 061100Z 0612/0712 VRB05KT 9999 FEW002 SCT030 TEMPO 0703/0712 4000 -SN BKN012 ENGC 061100Z 0612/0712 29018KT 9999 -SHRA FEW020TCU SCT040 TEMPO 0620/0704 SHRA BKN014CB BECMG 0701/0703 32028KT ENGM 061100Z 0612/0712 VRB05KT 9999 FEW010 BKN070 PROB30 0618/0623 0700 FZFG VV002 BECMG 0622/0624 3000 SNRA BKN006 PROB30 0622/0703 -FZRA TEMPO 0703/0705 1500 -RASN BR VV007 BECMG 0705/0707 9999 NSW SCT040 ENNA 061100Z 0612/0712 18009KT 9999 SCT050 PROB30 TEMPO 0612/0618 4000 FZDZ BR BKN004 TEMPO 0706/0712 4000 -SN BKN012 ENOA 061100Z 0612/0712 24008KT 9999 BKN025 BECMG 0613/0615 32015KT BECMG 0622/0624 32025KT TEMPO 0622/0706 SHRA BKN014CB ENOL 061100Z 0612/0712 23015KT 9999 -SHRA FEW015TCU BKN025 TEMPO 0612/0618 25025G38KT TEMPO 0612/0621 3000 SHRASN BKN012CB TEMPO 0618/0703 24015G28KT TEMPO 0621/0712 2000 SHSNRAGS VV010 BECMG 0702/0704 29012KT TEMPO 0703/0712 29015G25KT ENRY 061100Z 0612/0712 VRB05KT 9999 FEW006 BKN040 BECMG 0617/0619 BKN012 TEMPO 0619/0705 4000 -RA BR BKN004 BECMG 0705/0707 CAVOK ENSB 061100Z 0612/0712 12012KT 9999 -SHSN FEW010 BKN030 PROB40 0612/0618 4000 -SHSN TEMPO 0615/0706 11025G35KT DRSN ENTC 061100Z 0612/0712 02008KT CAVOK ENTO 061100Z 0612/0712 24007KT 9999 FEW008 BKN040 BECMG 0617/0619 BKN012 TEMPO 0618/0704 1500 RADZ BCFG BKN004 BECMG 0704/0706 CAVOK ENVA 061100Z 0612/0712 23010KT 9999 -SHRASN FEW020TCU BKN040 PROB30 TEMPO 0612/0624 24015G25KT 2500 SHRASN BKN008 SCT015CB TEMPO 0700/0712 26015G25KT 1500 SHSNRA VV007 ENZV 061254Z 0612/0712 14008KT 7000 -RADZ SCT005 BKN010 TEMPO 0612/0620 2000 DZRA BR OVC003 BECMG 0619/0622 31015KT -SHRA FEW012TCU BKN025 TEMPO 0702/0712 32020G30KT SHRA BKN014CB EPBY 061130Z 0612/0712 22015KT 9999 BKN023 PROB40 TEMPO 0612/0618 23015G28KT TEMPO 0701/0712 4000 -RA BR SCT005 BKN014 PROB40 TEMPO 0706/0712 24017G27KT EPGD 061130Z 0612/0712 22017KT 9999 BKN014 TEMPO 0612/0706 23019G31KT 4000 RA BKN008 PROB40 0621/0710 2500 RADZ BKN004 EPKK 061130Z 0612/0712 21010KT 8000 NSC BECMG 0615/0618 VRB02KT BECMG 0621/0624 4000 BR BECMG 0706/0709 24010KT 8000 TEMPO 0709/0712 26015G30KT EPKT 061130Z 0612/0712 22015KT CAVOK TEMPO 0706/0712 23015G28KT 1500 SN RA BKN009 EPLL 061130Z 0612/0712 21010KT CAVOK BECMG 0705/0708 BKN014 PROB40 TEMPO 0706/0712 2000 RASN BKN005 OVC013 EPMO 061130Z 0612/0712 21010KT CAVOK PROB40 0702/0708 4000 BR BECMG 0709/0711 BKN014 PROB40 TEMPO 0709/0712 2000 RASN BKN005 OVC013 EPPO 061130Z 0612/0712 22012KT CAVOK BECMG 0700/0703 BKN010 TEMPO 0703/0712 23015G27KT 4000 RA BKN004 EPRZ 061130Z 0612/0712 22014KT CAVOK TEMPO 0612/0616 22020G30KT EPSC 061130Z 0612/0712 20010KT 8000 -RA BKN012 TEMPO 0612/0712 20016G26KT 4000 RA BR BKN004 OVC008 EPWA 061130Z 0612/0712 21010KT CAVOK BECMG 0709/0711 BKN014 PROB40 TEMPO 0709/0712 2000 RASN BKN005 OVC013 EPWR 061130Z 0612/0712 22011KT CAVOK TEMPO 0702/0712 23015G27KT 4000 RA BKN012 ESGG 061130Z 0612/0712 22016G26KT 9999 BKN006 TEMPO 0612/0614 BKN012 BECMG 0614/0616 24012KT 2000 RA BR BKN004 TEMPO 0617/0706 5000 -RA OVC007 BECMG 0706/0708 28015G26KT CAVOK ESKN 061130Z 0612/0712 26014KT 9999 SCT012 BKN020 BECMG 0617/0619 18004KT TEMPO 0621/0712 2500 RA BKN009 BECMG 0623/0701 20014KT ESMS 061108Z 0612/0712 22018KT 8000 BKN008 TEMPO 0612/0620 24018G28KT 3000 -RADZ BR BKN004 TEMPO 0620/0703 22015G28KT 3000 -SHRA BR BKN004 SCT030CB BECMG 0703/0705 SCT008 BKN015 TEMPO 0705/0712 26015G25KT SHRA BKN012 SCT015CB ESSA 061150Z 0612/0712 26014KT 9999 SCT010 BKN020 TEMPO 0612/0616 BKN008 BECMG 0623/0701 19010KT 2000 RA BR BKN006 TEMPO 0701/0708 6000 -RA SCT006 BKN012 TEMPO 0708/0712 8000 NSW OVC004 ETAD 061300Z 0613/0719 22012G18KT 1600 -RA BR BKN003 OVC015 620508 510306 QNH2990INS BECMG 0613/0614 22012G18KT 2400 -RA BR BKN005 OVC015 620508 510306 QNH2987INS TEMPO 0614/0616 1200 BR BKN003 OVC005 BECMG 0616/0617 22015G25KT 4400 -RA BR OVC007 620709 520205 QNH2982INS TEMPO 0617/0624 22020G35KT SCT007 OVC010 530004 BECMG 0700/0701 24012KT 4000 BR OVC007 620502 QNH2980INS BECMG 0705/0706 21009KT 3200 BR OVC005 620402 QNH2983INS TEMPO 0706/0709 1600 BR OVC003 BECMG 0710/0711 22012KT 5000 BR OVC007 QNH2985INS TX06/0713Z TN02/0613Z ETAR 061225Z 0612/0716 23010G20KT 9999 OVC008 QNH3008INS BECMG 0613/0614 23010G20KT 9999 BKN015 QNH3008INS BECMG 0616/0617 23012G25KT 9000 -SHRA BKN010 610104 510004 QNH2985INS TEMPO 0618/0623 23020G35KT BKN009 640704 540004 BECMG 0701/0702 23015G25KT 6000 -SHRA BKN010 610507 510003 QNH2986INS BECMG 0713/0714 25009KT 9999 NSW BKN015 QNH3000INS TX09/0705Z TN03/0612Z ETEB 060608Z 0606/0712 21006KT 3200 BR OVC002 QNH3006INS TEMPO 0607/0609 5000 BR OVC005 BECMG 0608/0609 21009KT 5000 BR SCT010 QNH3003INS BECMG 0610/0611 22012KT 9999 NSW SCT015 QNH2990INS BECMG 0621/0622 23015G20KT 6000 -SHRA BKN015 QNH2988INS TEMPO 0622/0704 24020G35KT TX06/0706Z TNM03/0606Z ETIC 0612/0712 19006KT 9999 SCT020 QNH2988INS BECMG 0622/0623 21012G18KT 8000 -SHRA OVC015 620505 QNH2982INS BECMG 0710/0711 26012G18KT 9999 NSW OVC015 620406 QNH2992INS TX06/0706Z TNM06/0607Z ETIK 060714Z 0607/0713 20006KT 9999 SCT020 QNH3005INS BECMG 0610/0611 22012KT 9999 SCT015 QNH2992INS BECMG 0619/0620 23015G20KT 6000 -SHRA BKN015 560010 QNH2989INS TX01/0618Z TNM04/0607Z ETNG 061100Z 0612/0703 21015G27KT 9999 SCT015 BKN050 BECMG 0612/0614 BKN012 TEMPO 0612/0624 4500 -RA BKN008 PROB30 TEMPO 0612/0617 2500 RADZ BKN005 TEMPO 0612/0624 22017G33KT ETNW 061120Z 0612/0712 22015G25KT 7000 -DZ SCT006 BKN012 OVC025 TEMPO 0612/0712 25020G30KT 3000 DZRA SCT003 BKN006 OVC010 BY ETGL ETOU 061215Z 0612/0718 20009KT 9999 BKN007 QNH2991INS TEMPO 0612/0615 OVC010 BECMG 0615/0616 22012G18KT 8000 -SHRA BKN010 620609 QNH2986INS TEMPO 0616/0622 24015G25KT BECMG 0623/0624 23015KT 9999 NSW OVC015 620504 QNH2984INS BECMG 0709/0710 25009KT 9999 BKN020 620404 QNH2988INS TX08/0704Z TN01/0612Z EVLA 061104Z 0612/0712 22018KT 6000 OVC005 TEMPO 0612/0621 22021G32KT TEMPO 0613/0709 4000 -RA BKN010 OVC015 TEMPO 0709/0712 23020G30KT EVRA 061100Z 0612/0712 20012KT 9999 OVC013 BECMG 0612/0614 BKN005 OVC010 TEMPO 0612/0618 20015G28KT TEMPO 0615/0703 4000 -RA BR BECMG 0703/0705 BKN010 OVC015 EYKA 061101Z 0612/0712 22014KT 9000 OVC015 TEMPO 0612/0614 22018G32KT BECMG 0614/0616 BKN006 OVC012 TEMPO 0617/0705 3000 RA BR EYPA 061100Z 0612/0712 23017KT 9000 OVC009 TEMPO 0612/0616 23017G34KT BECMG 0620/0622 BKN006 OVC015 TEMPO 0700/0706 3000 SHRA BKN012CB EYVI 061104Z 0612/0712 22016G26KT 9000 OVC015 TEMPO 0612/0618 5000 -RA BR BKN007 BECMG 0618/0619 5000 BR OVC005 TEMPO 0619/0706 1500 DZ OVC002 FABL 061000Z 0612/0712 34010KT 9999 BKN025 TX23/0612Z TN13/0703Z BECMG 0620/0622 VRB03KT BKN015 BECMG 0706/0708 SCT040 FACT 061000Z 0612/0718 17013KT CAVOK TX28/0612Z TN17/0704Z FM061500 18018KT 9999 FEW008 PROB30 TEMPO 0617/0622 BKN008 FM070600 17018KT CAVOK FAGG 061000Z 0612/0712 20006KT 9999 FEW006 SCT015 TX27/0612Z TN16/0704Z PROB40 TEMPO 0614/0702 BKN006 FM070600 17010KT 9999 SCT020 BKN030 FALA 061000Z 0612/0712 29007KT 9999 OVC010 TX17/0612Z TN12/0704Z TEMPO 0612/0616 5000 -SHRA OVC005 SCT025TCU BECMG 0615/0617 VRB03KT PROB30 0617/0623 4000 -RADZ OVC005 BECMG 0623/0701 OVC006 PROB30 TEMPO 0701/0706 0800 FG OVC002 BECMG 0707/0709 OVC012 PROB40 TEMPO 0709/0712 -SHRA OVC008 SCT020TCU FALE 061000Z 0612/0718 05010KT CAVOK TX26/0712Z TN20/0703Z BECMG 0620/0622 35005KT FM070600 21015G25KT 9999 SCT025 FAOR 061000Z 0612/0718 29010KT 9999 OVC008 TX15/0612Z TN10/0702Z TEMPO 0612/0616 5000 -SHRA OVC004 SCT020TCU BECMG 0616/0618 19006KT PROB30 0617/0623 4000 -RADZ OVC004 BECMG 0623/0701 VRB03KT 4000 BR OVC002 PROB40 TEMPO 0700/0706 0500 FG VV001 BECMG 0707/0709 33006KT 9999 NSW BKN010 PROB40 TEMPO 0709/0718 -SHRA OVC005 SCT020TCU BECMG 0713/0715 VRB03KT FAPE 061000Z 0612/0712 23015KT CAVOK TX31/0612Z TN17/0703Z BECMG 0615/0617 9999 BKN009 BECMG 0700/0702 23005KT BKN025 BECMG 0710/0712 15010KT SCT030 FAUP 061000Z 0612/0712 02010KT 9999 SCT030 TX31/0613Z TN18/0704Z PROB40 TEMPO 0614/0618 5000 TSRA FEW030CB BKN050 BECMG 0621/0623 VRB03KT CAVOK FBSK 061000Z 0612/0718 02005KT 9999 BKN015 FEW030CB BKN060 TEMPO 0612/0624 TSRA BECMG 0702/0704 OVC010 BECMG 0707/0709 BKN020 PROB40 TEMPO 0712/0718 TSRA FEW035CB FCBB 061100Z 0612/0718 25004KT 9999 FEW013 BECMG 0612/0614 SCT018 FEW030CB BECMG 0615/0617 TS BECMG 0618/0620 NSW FEW016 FCPP 061100Z 0612/0706 20008KT 9999 SCT015 SCT026 BECMG 0612/0614 SCT020 FEW030CB PROB30 0615/0617 TS BECMG 0618/0620 FEW010 FEFF 061100Z 0612/0718 05002KT 9999 FEW026 FM061600 VRB03KT 3000 HZFU BECMG 0618/0620 6000 NSW FGBT 061100Z 0612/0712 22008KT 9999 SCT010 TEMPO 0612/0618 BKN012 FEW020CB PROB30 TEMPO 0703/0710 TS BKN010 FEW020CB FGSL 061100Z 0612/0718 24008KT 9999 SCT012 FEW020CB TEMPO 0612/0618 BKN012 FEW020CB TEMPO 0620/0706 TS FIMP 061135Z 0612/0718 05010KT 9999 FEW014CB SCT016 BECMG 0618/0620 33005KT 9999 SCT017 BECMG 0704/0706 05008KT FIMR 061140Z 0612/0706 11015G28KT 9999 SCT018 FJDG 060900Z 0609/0715 10010KT 9999 FEW025 FEW250 QNH2978INS TX33/0611Z TN26/0621Z FKKD 061100Z 0612/0718 VRB05KT 8000 BKN016 FEW020CB TEMPO 0704/0707 3000 BR FKKL 060500Z 0606/0618 08008KT CAVOK FKKR 060500Z 0606/0618 11006KT CAVOK FKYS 061100Z 0612/0712 VRB05KT 8000 BKN020 FEW023CB BECMG 0620/0622 BKN006 FMCH 061100Z 0612/0718 22015KT 9999 SCT018CB BKN025 TEMPO 0612/0618 4000 TS SHRA BECMG 0619/0621 20005G15KT PROB30 TEMPO 0623/0706 3000 TSRA FMCZ 061100Z 0612/0712 16008KT 9999 FEW022 BECMG 0623/0702 11018KT PROB30 TEMPO 0700/0706 TSRA FEW015CB SCT020TCU SCT050 FMEE 061100Z 0612/0718 04010KT 9999 SCT030 BECMG 0613/0615 14006KT BECMG 0704/0706 02010KT BECMG 0715/0717 VRB03KT FMMI 061100Z 0612/0718 10010KT //// // ////// Q//// FMMS 061100Z 0612/0712 16008KT 9999 BKN017 SCT040 PROB40 TEMPO 0706/0710 4000 RA FMMT 061100Z 0612/0712 12010KT 9999 FEW017 SCT033 BECMG 0618/0620 26004KT BECMG 0710/0712 06012KT FMNA 061100Z 0612/0712 14016KT 9999 FEW020CB SCT040 TEMPO 0615/0712 3500 RA FMNM 061100Z 0612/0712 32012KT 9999 FEW020 BECMG 0620/0622 12004KT PROB30 TEMPO 0621/0703 4500 SHRA FMNN 061100Z 0612/0712 10004KT 9999 SCT020 SCT033 BECMG 0618/0620 08014KT BECMG 0710/0712 06004KT SCT020CB FMSD 061100Z 0612/0712 08010KT 9999 SCT016 BKN033 PROB40 TEMPO 0621/0710 4000 RA FMST 061100Z 0612/0712 24016KT 9999 FEW023 BECMG 0620/0622 30004KT FNBG 061045Z 0612/0624 28012KT 9999 FEW010 BKN023 BECMG 0620/0622 20006KT 9000 BKN018 FNCA 061045Z 0612/0624 19008KT 9999 SCT012 BKN025 PROB30 TEMPO 0613/0617 VRB03KT 8000 DZ BKN015 FNCT 061045Z 0612/0624 30012KT 9999 FEW018 BKN040 BECMG 0622/0624 18008KT 8000 SCT015 FNDU 061045Z 0612/0624 18008KT 9999 SCT025 PROB30 TEMPO 0614/0618 2000 TSRA SCT012 OVC020 FEW030CB BECMG 0622/0624 VRB03KT 7000 RA FEW015 BKN020 FNGI 061045Z 0612/0624 27008KT 9999 SCT020 PROB30 TEMPO 0613/0617 4000 TSRA FEW015 BKN020 BECMG 0620/0622 VRB03KT 8000 SCT015 FNHU 061045Z 0612/0624 20008KT 9999 SCT020 PROB30 TEMPO 0613/0617 5000 -TSRA SCT010 OVC020 FEW023CB BECMG 0620/0622 VRB03KT 8000 SCT015 FNKU 061045Z 0612/0624 20008KT 9999 FEW015 PROB30 TEMPO 0613/0618 2000 TSRA SCT012 OVC020 FEW023CB BECMG 0620/0622 VRB03KT 8000 SCT015 FNLU 061045Z 0612/0718 28008KT 9999 FEW020 BKN040 PROB30 TEMPO 0614/0618 SCT023 FEW023CB TEMPO 0620/0622 21006KT 8000 SCT020 FNMA 061045Z 0512/0624 26008KT 9999 FEW018 BKN030 PROB30 TEMPO 0614/0618 5000 -TSRA SCT010 BKN020 FEW023CB FNME 061045Z 0612/0624 33008KT 7000 DZ SCT020 FEW023CB BKN040 TEMPO 0613/0617 2000 TSRA SCT012 OVC020 BECMG 0620/0622 VRB03KT 8000 SCT025 FNMO 061045Z 0612/0624 33015KT 9999 SCT020 BECMG 0620/0622 19008KT 8000 NSC FNSA 061045Z 0612/0624 28008KT 9999 SCT018 FEW023TCU PROB30 TEMPO 0613/0618 3000 TSRA SCT012 BKN020 FEW030CB BECMG 0620/0622 VRB03KT 8000 RA SCT015 BKN022 FNSO 061045Z 0612/0624 20005KT 9999 FEW015 BKN030 PROB30 TEMPO 0613/0617 7000 DZ BECMG 0620/0622 VRB03KT 8000 SCT020 FNUB 061045Z 0612/0624 25010KT 9999 FEW020 BKN040 TEMPO 0613/0617 5000 -TSRA SCT012 OVC020 FEW025CB BECMG 0620/0622 VRB03KT 8000 SCT025 FNUE 061045Z 0612/0624 11008KT 9999 SCT030 PROB30 TEMPO 0613/0617 6000 DZ SCT015 FEW023CB FOOG 061100Z 0612/0712 24013KT 9999 SCT010 FEW020CB BKN026 TEMPO 0613/0619 TS BKN008 FEW020CB OVC026 PROB40 TEMPO 0700/0707 3500 TSRA FOOL 061100Z 0612/0718 21007KT 9999 SCT012 PROB40 TEMPO 0614/0620 4000 TSRA BKN010 FEW020CB FQBR 060400Z 0606/0712 17015KT 9999 BKN020 FEW025CB TX30/0613Z TN21/0703Z PROB30 TEMPO 0606/0612 5000 -TSRA BKN015 FEW025CB BECMG 0612/0614 14015KT BECMG 0618/0620 08012KT FQCH 060400Z 0606/0706 14006KT 9999 BKN018 TX25/0613Z TN18/0703Z BECMG 0612/0614 02010KT BECMG 0618/0620 09006KT FQLC 060400Z 0606/0706 16006KT 9999 BKN015 FEW020CB TX26/0613Z TN17/0703Z PROB30 TEMPO 0606/0612 5000 -TSRA BECMG 0612/0614 VRB02KT BECMG 0618/0620 06006KT FQMA 060400Z 0606/0712 34005KT 9999 BKN020 TX28/0613Z TN18/0703Z BECMG 0612/0614 05012KT FEW020 BECMG 0618/0620 17006KT FQNC 060400Z 0606/0706 17005KT 9999 BKN020 TX33/0613Z TN23/0703Z BECMG 0612/0614 23005KT BECMG 0618/0620 16008KT FQNP 060400Z 0606/0712 15010KT 9999 BKN020 TX32/0613Z TN23/0703Z PROB30 TEMPO 0606/0612 5000 -TSRA BKN015 FEW020CB BECMG 0612/0614 24005KT BECMG 0618/0620 17007KT FQPB 060400Z 0606/0706 15005KT 9999 BKN020 TX32/0613Z TN24/0703Z BECMG 0606/0608 23004KT BECMG 0612/0614 15005KT FQQL 060400Z 0606/0706 16005KT 9999 BKN020 TX33/0613Z TN24/0703Z PROB30 TEMPO 0606/0612 5000 -RADZ BECMG 0618/0620 24007KT FQTT 060400Z 0606/0706 16007KT 9999 BKN020 FEW030CB TX37/0613Z TN24/0703Z BECMG 0618/0620 VRB03KT FQVL 060400Z 0606/0706 16010KT 9999 BKN020 TX29/0613Z TN20/0703Z BECMG 0612/0614 24005KT BECMG 0618/0620 04007KT FSIA 061105Z 0612/0712 05005KT 9999 SCT022 FTTJ 061100Z 0612/0718 34007KT CAVOK TEMPO 0616/0619 4000 HZ TEMPO 0705/0708 4000 HZ TEMPO 0708/0714 04015KT FWCL 060400Z 0606/0712 14007KT 9999 FEW020 BECMG 0608/0610 SCT030 PROB30 TEMPO 0612/0614 9000 -TSRA FEW030CB BKN032 BECMG 0618/0620 FEW030 SCT080 BECMG 0706/0708 05008KT SCT025 PROB30 TEMPO 0710/0712 8000 -TSRA FEW025CB BKN030 FWKI 061000Z 0612/0718 09010KT 9999 FEW035 SCT035 TEMPO 0612/0614 VRB10G20KT 8000 -TSRA FEW018CB BKN020 BKN080 BECMG 0615/0617 10009KT 9999 FEW020CB BKN090 FXMM 061200Z 0612/0712 25006KT 9999 OVC030 BECMG 0709/0711 30010KT FYKT 061109Z 0612/0712 02004KT 9999 SCT040 PROB30 TEMPO 0615/0621 13015KT -TSRA FEW035CB SCT040 FYWB 061109Z 0612/0712 36011KT CAVOK BECMG 0613/0615 25012KT BECMG 0619/0621 24006KT 9999 BKN015 TEMPO 0622/0704 05004KT 0700 FG OVC007 FYWH 061109Z 0612/0712 17019KT 7000 FEW007 FEW025CB OVC090 PROB30 TEMPO 0613/0620 8000 -TSRA FEW010 FEW030CB BKN090 FZAA 061100Z 0612/0718 32010KT 9000 SCT022 FEW030CB TEMPO 0616/0620 TS BECMG 0621/0623 22004KT SCT018 BECDMG 0710/0712 32010KT SCT024 FEW030CB FZIC 061100Z 0612/0718 05008KT 4000 TSRA SCT006 SCT014CB FM061400 16006KT 7000 NSWBKN008 FEW014CB BECMG 0616/0618 00000KT NSC BECMG 0623/0703 0800 FG OVC004 FM070700 12006KT 8000 NSW BKN013 BECMG 0709/0712 SCT022 FZNA 061100Z 0612/0718 23010KT 8000 SCT018 FEW024CB PROB30 TEMPO 0612/0615 6000 -TSRA BECMG 0617/0619 07004KT SCT014 BECMG 0701/0703 SCT012 FEW018CB FZQA 061100Z 0612/0718 10008KT 9999 BKN025TCU BECMG 0613/0615 FEW030CB TEMPO 0615/0621 27010KT 8000 TSRA FM062200 VRB04KT -RA SCT018 BECMG 0703/0706 00000KT FEW010 GABS 061100Z 0612/0718 03010KT CAVOK GAGO 061100Z 0612/0712 10010KT 8000 NSC GBYD 061130Z 0612/0718 36010KT CAVOK GCFV 060800Z 0609/0709 36015KT 9999 SCT030 TX21/0615Z TN15/0707Z PROB40 TEMPO 0609/0621 4500 RA GCGM 060800Z 0609/0709 VRB07KT 9999 SCT040 TX22/0615Z TN17/0707Z PROB40 TEMPO 0609/0709 VRB15G25KT PROB30 TEMPO 0609/0624 02015G30KT GCHI 060800Z 0609/0709 02020KT 9999 SCT035 TX22/0615Z TN18/0707Z TEMPO 0609/0618 02020G30KT PROB30 TEMPO 0609/0612 RA GCLA 060800Z 0609/0709 01018KT 9999 BKN045 TX21/0615Z TN18/0707Z PROB40 TEMPO 0609/0618 36018G28KT GCLP 060800Z 0609/0709 36024KT 9999 SCT035 TX21/0615Z TN16/0707Z PROB40 TEMPO 0609/0620 36024G34KT PROB30 TEMPO 0609/0621 4500 RA GCRR 060800Z 0609/0709 36015KT 9999 SCT030 TX22/0615Z TN15/0707Z PROB40 TEMPO 0609/0621 4500 RA GCTS 060800Z 0609/0709 32008KT 9999 SCT045 TX24/0615Z TN16/0707Z TEMPO 0612/0618 22010KT GCXO 060800Z 0609/0709 32018KT 9999 BKN015 TX15/0615Z TN12/0707Z TEMPO 0609/0619 32018G28KT PROB30 TEMPO 0612/0618 3500 DZ BKN006 PROB30 TEMPO 0621/0709 4500 RA BKN008 GEML 060800Z 0609/0709 07008KT 9999 SCT020 TX19/0614Z TN14/0706Z PROB40 TEMPO 0700/0709 4000 RA BKN010 GFLL 061100Z 0612/0718 13004KT 8000 HZ SCT014 TEMPO 0612/0616 26006KT FEW015 BECMG 0624/0702 VRB03KT CAVOK TEMPO 0706/0711 5000 BR BKN009 FEW027CB BECMG 0712/0714 18005KT 9000 -HZ SCT014 GGOV 061100Z 0612/0712 01008KT CAVOK GLRB 061000Z 0612/0718 23010KT 9999 BKN020 TEMPO 0613/0617 21008KT TS SCT017 FEW026CB TEMPO 0618/0622 00000KT FEW013 FEW023CB GMAD 061100Z 0612/0718 26012KT 9999 SCT016 BKN080 TEMPO 0612/0624 4000 SHRA SCT030CB GMAG 061100Z 0612/0718 12007KT 8000 BKN016= GMFM 061030Z 0612/0718 15004KT CAVOK TEMPO 0614/0620 30010KT 9999 FEW023 SCT100 BECMG 0620/0624 VRB02KT CAVOK GMFF 061100Z 0612/0718 06010KT 9999 FEW020 BECMG 0614/0617 SCT020 SCT100 PROB30 TEMPO 0620/0704 32008KT 4000 RA GMFK 061100Z 0612/0718 07008KT 9999 SCT023 BKN080 TEMPO 0612/0616 4000 RA FEW030TCU GMFM 061030Z 0612/0718 15004KT CAVOK TEMPO 0614/0620 30010KT 9999 FEW023 SCT100 BECMG 0620/0624 VRB02KT CAVOK GMFO 061100Z 0612/0718 VRB04KT 9999 SCT090 TEMPO 0612/0620 28014KT GMME 061100Z 0612/0718 36004KT 8000 FEW016 PROB40 TEMPO 0701/0708 3000 BR BKN015 GMMH 061100Z 0612/0718 01010KT 8000 NSC GMMI 061100Z 0612/0718 03006KT 6000 SCT013 BKN020= GMMW 061100Z 0612/0718 VRB02KT 9999 FEW030 GMML 061100Z 0612/0718 03014KT 8000 SCT020 BKN027 GMMN 061100Z 0612/0718 06004KT 9999 SCT016 TEMPO 0613/0619 36012KT BECMG 0620/0622 16006KT 8000 SCT013 PROB30 TEMPO 0702/0709 2000 BR BKN008 BECMG 0710/0712 VRB02KT CAVOK GMMW 061100Z 0612/0718 VRB02KT 9999 FEW030 GMMX 061100Z 0612/0718 06006KT 8000 BKN020 SCT100 0616/0620 30012KT 5000 SHRA FEW030CB GMMZ 061100Z 0612/0718 36010KT 5000 -RA SCT020 OVC030 BECMG 0618/0621 VRB02KT GMTA 061100Z 0612/0718 21006KT 9999 FEW030 FEW033CB GMTT 061100Z 0612/0718 08017KT 9999 FEW020 SCT031 GOBD 060530Z 0606/0712 36012KT CAVOK GOGS 061130Z 0612/0712 35008KT CAVOK GOOY 061130Z 0612/0718 36012KT CAVOK GOSS 061130Z 0612/0712 02012KT CAVOK GQNO 061100Z 0612/0718 05015KT 6000 NSC BECMG 0614/0617 34012KT TEMPO 0710/0716 07015KT PROB30 0711/0715 3500 BLSA GQPP 061100Z 0612/0712 01018KT 7000 NSC PROB30 TEMPO 0613/0619 3000 DRSA GUCY 060500Z 0606/0712 32006KT 9999 FEW016 SCT115 TEMPO 0606/0610 VRB02KT 4000 BR FEW015 GVAC 061100Z 0612/0718 05013KT 9999 SCT014 PROB40 TEMPO 0612/0618 05023KT -RADZ SCT016 BKN020 GVBA 061100Z 0612/0718 06008KT 9999 SCT014 PROB30 TEMPO 0612/0618 -DZ SCT014 BKN020 GVNP 061100Z 0612/0718 05015KT 9999 SCT015 PROB30 TEMPO 0612/0618 -DZ SCT016 BKN020 BECMG 0602/0604 04004KT GVSV 061100Z 0612/0718 06010KT 9999 SCT022 PROB30 TEMPO 0612/0618 -DZ BKN020 HAAB 060330Z 0606/0712 06004KT 9999 SCT030 SCT090 BECMG 0606/0610 09010KT FEW030 HABD 060330Z 0606/0712 32006KT 9999 FEW030 FEW090 BECMG 0611/06115 24006KT SCT030 HADR 060330Z 0606/0712 06007KT 9999 FEW030 FEW090 BECMG 0609/0613 04010KT SCT030 HAMK 060330Z 0606/0712 12005KT 9999 FEW030 FEW090 BECMG 0606/0610 30007KT SCT030 HBBA 061100Z 0612/0718 18010G25KT 9999 FEW035CB BKN100 PROB40 TEMPO0613/0618 FEW030 6000 SHRA OR TSRA BECMG0619/0620 VRB03KT 9999 SCT080 BECMG0702/0704 36002KT 6000 RA BECMG0708/0710 18010G30KT 9999 FEW022 FEW035CB BKN100 HDAM 060500Z 0606/0706 08010KT 9/9 SCT023 BECMG 0615/0618 VRB05KT FEW020 BECMG 0700/0706 00000KT SCT020 HEAL 060500Z 0606/0712 34010KT 9999 SCT020 HEAR 060500Z 0606/0712 30008KT 9999 SCT025 HEAT 060500Z 0606/0712 33010KT CAVOK HEAX 061100Z 0612/0718 32014KT 9999 SCT020 HEBA 060500Z 0606/0712 34012KT 9999 SCT020 HEBL 060500Z 0606/0712 35010KT CAVOK HECA 061100Z 0612/0718 33014KT 9999 BKN025 TEMPO 0700/0707 30006KT 4000HZ NSC HEGN 060500Z 0606/0712 34015G25KT CAVOK= HESH 060500Z 0606/0712 03015KT CAVOK HELX 061100Z 0612/0718 32008KT CAVOK HEMA 060500Z 0606/0712 01015G25KT CAVOK HEMM 060500Z 0606/0712 34010KT 9999 SCT020 HEOW 060500Z 0606/0712 34010KT 6000 NSC TEMPO 0606/0612 3000SA HEPS 050500Z 0606/0712 30012KT CAVOK HESC 060500Z 0606/0712 34010KT CAVOK HESG 060500Z 0606/0712 34010KT CAVOK HESH 060500Z 0606/0712 03015KT CAVOK HESN 0606/0712 36010KT CAVOK HETB 060500Z 0606/0712 04015KT CAVOK HETR 060500Z 0606/0712 31018G28KT 6000 NSC HKEL 060500Z 0606/0706 26006KT 9999 BKN022 SCT080 TEMPO 0612/0618 -TSRA FEW018CB SCT019 BKN080 BECMG 0621/0624 13005KT -RA FEW016CB SCT017 BKN080 HKJK 060500Z 0606/0712 07010KT 9999 SCT025 TENPO 0613/0619 -SHRA FEW021CB SCT022 BKN080 BECMG 0621/0624 VRB03KT -RA FEW007 BKN018 BKN080 BECMG 0708/0711 09010KT SCT025 HKKI 061100Z 0612/0718 23010KT 9999 FEW024CB SCT025 TEMPO 0613/0619 VRB10KT -TSRA FEW020CB SCT021 BKN080 BECMG 0700/0703 06005KT NSW FEW018 BKN080 BECMG 0707/0710 23010KT BKN024 HKML 061100Z 0612/0712 16015KT 9999 SCT024 BECMG 0618/0621 18005KT FEW022 TEMPO 0700/0706 00000KT -SHRA SCT019 BKN080 BECMG 0709/0712 17015KT SCT025 HKMO 061100Z 0612/0718 15010KT 9999 SCT025 BECMG 0618/0622 18005KT FEW022 TEMPO 0700/0706 -SHRA SCT019 BKN080 BECMG 0709/0712 16010KT SCT026 BECMG 0715/0718 FEW023 HKNW 061100Z 0612/0718 09010KT 9999 BKN023 TEMPO 0613/0619 -SHRA FEW020CB SCT021 BKN080 BECMG 0621/0624 VRB05KT -RA SCT007 SCT018 BKN080 BECMG 0708/0711 09010KT NSW SCT025 HLGD 061100Z 0612/0712 36010KT CAVOK BECMG 0621/0623 VRB02KT 8000 NSC PROB30 TEMPO 0702/0706 3000 BR BECMG 0709/0711 15010KT HLGT 061100Z 0612/0712 VRB02KT CAVOK BECMG 0706/0708 18010KT 8000 NSC HLKF 061100Z 0612/0712 06010KT CAVOK HLLB 061100Z 0612/0712 09010KT CAVOK BECMG 0621/0623 VRB02KT 8000 NSC PROB30 TEMPO 0700/0706 3000 BR BECMG 0708/0710 10010KT HLLM 061100Z 0612/0712 08010KT CAVOK BECMG 0621/0623 15010KT 8000 NSC BECMG 0706/0708 VRB02KT HLLQ 061100Z 0612/0712 36010KT 9999 FEW023 BECMG 0621/0623 VRB02KT PROB30 TEMPO 0702/0706 3000 BR BECMG 0709/0711 18010KT HLMS 061100Z 0612/0712 18010KT CAVOK BECMG 0700/0702 VRB02KT 8000 NSC PROB30 TEMPO 0702/0706 3000 BR BECMG 0708/0710 18010KT HLON 061100Z 0612/0712 VRB02KT 8000 NSC HLTD 061100Z 0612/0712 VRB02KT CAVOK BECMG 0618/0620 14010KT 8000 NSC BECMG 0706/0708 34010KT CAVOK HLTQ 061100Z 0612/0712 34010KT 9999 FEW030 HLUB 061100Z 0612/0712 09010KT CAVOK BECMG 0700/0702 VRB02KT HRYR 061100Z 0612/0718 16012KT 9999 -TSRA FEW020CB BKN025 BECMG 0614/0617 24005KT SCT026 FM 062200 32005KT RA BKN025 BKN090 BECMG 0703/0706 00000KT 0700 FG SCT010 BKN018 FM 070800 14006KT 9999 SCT023 TEMPO 0712/0715 24015KT -TSRA FEW023CB BKN025 HSKA 061100Z 0612/0718 VRB03KT CAVOK HSOB 061100Z 0612/0718 03010G20KT CAVOK HSPN 061100Z 0612/0718 01012G22KT 9999 FEW030 SCT130 BECMG 0622/0624 32008KT HSSS 061100Z 0612/0718 02010G20KT CAVOK HTAR 061100Z 0612/0712 14005KT 9999 SCT028 FEW030CB TEMPO 0617/0622 00000KT SHRA BKN020 BKN080 HTDA 061100Z 0612/0718 14010KT 9999 BKN026 FEW027CB BECMG 0619/0622 00000KT HTDO 061100Z 0612/0712 09010KT 9999 SCT032 HTGW 061100Z 0612/0712 14010KT 9999 BKN030 FEW032CB SCT090 BECMG 0615/0617 SCT025 FEW026CB HTKA 061100Z 0612/0712 12010KT 9999 TSRA BKN020 FEW021CB BKN090 TEMPO 0617/0704 00000KT HTKJ 061100Z 0612/0712 09010KT 9999 FEW031CB SCT032 TEMPO 0615/0618 RA BECMG 0619/0621 NSW BKN025 HTMT 061100Z 0612/0712 16010KT 9999 SCT025 BECMG 0617/0620 00000KT SCT018 SCT080 BECMG 0706/0709 16010KT BKN022 FEW023CB HTMW 061100Z 0612/0712 34010KT 9999 FEW024 FEW025CB TEMPO 0621/0703 00000KT TS/TSRA BKN019 FEW020CB BECMG 0710/0712 33010KT NSW FEW024 FEW025CB HTTB 061100Z 0612/0712 07005KT 9999 SCT022 FEW023CB BKN080 BECMG 0613/0616 TSRA HTZA 061100Z 0612/0712 13010KT 9999 SCT020 FEW022CB PROB 40 TEMPO 0614/0617 5000 TSRA BKN018 FEW020CB BKN080 BECMG 0618/0620 00000KT BECMG 0702/0704 23010KT BKN012 FEW014CB BECMG 0709/0711 08010KT SCT020 FEW022CB HUEN 061100Z 0612/0718 17008KT 9999 FEW023 FEW025CB BECMG 0621/0624 35006KT TS FEW019 FEW021CB SCT110 TEMPO 0702/0706 VRB12KT 8000 -TSRA BKN017 FEW019CB OVC090 HUSO 061100Z 0612/0712 VRB07KT 9999 TS BKN022 FEW024CB FM 061700 23006KT 9000 -TSRA SCT021 FEW023CB BKN110 BECMG 0702/0707 34003KT 9999 FEW019 BKN100 FM 070900 26005KT TS SCT021 FEW023CB KABE 061120Z 0612/0712 22005KT P6SM BKN120 FM062000 25008KT P6SM BKN050 FM070100 30009KT P6SM SCT050 KABI 061120Z 0612/0712 34014G20KT P6SM SKC FM061800 35011KT P6SM SKC FM070100 03005KT P6SM SKC KABQ 061120Z 0612/0712 VRB04KT P6SM BKN250 KABR 061120Z 0612/0712 VRB05KT P6SM OVC018 FM061900 19010G17KT P6SM OVC011 FM062300 19009KT P6SM BKN035 KABY 061120Z 0612/0712 18005KT P6SM BKN100 FM070600 20006KT P6SM VCSH BKN050 KACK 061122Z 0612/0712 30013G20KT P6SM FEW250 FM061500 27012KT P6SM BKN200 FM061900 23014G24KT P6SM VCSH OVC050 FM070200 27019G29KT P6SM BKN050 FM070800 32018KT P6SM SCT150 KACT 061135Z 0612/0712 32015KT P6SM SKC FM062100 35011KT P6SM BKN300 FM071000 35004KT P6SM SCT015 KACV 061142Z 0612/0712 14010KT P6SM OVC080 WS020/16035KT FM061600 14010G20KT P6SM -SHRA OVC050 WS020/17040KT FM062200 16010KT 4SM -RA BR BKN025 OVC050 FM071000 18008KT 4SM RA BR BKN020 OVC030 KACY 061120Z 0612/0712 VRB03KT P6SM BKN200 FM061400 21010KT P6SM BKN150 FM061700 22011G20KT P6SM BKN120 FM070000 25009KT P6SM BKN080 FM070300 29009KT P6SM BKN060 FM070600 33007KT P6SM SCT100 KADF 061139Z 0612/0712 33003KT 6SM -SHRA BR SCT015 OVC025 TEMPO 0612/0615 4SM TSRA BR OVC015CB FM061500 01005KT P6SM OVC030 FM061800 03009KT P6SM BKN100 FM070000 05005KT P6SM BKN250 KADW 060900Z 0609/0715 19006KT 9999 OVC150 QNH3011INS BECMG 0614/0615 20010G15KT 9999 SCT050 SCT150 QNH3016INS BECMG 0621/0622 24012KT 9999 VCSH BKN045 QNH3004INS BECMG 0701/0702 28010KT 9999 NSW SCT025 QNH3009INS BECMG 0710/0711 34012KT 9999 BKN025 QNH3027INS TX09/0619Z TN00/0611Z KAEG 061120Z 0612/0712 VRB05KT P6SM BKN250 KAEX 061136Z 0612/0712 14005KT P6SM VCSH BKN015 OVC025 FM061500 23010KT P6SM OVC018 FM061900 30007KT P6SM BKN025 FM070200 36006KT P6SM BKN035 FM070500 02008KT P6SM OVC012 KAFF 061200Z 0612/0718 15006KT 6000 BR OVC002 600022 QNH3025INS BECMG 0617/0618 17007KT 9999 NSW SCT010 BKN200 QNH3024INS BECMG 0618/0619 17010KT 9999 SCT120 BKN200 QNH3022INS BECMG 0701/0702 VRB06KT 9999 SCT200 510309 QNH3012INS BECMG 0712/0713 01009KT 9999 FEW200 WS020/27035KT 530207 QNH3006INS WND 270V120 ROTOR CONDS EXIST BECMG 0716/0717 27012G22KT 9999 FEW200 530009 QNH3003INS ROTOR CONDS EXIST TX07/0622Z TNM03/0613Z KAFW 061135Z 0612/0712 32016G26KT P6SM SKC FM062100 35015KT P6SM BKN300 FM070200 36007KT P6SM BKN300 KAGC 061132Z 0612/0712 21006KT P6SM OVC080 WS020/25035KT FM061900 27010G20KT P6SM OVC025 FM070100 33008KT P6SM SCT025 KAGS 061122Z 0612/0712 VRB03KT P6SM BKN100 FM061600 22005KT P6SM SCT050 BKN100 FM062200 VRB04KT P6SM SCT030 OVC070 KAHN 061130Z 0612/0712 VRB03KT P6SM BKN120 FM061800 22003KT P6SM VCSH SCT060 OVC100 FM062000 18003KT P6SM -RA BKN060 OVC100 FM070200 VRB03KT P6SM BKN050 KAIA 061120Z 0612/0712 21007KT 1/2SM FZFG OVC002 FM061700 22012KT P6SM SCT250 KALB 061133Z 0612/0712 16004KT P6SM VCSH BKN040 FM061400 17005KT P6SM VCSH OVC025 FM061600 06004KT 1SM -SN OVC008 FM070000 31012G22KT P6SM BKN015 FM070200 31010KT P6SM OVC025 FM070600 33004KT P6SM SCT250 KALI 061237Z 0613/0712 28003KT P6SM OVC010 FM061400 35009KT P6SM BKN012 FM061600 36011KT P6SM FEW250 KALO 061137Z 0612/0712 35012KT P6SM BKN024 TEMPO 0612/0615 SCT025 FM061500 35011KT P6SM SCT150 FM062100 32005KT P6SM FEW250 FM070000 VRB03KT P6SM SKC FM070900 18008KT P6SM FEW250 KALS 061138Z 0612/0712 VRB06KT P6SM FEW250 FM070400 VRB04KT P6SM SKC KALW 061120Z 0612/0712 16003KT 1/2SM FZFG VV002 TEMPO 0612/0616 1/4SM FZFG VV001 FM061900 VRB04KT P6SM SCT100 BKN150 FM070400 17004KT P6SM OVC050 FM070900 19004KT 5SM -RA BR OVC040 KAMA 061120Z 0612/0712 35010KT P6SM BKN250 TEMPO 0614/0618 P6SM OVC007 FM062200 15008KT P6SM BKN250 KANB 061136Z 0612/0712 VRB02KT P6SM -RA OVC120 FM061600 12005KT P6SM VCSH OVC080 FM061900 16005KT 5SM -SHRA OVC050 FM070000 00000KT P6SM VCSH OVC025 FM070400 00000KT 5SM BR OVC012 KAND 061129Z 0612/0712 00000KT P6SM BKN090 FM061500 20004KT P6SM BKN120 FM070600 00000KT P6SM SCT060 KAOO 061159Z 0612/0712 24005KT P6SM SCT050 BKN100 FM061500 26013G20KT P6SM VCSH BKN035 FM062100 29014G22KT P6SM BKN030 FM070200 31011KT P6SM SCT030 KAPA 061130Z 0612/0712 17005KT P6SM SCT040 BKN200 FM061500 24005KT P6SM SCT120 SCT200 FM062000 02006KT P6SM SCT150 SCT200 FM070100 18008KT P6SM FEW200 KAPF 061122Z 0612/0712 VRB03KT P6SM FEW250 FM061600 24006KT P6SM FEW035 SCT250 FM070000 VRB03KT P6SM SCT250 KAPN 061130Z 0612/0712 33006KT P6SM VCSH OVC015 FM061400 31008KT P6SM VCSH BKN015 FM061600 30011G20KT P6SM BKN025 FM061800 31014G25KT P6SM BKN040 FM070000 30011G20KT P6SM BKN040 FM070200 30009KT P6SM BKN040 FM070700 27005KT P6SM BKN050 FM070900 VRB04KT P6SM OVC050 KARA 061136Z 0612/0712 15005KT P6SM SCT015 BKN025 TEMPO 0612/0614 5SM BR FM061400 22008KT P6SM BKN015 OVC025 FM061600 26012G18KT P6SM VCSH SCT018 OVC025 FM062000 28010KT P6SM SCT025 BKN035 FM070100 34005KT P6SM OVC030 FM070400 36007KT P6SM OVC009 KART 061120Z 0612/0712 06005KT 1SM -SN OVC025 FM061900 35008KT 4SM -SHSN OVC025 FM062300 32005KT P6SM VCSH BKN040 KASD 061124Z 0612/0712 00000KT P6SM VCSH OVC045 FM061700 VRB03KT P6SM BKN020 FM070200 VRB03KT 4SM BR BKN008 OVC020 FM070700 01005KT P6SM SCT020 BKN080 KASE 061129Z 0612/0712 VRB05KT P6SM FEW020 FEW100 FM061400 VRB03KT P6SM FEW070 FEW180 FM062100 VRB05KT P6SM FEW050 FM070300 19004KT P6SM SKC KASN 061136Z 0612/0712 VRB02KT P6SM -RA OVC120 FM061600 12005KT P6SM VCSH OVC080 FM062000 16005KT 5SM -SHRA OVC050 FM070000 00000KT P6SM VCSH OVC025 FM070400 00000KT 5SM BR OVC012 KAST 061133Z 0612/0712 09005KT P6SM BKN070 OVC180 FM062000 12007KT P6SM -RA OVC050 FM070100 12006KT 5SM -RA BR SCT025 OVC040 FM070800 13005KT 4SM -RA BR OVC025 KATL 061130Z 0612/0718 VRB03KT P6SM BKN120 FM061400 14005KT P6SM SCT060 BKN100 FM061800 17006KT P6SM VCSH SCT060 BKN100 FM062000 16004KT P6SM -RA OVC060 FM070100 08003KT P6SM SCT035 OVC060 FM070700 05004KT P6SM BKN025 FM071400 07006KT P6SM BKN040 KATW 061249Z 0613/0712 33011G18KT P6SM BKN030 FM061400 32010G17KT P6SM BKN035 FM061700 32010G18KT P6SM SCT035 FM062200 27006KT P6SM FEW035 SCT200 FM070700 22004KT P6SM BKN100 KATY 061120Z 0612/0712 VRB03KT P6SM OVC013 FM061800 19008KT P6SM SCT030 FM070100 19010G18KT P6SM SCT100 FM070600 22007KT P6SM BKN030 KAUG 061120Z 0612/0712 28011KT P6SM SKC FM061700 27005KT P6SM BKN080 FM062000 VRB03KT P6SM OVC035 TEMPO 0620/0624 2SM -SN OVC025 FM070600 33005KT P6SM SKC KAUS 061139Z 0612/0718 VRB03KT 4SM BR FEW250 FM061300 33007KT P6SM FEW250 FM061500 34014G24KT P6SM FEW250 FM062300 36009KT P6SM SKC FM070300 35007KT P6SM SKC KAUW 061127Z 0612/0712 34008G14KT P6SM BKN035 FM061500 32008G15KT P6SM SCT035 FM062200 28004KT P6SM SCT120 BKN250 FM070700 22004KT P6SM BKN080 KAVL 061129Z 0612/0712 VRB02KT P6SM BKN070 FM061700 19005KT P6SM OVC080 FM062000 33005KT P6SM OVC090 PROB30 0621/0623 4SM -RA OVC035 FM070200 34003KT P6SM SCT050 SCT250 KAVP 061141Z 0612/0712 VRB04KT P6SM OVC080 FM062100 27006KT P6SM BKN025 FM070000 31007KT P6SM BKN060 KAXN 061123Z 0612/0712 33006KT P6SM OVC013 FM061600 18005KT P6SM SCT015 SCT200 FM061800 20009KT P6SM BKN025 OVC050 FM070300 19009KT P6SM SCT007 OVC015 KAZO 061132Z 0612/0712 32010G20KT P6SM OVC015 FM062300 33006KT P6SM BKN035 FM070300 VRB03KT P6SM BKN250 KBAB 061108Z 0611/0717 VRB06KT 9999 BKN050 QNH3005INS BECMG 0617/0618 18012G18KT 9999 BKN030 QNH2998INS BECMG 0702/0703 18012G18KT 9000 -RA BKN020 QNH2997INS BECMG 0706/0707 16020G30KT 8000 SHRA BKN015 520009 QNH2995INS BECMG 0712/0713 17012G18KT 9999 -RA BKN015 QNH2994INS TX17/0621Z TN10/0616Z KBAD 061001Z 0610/0716 16010G15KT 9999 VCSH OVC013 QNH2995INS TEMPO 0615/0616 28015G25KT BECMG 0616/0617 32010G15KT 9999 NSW OVC020 QNH3000INS BECMG 0702/0703 36005KT 9999 OVC020 QNH3015INS TX22/0621Z TN13/0611Z KBAF 061122Z 0612/0712 22003KT P6SM BKN080 FM061700 21005KT 4SM -SN BR OVC035 FM062100 23005KT P6SM OVC040 KBAM 061130Z 0612/0712 09005KT P6SM VCFG SCT250 FM061800 07006KT P6SM BKN250 KBBD 061120Z 0612/0712 34011KT P6SM SKC FM061500 34015KT P6SM SKC FM070000 36007KT P6SM SKC KBBG 061242Z 0613/0712 VRB05KT 4SM BR OVC080 FM061330 34006KT P6SM BKN120 FM062000 36010KT P6SM SCT180 FM070500 00000KT P6SM FEW200 KBCB 061141Z 0612/0712 00000KT P6SM BKN120 FM061800 26006KT 6SM -SHRA BKN040 FM070100 27007KT P6SM -SHRA SCT025 OVC035 FM070400 29006KT 5SM -SHRA OVC015 FM071000 33005KT 2SM -SHRA BKN022 KBCE 061204Z 0612/0712 27005KT 3SM BR BKN005 FM061400 26005KT 4SM BR SCT012 BKN050 FM061700 15007KT P6SM SCT030 BKN150 FM070300 22006KT 3SM BR SCT006 BKN015 KBDL 061122Z 0612/0718 26003KT P6SM BKN080 FM061700 19005KT P6SM -SHSN OVC045 FM062100 22006KT P6SM OVC045 FM070100 28006KT P6SM BKN050 FM070900 31003KT P6SM SKC KBDN 061120Z 0612/0712 15006KT P6SM SCT150 BKN200 FM070300 18007KT P6SM -RA OVC045 FM070900 17006KT 5SM -RA BR OVC025 KBDR 061142Z 0612/0712 25006KT P6SM BKN120 FM061500 21009KT P6SM BKN100 FM061800 21012KT P6SM BKN050 FM062200 24013KT P6SM BKN050 FM070100 29012G20KT P6SM BKN050 FM070300 32012G19KT P6SM SCT050 FM070500 33008KT P6SM SKC KBED 061122Z 0612/0712 VRB03KT P6SM SCT080 FM061500 22004KT P6SM OVC050 FM062000 21003KT 3SM -SN OVC008 FM062300 22003KT 4SM BR VCSH OVC025 FM070200 29005KT P6SM BKN040 KBFD 061159Z 0612/0712 22008KT 6SM -SHSN SCT012 OVC080 TEMPO 0612/0613 2SM -SHSN OVC012 FM061300 22009G17KT P6SM VCSH OVC020 FM061700 26012G19KT 2SM -SNRA OVC010 FM062000 30012G19KT 6SM -SHSN OVC015 FM070300 30007KT P6SM VCSH BKN020 OVC030 KBFF 061120Z 0612/0712 13005KT 1/2SM FZFG OVC002 FM061400 VRB05KT 4SM BR OVC004 FM061700 22008KT P6SM SCT200 KBFI 061126Z 0612/0712 00000KT P6SM BKN080 FM061800 13005KT P6SM BKN050 OVC080 FM070000 14005KT P6SM OVC050 FM070200 15004KT P6SM -RA OVC050 FM070600 VRB03KT 6SM -RA BR OVC025 KBFL 061120Z 0612/0712 19006KT P6SM BKN120 OVC200 FM070500 08004KT P6SM SCT050 BKN120 FM071000 18006KT P6SM BKN050 PROB30 0710/0712 -RA KBFM 061137Z 0612/0712 30004KT P6SM BKN035 FM061800 16008KT P6SM SHRA BKN030 FM070100 04003KT P6SM VCSH OVC025 FM070600 01004KT 4SM BR OVC009 KBGM 061141Z 0612/0712 22006KT P6SM OVC035 FM061400 22010G18KT 6SM BR OVC025 FM062000 26009KT P6SM OVC015 FM062200 30011KT 6SM BR OVC008 FM070200 31006KT P6SM BKN025 FM070600 28008KT P6SM BKN015 KBGR 061120Z 0612/0712 28005KT P6SM SKC FM061400 27008G16KT P6SM SCT050 FM062000 27006KT P6SM BKN045 KBHB 061120Z 0612/0712 27008KT P6SM SKC FM061400 28009G16KT P6SM SCT050 FM062000 28006KT P6SM BKN045 FM070200 24004KT 4SM -SN OVC020 FM070700 34006KT P6SM SCT020 BKN050 KBHM 061136Z 0612/0712 15003KT P6SM OVC120 FM061600 17006KT 6SM -RA OVC060 FM061800 15004KT 4SM -RA BR OVC040 FM062300 14003KT P6SM VCSH OVC020 FM070400 VRB02KT 5SM BR OVC007 KBIF 060600Z 0606/0712 VRB06KT 9999 SKC QNH3022INS BECMG 0617/0618 10012G18KT 9999 FEW100 QNH3030INS BECMG 0619/0620 12009KT 9999 FEW100 QNH3025INS BECMG 0701/0702 VRB06KT 9999 SCT180 QNH3023INS TX19/0621Z TN05/0614Z KBIH 061128Z 0612/0712 33004KT P6SM BKN020 FM061700 VRB05KT P6SM FEW200 FM062000 16008KT P6SM FEW200 FM070600 VRB05KT P6SM FEW200 KBIL 061120Z 0612/0712 23013KT P6SM FEW090 FM061700 24015G24KT P6SM FEW100 SCT220 KBIS 061308Z 0613/0712 20006KT P6SM BKN012 OVC080 FM061400 18005KT P6SM BKN015 FM062100 20009KT P6SM SCT120 KBIX 061000Z 0610/0716 14006KT 9999 OVC150 QNH3007INS BECMG 0614/0615 15006KT 9999 VCSH FEW020 OVC035 QNH3006INS BECMG 0617/0618 19006KT 8000 -SHRA OVC020 QNH3004INS BECMG 0622/0623 21006KT 9999 NSW BKN015 OVC020 QNH3006INS BECMG 0700/0701 30006KT 8000 BR OVC005 QNH3008INS BECMG 0706/0707 02006KT 4800 BR OVC005 QNH3012INS TX19/0618Z TN12/0611Z KBJC 061130Z 0612/0712 VRB05KT P6SM SCT200 FM061900 02006KT P6SM SCT150 SCT200 FM070300 28008KT P6SM SCT200 KBJI 061128Z 0612/0712 VRB05KT P6SM -SN OVC012 FM061300 VRB06KT P6SM OVC012 FM062200 19007KT P6SM OVC025 FM070900 VRB03KT P6SM BKN005 KBKE 061123Z 0612/0712 12010KT P6SM SCT008 OVC020 FM061800 12014G20KT P6SM BKN025 BKN150 FM070200 11009KT P6SM OVC020 FM071000 11015KT 4SM -SNRA OVC020 KBKF 060904Z 0609/0715 18009KT 9999 SKC QNH3018INS TX04/0622Z TNM06/0614Z KBKW 061122Z 0612/0712 22006KT P6SM OVC100 FM061500 24005KT P6SM OVC070 FM061700 26007KT P6SM -SHRA OVC025 FM062100 26006KT 6SM -SHRA BR OVC015 FM070100 31004KT 6SM BR OVC007 FM070800 34004KT P6SM BKN100 KBLF 061141Z 0612/0712 26006KT P6SM OVC110 FM061700 26008KT P6SM -SHRA BKN035 FM070100 27007KT P6SM -SHRA SCT025 OVC035 FM070400 29006KT 5SM -SHRA OVC009 FM070600 29005KT 2SM -SHRA OVC006 KBLH 061120Z 0612/0712 31004KT P6SM BKN250 FM061800 VRB03KT P6SM BKN250 KBLI 061126Z 0612/0712 02003KT P6SM OVC070 TEMPO 0612/0616 -RA OVC060 FM062200 14005KT P6SM BKN030 OVC060 FM070200 15006KT P6SM -RA OVC025 KBLV 060800Z 0608/0714 VRB06KT 9999 SCT050 QNH2998INS BECMG 0614/0615 36015G20KT 9999 BKN015 QNH3012INS BECMG 0621/0622 01009KT 9999 SCT025 QNH3025INS TX08/0619Z TN00/0708Z KBMG 061120Z 0612/0712 23009KT P6SM VCSH OVC080 FM061600 32006KT P6SM VCSH OVC040 FM061700 36007KT P6SM OVC025 FM061800 01007KT P6SM BKN015 FM062000 02009KT P6SM SCT030 FM070100 VRB03KT P6SM FEW250 LTD TO CLD VIS AND WIND TIL 061400 KBMI 061135Z 0612/0712 36013G25KT P6SM OVC011 FM061500 01015G25KT P6SM OVC020 FM061800 01013G22KT P6SM BKN035 FM062300 01005KT P6SM FEW250 KBNA 061220Z 0612/0712 14005KT P6SM BKN120 FM062100 01003KT P6SM OVC030 FM070900 01005KT P6SM OVC015 KBNO 061123Z 0612/0712 08010KT P6SM OVC007 FM061800 07008KT P6SM BKN025 BKN150 FM070800 08006KT P6SM -RA OVC025 KBOI 061123Z 0612/0712 14008KT P6SM OVC035 FM070400 14006KT P6SM OVC030 KBOS 061122Z 0612/0718 27010KT P6SM SCT080 FM061500 24010KT P6SM BKN050 FM062100 22006KT 3SM -SN OVC025 FM070000 26006KT P6SM OVC030 FM070300 31010KT P6SM BKN040 KBPI 061134Z 0612/0712 VRB03KT P6SM BKN030 TEMPO 0612/0616 1/4SM FZFG VV002 FM061700 01004KT P6SM BKN015 BKN060 FM061900 VRB06KT P6SM SCT200 KBPK 061139Z 0612/0712 00000KT P6SM OVC060 FM061500 35008KT P6SM OVC100 FM061800 01009KT P6SM SCT250 FM070000 01003KT P6SM SKC KBPT 061136Z 0612/0712 13003KT 4SM BR BKN025 TEMPO 0612/0614 1SM BR SCT003 SCT025 FM061400 26010KT P6SM SCT015 BKN025 FM061800 30012G18KT P6SM SCT025 FM070200 33009KT P6SM BKN035 FM070600 36008KT P6SM OVC018 KBRD 061138Z 0612/0712 30005KT P6SM VCSH OVC014 FM061400 31005KT P6SM BKN050 FM061600 VRB04KT P6SM SCT018 FM062000 22007KT P6SM BKN120 FM062300 20009KT P6SM OVC040 FM070300 20008KT P6SM OVC025 FM070900 21007KT P6SM OVC010 KBRL 061130Z 0612/0712 36015G25KT P6SM BKN015 FM061400 01014G23KT P6SM BKN020 FM061700 01013G20KT P6SM BKN035 FM062000 36010KT P6SM SCT040 FM062300 36004KT P6SM FEW120 FEW250 KBRO 061129Z 0612/0712 19010KT 6SM BR OVC010 TEMPO 0612/0614 VRB03KT 2SM BR BKN006 FM061600 VRB04KT 6SM BR BKN020 FM061800 VRB03KT P6SM BKN035 FM062200 02008KT P6SM SCT080 KBTL 061130Z 0612/0712 32012KT P6SM OVC015 FM062100 32010G18KT P6SM BKN035 FM070300 VRB04KT P6SM BKN250 KBTM 061120Z 0612/0712 00000KT P6SM BKN090 KBTR 061124Z 0612/0712 04004KT P6SM VCSH BKN023 OVC030 FM070100 VRB03KT P6SM BKN008 OVC020 FM070700 01005KT P6SM SCT020 BKN080 KBTV 061133Z 0612/0712 23005KT P6SM -SN OVC035 FM061400 21005KT 2SM -SN BR OVC028 FM061600 20005KT 1 1/2SM -SN BR OVC023 FM062100 35005KT 3SM -SN BR OVC018 FM070000 35005KT P6SM VCSH OVC015 FM070200 32005KT P6SM OVC022 KBUF 061150Z 0612/0712 17008KT 6SM -SN OVC040 FM061400 22012KT 5SM -RASN OVC015 FM061600 24013KT 4SM -RA BR OVC007 FM061800 30012KT P6SM VCSH OVC007 FM062000 31009KT P6SM VCSH BKN015 FM070200 28010KT P6SM BKN025 KBUR 061146Z 0612/0712 VRB03KT P6SM SKC FM062000 16006KT P6SM SCT035 BKN070 FM070400 10005KT P6SM VCSH SCT025 BKN050 FM070800 14005KT P6SM -SHRA SCT022 OVC045 KBVI 061132Z 0612/0712 21006KT P6SM OVC080 WS020/25035KT FM061900 27010G20KT P6SM OVC015 FM070200 33008KT P6SM SCT015 KBVO 061130Z 0612/0712 36012G20KT P6SM SCT015 TEMPO 0614/0618 BKN015 FM062100 01010KT P6SM SCT035 FM070000 01005KT P6SM SCT250 KBWG 061120Z 0612/0712 00000KT P6SM VCSH OVC080 FM061400 VRB03KT P6SM -SHRA OVC050 FM062300 01004KT P6SM OVC023 KBWI 061127Z 0612/0718 VRB03KT P6SM SCT250 FM061400 20008KT P6SM BKN090 FM062300 24006KT P6SM OVC045 FM070300 33010G18KT P6SM SCT060 FM070700 33006KT P6SM FEW060 KBYI 061120Z 0612/0712 06005KT P6SM SCT035 TEMPO 0612/0615 3SM BR BKN003 FM061900 08011KT P6SM SCT020 OVC050 FM070500 19007KT P6SM SCT020 OVC040 KBZN 061134Z 0612/0718 VRB04KT P6SM SCT140 FM071500 21008KT P6SM SCT050 BKN100 KCAE 061122Z 0612/0712 VRB03KT P6SM BKN100 FM061600 20005KT P6SM SCT050 BKN100 FM062200 VRB04KT P6SM SCT030 OVC070 KCAK 061142Z 0612/0712 21008KT P6SM OVC100 FM061400 24010KT P6SM OVC100 FM061600 29010KT P6SM SCT015 OVC025 FM062200 32008KT P6SM OVC040 FM070800 32004KT P6SM BKN150 KCAR 061120Z 0612/0712 26007KT P6SM SCT030 TEMPO 0612/0614 BKN025 FM061400 27012G20KT P6SM BKN035 FM062200 27007KT P6SM BKN035 KCBM 0613/0719 16006KT 9999 SCT100 QNH3006INS BECMG 0613/0614 17009KT 8000 -SHRA OVC025 QNH3009INS BECMG 0618/0619 34006KT 9999 NSW OVC005 QNH3007INS BECMG 0714/0715 VRB06KT 9999 OVC005 QNH3024INS TX12/0621Z TN08/0613Z KCDC 061125Z 0612/0712 22003KT P6SM SCT050 BKN120 FM070200 17007KT P6SM SCT030 BKN100 KCDR 061120Z 0612/0712 18006KT P6SM FEW009 FM061500 22007KT P6SM SKC KCDS 061120Z 0612/0712 33020KT P6SM SKC FM061700 36011KT P6SM FEW250 FM062200 VRB05KT P6SM SCT250 KCEC 061142Z 0612/0712 12007KT P6SM BKN150 WS020/16035KT FM061400 15014G22KT P6SM VCSH OVC050 WS020/17040KT FM062300 16016G24KT 6SM -RA BKN030 OVC050 FM070500 16010G15KT 5SM -RA BKN020 OVC030 KCEF 061100Z 0611/0717 29009KT 9999 SCT035 BKN080 QNH3004INS BECMG 0615/0616 20009KT 9999 FEW020 BKN060 OVC080 620608 QNH2999INS BECMG 0617/0618 17009KT 9999 BKN020 OVC050 WS020/22030KT 620209 540204 QNH2990INS TEMPO 0618/0623 3200 -SN BR BKN010 620109 BECMG 0623/0624 30007KT 9999 FEW010 SCT030 WS020/26035KT 540305 QNH2992INS BECMG 0704/0705 32009KT 9999 FEW030 510203 QNH3008INS BECMG 0712/0713 29009KT 9999 FEW050 QNH3029INS TX01/0617Z TNM09/0711Z KCGI 061125Z 0612/0712 VRB03KT 6SM -SHRA OVC050 FM061700 36005KT P6SM VCSH BKN060 FM061900 36010G17KT P6SM BKN050 FM070300 02007KT P6SM BKN180 FM071000 02005KT P6SM BKN050 KCHA 061130Z 0612/0712 00000KT P6SM SCT080 BKN100 FM062100 15005KT P6SM -SHRA OVC060 FM062300 10004KT P6SM OVC040 PROB30 0623/0702 4SM -SHRA OVC025 FM070200 VRB03KT P6SM OVC030 FM070400 00000KT P6SM OVC035 KCHO 061127Z 0612/0712 20008KT P6SM BKN120 FM062100 22008KT P6SM OVC050 FM070200 26004KT P6SM BKN060 FM070400 33006KT P6SM SCT060 KCHS 061128Z 0612/0712 15005KT P6SM FEW050 BKN150 FM062100 VRB05KT P6SM VCSH SCT025 BKN070 FM070100 VRB03KT P6SM SCT015 BKN150 KCID 061327Z 0613/0712 36012KT P6SM SCT020 FM061600 35014G20KT P6SM SCT030 BKN035 FM061900 35011KT P6SM SCT040 FM070100 VRB03KT P6SM FEW200 FM071000 17008KT P6SM SCT150 KCKB 061122Z 0612/0712 20005KT P6SM OVC090 WS009/24030KT FM061800 25009G20KT P6SM -SHRA OVC035 FM061900 25009G17KT P6SM OVC025 FM062100 26008KT 4SM BR OVC010 FM070100 33006KT P6SM BKN030 FM070400 VRB03KT P6SM SCT080 KCKV 061220Z 0612/0712 14004KT P6SM VCSH OVC100 FM061300 17005KT 4SM -RA OVC050 FM062200 36006KT P6SM BKN025 FM071000 02005KT P6SM OVC015 KCLE 061142Z 0612/0718 22010KT P6SM OVC100 FM061400 26010KT P6SM SCT050 OVC100 FM061600 30010KT P6SM SCT025 OVC035 FM070000 34010KT P6SM OVC040 FM070500 34008KT P6SM BKN100 KCLL 061304Z 0613/0712 31012KT P6SM FEW009 FM061400 31014G24KT P6SM FEW010 FM061900 34014G22KT P6SM SKC FM062200 35013KT P6SM FEW250 FM071000 35008KT P6SM BKN035 KCLM 061126Z 0612/0712 14004KT 5SM BR OVC008 FM061700 12003KT P6SM SCT015 BKN070 FM062300 VRB03KT P6SM -RA BKN010 OVC030 FM070800 21003KT 5SM -RA BR OVC007 KCLT 061129Z 0612/0718 VRB02KT P6SM BKN120 BKN200 FM061700 21005KT P6SM BKN090 FM071000 02005KT P6SM SCT250 KCMA 061146Z 0612/0712 07006KT P6SM SKC FM062100 11008KT P6SM VCSH SCT025 BKN050 FM070300 07012KT P6SM -SHRA SCT022 OVC045 FM070700 07010KT 5SM -RA BR OVC020 KCMH 061135Z 0612/0712 21006KT P6SM OVC100 FM061500 26008KT P6SM OVC050 FM061800 32010KT P6SM OVC025 FM062100 35010KT P6SM SCT025 FM070000 01005KT P6SM SCT250 KCMI 061135Z 0612/0712 30006KT P6SM OVC080 FM061300 36013G24KT P6SM OVC012 FM061600 02013G22KT P6SM BKN020 FM061900 02013G21KT P6SM BKN035 FM062300 02006KT P6SM FEW250 KCMX 061121Z 0612/0712 31013G25KT P6SM BKN022 TEMPO 0613/0617 2SM -SHSN BKN018 FM061700 30011G19KT P6SM BKN023 FM062100 28010KT P6SM SCT025 FM070300 23008KT P6SM OVC060 FM070900 23008KT P6SM VCSH OVC045 KCNM 061120Z 0612/0712 33009KT P6SM SCT250 FM062100 13006KT P6SM SCT250 FM070300 18005KT P6SM SCT250 KCNU 061137Z 0612/0712 36015G25KT P6SM OVC015 FM061700 01015G25KT P6SM SCT250 FM061900 01012G18KT P6SM FEW120 FM062000 02012KT P6SM FEW200 FM062300 01006KT P6SM FEW250 FM070400 VRB04KT P6SM SKC KCNY 061129Z 0612/0712 00000KT P6SM OVC060 FM061500 00000KT P6SM SCT060 BKN100 FM061800 VRB04KT P6SM FEW060 SCT180 FM070600 00000KT P6SM FEW040 SCT100 KCOD 061134Z 0612/0712 27009G20KT P6SM BKN200 FM061600 26008KT P6SM FEW200 FM070500 23009G20KT P6SM SCT200 LTD TO CLD VIS AND WIND KCOE 061131Z 0612/0712 00000KT 1/4SM FG OVC001 FM061600 VRB04KT 1/2SM FG BKN003 FM061900 04005KT P6SM SCT025 OVC200 FM070300 06005KT 1 1/2SM BR OVC007 FM071000 05005KT 5SM -RA BR OVC025 KCOF 061100Z 0611/0717 VRB06KT 9999 FEW200 QNH3011INS TX22/0618Z TN15/0611Z KCON 061120Z 0612/0712 28008KT P6SM SKC FM061800 23004KT 4SM -SN OVC030 FM061900 24004KT 1 1/2SM -SN BR OVC015 FM062300 31005KT 1 1/2SM -SN BR OVC007 FM070400 31007KT P6SM SKC KCOS 061313Z 0613/0712 VRB06KT P6SM BKN010 FM061600 16006KT P6SM FEW015 SCT250 FM061800 18008KT P6SM FEW140 SCT250 FM070000 15006KT P6SM FEW250 FM070600 35007KT P6SM SKC KCOT 061129Z 0612/0712 VRB03KT P6SM BKN150 FM061400 01010KT P6SM FEW250 KCOU 061132Z 0612/0712 36016G26KT P6SM SCT015 FM061300 36017G27KT P6SM BKN015 FM061700 01013G23KT P6SM SCT020 FM070000 03005KT P6SM SKC FM070600 08005KT P6SM SKC KCPR 061134Z 0612/0712 22014G22KT P6SM BKN200 FM061700 22020G30KT P6SM FEW250 KCPS 061132Z 0612/0712 33007KT P6SM VCSH SCT020 BKN090 FM061500 36016G26KT P6SM BKN020 FM062000 01014G24KT P6SM SCT025 FM070000 02007KT P6SM SKC FM070600 VRB04KT P6SM SKC KCRE 061153Z 0612/0712 18005KT P6SM OVC150 FM061800 16004KT P6SM BKN120 FM062300 VRB03KT P6SM BKN035 OVC050 FM070400 01003KT P6SM BKN080 KCRG 061120Z 0612/0712 VRB03KT P6SM SCT250 FM061700 21008KT P6SM SCT250 FM062300 VRB03KT P6SM BKN250 KCRP 061237Z 0613/0712 15007KT P6SM OVC010 FM061500 35010KT P6SM BKN012 FM061700 36011KT P6SM FEW250 KCRQ 061122Z 0612/0712 VRB04KT P6SM SKC FM062100 25007KT P6SM BKN250 FM070100 VRB04KT P6SM VCSH OVC050 KCRW 061122Z 0612/0712 20003KT P6SM BKN100 FM061600 24005KT P6SM -SHRA OVC040 FM062000 24007KT 5SM -SHRA OVC020 FM062100 23007KT 4SM -SHRA BR OVC015 FM070100 32005KT P6SM BKN020 FM070300 01007KT P6SM BKN040 KCSG 061130Z 0612/0712 00000KT P6SM BKN120 FM061700 18004KT P6SM VCSH SCT060 BKN120 FM062000 19005KT P6SM -RA BKN060 OVC100 FM062200 17004KT P6SM -RA BKN025 FM070300 10003KT P6SM VCSH BKN025 FM070500 VRB03KT P6SM BKN025 FM070700 VRB03KT P6SM BKN018 KCSM 061120Z 0612/0712 34020G30KT P6SM SCT040 SCT250 FM061400 35018G26KT P6SM SCT025 BKN040 TEMPO 0614/0618 BKN025 FM062100 02014KT P6SM SCT040 SCT250 FM070000 06006KT P6SM BKN250 KCSV 061220Z 0612/0712 16004KT P6SM OVC110 FM070000 00000KT P6SM OVC050 FM070800 01004KT 5SM BR OVC015 KCTB 061134Z 0612/0712 VRB03KT 5SM BR FEW010 SCT120 WS020/27035KT FM061800 25017G25KT P6SM SCT120 BKN200 FM070800 23011KT P6SM SCT090 BKN200 WS020/25035KT KCUB 061122Z 0612/0712 VRB03KT P6SM BKN100 FM061600 20004KT P6SM SCT050 BKN100 FM062200 VRB03KT P6SM SCT030 OVC070 KCVG 061135Z 0612/0718 22008KT P6SM -RA OVC050 TEMPO 0615/0618 5SM -RA BR OVC025 FM061800 31012KT P6SM OVC015 FM062100 35012KT P6SM BKN025 FM070000 02007KT P6SM SCT250 FM071500 06006KT P6SM SCT250 KCVS 061000Z 0610/0716 VRB05KT 9999 SKC QNH3027INS BECMG 0613/0614 VRB06KT 9999 FEW220 QNH3036INS BECMG 0618/0619 21012KT 9999 FEW150 QNH3030INS BECMG 0700/0701 VRB06KT 9999 FEW150 QNH3018INS BECMG 0714/0715 22010KT 9999 BKN120 QNH3023INS TX11/0620Z TN01/0613Z KCWA 061251Z 0613/0712 33010G16KT P6SM BKN025 FM061500 32008G15KT P6SM SCT030 FM062200 27004KT P6SM SCT120 BKN250 FM070700 22004KT P6SM BKN080 KCXO 061304Z 0613/0712 27010KT P6SM BKN010 OVC015 FM061400 30010KT P6SM SCT020 FM061600 31010G21KT P6SM SKC FM062300 34010KT P6SM SCT250 FM070500 35007KT P6SM BKN035 KCXP 061132Z 0612/0712 VRB03KT 2SM BR OVC003 FM062000 18006KT P6SM SCT010 BKN180 FM070300 17011G20KT P6SM SCT050 BKN100 KCYS 061120Z 0612/0712 24006KT P6SM BKN200 FM061800 27012KT P6SM SKC KDAA 061000Z 0610/0716 VRB06KT 9999 FEW110 510053 QNH3017INS BECMG 0614/0615 18006KT 9999 FEW080 WS020/22034KT QNH3013INS BECMG 0617/0618 21012KT 9999 FEW060 510043 QNH3003INS BECMG 0714/0715 35010G15KT 9999 SKC 510073 QNH3044INS TX10/0617Z TNM03/0611Z KDAB 061128Z 0612/0712 VRB02KT P6SM BKN200 FM061600 24005KT P6SM FEW040 SCT250 FM062000 10007KT P6SM FEW035 SCT250 FM062300 VRB04KT P6SM SCT040 BKN250 KDAG 061314Z 0613/0712 VRB05KT 6SM BR BKN200 TEMPO 0613/0615 3/4SM BR FEW006 FM061800 06006KT P6SM FEW250 FM070300 VRB05KT P6SM BKN100 KDAL 061219Z 0612/0712 33016G26KT P6SM BKN021 FM061400 33016G26KT P6SM SCT021 FM062100 35015KT P6SM BKN300 FM070200 36007KT P6SM BKN300 KDAN 061141Z 0612/0712 00000KT P6SM SCT120 FM061500 23006KT P6SM OVC120 FM062200 VRB03KT P6SM VCSH OVC040 FM070400 VRB03KT P6SM OVC050 KDAY 061135Z 0612/0712 21008KT P6SM OVC100 FM061500 26008KT P6SM OVC050 FM061700 33010KT P6SM OVC015 FM062000 35010KT P6SM SCT025 FM070000 02006KT P6SM SCT250 KDBQ 061130Z 0612/0712 36015G25KT P6SM BKN020 FM061600 35014G22KT P6SM BKN030 FM061900 35010KT P6SM SCT040 FM070200 VRB03KT P6SM FEW120 FEW250 KDCA 061127Z 0612/0718 19006KT P6SM SCT250 FM061700 20011G19KT P6SM BKN090 FM062300 24006KT P6SM OVC050 FM070300 33010G18KT P6SM SCT050 FM070700 33008KT P6SM FEW060 KDDC 061129Z 0612/0712 01016KT P6SM OVC010 FM061700 36007KT P6SM SCT012 KDEC 061135Z 0612/0712 30007KT P6SM OVC090 FM061230 36013G25KT P6SM OVC012 FM061600 01013G24KT P6SM BKN020 FM061900 02013G21KT P6SM BKN035 FM062300 01005KT P6SM FEW250 KDEN 061130Z 0612/0718 18006KT P6SM FEW005 SCT200 FM061500 25006KT P6SM SCT120 SCT200 FM062000 07007KT P6SM SCT150 BKN200 FM070100 12007KT P6SM FEW200 FM070400 21007KT P6SM FEW200 KDET 061128Z 0612/0712 30013KT P6SM OVC025 TEMPO 0612/0616 SCT025 OVC040 FM061600 33015G25KT P6SM BKN025 OVC040 FM062200 33013KT P6SM SCT025 BKN040 FM070700 28005KT P6SM SCT035 BKN250 KDFW 061220Z 0612/0718 33017G27KT P6SM SCT021 TEMPO 0612/0614 BKN021 FM062100 35015KT P6SM BKN300 FM070200 36007KT P6SM BKN300 FM071600 10004KT P6SM SCT015 BKN250 KDHN 061120Z 0612/0712 14005KT P6SM BKN100 FM062200 17006KT P6SM VCSH BKN050 KDHT 061120Z 0612/0712 35008KT P6SM BKN250 TEMPO 0614/0618 P6SM OVC006 FM061900 18008KT P6SM BKN250 KDIJ 061120Z 0612/0712 VRB05KT 6SM BR SCT002 OVC035 TEMPO 0612/0615 1SM BR OVC002 FM061900 16007KT P6SM SCT010 OVC035 FM070800 17006KT P6SM VCSH OVC010 LTD TO CLD VIS AND WIND KDIK 061135Z 0612/0712 17014KT 6SM BR SCT005 BKN060 FM061300 16013KT 5SM BR BKN005 FM061600 21011KT P6SM SCT250 FM062100 24009KT P6SM SKC KDLF 061100Z 0611/0717 31009KT 9999 SKC QNH3011INS BECMG 0614/0615 34012G18KT 9999 SKC QNH3020INS BECMG 0623/0624 33012KT 9999 SKC QNH3020INS BECMG 0715/0716 12006KT 9999 FEW200 QNH3014INS TX21/0621Z TN12/0612Z KDLH 061219Z 0612/0712 33010KT P6SM SCT017 FM061600 31008KT P6SM SCT120 FM070000 24008KT P6SM OVC100 FM070300 23008KT P6SM VCSH OVC035 FM070500 22007KT P6SM VCSH OVC027 FM070900 23006KT P6SM BKN017 KDLS 061120Z 0612/0712 VRB02KT 6SM BR OVC009 FM061400 VRB03KT 5SM BR OVC007 FM061800 VRB03KT P6SM OVC015 FM062200 VRB02KT P6SM OVC050 FM070400 VRB02KT 6SM -RA BR OVC015 KDMA 060605Z 0606/0712 11008KT 9999 FEW240 QNH3016INS BECMG 0620/0621 VRB06KT 9999 SCT220 QNH3016INS BECMG 0704/0705 20006KT 9999 SCT200 QNH3018INS TX20/0621Z TN09/0608Z KDMN 061143Z 0612/0712 06009KT P6SM SKC FM061700 07008KT P6SM SCT250 KDNL 061122Z 0612/0712 VRB03KT P6SM BKN100 FM061600 22005KT P6SM SCT050 BKN100 FM062200 VRB04KT P6SM SCT030 OVC070 KDOV 060800Z 0608/0714 20006KT 9999 FEW100 QNH3017INS BECMG 0613/0614 22012G20KT 9999 SCT090 BKN100 QNH3005INS BECMG 0617/0618 24012KT 9999 BKN050 OVC080 QNH3003INS BECMG 0705/0706 31009KT 9999 SKC QNH3018INS TX11/0618Z TN00/0610Z KDPA 061121Z 0612/0712 35014G24KT P6SM SCT013 BKN020 TEMPO 0612/0613 SCT020 FM061800 01010KT P6SM SCT025 FM070000 00000KT P6SM FEW200 KDRO 061129Z 0612/0712 00000KT P6SM SCT150 FM061600 VRB03KT P6SM FEW100 SCT200 KDRT 061139Z 0612/0712 32008KT P6SM FEW250 FM061400 33014KT P6SM FEW250 FM062200 35008KT P6SM FEW250 KDSM 061137Z 0612/0712 36013G20KT P6SM OVC018 FM061530 36012KT P6SM SCT025 FM062000 35006KT P6SM FEW250 FM070500 18007KT P6SM FEW200 KDTW 061128Z 0612/0718 30013KT P6SM OVC025 TEMPO 0612/0616 SCT025 OVC040 FM061600 33015G25KT P6SM BKN025 OVC040 FM062200 33013KT P6SM SCT025 BKN040 FM070700 28005KT P6SM SCT035 BKN250 KDUG 061120Z 0612/0712 VRB03KT P6SM BKN250 FM061800 11006KT P6SM BKN250 FM070500 VRB03KT P6SM BKN250 KDUJ 061132Z 0612/0712 20006KT P6SM OVC050 WS020/26035KT FM061400 25011G18KT P6SM OVC100 FM061700 27010G21KT P6SM OVC015 FM070200 31005KT P6SM OVC025 KDVL 061128Z 0612/0712 VRB06KT P6SM SCT250 FM061700 19007KT P6SM OVC015 FM070300 22005KT P6SM BKN009 FM071100 17007KT P6SM BKN015 KDVT 061120Z 0612/0712 04003KT P6SM BKN200 FM061900 15003KT P6SM BKN200 FM070000 31003KT P6SM BKN200 FM070400 04004KT P6SM SCT200 KDYS 060700Z 0607/0713 33012KT 9999 SKC QNH3005INS BECMG 0615/0616 35015G20KT 9999 SKC QNH3030INS BECMG 0617/0618 36012KT 9999 FEW250 QNH3025INS BECMG 0622/0623 VRB06KT 9999 FEW220 QNH3027INS TX14/0622Z TN03/0707Z KEAR 061120Z 0612/0712 35010KT P6SM BKN011 FM061600 36005KT P6SM BKN035 FM061700 VRB06KT P6SM SCT060 FM070700 20011KT P6SM SKC KEAT 061131Z 0612/0712 VRB02KT P6SM OVC020 FM061400 VRB02KT 4SM BR OVC005 FM061900 VRB02KT 6SM BR BKN007 OVC025 FM062100 24002KT P6SM OVC015 FM070600 28002KT 5SM BR OVC015 TEMPO 0706/0709 5SM -SN OVC015 FM070900 27002KT 3SM -RA BR OVC007 KEAU 061123Z 0612/0712 33007KT P6SM SCT025 TEMPO 0612/0614 BKN025 FM062100 25004KT P6SM SCT250 FM070000 17003KT P6SM OVC070 KECG 061120Z 0612/0712 20005KT P6SM SKC FM061700 24007KT P6SM BKN120 FM070400 28007KT P6SM BKN080 FM070700 36010KT P6SM SCT090 KECP 061120Z 0612/0712 15005KT P6SM BKN100 FM070000 14004KT P6SM VCSH BKN050 KEDW 060555Z 0606/0712 VRB06KT 9999 FEW015 SCT025 BKN250 620703 QNH3011INS BECMG 0610/0611 VRB06KT 0800 FG VV003 QNH3012INS BECMG 0615/0616 VRB06KT 4800 BR SCT010 SCT030 QNH3013INS BECMG 0617/0618 VRB06KT 8000 BR SCT010 SCT250 QNH3017INS BECMG 0620/0621 VRB06KT 9999 NSW SCT015 BKN250 QNH3015INS BECMG 0702/0703 VRB06KT 9999 SCT020 BKN080 BKN250 QNH3013INS TX14/0623Z TN01/0615Z LAST NO AMDS AFT 0606 NEXT 0614 KEED 061128Z 0612/0712 30007KT P6SM BKN200 FM061900 02006KT P6SM SCT250 FM070200 27006KT P6SM SCT250 KEET 061136Z 0612/0712 15003KT P6SM OVC120 FM061700 17006KT 6SM -RA OVC060 FM061900 15004KT 4SM -RA BR OVC040 FM062300 14003KT P6SM VCSH OVC020 FM070400 VRB02KT 5SM BR OVC007 KEFD 061200Z 0612/0718 VRB06KT 8000 BR BKN015 OVC030 QNH2999INS BECMG 0613/0614 28009KT 8000 BR SCT015 QNH3000INS BECMG 0615/0616 30012KT 9999 NSW SCT100 QNH3003INS BECMG 0623/0624 35009KT 9999 SCT250 QNH3010INS TX21/0620Z TN14/0712Z KEGE 061129Z 0612/0712 VRB04KT P6SM OVC060 FM061600 00000KT P6SM FEW050 FEW200 FM070500 00000KT P6SM SKC KEGI 061300Z 0613/0716 07005KT 9999 BKN150 QNH3010INS BECMG 0614/0615 11008KT 9999 SCT030 BKN120 QNH3009INS BECMG 0620/0621 18009KT 9000 -SHRA BKN025 BKN120 QNH3007INS BECMG 0623/0624 13005KT 9999 NSW BKN020 OVC050 QNH3009INS BECMG 0706/0707 04006KT 6000 BR BKN015 OVC030 QNH3010INS BECMG 0711/0712 01008KT 9999 NSW BKN010 OVC025 QNH3012INS TX20/0620Z TN06/0613Z KEKN 061122Z 0612/0712 00000KT P6SM BKN100 WS009/24030KT FM061800 26009G23KT P6SM -SHRA BKN050 FM062100 26008G14KT 4SM -SHRA OVC010 FM062300 29007KT 5SM -SHRA OVC007 FM070200 33004KT 6SM BR BKN015 FM070500 00000KT P6SM FEW120 KEKO 061221Z 0612/0712 07004KT P6SM VCFG SCT025 TEMPO 0612/0615 BKN025 FM061800 09005KT P6SM BKN250 KEKS 061134Z 0612/0712 18012G21KT P6SM FEW070 SCT150 FM071000 18014KT P6SM SCT020 BKN120 KELD 061153Z 0612/0712 14005KT P6SM VCSH OVC019 TEMPO 0612/0615 07006KT SCT020 FM061500 07006KT 4SM BR OVC007 FM061800 36010KT P6SM BKN015 FM070000 01007KT P6SM OVC050 KELM 061141Z 0612/0712 22007KT P6SM OVC060 FM061900 26008KT P6SM OVC025 FM062200 31006KT P6SM OVC015 FM070100 VRB04KT P6SM BKN025 FM070500 VRB04KT P6SM BKN035 KELP 061143Z 0612/0712 06005KT P6SM FEW250 FM070600 09005KT P6SM BKN200 KELY 061130Z 0612/0712 19005KT P6SM SCT250 FM062100 18010KT P6SM BKN250 FM070300 18015G25KT P6SM BKN250 KEND 061000Z 0610/0716 34019G30KT 9999 SCT130 510063 QNH3014INS BECMG 0612/0613 36019G29KT 9999 BKN015 510013 QNH3021INS BECMG 0617/0618 36015G25KT 9999 BKN022 QNH3036INS BECMG 0618/0619 36012G18KT 9999 SCT022 QNH3033INS BECMG 0700/0701 VRB06KT 9999 SKC QNH3029INS TX06/0621Z TN00/0710Z KENV 061329Z 0613/0712 VRB03KT 5SM BR OVC006 TEMPO 0614/0616 1SM BR OVC004 FM061800 VRB04KT P6SM OVC010 FM062100 VRB03KT 6SM HZ OVC015 FM070200 VRB05KT 3SM BR OVC015 KENW 061300Z 0613/0712 34008KT P6SM FEW023 TEMPO 0614/0615 BKN023 FM061500 34010KT P6SM BKN028 FM061800 34010KT P6SM FEW035 FM062100 34008KT P6SM SKC FM070400 21004KT P6SM FEW250 KERI 061142Z 0612/0712 19012KT 6SM -SHRA SCT025 OVC045 FM061500 26011KT 6SM -SHRA OVC025 FM061700 29012KT P6SM SCT015 OVC025 FM062100 31012G20KT P6SM VCSH SCT015 OVC025 FM070000 32015G25KT P6SM -SHSN SCT015 OVC025 FM070600 32012G20KT P6SM OVC025 KEUG 061133Z 0612/0712 00000KT 1/4SM FG VV002 FM061800 01002KT 1/2SM FG OVC090 FM062100 03003KT 6SM -RA BR OVC060 FM070400 VRB03KT 4SM -RA BR BKN020 OVC040 KEUL 061123Z 0612/0712 VRB06KT P6SM OVC035 FM070300 13006KT P6SM VCFG OVC030 KEVV 061125Z 0612/0712 VRB03KT 6SM -SHRA OVC070 FM061700 VRB03KT P6SM VCSH OVC040 FM062100 36009KT P6SM BKN030 FM062300 01008KT P6SM BKN050 FM071000 04005KT P6SM SCT200 KEVW 061125Z 0612/0712 23006KT P6SM SCT008 BKN020 FM061800 19006KT P6SM SCT010 BKN050 FM070200 18008KT P6SM SCT006 BKN020 KEWN 061125Z 0612/0712 00000KT P6SM SKC FM061400 21005KT P6SM SCT150 FM061800 22007KT P6SM BKN120 FM070000 VRB03KT P6SM OVC040 KEWR 061131Z 0612/0718 22007KT P6SM FEW045 BKN100 FM061700 22013G21KT P6SM SCT050 OVC080 FM062100 24012G20KT P6SM BKN050 FM070000 27013G21KT P6SM BKN050 FM070300 32013G21KT P6SM SCT050 FM070500 32009KT P6SM SKC KEYW 061134Z 0612/0712 06005KT P6SM SKC FM070000 02005KT P6SM SCT030 SCT250 KFAF 061100Z 0611/0717 19006KT 9999 FEW100 QNH3018INS BECMG 0617/0618 22010KT 9999 BKN080 WS020/23030KT QNH3012INS BECMG 0700/0701 25008KT 9999 SCT030 BKN060 QNH3013INS BECMG 0712/0713 02010G15KT 9999 SKC QNH3033INS TX12/0618Z TNM01/0611Z KFAR 061128Z 0612/0712 VRB06KT P6SM BKN020 FM061700 18008KT P6SM BKN020 FM070400 17008KT P6SM OVC009 KFAT 061120Z 0612/0712 14005KT P6SM SCT120 BKN200 FM070400 12004KT P6SM SCT050 BKN120 PROB30 0706/0710 -RA BKN050 FM071000 14009KT P6SM BKN050 OVC120 TEMPO 0710/0712 -RA BKN030 OVC050 KFAY 061132Z 0612/0712 22005KT P6SM BKN150 FM061700 22008KT P6SM OVC080 FM070000 VRB04KT P6SM OVC050 FM071100 36006KT P6SM BKN100 KFBG 061000Z 0610/0716 VRB06KT 9999 SKC QNH3019INS BECMG 0615/0616 20009KT 9999 BKN050 OVC150 620703 QNH3014INS BECMG 0621/0622 22006KT 9999 VCSH BKN035 OVC100 620703 QNH3014INS BECMG 0700/0701 35006KT 9999 NSW SCT040 OVC100 QNH3018INS TX10/0619Z TNM01/0610Z KFCS 061312Z 0613/0719 16009KT 9999 BKN013 QNH3027INS TEMPO 0613/0617 BKN020 BECMG 0617/0618 VRB06KT 9999 SKC QNH3010INS TX08/0622Z TNM02/0613Z KFDY 061142Z 0612/0712 24008KT P6SM OVC100 FM061500 32010KT P6SM BKN035 FM061800 33011KT P6SM SCT035 BKN200 FM070200 VRB03KT P6SM SKC KFFO 061100Z 0611/0717 22006KT 9999 SCT030 BKN060 QNH3000INS BECMG 0614/0615 32012G25KT 9999 BKN017 OVC080 QNH3013INS BECMG 0621/0622 35012G25KT 9999 FEW025 SCT100 QNH3020INS BECMG 0702/0703 35006KT 9999 SKC QNH3030INS TX06/0616Z TN00/0703Z KFHU 061000Z 0610/0716 VRB06KT 9999 SKC QNH3021INS BECMG 0619/0620 12009KT 9999 SCT150 QNH3023INS BECMG 0701/0702 VRB06KT 9999 SCT150 BKN200 QNH3024INS TX17/0622Z TN04/0613Z KFKL 061132Z 0612/0712 20006KT P6SM OVC050 WS020/26035KT FM061400 25011G18KT P6SM OVC100 FM061700 27010G21KT P6SM OVC015 FM070200 31005KT P6SM OVC025 KFLG 061128Z 0612/0712 VRB06KT P6SM BKN200 KFLL 061122Z 0612/0718 33005KT P6SM SCT250 FM061600 12008KT P6SM FEW035 SCT250 FM070100 VRB03KT P6SM SCT250 FM071600 08008KT P6SM SCT250 KFLO 061127Z 0612/0712 18004KT P6SM OVC150 FM061800 21007KT P6SM BKN110 FM062300 26004KT P6SM BKN035 OVC050 FM070300 02003KT P6SM BKN080 KFMH 061122Z 0612/0712 28012KT P6SM BKN250 FM061900 23008KT P6SM VCSH OVC050 FM062100 22008KT 6SM -SNRA OVC035 FM070100 23012G20KT P6SM OVC040 FM070800 32009KT P6SM FEW150 KFMN 061120Z 0612/0712 09007KT P6SM BKN200 FM061500 VRB03KT P6SM SCT200 KFMY 061122Z 0612/0712 08004KT P6SM BKN250 FM062100 27007KT P6SM FEW250 FM070000 VRB03KT P6SM SKC KFNT 061128Z 0612/0712 30013KT P6SM OVC025 TEMPO 0612/0616 OVC015 FM061600 33015G25KT P6SM BKN025 OVC040 FM062200 33013KT P6SM SCT025 BKN040 FM070700 28005KT P6SM SCT035 BKN250 KFOD 061309Z 0613/0712 35008KT P6SM BKN008 TEMPO 0613/0615 SCT010 FM061530 35007KT P6SM FEW015 FM062100 VRB03KT P6SM SKC FM070700 19009KT P6SM FEW250 KFOE 061316Z 0613/0712 35013G24KT P6SM BKN015 TEMPO 0613/0616 SCT016 FM061600 01012KT P6SM FEW020 FM062300 VRB04KT P6SM SKC KFPR 061128Z 0612/0712 VRB03KT P6SM BKN250 FM061600 12008KT P6SM SCT250 FM062300 VRB04KT P6SM SCT040 BKN250 KFRI 061300Z 0613/0719 36010G15KT 9999 BKN015 620156 QNH3026INS BECMG 0617/0618 VRB06KT 9999 FEW030 FEW200 QNH3027INS BECMG 0717/0718 19010G15KT 9999 SKC QNH3013INS TX07/0621Z TNM04/0712Z KFSD 061120Z 0612/0712 35007KT P6SM BKN008 FM061400 VRB03KT P6SM BKN010 FM061900 17006KT P6SM SCT012 FM062200 18007KT P6SM SKC KFSM 061130Z 0612/0712 07005KT P6SM BKN050 FM061500 30012KT P6SM SCT050 FM070100 01005KT P6SM SCT250 KFST 061120Z 0612/0712 31009KT P6SM FEW250 FM061700 01007KT P6SM FEW250 FM070300 15007KT P6SM FEW250 KFTK 060900Z 0609/0715 VRB06KT 9999 BKN040 OVC060 QNH3006INS TEMPO 0612/0618 -RA BECMG 0618/0619 02006KT 9999 BKN020 OVC040 QNH3010INS BECMG 0705/0706 03009KT 9999 SCT030 QNH3022INS BECMG 0711/0712 04006KT 9999 FEW030 QNH3030INS TX11/0620Z TN00/0709Z KFTW 061135Z 0612/0712 32016G26KT P6SM SKC FM062100 35015KT P6SM BKN300 FM070200 36007KT P6SM BKN300 KFTY 061130Z 0612/0712 VRB03KT P6SM BKN120 FM061400 VRB03KT P6SM SCT060 OVC120 FM061800 17004KT P6SM VCSH SCT060 BKN100 FM062000 15004KT P6SM -RA OVC060 FM070100 00000KT P6SM OVC035 KFVE 061311Z 0613/0712 28012KT P6SM SCT025 FM061400 29014G22KT P6SM BKN035 FM062200 28009KT P6SM SCT030 KFWA 061123Z 0612/0712 30010KT P6SM SCT015 OVC100 FM061240 34012G20KT P6SM OVC015 FM061800 34012G20KT P6SM SCT020 FM062300 36004KT P6SM SKC KFXE 061122Z 0612/0712 32005KT P6SM SCT250 FM061400 10008KT P6SM SCT250 FM070000 VRB03KT P6SM SCT250 KFYV 061130Z 0612/0712 36005KT P6SM BKN050 FM061500 35012KT P6SM SCT025 TEMPO 0617/0621 BKN025 FM070000 VRB03KT P6SM SCT035 KGBD 061137Z 0612/0712 36018G28KT P6SM OVC015 FM061700 01012G20KT P6SM BKN025 FM061800 01012KT P6SM SCT250 FM062000 VRB05KT P6SM FEW250 KGCC 061122Z 0612/0712 16011KT P6SM SCT100 FM062300 23012KT P6SM BKN150 KGCK 061129Z 0612/0712 02014KT P6SM OVC009 FM061800 VRB06KT P6SM SCT010 KGCN 061128Z 0612/0712 08007KT P6SM BKN200 KGDV 061120Z 0612/0712 VRB05KT P6SM SCT050 FM061500 VRB06KT P6SM FEW024 BKN050 FM071100 21007KT P6SM BKN030 KGEG 061131Z 0612/0712 VRB02KT 1SM BR SCT001 BKN200 TEMPO 0612/0615 1/2SM FG BKN001 BKN200 FM061700 09004KT 1 1/2SM BR SCT150 OVC200 FM061900 08003KT P6SM OVC150 FM070400 15004KT 4SM BR OVC050 FM070600 13004KT 1SM BR OVC050 FM070900 13004KT 4SM -RA BR OVC025 KGFA 061100Z 0611/0717 22015KT 9999 BKN200 QNH2995INS TX07/0621Z TN00/0612Z KGFK 061128Z 0612/0712 VRB06KT P6SM SCT015 FM061900 18011KT P6SM OVC025 FM070100 17009KT P6SM OVC010 FM070600 19005KT P6SM OVC015 KGFL 061133Z 0612/0712 18005KT P6SM VCSH OVC035 FM061400 17005KT 4SM -SN OVC012 FM061600 06004KT 1SM -SN OVC008 FM070000 VRB03KT P6SM BKN015 FM070600 33004KT P6SM SCT250 KGGG 061153Z 0612/0712 23009KT P6SM SKC TEMPO 0612/0615 27006KT SCT020 FM061500 30012KT P6SM BKN015 FM070000 34010KT P6SM BKN050 FM070300 35006KT P6SM BKN250 FM070900 02004KT P6SM BKN250 KGGW 061120Z 0612/0712 VRB03KT P6SM BKN060 FM061500 00000KT P6SM SCT030 BKN070 FM070600 VRB05KT P6SM OVC028 KGJT 061129Z 0612/0712 VRB03KT P6SM FEW050 SCT100 FM061400 VRB04KT P6SM FEW050 SCT180 FM062300 00000KT P6SM FEW070 FM070800 VRB03KT P6SM FEW120 FEW200 KGKY 061135Z 0612/0712 32015G25KT P6SM SKC FM062100 35015KT P6SM BKN300 FM070200 36007KT P6SM BKN300 KGLD 061129Z 0612/0712 36004KT 1SM BR OVC002 TEMPO 0614/0616 5SM BR OVC008 FM061600 VRB04KT P6SM SCT015 FM061800 19009KT P6SM SKC FM070500 22009KT P6SM FEW250 KGLH 061133Z 0612/0712 18011KT 5SM SHRA VCTS BKN035CB OVC080 FM061600 32007KT P6SM VCSH BKN014 FM061800 01011KT P6SM SCT007 OVC012 KGLS 061304Z 0613/0712 23006KT 4SM BR FEW030 SCT080 FM061400 27009KT P6SM SCT005 BKN015 FM061600 29011G20KT P6SM FEW015 SCT180 FM061800 31013G21KT P6SM FEW250 FM070400 34014KT P6SM FEW120 FM070900 36011KT P6SM BKN020 KGMU 061129Z 0612/0712 00000KT P6SM BKN100 FM061600 22004KT P6SM BKN100 FM070800 01004KT P6SM SCT060 KGNV 061120Z 0612/0712 VRB03KT P6SM SKC FM061800 21006KT P6SM FEW250 FM070000 VRB03KT P6SM FEW250 KGON 061145Z 0612/0712 27006KT P6SM BKN200 FM061500 23009KT P6SM BKN100 FM062000 23015G23KT P6SM SCT050 FM062200 24015G23KT P6SM VCSH BKN050 FM070100 28015G23KT P6SM BKN050 FM070300 32012G20KT P6SM SCT050 FM070600 33009KT P6SM SKC KGPI 061120Z 0612/0712 00000KT 6SM BR OVC050 TEMPO 0612/0613 1SM BR BKN005 FM061300 00000KT 1SM BR OVC005 FM061600 VRB03KT 4SM BR OVC007 FM061900 15005KT P6SM OVC035 KGPT 061124Z 0612/0712 00000KT P6SM VCSH SKC FM061900 VRB04KT P6SM VCSH BKN020 FM070100 00000KT P6SM BKN010 OVC020 FM070300 VRB04KT 4SM BR BKN003 OVC010 KGRB 061250Z 0613/0712 32011G17KT P6SM BKN035 FM061700 32010G17KT P6SM SCT035 FM062200 27006KT P6SM FEW035 SCT200 FM070700 23004KT P6SM BKN100 KGRF 061300Z 0613/0719 VRB06KT 1600 BR OVC002 620659 QNH2991INS TEMPO 0613/0617 0800 FG VV002 BECMG 0617/0618 VRB06KT 9999 NSW SCT020 BKN030 OVC080 620803 QNH2986INS BECMG 0702/0703 18012KT 6000 -RA BR BKN010 OVC050 QNH2977INS BECMG 0714/0715 18009KT 9999 NSW SCT010 OVC030 QNH2977INS TX09/0621Z TN06/0616Z KGRI 061120Z 0612/0712 36011KT P6SM BKN012 FM061600 36005KT P6SM BKN035 FM061700 VRB06KT P6SM SCT045 FM070700 20011KT P6SM SKC KGRK 061245Z 0612/0714 29010G15KT 9999 SCT100 510103 QNH2999INS BECMG 0614/0615 35015G25KT 9999 FEW100 510004 QNH3021INS BECMG 0617/0618 34012G18KT 9999 SKC 510004 QNH3020INS BECMG 0622/0623 36012KT 9999 SKC QNH3023INS BECMG 0700/0701 01006KT 9999 FEW250 QNH3027INS TX19/0620Z TN12/0613Z KGRR 061130Z 0612/0712 32010G20KT P6SM OVC015 FM062200 33006KT P6SM OVC250 FM070400 VRB03KT P6SM OVC250 KGSB 061300Z 0613/0719 21003KT 9999 FEW120 QNH3020INS BECMG 0614/0615 22006KT 9999 BKN120 QNH3016INS BECMG 0700/0701 VRB04KT 9999 BKN040 QNH3017INS TX15/0620Z TN01/0613Z KGSO 061132Z 0612/0712 22005KT P6SM BKN120 BKN250 FM061500 24009KT P6SM BKN080 OVC120 FM062200 25005KT P6SM BKN050 OVC250 FM070900 36005KT P6SM SCT060 KGSP 061129Z 0612/0712 00000KT P6SM BKN100 BKN200 FM061600 21005KT P6SM BKN090 FM062300 00000KT P6SM SCT070 BKN120 KGTB 061150Z 0611/0715 VRB06KT 9000 -SN BKN003 620103 QNH2990INS BECMG 0619/0620 36015G20KT 4800 -SN OVC007 620073 QNH2993INS BECMG 0623/0624 01006KT 9999 NSW OVC010 QNH3001INS BECMG 0703/0704 VRB06KT 9999 SCT010 QNH3009INS TXM02/0617Z TNM06/0702Z KGTF 061134Z 0612/0712 21014KT P6SM SCT150 WS020/27035KT FM061700 21015G25KT P6SM SCT120 BKN200 FM070300 20012KT P6SM SCT100 BKN180 KGTR 061133Z 0612/0712 16006KT P6SM VCSH BKN110 FM061300 17010KT 5SM SHRA BR VCTS OVC025CB FM061900 19006KT P6SM VCSH BKN007 OVC015 FM062200 35006KT 6SM -DZ BR OVC007 KGUC 061129Z 0612/0712 00000KT P6SM BKN020 FM061500 VRB03KT P6SM FEW090 SCT150 FM070600 00000KT P6SM FEW080 KGUP 061120Z 0612/0712 VRB03KT P6SM BKN250 KGUS 061120Z 0611/0717 26009KT 9999 OVC080 510033 QNH2996INS BECMG 0615/0616 35012G25KT 9999 BKN015 QNH3017INS BECMG 0617/0618 35012G25KT 9999 SCT025 QNH3020INS BECMG 0622/0623 34009KT 9999 SKC QNH3028INS TX06/0611Z TN00/0703Z KGUY 061120Z 0612/0712 35008KT P6SM OVC007 FM061800 14008KT P6SM BKN250 FM070600 20008KT P6SM BKN250 KGWO 061133Z 0612/0712 19009KT 5SM SHRA BR VCTS BKN035CB OVC080 FM061800 24007KT P6SM VCSH BKN015 OVC025 FM062000 01007KT 6SM -DZ OVC007 KGYY 061121Z 0612/0712 36016G26KT P6SM SCT013 BKN018 FM062000 36012KT P6SM SCT020 FM070100 01003KT P6SM FEW200 KHBG 061133Z 0612/0712 18003KT P6SM VCSH BKN030 OVC100 FM061500 17007KT 6SM SHRA BR VCTS BKN015 OVC025CB FM061900 19006KT P6SM VCSH BKN025 BKN050 FM070000 35004KT 4SM BR BKN007 OVC015 KHCR 061125Z 0612/0712 VRB02KT P6SM OVC040 FM061700 00000KT P6SM BKN100 FM070200 13008KT P6SM SCT020 SCT100 KHDC 061124Z 0612/0712 00000KT P6SM VCSH OVC030 FM061700 VRB03KT P6SM BKN020 FM070200 VRB03KT 4SM BR BKN008 OVC020 FM070700 01005KT P6SM SCT020 BKN080 KHDN 061129Z 0612/0712 10005KT P6SM FEW030 BKN060 FM061300 10004KT P6SM SCT030 BKN040 FM061600 VRB04KT P6SM FEW030 SCT040 FM062000 VRB03KT P6SM FEW030 FEW180 FM070000 11004KT P6SM FEW050 SCT150 KHIB 061255Z 0613/0712 30007KT 3SM -SN BKN012 FM061400 32006KT P6SM BKN050 FM070100 21007KT P6SM VCSH OVC035 FM070200 20008KT P6SM VCSH OVC015 FM070500 20006KT P6SM OVC017 FM070900 VRB04KT P6SM BKN007 KHIE 061120Z 0612/0712 20003KT P6SM -SN OVC026 FM061800 26003KT P6SM OVC025 TEMPO 0618/0622 P6SM -SN OVC015 FM070300 33003KT P6SM OVC025 TEMPO 0703/0706 4SM -SN OVC015 FM070600 28002KT P6SM OVC050 KHIF 060804Z 0606/0712 VRB06KT 4800 BR SCT005 OVC020 620204 QNH3029INS BECMG 0614/0615 11006KT 4800 HZ FEW005 BKN010 OVC020 620104 QNH3027INS BECMG 0620/0621 VRB06KT 6000 HZ BKN015 OVC030 QNH3025INS BECMG 0703/0704 VRB06KT 2400 BR BKN009 OVC015 QNH3020INS TX05/0621Z TNM02/0613Z KHIO 061133Z 0612/0712 00000KT 1SM BR BKN002 FM061800 05003KT 2SM BR SCT005 OVC100 FM062000 05003KT P6SM -RA OVC050 FM070800 VRB02KT P6SM -RA SCT025 OVC040 KHKS 061133Z 0612/0712 17006KT P6SM VCSH BKN030 OVC050 FM061300 17007KT 6SM SHRA BR VCTS BKN015 OVC025CB FM061700 22006KT P6SM OVC015 FM062000 33006KT P6SM BKN007 OVC015 FM070200 36007KT 4SM BR OVC007 KHKY 061129Z 0612/0712 00000KT P6SM BKN100 FM061800 22004KT P6SM BKN100 FM070600 VRB02KT P6SM SCT050 SCT250 KHLG 061132Z 0612/0712 21006KT P6SM OVC080 WS020/25035KT FM061900 27010G20KT P6SM OVC025 FM070000 33008KT P6SM SCT025 KHLN 061134Z 0612/0712 VRB03KT P6SM BKN110 KHMN 060900Z 0609/0715 VRB06KT 9999 SKC QNH3024INS BECMG 0613/0614 VRB06KT 9999 FEW250 QNH3027INS BECMG 0616/0617 VRB06KT 9999 SCT250 QNH3030INS BECMG 0622/0623 VRB06KT 9999 FEW250 QNH3026INS TX16/0622Z TN00/0613Z KHNB 061120Z 0612/0712 19005KT P6SM -RA OVC060 FM061800 35007KT 5SM -RA OVC028 TEMPO 0619/0623 BKN017 FM062300 02007KT P6SM BKN035 FM070300 03006KT P6SM SKC KHND 061128Z 0612/0712 16006KT P6SM BKN250 FM061600 VRB05KT P6SM BKN200 FM062100 06006KT P6SM FEW200 FM070300 17006KT P6SM FEW250 KHOB 061120Z 0612/0712 35010KT P6SM SCT250 FM061700 02006KT P6SM SCT250 FM062000 17005KT P6SM SCT250 KHON 061120Z 0612/0712 VRB03KT P6SM OVC015 FM061600 17008KT P6SM BKN015 FM062100 17011KT P6SM SCT015 FM070500 17005KT P6SM SKC KHOP 060800Z 0608/0714 18006KT 9999 BKN080 OVC100 620907 QNH3008INS BECMG 0615/0616 16006KT 9000 -RA BKN020 OVC040 QNH3009INS BECMG 0620/0621 09006KT 9999 NSW OVC020 620906 QNH3013INS BECMG 0704/0705 02006KT 9999 BKN030 QNH3029INS BECMG 0707/0708 02006KT 9999 FEW030 QNH3030INS TX14/0620Z TN06/0708Z KHOT 061139Z 0612/0712 06003KT 6SM -SHRA BR SCT015 OVC025 TEMPO 0612/0615 4SM TSRA BR OVC015CB FM061500 01005KT P6SM OVC030 FM061800 03009KT P6SM BKN100 FM070000 05005KT P6SM BKN250 KHOU 061304Z 0613/0712 23008KT 5SM BR BKN002 OVC005 FM061400 25008KT P6SM FEW005 FM061500 28009KT P6SM SCT050 FM061700 31011G20KT P6SM FEW250 FM070000 34009KT P6SM FEW250 FM070800 35007KT P6SM BKN035 KHPN 061131Z 0612/0712 24004KT P6SM BKN120 FM061400 21006KT P6SM BKN100 FM061700 20009G17KT P6SM SCT050 OVC080 FM062100 25009G17KT P6SM BKN050 FM070000 30013G20KT P6SM BKN050 FM070200 31014G22KT P6SM SCT050 FM070600 32010KT P6SM SKC NOT SKED KHQM 061126Z 0612/0712 08010KT P6SM SCT060 OVC080 FM062000 06008KT P6SM BKN030 OVC050 FM062300 07008KT P6SM -RA OVC025 FM070700 07006KT 4SM -RA BR OVC010 KHRL 061129Z 0612/0712 19008KT 6SM BR OVC008 TEMPO 0612/0614 VRB03KT 2SM BR BKN006 FM061400 VRB03KT 5SM BR OVC008 FM061500 VRB03KT 6SM BR BKN016 FM061800 33006KT P6SM BKN040 FM062000 36008KT P6SM SCT070 KHRO 061139Z 0612/0712 31005KT P6SM OVC060 FM061500 34009KT P6SM OVC100 FM061700 35010G17KT P6SM SCT250 FM070000 01003KT P6SM SKC KHRT 061015Z 0610/0716 VRB05KT 9999 BKN160 621602 QNH3010INS BECMG 0611/0612 13006KT 9999 SCT030 BKN160 621602 QNH3007INS BECMG 0620/0621 19010G15KT 8000 SHRA BKN025 BKN120 611308 QNH3007INS BECMG 0623/0624 13005KT 9999 NSW BKN020 BKN090 621308 QNH3009INS TX20/0620Z TN08/0611Z KHST 061200Z 0612/0718 35006KT 9999 FEW050 QNH3011INS BECMG 0702/0703 VRB06KT 9999 BKN030 QNH3014INS BECMG 0708/0709 VRB06KT 9999 SCT020 QNH3011INS TX23/0618Z TN12/0612Z KHSV 061120Z 0612/0712 14003KT P6SM BKN100 FM061600 14005KT P6SM -SHRA OVC050 FM061800 14005KT 2SM -SHRA OVC025 FM062100 13005KT 5SM -SHRA OVC012 FM070000 02006KT P6SM OVC010 KHTS 061122Z 0612/0712 20005KT P6SM OVC090 FM061500 23006KT P6SM -SHRA OVC035 FM061800 24007KT 5SM -SHRA OVC025 FM062100 25004KT 6SM BR OVC015 FM070100 34004KT P6SM BKN035 KHUF 061120Z 0612/0712 23005KT P6SM OVC070 FM061300 27005KT P6SM BKN080 FM061600 01010KT P6SM BKN040 FM061700 02010KT P6SM BKN015 FM061800 02010KT P6SM SCT020 FM070100 VRB03KT P6SM FEW250 KHUL 061303Z 0613/0712 26007KT P6SM FEW022 FM061400 27012KT P6SM SCT035 FM062200 28006KT P6SM BKN040 KHUM 061124Z 0612/0712 15005KT P6SM VCSH SCT040 FM061900 VRB04KT P6SM VCSH BKN020 FM070100 00000KT P6SM BKN010 OVC020 FM070300 VRB04KT 4SM BR BKN003 OVC010 KHUT 061137Z 0612/0712 36017G25KT P6SM OVC015 FM061600 36015G22KT P6SM BKN025 FM061700 01012G18KT P6SM SCT250 FM062200 02006KT P6SM SKC FM070000 VRB05KT P6SM SKC KHVR 061134Z 0612/0712 VRB05KT P6SM SCT040 BKN080 FM061900 23009KT P6SM SCT060 BKN120 FM070900 23011G20KT P6SM SCT050 BKN100 KHYA 061122Z 0612/0712 28010KT P6SM BKN250 FM061900 23012KT P6SM VCSH OVC050 FM062100 22010G20KT 6SM -RA OVC040 FM070100 23013G24KT P6SM OVC045 FM070800 33015G24KT P6SM SCT150 KHYR 061138Z 0612/0712 31006KT P6SM VCSH OVC017 FM061600 VRB04KT P6SM SCT100 FM070000 23005KT P6SM BKN200 FM070300 20005KT P6SM OVC080 FM071000 20006KT P6SM BKN045 KHYS 061129Z 0612/0712 01014KT P6SM OVC013 FM061700 36007KT P6SM SCT010 KIAB 061241Z 0612/0716 36015G25KT 9999 OVC011 510053 QNH3017INS BECMG 0614/0615 01020G25KT 9999 SCT010 510143 QNH3033INS BECMG 0617/0618 02012G18KT 9999 SKC 510142 QNH3035INS BECMG 0623/0624 VRB06KT 9999 SKC QNH3029INS TX06/0621Z TNM02/0709Z KIAD 061127Z 0612/0718 18005KT P6SM SCT250 FM061600 20010G17KT P6SM BKN090 FM062200 22006KT P6SM OVC060 FM070100 31005KT P6SM BKN045 FM070300 34010KT P6SM SCT060 KIAG 061151Z 0612/0712 16006KT 6SM -SN OVC040 FM061400 22012KT 4SM -RASN BR OVC015 FM061600 25010KT 4SM -RA BR OVC007 FM061800 31012KT P6SM VCSH OVC007 FM062000 31010KT P6SM VCSH BKN015 FM070200 29010KT P6SM BKN025 KIAH 061304Z 0613/0718 26007KT 6SM BR BKN020 TEMPO 0613/0614 2SM BR OVC003 FM061400 27009KT P6SM BKN030 FM061500 30009G18KT P6SM SCT250 FM062000 33011KT P6SM FEW250 FM071000 36007KT P6SM SCT025 KICT 061137Z 0612/0712 36017G25KT P6SM OVC015 FM061600 01015G23KT P6SM BKN025 FM061700 01012G18KT P6SM SCT250 FM062300 02006KT P6SM SKC FM070100 VRB05KT P6SM SKC KIDA 061120Z 0612/0712 VRB03KT 3SM BR VCSH SCT003 OVC040 TEMPO 0612/0614 1SM BR OVC002 FM061600 VRB03KT 5SM BR SCT003 OVC040 FM062000 01005KT P6SM SCT020 OVC040 FM070800 VRB04KT P6SM SCT007 OVC015 KIFP 061128Z 0612/0712 02006KT P6SM BKN200 FM061600 01010KT P6SM SCT250 FM070200 VRB05KT P6SM SCT250 KILG 061120Z 0612/0712 VRB04KT P6SM BKN200 FM061400 19007KT P6SM BKN150 FM061900 22011KT P6SM BKN080 FM062300 26009KT P6SM BKN060 FM070300 31010KT P6SM SCT060 KILM 061127Z 0612/0712 20003KT P6SM FEW250 FM061500 21007KT P6SM OVC150 FM062100 26005KT P6SM OVC110 FM062300 VRB02KT P6SM BKN050 OVC080 FM070500 36003KT P6SM BKN040 KILN 061135Z 0612/0712 21008KT P6SM OVC100 FM061500 24008KT P6SM VCSH OVC050 FM061800 33010KT P6SM OVC025 FM062200 36010KT P6SM SCT025 FM070000 02006KT P6SM SCT250 KIND 061120Z 0612/0718 26011KT P6SM OVC100 FM061500 33008KT P6SM OVC060 FM061600 36008KT P6SM OVC020 FM061800 01009KT P6SM FEW015 FM062000 01010KT P6SM SKC FM070100 VRB04KT P6SM FEW250 KINK 061120Z 0612/0712 01009KT P6SM SCT250 FM062100 12005KT P6SM SCT250 KINL 061138Z 0612/0712 31006KT P6SM OVC012 FM070000 20006KT P6SM VCSH OVC040 FM070200 22006KT P6SM VCSH OVC020 FM070400 22005KT P6SM OVC010 FM070700 VRB04KT P6SM BKN008 FM071100 VRB04KT P6SM BKN010 KINS 061256Z 0613/0719 VRB06KT 9999 SCT030 QNH3015INS BECMG 0709/0710 VRB06KT 9999 BKN080 620801 QNH3015INS TX14/0622Z TN04/0613Z KINT 061132Z 0612/0712 00000KT P6SM BKN120 OVC250 FM061500 24009KT P6SM OVC080 FM062300 25005KT P6SM SCT050 BKN250 FM070900 36004KT P6SM SCT250 KINW 061128Z 0612/0712 VRB06KT P6SM BKN200 KIPL 061120Z 0612/0712 26003KT P6SM BKN250 FM061800 34004KT P6SM BKN250 KIPT 061159Z 0612/0712 00000KT P6SM SCT035 OVC080 FM061400 12006KT P6SM OVC080 FM061700 26008G15KT P6SM OVC040 FM062000 28009G17KT P6SM BKN040 FM070400 30007KT P6SM SCT040 KISM 061128Z 0612/0712 VRB03KT P6SM BKN250 FM061600 17006KT P6SM FEW040 SCT250 FM062100 24006KT P6SM SCT040 BKN250 FM070000 27005KT P6SM SCT250 KISO 061125Z 0612/0712 00000KT P6SM SKC FM061400 20004KT P6SM SCT150 FM061600 22007KT P6SM BKN120 FM070000 VRB03KT P6SM OVC040 LTD TO CLD VIS AND WIND KISP 061131Z 0612/0712 24006KT P6SM BKN120 FM061500 21011G18KT P6SM BKN100 FM061900 22015G23KT P6SM SCT050 BKN080 FM062200 24013G21KT P6SM BKN050 FM070100 28014G22KT P6SM BKN050 FM070300 32012G20KT P6SM SCT050 FM070600 33010KT P6SM SKC KITH 061327Z 0613/0712 19007KT P6SM OVC035 TEMPO 0615/0617 2SM -SNRA BR OVC025 FM061700 22006KT 4SM -SNRA OVC015 FM062000 32009KT 6SM BR OVC009 FM070000 31007KT P6SM BKN015 KIWA 061120Z 0612/0712 11005KT P6SM BKN200 FM062200 30003KT P6SM BKN200 FM070400 10004KT P6SM SCT200 KIWD 061121Z 0612/0712 30011KT P6SM -SHSN BKN016 FM061800 28008KT P6SM BKN016 FM062000 26008KT P6SM SCT016 FM070000 22006KT P6SM OVC080 FM070500 21007KT P6SM -SHSN BKN035 OVC050 KIXD 061120Z 0612/0712 01013G25KT P6SM BKN015 FM061800 02009KT P6SM SCT200 FM070000 VRB04KT P6SM SCT250 FM070900 18006KT P6SM SKC KJAC 061134Z 0612/0712 03005KT P6SM OVC040 TEMPO 0612/0616 3SM BR BKN015 FM061600 VRB04KT P6SM SCT040 FM062000 22005KT P6SM BKN200 LTD TO CLD VIS AND WIND KJAN 061133Z 0612/0712 17006KT P6SM VCSH BKN030 OVC050 FM061300 17007KT 6SM SHRA BR VCTS BKN015 OVC025CB FM061700 22006KT P6SM OVC015 FM062000 33006KT P6SM BKN007 OVC015 FM070200 36007KT 4SM BR OVC007 KJAX 061120Z 0612/0712 VRB03KT P6SM SCT250 FM061700 19007KT P6SM BKN250 FM062300 VRB03KT P6SM BKN250 KJBR 061129Z 0612/0712 12004KT P6SM OVC045 FM061600 03006KT P6SM OVC015 FM062100 02008KT P6SM OVC025 FM070600 02006KT P6SM OVC015 KJCT 061120Z 0612/0712 VRB04KT P6SM SCT250 FM061700 36011G15KT P6SM SKC FM062100 01009KT P6SM SKC KJER 061123Z 0612/0712 05015KT P6SM SCT010 BKN060 FM061600 05018G25KT P6SM BKN120 FM070300 04015KT P6SM BKN025 KJFK 061131Z 0612/0718 25007KT P6SM BKN120 FM061400 22010KT P6SM BKN100 FM061800 22017G24KT P6SM SCT050 OVC080 FM062100 23018G25KT P6SM BKN050 FM070000 27017G25KT P6SM BKN050 FM070300 32015G23KT P6SM SCT050 FM070700 32011KT P6SM SKC KJHW 061151Z 0612/0712 20010KT 6SM -SN OVC030 FM061400 23013G20KT P6SM VCSH OVC025 FM061700 28013G20KT P6SM VCSH OVC007 FM061900 30012KT 2SM -SN OVC007 FM062100 31012KT P6SM VCSH BKN012 FM070000 30008KT 2SM -SHSN BKN015 KJKL 061122Z 0612/0712 20005KT P6SM OVC090 FM061300 20005KT P6SM -RA SCT050 OVC090 FM062100 VRB03KT P6SM OVC060 FM070100 VRB03KT P6SM OVC025 FM070600 VRB03KT P6SM OVC015 KJLN 061135Z 0612/0712 36013KT P6SM BKN150 FM061500 36013KT P6SM BKN070 FM061900 01011KT P6SM SCT180 FM070100 VRB04KT P6SM SKC KJMS 061308Z 0613/0712 20006KT P6SM OVC012 FM061700 19010G20KT P6SM OVC020 FM062200 19010KT P6SM OVC010 FM070800 VRB04KT P6SM BKN026 KJST 061159Z 0612/0712 21009KT P6SM VCSH SCT050 BKN100 FM061400 22014G22KT P6SM BKN035 OVC080 FM061700 26015G25KT 5SM -SHRA OVC015 FM062300 29015G25KT P6SM VCSH OVC012 FM070300 30011KT P6SM BKN020 KJXN 061130Z 0612/0712 29006KT P6SM OVC015 FM062100 32010KT P6SM BKN035 FM070300 VRB03KT P6SM BKN250 KLAF 061120Z 0612/0712 31007KT P6SM OVC080 FM061400 36009KT P6SM OVC035 FM061500 01011G20KT P6SM OVC015 FM061700 01010KT P6SM BKN045 FM061900 01011KT P6SM SCT250 FM070100 VRB04KT P6SM FEW250 LTD TO CLD VIS AND WIND TIL 061400 KLAL 061122Z 0612/0712 VRB03KT P6SM BKN250 FM062000 25006KT P6SM FEW250 FM070000 00000KT P6SM SKC KLAN 061132Z 0612/0712 32010G20KT P6SM OVC015 FM062200 31010KT P6SM BKN035 FM070300 VRB03KT P6SM BKN250 KLAR 061120Z 0612/0712 22009KT P6SM BKN200 FM061600 24012KT P6SM SCT200 KLAS 061128Z 0612/0718 22006KT P6SM BKN200 FM061600 VRB05KT P6SM BKN200 FM062000 10005KT P6SM FEW200 FM070300 21006KT P6SM FEW250 FM071600 08005KT P6SM SCT100 BKN200 KLAW 061120Z 0612/0712 35020G28KT P6SM SCT040 SCT100 TEMPO 0615/0619 BKN040 FM062100 01013KT P6SM SCT040 SCT250 FM070000 04006KT P6SM BKN250 KLAX 061146Z 0612/0718 04005KT P6SM BKN200 FM062000 20008KT P6SM SCT035 BKN070 FM070300 24006KT P6SM VCSH SCT025 BKN050 FM070700 09006KT 5SM -RA BR OVC020 FM071500 08008KT 4SM -RA BR OVC015 KLBB 061120Z 0612/0712 35011KT P6SM SKC FM061700 02008KT P6SM FEW250 FM061900 VRB05KT P6SM FEW250 KLBE 061132Z 0612/0712 21006KT P6SM OVC080 WS020/25035KT FM062100 27010G22KT P6SM -RA OVC015 FM070000 33010G18KT P6SM OVC015 KLBF 061138Z 0612/0712 00000KT P6SM MIFG FEW007 FM061500 VRB03KT P6SM BKN010 FM061700 19008KT P6SM SCT250 FM070500 24004KT P6SM FEW250 KLBL 061129Z 0612/0712 36014KT P6SM OVC008 FM061900 36007KT P6SM SCT010 KLBT 061127Z 0612/0712 18003KT P6SM OVC150 FM061500 21007KT P6SM BKN110 FM062100 25004KT P6SM OVC050 FM070300 02002KT P6SM BKN080 NOT SKED KLBX 061304Z 0613/0712 26005KT 5SM BR SCT002 BKN025 FM061500 29009KT P6SM BKN035 FM061600 30011G20KT P6SM FEW180 FM062300 33010KT P6SM FEW030 KLCH 061136Z 0612/0712 00000KT 1/4SM FG VV002 FM061400 VRB03KT 4SM BR SCT007 OVC012 FM061600 25007KT P6SM SCT015 BKN025 FM062000 31008KT P6SM SCT030 FM070200 35004KT P6SM BKN035 FM070600 36008KT P6SM OVC018 KLCK 061135Z 0612/0712 21006KT P6SM OVC100 FM061500 26008KT P6SM OVC050 FM061800 32010KT P6SM OVC025 FM062100 35010KT P6SM SCT025 FM070000 01005KT P6SM SCT250 KLEB 061120Z 0612/0712 32005KT P6SM SCT030 FM061800 00000KT 1 1/2SM -SN BR OVC015 FM070400 31002KT P6SM OVC025 FM070600 00000KT P6SM SKC KLEE 061128Z 0612/0712 VRB02KT P6SM BKN250 FM061600 18005KT P6SM FEW040 SCT250 FM062100 24005KT P6SM SCT040 BKN250 FM070000 VRB04KT P6SM SCT250 KLEX 061120Z 0612/0712 22007KT P6SM -RA OVC050 FM062000 29006KT 5SM -RA BR BKN028 FM062300 01008KT P6SM OVC023 TEMPO 0623/0703 BKN017 FM070300 03008KT P6SM BKN035 FM070700 05007KT P6SM SCT020 KLFI 061000Z 0610/0716 VRB06KT 9999 FEW120 QNH3018INS BECMG 0615/0616 21009KT 9999 SCT080 BKN100 QNH3020INS BECMG 0703/0704 27012KT 9999 SCT040 BKN050 QNH3016INS BECMG 0709/0710 01015G25KT 9999 SCT020 QNH3022INS BECMG 0714/0715 01012KT 9999 SCT040 QNH3023INS TX14/0619Z TN00/0611Z KLFK 061155Z 0612/0712 23006KT P6SM OVC009 TEMPO 0612/0615 27013G19KT BKN015 BKN080 FM061700 30010KT P6SM BKN015 FM062100 32006KT P6SM OVC025 FM070300 34005KT P6SM OVC050 KLFT 061136Z 0612/0712 15005KT P6SM SCT015 BKN025 FM061400 22008KT P6SM BKN015 OVC025 FM061600 26012G18KT P6SM VCSH SCT018 OVC025 FM062000 28010KT P6SM SCT025 BKN035 FM070100 34005KT P6SM OVC030 FM070400 36007KT P6SM OVC009 KLGA 061131Z 0612/0718 25008KT P6SM BKN120 FM061400 21008KT P6SM BKN100 FM061800 21014G22KT P6SM SCT050 OVC080 FM062100 25013G21KT P6SM BKN050 FM070000 28015G23KT P6SM BKN050 FM070300 32016G24KT P6SM SCT050 FM070600 32010KT P6SM SKC KLGB 061146Z 0612/0712 VRB03KT P6SM SKC FM062000 18006KT P6SM SCT035 BKN070 FM070500 07005KT P6SM VCSH SCT025 BKN050 FM071000 07005KT 5SM -RA BR OVC020 KLGU 061327Z 0613/0712 00000KT 3/4SM BR OVC005 FM061800 VRB03KT 2SM BR OVC008 FM062200 27003KT 4SM HZ BKN005 OVC050 FM070200 16005KT 1SM BR OVC012 KLIT 061139Z 0612/0712 36007KT P6SM -SHRA SCT015 OVC025 TEMPO 0612/0615 4SM TSRA BR OVC015CB FM061500 08005KT 3SM -SHRA BR OVC025 FM061900 02009KT P6SM OVC035 FM070600 02005KT P6SM BKN120 KLLQ 061139Z 0612/0712 19003KT 6SM -SHRA BR SCT015 OVC025 TEMPO 0612/0616 3SM TSRA BR OVC015CB FM061600 08005KT 3SM -SHRA BR OVC025 FM062100 02009KT P6SM OVC050 FM070800 01007KT 5SM BR OVC025 KLMT 061208Z 0612/0712 VRB06KT P6SM BKN035 BKN120 OVC140 WS020/18040KT FM061800 16015G25KT P6SM VCSH FEW020 BKN040 OVC120 FM070000 16018G28KT P6SM -SHRA SCT020 BKN035 OVC120 FM070900 15015G23KT 6SM -RA BR SCT010 BKN020 OVC030 KLND 061134Z 0612/0712 VRB04KT P6SM FEW250 FM071000 26007KT P6SM BKN150 KLNK 061127Z 0612/0712 01012KT P6SM BKN020 TEMPO 0614/0617 SCT020 FM061700 03006KT P6SM SCT020 FM070400 18005KT P6SM SKC KLNS 061159Z 0612/0712 VRB03KT P6SM BKN080 FM061700 26007KT P6SM BKN070 FM062000 28010KT P6SM OVC040 FM070000 31011G17KT P6SM SCT040 KLOZ 061122Z 0612/0712 VRB03KT P6SM VCSH SCT050 OVC080 FM061800 VRB03KT P6SM SCT040 OVC060 FM070300 VRB03KT P6SM OVC018 KLRD 061129Z 0612/0712 VRB03KT 1SM BR OVC003 FM061500 34008KT P6SM BKN015 FM061700 35011KT P6SM FEW250 KLRF 061044Z 0610/0713 VRB06KT 9999 OVC027 QNH2997INS TEMPO 0611/0614 27010G15KT 9000 -TSRA OVC020CB BECMG 0613/0614 27009KT 9000 BR BKN008 QNH3002INS BECMG 0617/0618 36010G15KT 9000 BR SCT009 BKN020 QNH3014INS BECMG 0620/0621 36006KT 9999 NSW BKN020 QNH3013INS BECMG 0710/0711 36006KT 9999 OVC025 QNH3031INS TX16/0620Z TN08/0612Z KLRU 061143Z 0612/0712 35005KT P6SM SKC FM061600 04005KT P6SM SCT250 FM070600 VRB04KT P6SM BKN200 KLSE 061130Z 0612/0712 34012KT P6SM SCT030 TEMPO 0612/0614 BKN030 FM061500 33007KT P6SM SCT030 FM070200 17004KT P6SM BKN080 KLSF 060900Z 0609/0715 15006KT 9999 FEW140 QNH3016INS BECMG 0611/0612 13006KT 9999 BKN140 QNH3013INS BECMG 0620/0621 14006KT 9999 VCSH BKN035 OVC120 QNH3013INS BECMG 0706/0707 10006KT 9999 NSW BKN015 OVC025 QNH3015INS BECMG 0708/0709 05006KT 6000 BR OVC010 QNH3015INS BECMG 0714/0715 08006KT 9999 NSW BKN020 QNH3023INS TX16/0619Z TN01/0612Z KLSV 060700Z 0607/0713 VRB06KT 9999 BKN220 QNH3020INS BECMG 0617/0618 VRB06KT 9999 SCT220 QNH3017INS BECMG 0706/0707 VRB06KT 9999 SCT030 BKN050 QNH3018INS TX15/0622Z TN06/0613Z KLTS 060900Z 0609/0715 34012G22KT 9999 BKN080 QNH2997INS BECMG 0613/0614 36020G30KT 9999 FEW040 510002 QNH3027INS BECMG 0618/0619 36012G18KT 9999 FEW100 QNH3030INS BECMG 0623/0624 02008KT 9999 FEW200 QNH3034INS BECMG 0706/0707 VRB06KT 9999 SKC QNH3028INS BECMG 0713/0714 17006KT 9999 SKC QNH3029INS TX12/0621Z TN04/0611Z KLUF 061200Z 0612/0718 35006KT 9999 FEW150 BKN200 QNH3010INS BECMG 0700/0701 VRB06KT 9999 FEW100 SCT200 QNH3012INS BECMG 0712/0713 01006KT 9999 FEW200 QNH3014INS TX19/0623Z TN10/0614Z KLUK 061135Z 0612/0712 22006KT P6SM -RA OVC050 TEMPO 0615/0618 5SM -RA BR OVC028 FM061800 31010KT P6SM OVC018 FM062100 35010KT P6SM BKN028 FM070000 02005KT P6SM SCT250 KLVK 061142Z 0612/0712 VRB03KT 4SM BR FEW030 OVC150 WS020/18025KT TEMPO 0612/0616 3/4SM BR VV002 FM061800 17012G20KT 6SM BR VCSH BKN030 OVC100 FM070000 10014G25KT 6SM -SHRA BR OVC030 FM070300 18014G26KT 5SM -RA OVC025 FM070900 19012G25KT 5SM -SHRA BKN025 KLVM 061120Z 0612/0712 22025G36KT P6SM FEW200 FM070300 21029G45KT P6SM BKN200 KLVS 061120Z 0612/0712 VRB04KT P6SM SCT250 FM061800 19010KT P6SM BKN250 FM070200 VRB06KT P6SM SCT250 KLWB 061141Z 0612/0712 00000KT P6SM BKN110 FM061800 26006KT 6SM -SHRA BKN040 FM062300 28003KT 6SM -SHRA OVC030 FM070200 31005KT 5SM -SHRA OVC025 FM070700 00000KT P6SM BKN015 KLWS 061131Z 0612/0712 17010KT P6SM SCT250 FM061700 15008KT P6SM BKN150 FM070600 12005KT P6SM OVC100 FM070900 13007KT P6SM OVC050 PROB30 0710/0712 P6SM -RA OVC050 KLWT 061134Z 0612/0712 VRB05KT P6SM SCT100 FM062000 22009KT P6SM BKN120 KLYH 061141Z 0612/0712 20003KT P6SM SCT150 FM061400 21005KT P6SM OVC120 FM062000 VRB03KT P6SM VCSH OVC035 FM070400 00000KT P6SM BKN050 KMAF 061120Z 0612/0712 36010KT P6SM SCT250 FM062100 05006KT P6SM SCT250 FM070300 12006KT P6SM SCT250 KMBG 061120Z 0612/0712 19006KT P6SM OVC013 FM061800 18010G18KT P6SM BKN035 FM070200 22005KT P6SM BKN200 KMBL 061130Z 0612/0712 34013G22KT P6SM OVC023 FM062000 33012G24KT P6SM BKN030 FM062100 33011G23KT P6SM BKN040 FM070000 33009KT P6SM BKN050 FM070400 29005KT P6SM BKN070 FM070600 25005KT P6SM BKN070 FM070900 22006KT P6SM BKN060 KMBS 061128Z 0612/0712 30013KT P6SM OVC025 TEMPO 0612/0616 OVC015 FM061600 33015G25KT P6SM BKN025 OVC040 FM062200 33013KT P6SM SCT025 BKN040 FM070700 28005KT P6SM SCT035 BKN250 KMCB 061152Z 0612/0712 16007KT P6SM VCSH BKN023 BKN100 FM070100 00000KT P6SM BKN010 OVC020 KMCC 061141Z 0612/0712 00000KT P6SM OVC060 FM061600 16010KT P6SM OVC050 FM062300 16012G18KT P6SM OVC050 FM070300 16018G24KT P6SM -RA SCT025 OVC050 FM070900 17020G35KT 4SM -RA OVC025 KMCE 061120Z 0612/0712 00000KT P6SM SCT200 FM062300 13009KT P6SM SCT050 BKN120 FM070600 13011G19KT P6SM BKN050 OVC120 TEMPO 0706/0710 -RA BKN030 FM071000 14009KT P6SM -RA BKN030 OVC050 KMCI 061120Z 0612/0712 01013G24KT P6SM BKN015 FM061700 02009KT P6SM SCT200 FM070000 VRB05KT P6SM SCT250 FM070900 19006KT P6SM SKC KMCK 061129Z 0612/0712 02005KT P6SM OVC012 FM061700 19006KT P6SM SCT070 FM070000 17005KT P6SM SKC FM070800 23006KT P6SM SKC KMCN 061130Z 0612/0712 00000KT P6SM FEW150 FM061400 00000KT P6SM BKN120 FM061700 18004KT P6SM SCT060 BKN120 FM062200 17003KT P6SM VCSH BKN050 FM070300 VRB03KT P6SM BKN050 KMCO 061128Z 0612/0718 VRB03KT P6SM BKN250 FM061600 19006KT P6SM FEW040 SCT250 FM062100 22006KT P6SM SCT040 BKN250 FM070000 VRB04KT P6SM SCT250 FM071500 02006KT P6SM SCT250 KMCW 061308Z 0613/0712 33015KT P6SM OVC008 TEMPO 0613/0615 SCT020 FM061515 34011KT P6SM FEW025 FM061900 30007KT P6SM FEW250 FM070300 18007KT P6SM SCT250 KMDT 061159Z 0612/0712 10004KT P6SM BKN100 FM061700 26007KT P6SM BKN070 FM062000 28010KT P6SM OVC040 FM070000 31011G17KT P6SM SCT040 KMDW 061121Z 0612/0718 36014G24KT P6SM SCT013 BKN020 TEMPO 0612/0613 SCT020 FM061800 01010KT P6SM SCT025 FM070000 01002KT P6SM FEW200 FM071500 20007KT P6SM SCT090 KMEI 061133Z 0612/0712 12005KT P6SM -SHRA BKN050 OVC100 FM061400 17005KT 6SM SHRA BR VCTS BKN015 OVC025CB FM061800 20006KT 6SM BR VCSH BKN007 OVC015 FM062000 17004KT 6SM BR BKN015 FM070000 01004KT 4SM BR OVC007 KMEM 061313Z 0613/0718 10004KT 6SM -TSRA BKN015CB OVC035 FM061500 11005KT P6SM OVC010 FM061800 02007KT P6SM OVC015 FM070100 02008KT P6SM OVC025 KMER 061120Z 0612/0712 18007KT P6SM SCT200 FM062300 15009KT P6SM SCT050 BKN120 FM070600 15011G19KT P6SM BKN050 OVC120 TEMPO 0706/0710 -RA BKN030 FM071000 16009KT P6SM -RA BKN030 OVC050 NOT SKED KMFD 061142Z 0612/0712 24010KT P6SM OVC100 FM061600 29010KT P6SM BKN025 FM061800 33010KT P6SM BKN015 FM062100 33010KT P6SM SCT025 BKN200 FM070300 33005KT P6SM SCT200 KMFE 061129Z 0612/0712 16005KT P6SM OVC010 TEMPO 0613/0615 00000KT 3SM BR OVC007 FM061600 VRB04KT 6SM BR BKN040 FM061830 34007KT P6SM SCT070 FM062300 01007KT P6SM FEW200 KMFR 061158Z 0612/0712 VRB04KT P6SM BKN160 OVC250 WS020/15035KT FM061800 14015G25KT P6SM FEW050 SCT100 OVC200 FM070000 15018G28KT P6SM -RA SCT050 BKN080 OVC100 FM070600 15010KT 6SM -RA BR BKN035 OVC050 KMGE 060600Z 0606/0712 VRB03KT 9999 SCT150 QNH3015INS BECMG 0614/0615 16005KT 9999 SCT050 BKN100 BKN250 QNH3020INS BECMG 0620/0621 12005KT 9999 VCSH SCT020 BKN050 OVC120 QNH3015INS BECMG 0703/0704 09005KT 4800 -RA BR SCT005 OVC015 QNH3012INS BECMG 0706/0707 01006KT 9999 NSW BKN015 OVC030 QNH3010INS TX12/0620Z TN06/0613Z KMGM 061136Z 0612/0712 12003KT P6SM BKN200 FM061700 16006KT P6SM VCSH BKN100 FM062000 VRB04KT 6SM -SHRA OVC080 FM070000 00000KT P6SM VCSH BKN050 FM070300 00000KT P6SM VCSH OVC020 FM070700 00000KT 5SM BR OVC008 KMGW 061132Z 0612/0712 23004KT P6SM BKN120 WS020/25035KT FM061900 22012G22KT 6SM -RA OVC025 FM070100 33008KT P6SM SCT025 KMHK 061125Z 0612/0712 01013G22KT P6SM BKN017 FM061600 01010KT P6SM FEW020 FEW250 FM062300 VRB04KT P6SM SKC KMHR 061141Z 0612/0712 00000KT P6SM OVC060 FM061600 16010KT P6SM OVC050 FM062300 16012G18KT P6SM OVC050 FM070300 15019G26KT 6SM -RA SCT025 OVC050 FM070600 16020G30KT 4SM -RA BKN025 OVC050 KMHT 061120Z 0612/0712 00000KT P6SM FEW040 FM061800 22005KT P6SM BKN040 FM062000 21004KT 2SM -SN BR OVC015 FM062200 30008KT 1 1/2SM BR OVC007 FM070500 32005KT P6SM SKC KMIA 061122Z 0612/0718 35005KT P6SM SCT250 FM061600 12008KT P6SM FEW035 SCT250 FM070000 VRB03KT P6SM SCT250 FM071600 09008KT P6SM SCT250 KMIB 060900Z 0609/0715 VRB06KT 9999 SKC QNH3024INS BECMG 0612/0613 VRB06KT 9999 BKN060 620604 QNH3017INS BECMG 0618/0619 VRB06KT 9999 BKN005 620053 QNH3009INS BECMG 0702/0703 VRB06KT 9999 OVC001 620013 QNH3006INS TX00/0622Z TNM010/0609Z KMIV 061120Z 0612/0712 VRB04KT P6SM BKN200 FM061400 20008KT P6SM BKN150 FM061900 23011KT P6SM BKN120 FM062300 26008KT P6SM BKN080 FM070300 31008KT P6SM SCT060 KMKC 061120Z 0612/0712 01012G22KT P6SM BKN015 FM061700 03008KT P6SM SCT200 FM070000 VRB03KT P6SM SCT250 FM070900 19006KT P6SM SKC KMKE 061258Z 0613/0718 34010KT P6SM FEW019 FM061400 34010KT P6SM BKN025 FM061700 34011KT P6SM SCT025 FM061900 34010KT P6SM FEW035 FM062100 34008KT P6SM SKC FM071600 21010KT P6SM SCT150 KMKG 061130Z 0612/0712 32010G18KT P6SM OVC015 FM062300 34006KT P6SM OVC250 FM070300 VRB03KT P6SM OVC050 KMKL 061129Z 0612/0712 18005KT P6SM VCSH OVC100 FM061700 12003KT 4SM BR OVC010 FM062200 36007KT P6SM OVC015 KMKT 061123Z 0612/0712 32010KT P6SM FEW015 FM061800 28004KT P6SM SCT020 SCT250 FM070000 15007KT P6SM SCT110 KMLB 061128Z 0612/0712 36005KT P6SM SCT250 FM061500 12008KT P6SM SCT250 FM062000 11007KT P6SM FEW035 SCT250 FM062300 VRB04KT P6SM SCT040 BKN250 KMLC 061130Z 0612/0712 36010KT P6SM SCT050 FM061400 35012G20KT P6SM SCT025 FM062100 36010KT P6SM SCT035 FM070100 01003KT P6SM SCT250 KMLI 061130Z 0612/0712 36014G24KT P6SM BKN020 FM061600 36013G23KT P6SM BKN035 FM061900 36012KT P6SM SCT040 FM070000 VRB03KT P6SM SKC KMLS 061120Z 0612/0712 17009KT P6SM VCFG FEW100 FM061800 24009KT P6SM FEW200 FM070100 18008KT P6SM SCT200 KMLU 061153Z 0612/0712 17005KT P6SM VCSH FEW017 SCT029 OVC035 TEMPO 0612/0616 21005KT BKN007 FM061600 27006KT P6SM BKN007 FM061800 34010KT P6SM BKN015 FM070000 03008KT P6SM OVC035 KMMH 061132Z 0612/0712 VRB03KT P6SM SCT120 FM062000 15011KT P6SM SCT100 FM070500 18012G22KT P6SM SCT070 BKN100 KMMT 061011Z 0610/0714 VRB06KT 9999 BKN100 QNH3015INS BECMG 0619/0620 23007KT 9999 VCSH SCT040 BKN080 OVC140 QNH3020INS BECMG 0703/0704 09005KT 9999 NSW SCT050 QNH3022INS BECMG 0706/0707 01006KT 9999 FEW050 QNH3024INS TX19/0619Z TN00/0610Z KMOB 061137Z 0612/0712 00000KT P6SM BKN027 BKN030 BKN040 FM061800 17008KT P6SM SHRA BKN030 FM070100 09003KT P6SM VCSH OVC025 FM070600 02003KT 4SM BR OVC006 KMOD 061141Z 0612/0712 00000KT 6SM BR OVC100 FM061800 14011KT P6SM FEW050 OVC100 FM070000 15010KT P6SM -RA OVC050 FM070500 14015G21KT 6SM -RA BR OVC050 FM070600 14020G30KT 5SM -RA BR SCT025 OVC050 KMOT 061135Z 0612/0712 13005KT P6SM OVC080 FM061700 19008KT P6SM OVC070 FM062200 27005KT P6SM OVC150 FM070100 00000KT P6SM BKN070 KMPV 061133Z 0612/0712 30004KT P6SM VCSH OVC028 FM061500 VRB03KT 2SM -SN BR OVC025 FM061800 VRB03KT 1 1/2SM -SN BR BKN015 OVC022 FM062300 VRB03KT 3SM -SN BR OVC015 FM070100 32004KT P6SM VCSH OVC024 FM070300 31005KT P6SM BKN028 OVC035 KMQY 061220Z 0612/0712 14006KT P6SM SKC FM062100 01003KT P6SM OVC030 FM070900 01005KT P6SM OVC015 KMRB 061127Z 0612/0712 VRB03KT P6SM BKN200 FM061600 22009KT P6SM BKN120 FM062100 25007KT P6SM BKN045 FM070200 32011KT P6SM SCT060 FM070800 30006KT P6SM FEW250 KMRY 061140Z 0612/0712 VRB03KT P6SM FEW045 OVC200 FM061600 13005KT P6SM FEW030 SCT050 OVC200 FM062100 16011G20KT P6SM SCT035 BKN050 OVC180 FM062300 16015G22KT P6SM BKN035 OVC050 FM070400 16013G22KT P6SM -SHRA OVC025 FM071000 16010KT P6SM -SHRA OVC020 KMSL 061120Z 0612/0712 14003KT P6SM BKN100 FM061300 VRB03KT P6SM -SHRA OVC090 FM061500 17005KT 3SM -SHRA OVC050 FM061700 VRB03KT 1SM SHRA OVC010 FM062300 03005KT P6SM BKN010 NOT SKED KMSN 061124Z 0612/0712 34011G20KT P6SM OVC023 FM061500 35010KT P6SM BKN025 FM061700 35010KT P6SM SCT035 FM062100 33006KT P6SM SKC FM070800 19005KT P6SM SCT120 KMSO 061120Z 0612/0712 31003KT P6SM SKC FM061300 00000KT 5SM BR BKN150 FM061500 00000KT P6SM BKN150 KMSP 061123Z 0612/0718 32008KT P6SM FEW015 FEW025 FM061700 25004KT P6SM SCT025 SCT250 FM062300 16004KT P6SM OVC070 KMSS 061133Z 0612/0712 20005KT 3SM -SN BR OVC035 FM061400 20005KT 2SM -SN BR OVC026 FM061700 35004KT 3SM -SN BR OVC018 FM062100 36004KT P6SM VCSH OVC028 FM062300 32005KT P6SM OVC035 FM070200 28004KT P6SM SCT035 BKN050 KMSY 061124Z 0612/0718 15007KT P6SM VCSH BKN040 BKN250 FM061900 VRB04KT P6SM VCSH BKN020 FM070100 00000KT P6SM BKN010 OVC020 FM070800 VRB04KT P6SM SCT045 BKN070 KMTC 061205Z 0612/0715 27009KT 9999 SCT040 OVC080 620807 QNH2988INS BECMG 0613/0615 26010G18KT 9999 SCT004 BKN015 620154 QNH2991INS BECMG 0615/0616 32012G25KT 9999 SCT020 QNH3002INS BECMG 0620/0621 31009KT 9999 FEW030 SCT200 QNH3018INS TX05/0617Z TNM02/0708Z KMTH 061134Z 0612/0712 03007KT P6SM SKC FM070000 36005KT P6SM FEW030 SCT250 KMTJ 061129Z 0612/0712 VRB04KT P6SM FEW060 FEW200 FM070000 VRB05KT P6SM FEW100 FM070600 15005KT P6SM FEW120 KMTN 061127Z 0612/0712 17005KT P6SM SCT150 FM061700 20011G21KT P6SM BKN080 FM062200 23009KT P6SM OVC060 FM070300 32011G19KT P6SM SCT045 KMTW 061327Z 0613/0712 32010G17KT P6SM BKN035 FM061700 32010G18KT P6SM SCT035 FM062200 28006KT P6SM FEW035 SCT200 FM070600 23004KT P6SM BKN100 KMUI 061100Z 0611/0717 27006KT 9999 SCT030 BKN100 QNH3010INS BECMG 0616/0617 20012KT 9999 BKN080 QNH2999INS BECMG 0620/0621 21006KT 9000 -SHRA OVC020 QNH2998INS BECMG 0622/0623 30009KT 9999 NSW SCT030 QNH3001INS BECMG 0702/0703 31006KT 9999 FEW028 QNH3015INS BECMG 0714/0715 33010G15KT 9999 FEW130 QNH3039INS TX08/0617Z TNM01/0711Z KMUO 061000Z 0610/0716 12011KT 9999 BKN030 620307 QNH3023INS TEMPO 0610/0615 8000 BR SCT010 BECMG 0615/0616 12012G20KT 9999 SCT040 BKN120 QNH3010INS BECMG 0701/0702 12012KT 9999 SCT040 BKN150 QNH3008INS BECMG 0708/0709 12012G20KT 9999 VCSH FEW030 BKN060 QNH3003INS TX04/0622Z TNM01/0613Z KMVN 061125Z 0612/0712 VRB03KT P6SM VCSH OVC080 FM061700 01008KT P6SM BKN070 FM061900 02009KT P6SM BKN021 FM062200 02009G15KT P6SM BKN150 FM070000 03005KT P6SM SCT250 KMWH 061131Z 0612/0712 VRB03KT 1/2SM FG OVC002 FM061400 12003KT 1SM BR OVC003 FM062000 VRB03KT 6SM BR BKN007 BKN150 FM070200 00000KT 4SM BR OVC025 FM070800 03004KT 1 1/2SM -RA BR OVC025 KMXF 061200Z 0612/0718 11006KT 9999 SCT030 BKN120 QNH3013INS BECMG 0618/0619 14006KT 8000 -SHRA BKN025 OVC040 QNH3010INS BECMG 0701/0702 07006KT 9999 NSW BKN015 OVC025 QNH3015INS BECMG 0705/0706 05006KT 6000 BR OVC005 QNH3016INS BECMG 0714/0715 05006KT 9999 NSW SCT015 BKN025 QNH3024INS TX16/0618Z TN06/0612Z KMYL 061123Z 0612/0712 VRB04KT 1/2SM FZFG VV002 FM061800 22005KT P6SM BKN015 FM071000 VRB03KT P6SM VCSH OVC010 KMYR 061127Z 0612/0712 17006KT P6SM OVC150 FM061800 14008KT P6SM BKN120 FM062300 24004KT P6SM BKN035 OVC050 FM070400 36003KT P6SM BKN080 KNBC 0609/0709 VRB06KT 9999 SKC QNH3018INS TEMPO 0609/0612 0600 FG OVC001 BECMG 0614/0616 03008KT 9999 SCT080 BKN100 QNH3015INS FM061800 05010KT 9999 SCT020 BKN080 OVC100 QNH3010INS T22/0620Z T09/0708Z KNBG 0607/0707 VRB06KT 9999 SCT015 BKN120 BKN250 QNH3001INS BECMG 0612/0614 18010KT 9999 VCSH SCT015 BKN030 OVC100 QNH2999INS TEMPO 0616/0620 22010G15KT 4800 SHRA BR BKN015 BKN025 OVC050 BECMG 0621/0623 32008KT 9999 NSW SCT015 SCT030 BKN080 QNH3005INS TEMPO 0701/0707 VRB05KT BKN012 OVC030 AUTOMATED SENSOR METWATCH 0607 TIL 0611 T12/0612Z T24/0619Z FN00213 KNCA 0609/0709 VRB05KT 9999 SKC QNH3015INS FM061700 VRB06KT 9999 BKN120 QNH3012INS BECMG 0622/0700 30008KT 9999 VCSH FEW020 BKN035 OVC100 QNH3010INS TEMPO 0700/0706 8000 -SHRA BR BKN020 TM01/0610Z T15/0620Z KNEW 061124Z 0612/0712 16006KT P6SM VCSH BKN050 FM061900 VRB04KT P6SM VCSH BKN020 FM070100 00000KT P6SM BKN010 OVC020 FM070300 VRB04KT 4SM BR BKN003 OVC010 KNFG 0609/0709 VRB05KT 9999 BKN050 QNH3008INS BECMG 0616/0618 27007KT 9999 SCT010 QNH3012INS FM062300 VRB05KT 9999 BKN015 QNH3012INS AUTOMATED SENSOR METWATCH 0609 TIL 0614 T11/0615Z T18/0623Z KNFL 0607/0707 VRB06KT 0800 FG VV002 QNH3016INS TEMPO 0612/0616 0200 FG VV001 FM061800 VRB06KT 4800 BR SCT003 BKN005 OVC010 QNH3018INS FM062000 VRB06KT 8000 BR SCT010 BKN020 BKN050 OVC100 BKN250 QNH3015INS AUTOMATED SYSTEM METWATCH 0607 TIL 0615 TM02/0613Z T07/0623Z FN00213 KNFW 0607/0707 21012KT 9999 FEW080 BKN200 QNH2986INS BECMG 0609/0611 30015G21KT 9999 SCT020 BKN200 500000 QNH2992INS BECMG 0612/0614 33015G25KT 9999 SCT020 BKN200 QNH3000INS BECMG 0617/0619 36015KT 9999 SCT020 BKN200 QNH3012INS TEMPO 0617/0622 36015G22KT BKN020 FM070100 36012KT 9999 SCT020 BKN250 QNH3020INS AUTOMATED SENSOR METWATCH 0607 TIL 0611 T12/0614Z T24/0723Z FN00213 KNGP 0610/0707 21005KT 8000 BR SCT004 OVC012 QNH3000INS TEMPO 0610/0613 VRB03KT 1200 BR OVC002 FM061300 32006KT 4000 BR OVC004 QNH3007INS TEMPO 0613/0616 0800 -DZ FG VV002 FM061600 34011G16KT 9000 BR SCT006 BKN010 BKN025 BKN250 QNH3012INS TEMPO 0616/0618 FEW006 SCT010 BKN025 BKN250 FM061800 36011G16KT 9999 FEW012 SCT025 SCT250 QNH3008INS FM062300 3613G19KT 9999 FEW250 QNH3008INS AUTOMATED SENSOR METWATCH 0610 TIL 0612 T18/0613Z T27/0620Z 1015 FN20044 KNGU 0607/0707 VRB05KT 9999 SKC QNH3015INS FM061400 22009G18KT 9999 FEW080 BKN200 QNH3013INS BECMG 0620/0622 22010G18KT 9999 SCT030 BKN080 OVC200 QNH3014INS FM070100 25010G18KT 9999 VCSH BKN030 OVC070 QNH3017INS TEMPO 0702/0705 32010KT 6000 SHRA BR BKN010 OVC040 T01/0609Z T14/0620Z FN00216 KNHK 0607/0707 VRB05KT 9999 BKN250 QNH3016INS BECMG 0610/0612 20010KT 9999 SCT120 BKN250 QNH3015INS FM061800 20010G18KT 9999 SCT030 BKN120 OVC250 QNH3010INS BECMG 0702/0704 33015G25KT 9999 FEW030 SCT120 SCT250 QNH3018INS AUTOMATED SENSOR METWATCH 0607 TIL 0609 T02/0609Z T11/0619Z FN00216 KNIP 0607/0707 VRB04KT 9999 BKN250 QNH3015INS FM061500 21006KT 9999 FEW025 SCT120 BKN250 QNH3010INS FM062100 24008KT 9999 FEW030 SCT120 BKN250 QNH3014INS FM070200 VRB05KT 9999 SCT030 BKN120 BKN250 QNH3016INS T12/0611Z T23/0620Z FN00216 KNJK 0607/0707 VRB04KT 9999 SCT250 QNH3012INS AUTOMATED SENSOR METWATCH 0607 TIL 0614 T12/0613Z T20/0623Z FN00213 KNKT 0609/0709 VRB06KT 9999 SKC QNH3019INS BECMG 0616/0618 19008KT 9999 BKN130 QNH3017INS T00/0610Z T18/0620Z KNKX 0609/0709 VRB06KT 9999 BKN250 QNH30008INS BECMG 0618/0620 27007KT 9999 FEW100 SCT250 QNH3007INS T11/0613Z T21/0622Z KNLC 0607/0707 VRB06KT 8000 BR SCT150 BKN200 QNH3001INS BECMG 0610/0612 VRB06KT 1200 BR BKN004 OVC012 QNH2999INS TEMPO 0612/0616 VRB06KT 0400 FG VV001 FM061500 VRB06KT 3200 BR SCT008 BKN015 QNH2995INS FM061900 15009KT 8000 BR SCT150 BKN200 QNH2994INS AUTOMATED SENSOR METWATCH 0608 TIL 0615 T07/0613Z T19/0623Z FS30012 KNMM 0607/0707 15006KT 9999 FEW120 BKN250 QNH3006INS FM061500 22010KT 9999 VCSH BKN025 OVC080 QNH3002INS TEMPO 0617/0620 24012G18KT 6000 -SHRA BKN015 OVC060 FM062300 34006KT 9999 BKN015 OVC040 QNH3008INS TEMPO 0623/0705 SCT015 BKN050 AUTOMATED SENSOR METWATCH 0607 TIL 0611 T07/0612Z T17/0620Z FN00213 KNPA 0607/0707 VRB06KT 9999 FEW015 SCT140 BKN250 QNH3007INS FM061400 20010KT 9999 SCT020 BKN120 QNH3010INS FM061900 21012KT 9999 VCSH SCT020 BKN120 QNH3006INS FM070000 23008KT 9999 SCT025 BKN100 QNH3004INS TEMPO 0703/0707 BKN020 OVC060 AUTOMATED SENSOR METWATCH 0607 TIL 0610 T08/0608Z T21/0619Z FN00213 KNQI 0613/0707 VRB04KT 9000 BR OVC012 QNH3005INS BECMG 0616/0617 35010KT 9999 SCT025 BKN250 QNH3008INS FM061900 36012G18KT 9999 FEW035 SCT250 QNH3010INS FM070200 01008KT 9999 FEW020 FEW250 QNH3018INS T21/0613Z T27/0620Z 1303 FN20067 KNQX 0607/0707 04009KT 9999 FEW030 BKN250 QNH3010INS FM061200 07007KT 9999 FEW030 FEW250 QNH3008INS FM061500 03010KT 9999 FEW030 QNH3010INS FM070200 36010KT 9999 SKC QNH3014INS AUTOMATED SENSOR METWATCH 0607 TIL 0611 T18/0611Z T25/0619Z FN00216 KNRB 0607/0707 VRB03KT 9999 BKN250 QNH3015INS FM061500 14006KT 9999 FEW025 SCT150 SCT250 QNH3011INS FM061900 17008KT 9999 FEW035 BKN120 BKN250 QNH3012INS FM062300 32006KT 9999 SCT030 BKN120 BKN250 QNH3014INS FM070500 01006KT 9999 SCT030 BKN100 OVC250 QNH3018INS AUTOMATED SENSOR METWATCH 0607 TIL 0610 T12/0612Z T22/0620Z FN00216 KNSE 0607/0707 VRB06KT 9999 FEW015 SCT150 BKN250 QNH3008INS TEMPO 0608/0613 8000 BR BKN010 FM061500 20008KT 9999 SCT020 BKN120 BKN250 QNH3010INS FM062000 23010KT 9999 VCSH SCT020 BKN050 BKN120 QNH3005INS FM070100 25008KT 9999 SCT025 BKN100 QNH3003INS TEMPO 0703/0707 BKN020 OVC060 AUTOMATED SENSOR METWATCH 0607 TIL 0610 T06/0608Z T22/0620Z FN00213 KNTD 0607/0707 VRB05KT 9999 BKN260 QNH3005INS FM061200 06007KT 9999 SKC QNH3005INS TEMPO 0617/0619 09009KT FM061900 16012KT 9999 FEW025 SCT060 BKN260 QNH3008INS TEMPO 0701/0704 VRB06KT FM070400 08008KT 9999 SCT030 BKN060 OVC260 QNH3010INS AUTOMATED SENSOR METWATCH 0607 TIL 0614 T11/0612Z T18/0620Z FN00213 KNTU 0607/0707 VRB05KT 9999 SKC QNH3017INS FM061600 21012G20KT 9999 SCT050 BKN100 OVC200 QNH3015INS BECMG 0618/0620 21010G18KT 9999 BKN030 OVC090 QNH3014INS BECMG 0700/0702 24012KT 9999 VCSH FEW015 BKN030 OVC070 QNH3016INS TEMPO 0702/0705 30008KT 6000 SHRA BR BKN010 OVC030 T04/0610Z T12/0619Z FN00216 KNUW 0607/0707 VRB06KT 9999 SCT025 BKN060 OVC180 620709 QNH2997INS TEMPO 0607/0610 17008KT 8000 BR BKN025 BKN050 FM061000 17007KT 9999 SCT030 SCT060 BKN100 QNH2992INS FM061400 16010KT 9999 BKN100 OVC220 QNH2984INS FM062300 17012KT 9999 VCSH SCT050 BKN080 OVC220 QNH2977INS TEMPO 0701/0707 15012G20KT 8000 -SHRA BKN020 OVC050 T06/0613Z T10/0622Z FN00213 KNXP 0609/0709 VRB05KT 9999 SCT015 QNH3022INS AUTOMATED SENSOR METWATCH 0609 TIL 0709 T07/0615Z T17/0622Z KNYG 0609/0709 VRB06KT 9999 SKC QNH3010INS FM061800 VRB06KT 9999 SCT020 OVC060 QNH3000INS T00/0611Z T08/0619Z KNYL 0609/0709 01007KT 9999 SCT200 QNH3012INS BECMG 0622/0700 VRB05KT 9999 BKN150 QNH3010INS AUTOMATED SENSOR METWATCH 0609 TIL 0614 T12/0611Z T22/0622Z KNZY 0607/0707 VRB06KT 9999 SCT025 BKN250 QNH3005INS TEMPO 0609/0615 8000 BR SCT010 BKN025 FM062000 26009KT 9999 FEW020 SCT100 BKN200 QNH3007INS FM070200 VRB06KT 9999 VCSH SCT020 BKN090 OVC180 QNH3008INS T13/0612Z T19/0621Z FN00213 KOAJ 061125Z 0612/0712 00000KT P6SM SKC FM061400 21005KT P6SM SCT150 FM061700 22006KT P6SM BKN120 FM070000 VRB03KT P6SM OVC040 NOT SKED KOAK 061140Z 0612/0718 13006KT P6SM FEW006 BKN035 OVC250 FM061400 13012KT P6SM FEW007 BKN030 OVC200 FM061800 13014G25KT P6SM BKN024 OVC035 FM062200 14018G28KT 6SM BR VCSH OVC022 FM070200 15022G34KT 5SM -RA BR OVC020 WS020/16045KT FM071200 15020G32KT 6SM -SHRA BR BKN020 KOFF 061252Z 0612/0716 34012G18KT 9999 BKN015 620154 QNH3032INS BECMG 0613/0614 34009KT 9999 SCT015 QNH3032INS BECMG 0616/0617 34009KT 9999 FEW010 SCT200 QNH3041INS BECMG 0619/0620 VRB06KT 9999 SKC QNH3027INS BECMG 0714/0715 18011KT 9999 SKC QNH3023INS TX04/0621Z TNM04/0614Z KOFK 061127Z 0612/0712 36007KT P6SM OVC010 FM061700 14003KT P6SM SCT020 FM062000 17006KT P6SM FEW020 FM070500 19012KT P6SM SKC KOGB 061122Z 0612/0712 VRB03KT P6SM BKN100 FM061600 20007KT P6SM SCT050 BKN100 FM062200 VRB03KT P6SM SCT030 OVC070 KOGD 061327Z 0613/0712 16003KT 1SM BR SCT002 OVC040 TEMPO 0613/0616 1/2SM FG OVC002 FM061800 13003KT 4SM HZ BKN015 FM070200 16006KT 2SM BR OVC010 FM070500 17004KT 1SM BR OVC007 KOKC 061120Z 0612/0712 35020G28KT P6SM SCT025 SCT250 FM061500 36018G27KT P6SM BKN025 FM062000 01012KT P6SM SCT040 FM070000 03007KT P6SM BKN250 KOLF 061120Z 0612/0712 00000KT P6SM SCT070 FM062100 VRB04KT P6SM FEW025 SCT050 FM071100 VRB03KT P6SM BKN024 KOLM 061255Z 0613/0712 00000KT 3SM BR OVC004 TEMPO 0613/0617 1/2SM FG OVC001 FM062000 17003KT P6SM SCT010 OVC020 FM062300 18003KT 4SM -RA BR OVC015 FM070200 VRB03KT 2SM -RA BR OVC007 KOLS 061120Z 0612/0712 VRB03KT P6SM BKN250 FM062000 23006KT P6SM BKN250 FM070100 VRB03KT P6SM BKN250 KOMA 061317Z 0613/0712 35014KT P6SM SCT015 FM061500 01010KT P6SM OVC015 FM061900 02010KT P6SM SCT020 FM062300 15006KT P6SM FEW250 KONP 061133Z 0612/0712 09007KT P6SM SCT070 OVC180 FM061800 10007KT P6SM -RA OVC060 FM070100 09007KT 5SM -RA BR SCT025 OVC040 FM070900 09007KT 4SM -RA BR OVC025 KONT 061122Z 0612/0718 VRB06KT P6SM BKN250 FM070100 VRB04KT 5SM -RA BKN035 KOPF 061122Z 0612/0712 35005KT P6SM SCT250 FM061600 12006KT P6SM FEW035 SCT250 FM070000 VRB03KT P6SM SCT250 KORD 061121Z 0612/0718 35014G24KT P6SM SCT013 BKN020 TEMPO 0612/0613 SCT020 FM061800 01010KT P6SM SCT025 FM070000 VRB02KT P6SM FEW200 FM071500 20007KT P6SM SCT090 KORF 061120Z 0612/0712 20006KT P6SM SKC FM061700 22010KT P6SM BKN150 FM070100 27008KT P6SM BKN070 OVC120 FM070700 36013G20KT P6SM SCT060 KORH 061122Z 0612/0712 27010KT P6SM BKN100 FM061900 22007KT 3SM -SN OVC040 TEMPO 0619/0621 1SM -SN BR OVC015 FM062300 26007KT P6SM BKN025 FM070200 28009KT P6SM BKN150 FM070400 31010G18KT P6SM SCT150 KOTH 061151Z 0612/0712 13004KT P6SM FEW070 OVC180 FM061600 13007KT P6SM VCSH OVC060 WS020/18035KT FM061800 12005KT P6SM -RA BKN040 OVC060 WS020/18035KT FM070400 14005KT P6SM -RA SCT025 OVC035 KOTM 061137Z 0612/0712 35015KT P6SM BKN018 FM061600 36013KT P6SM SCT025 FM062100 35006KT P6SM FEW250 FM070000 VRB03KT P6SM FEW250 FM070900 17007KT P6SM SKC KOUN 061120Z 0612/0712 34018G27KT P6SM SCT025 SCT250 FM061500 36016G26KT P6SM BKN025 FM062000 01012KT P6SM SCT040 FM070000 03007KT P6SM BKN250 KOWB 061125Z 0612/0712 VRB03KT 6SM -SHRA OVC070 FM061700 VRB03KT P6SM VCSH OVC040 FM062100 36007KT P6SM BKN025 FM070200 02009KT P6SM BKN040 FM071000 04005KT P6SM SCT150 KOXR 061146Z 0612/0712 10005KT P6SM SKC FM062100 13008KT P6SM VCSH SCT025 BKN050 FM070200 09010KT P6SM -SHRA SCT022 OVC045 FM070600 08010KT 5SM -RA BR OVC020 KOZR 060800Z 0608/0714 VRB06KT 9999 FEW100 QNH3014INS BECMG 0615/0616 VRB06KT 9000 -SHRA FEW015 BKN025 QNH3014INS TEMPO 0620/0623 VRB12G18KT 6000 -TSRA BKN025CB BECMG 0700/0701 VRB06KT 9000 BR SCT015 BKN025 QNH3014INS TX20/0620Z TN05/0608Z KPAE 061126Z 0612/0712 05005KT P6SM SCT050 OVC070 TEMPO 0612/0616 1SM BR BKN001 FM061800 14006KT P6SM BKN050 OVC070 FM062000 14006KT P6SM OVC050 FM070100 16006KT P6SM -RA BKN020 OVC035 KPAH 061125Z 0612/0712 VRB03KT 6SM -SHRA OVC045 FM061500 VRB03KT 6SM -SHRA OVC020 FM061800 VRB03KT P6SM VCSH OVC021 FM062000 VRB04KT P6SM BKN035 FM062200 01009G15KT P6SM BKN021 FM070700 03006KT P6SM BKN040 KPAM 061100Z 0611/0717 12006KT 9999 SCT170 QNH3017INS BECMG 0617/0618 20009KT 9999 BKN020 QNH3011INS WND 15006KT AFT 0600 BECMG 0711/0712 09009KT 4800 -SHRA BKN005 QNH3013INS TX19/0620Z TN09/0611Z KPBF 061139Z 0612/0712 14005KT 6SM -SHRA BR SCT015 OVC025 TEMPO 0612/0616 3SM TSRA BR OVC015CB FM061600 08005KT 3SM -SHRA BR OVC025 FM062000 02009KT P6SM OVC035 FM070700 01007KT 5SM BR OVC025 KPBG 061133Z 0612/0712 VRB02KT P6SM -SN OVC045 FM061400 VRB03KT 3SM -SN BR OVC035 FM061600 VRB04KT 2SM -SN BR OVC028 FM062000 36005KT 5SM -SN BR OVC018 FM062300 34004KT P6SM VCSH BKN025 OVC040 FM070100 32003KT P6SM BKN035 OVC045 KPBI 061122Z 0612/0712 31005KT P6SM FEW250 FM061500 12008KT P6SM SCT250 FM070100 VRB03KT P6SM SCT250 KPDK 061130Z 0612/0712 VRB03KT P6SM BKN120 FM061400 15003KT P6SM SCT060 OVC100 FM061700 17003KT P6SM VCSH SCT060 BKN100 FM062100 17030KT P6SM -RA OVC060 FM070100 00000KT P6SM BKN035 KPDT 061120Z 0612/0712 10005KT P6SM BKN150 FM061900 VRB05KT 5SM BR SCT005 BKN150 FM062100 VRB05KT P6SM BKN150 FM070300 10004KT 5SM BR OVC060 FM070900 12004KT 5SM -RA BR OVC040 KPDX 061133Z 0612/0712 10005KT P6SM SCT150 OVC200 FM062000 10007KT P6SM SCT050 OVC080 FM070100 10007KT P6SM -RA OVC050 FM070800 10006KT P6SM -RA SCT025 OVC040 KPEQ 061120Z 0612/0712 34008KT P6SM SCT250 FM070200 12004KT P6SM SCT250 KPGA 061128Z 0612/0712 VRB05KT P6SM SCT045 BKN200 KPGD 061122Z 0612/0712 08004KT P6SM BKN250 FM062000 27007KT P6SM FEW250 FM070000 VRB04KT P6SM SKC KPGV 061125Z 0612/0712 00000KT P6SM SKC TEMPO 0612/0613 5SM BR FM061400 21004KT P6SM SCT150 FM061600 23007KT P6SM BKN120 FM070000 VRB03KT P6SM OVC040 LTD TO CLD VIS AND WIND KPHF 061120Z 0612/0712 20005KT P6SM SKC FM061600 22010KT P6SM BKN150 FM070100 27008KT P6SM BKN060 OVC100 FM070600 35011KT P6SM SCT080 KPHL 061120Z 0612/0718 24006KT P6SM BKN150 FM061400 21008KT P6SM OVC120 FM061700 23011G19KT P6SM BKN090 FM062200 26011KT P6SM BKN060 FM070200 30010KT P6SM SCT060 FM070700 33008KT P6SM SCT250 KPHX 061120Z 0612/0718 12004KT P6SM BKN200 FM070000 28004KT P6SM BKN200 FM070600 11004KT P6SM SCT200 KPIA 061135Z 0612/0712 36013G22KT P6SM OVC012 FM061500 01012G25KT P6SM BKN020 FM061800 01010KT P6SM BKN040 FM062300 03003KT P6SM FEW250 KPIB 061133Z 0612/0712 18003KT P6SM VCSH BKN030 OVC100 FM061500 17007KT 6SM SHRA BR VCTS BKN015 OVC025CB FM061900 19006KT P6SM VCSH BKN025 BKN050 FM070000 35004KT 4SM BR BKN007 OVC015 KPIE 061122Z 0612/0712 09004KT P6SM BKN250 FM062000 26007KT P6SM FEW250 FM070000 VRB03KT P6SM SKC KPIH 061120Z 0612/0712 VRB05KT 6SM BR OVC030 FM061900 10008KT P6SM OVC040 FM070500 18005KT P6SM OVC015 KPIR 061120Z 0612/0712 16009KT P6SM OVC010 FM061500 17006KT P6SM BKN035 FM070600 VRB03KT 4SM BR BKN030 KPIT 061132Z 0612/0718 21006KT P6SM OVC080 WS020/25035KT FM061900 27010G20KT P6SM OVC025 FM070100 33008KT P6SM SCT025 FM071500 VRB04KT P6SM SCT100 KPKB 061122Z 0612/0712 20005KT P6SM OVC090 FM061400 22006KT P6SM OVC070 WS009/24030KT FM061800 26007KT 5SM -SHRA BR OVC015 FM062200 31007KT P6SM BKN045 FM070100 35005KT P6SM SCT120 KPLN 061221Z 0612/0712 30007KT P6SM VCSH OVC022 TEMPO 0612/0614 1 1/2SM -SHSN OVC020 FM061400 31012G21KT P6SM VCSH OVC025 FM062100 32013G25KT P6SM OVC040 FM070100 31009KT P6SM OVC040 FM070600 27005KT P6SM BKN035 FM070700 VRB04KT P6SM OVC035 FM071000 23005KT P6SM OVC030 KPMD 061146Z 0612/0712 VRB03KT P6SM BKN035 FM062100 08008KT P6SM BKN035 FM062300 19008KT P6SM SCT035 BKN060 FM070600 24005KT P6SM -SHRA SCT025 OVC050 KPNA 061134Z 0612/0712 VRB03KT P6SM BKN030 TEMPO 0612/0616 1/4SM FZFG VV003 FM061600 VRB03KT P6SM BKN030 OVC060 FM061900 VRB05KT P6SM BKN200 LTD TO CLD VIS AND WIND KPNC 061120Z 0612/0712 36020G29KT P6SM SCT015 FM061300 01016G25KT P6SM OVC015 FM062000 02010KT P6SM SCT030 FM070000 07005KT P6SM BKN250 KPNE 061120Z 0612/0712 22008KT P6SM BKN120 FM061700 22010G18KT P6SM BKN080 FM062100 25008KT P6SM BKN060 FM070200 31010KT P6SM SCT060 KPNS 061137Z 0612/0712 00000KT P6SM SCT050 SCT150 BKN250 FM061800 17008KT P6SM SHRA BKN030 FM070100 14003KT P6SM VCSH OVC025 FM070800 35004KT 4SM BR OVC007 KPOB 061000Z 0610/0716 VRB06KT 9999 SKC QNH3019INS BECMG 0615/0616 20009KT 9999 BKN050 OVC150 620703 QNH3014INS BECMG 0621/0622 22006KT 9999 VCSH BKN035 OVC100 620703 QNH3014INS BECMG 0700/0701 35006KT 9999 NSW SCT040 OVC100 QNH3018INS TX10/0619Z TNM02/0610Z KPOE 061120Z 0611/0714 17006KT 3200 BR OVC003 510104 QNH3000INS BECMG 0614/0615 27009KT 9999 NSW OVC008 510104 QNH3008INS BECMG 0616/0617 31010G15KT 9999 SCT015 QNH3007INS BECMG 0702/0703 35009KT 9999 SCT009 OVC015 QNH3020INS BECMG 0705/0706 02010G15KT 9999 OVC009 QNH3023INS BECMG 0713/0714 02010G15KT 9999 BKN010 OVC015 QNH3029INS TX21/0620Z TN12/0708Z KPOU 061133Z 0612/0712 VRB03KT P6SM BKN100 FM061500 21005KT P6SM OVC100 FM061800 21008KT P6SM OVC050 FM070000 30010KT P6SM OVC050 FM070300 31004KT P6SM SKC KPQI 061120Z 0612/0712 27007KT P6SM SCT025 TEMPO 0612/0614 BKN025 FM061400 27010G18KT P6SM BKN035 FM062200 27007KT P6SM SCT035 KPRB 061146Z 0612/0712 11005KT P6SM SCT025 FM061500 14006KT P6SM SCT025 OVC050 FM061800 18008KT P6SM VCSH SCT022 BKN045 FM070000 20015G25KT P6SM -SHRA SCT020 OVC040 FM070400 14010KT 6SM -RA BR OVC020 KPRC 061128Z 0612/0712 VRB06KT P6SM BKN200 KPSC 061324Z 0613/0712 35003KT 6SM BR OVC002 TEMPO 0614/0616 2SM BR SCT002 BKN150 FM061600 VRB03KT 4SM BR OVC007 FM062100 VRB03KT 6SM HZ BKN015 OVC150 FM070300 VRB02KT P6SM OVC050 FM070900 VRB02KT 6SM -RA BR OVC040 KPSF 061133Z 0612/0712 27006KT P6SM BKN050 FM061500 17005KT P6SM VCSH OVC025 FM061700 20007KT 1SM -SN OVC008 TEMPO 0617/0621 1/2SM SN OVC003 FM070100 28010G17KT P6SM BKN015 FM070200 31010KT P6SM OVC025 FM070500 33005KT P6SM OVC050 KPSM 061120Z 0612/0712 24005KT P6SM FEW040 FM061600 27007KT P6SM BKN050 OVC070 FM061900 28004KT 4SM -SN BR OVC004 FM062000 31006KT 1 1/2SM BR OVC004 FM070500 31009KT P6SM FEW250 KPSP 061122Z 0612/0712 VRB06KT P6SM SKC KPTK 061128Z 0612/0712 30013KT P6SM OVC025 TEMPO 0612/0616 OVC015 FM061600 33015G25KT P6SM BKN025 OVC040 FM062200 33013KT P6SM SCT025 BKN040 FM070700 28005KT P6SM SCT035 BKN250 KPUB 061138Z 0612/0712 VRB06KT P6SM FEW025 SCT250 FM061600 13008KT P6SM FEW150 SCT250 FM070100 VRB06KT P6SM FEW250 FM070600 25006KT P6SM SKC KPUW 061131Z 0612/0712 11008KT P6SM BKN250 FM062200 11011KT P6SM SCT100 BKN150 FM070600 10007KT P6SM OVC100 FM070900 10006KT P6SM OVC050 KPVD 061122Z 0612/0712 27005KT P6SM BKN250 FM061900 22007KT P6SM VCSH OVC050 FM062100 22008KT 6SM -SNRA OVC040 FM070000 26008KT P6SM OVC060 FM070300 29010G18KT P6SM FEW200 KPVU 061125Z 0612/0712 VRB02KT 2SM BR SCT008 BKN050 FM061600 14003KT 5SM HZ SCT015 BKN100 FM070200 VRB04KT 3SM HZ SCT008 BKN070 KPVW 061120Z 0612/0712 34011KT P6SM SKC FM061600 01010KT P6SM FEW250 FM061800 VRB06KT P6SM SKC KPWM 061120Z 0612/0712 23004KT P6SM SKC FM061600 25006KT P6SM BKN040 OVC070 FM062100 22005KT 4SM -SN HZ OVC015 FM062300 33006KT 1 1/2SM BR OVC007 FM070600 33007KT P6SM SKC KPWT 061126Z 0612/0712 05004KT P6SM OVC070 FM061500 VRB03KT P6SM OVC070 TEMPO 0615/0617 3SM BR OVC005 FM061900 18005KT P6SM BKN020 OVC050 FM062300 19005KT 4SM -RA OVC010 KQD3 061215Z 0612/0718 06010G15KT 9999 FEW040 QNH2986INS BECMG 0615/0616 06010G15KT 9999 SKC QNH2991INS BECMG 0621/0622 VRB06KT 9999 SCT020 QNH2988INS BECMG 0708/0709 06010G15KT 9999 FEW040 SCT080 QNH2984INS TX31/0711Z TN23/0703Z KQN3 060856Z 0609/0715 VRB06KT 9999 SKC QNH2979INS TEMPO 0609/0613 08010G15KT 6000 HZ BECMG 0616/0617 VRB06KT 9000 HZ FEW250 QNH2981INS TEMPO 0618/0621 6000 HZ TEMPO 0706/0709 5000 HZ TX35/0615Z TN19/0705Z KQRH 061105Z 0611/0717 08009KT 9999 FEW050 QNH2989INS BECMG 0616/0617 VRB06KT 9999 SCT050 QNH2984INS BECMG 0710/0711 06009KT 9999 SCT080 QNH2992INS WND VRB06KT AFT 0716 TX32/0710Z TN18/0703Z KRAP 061122Z 0612/0712 17010KT P6SM SCT008 BKN080 FM061400 15010KT P6SM SCT100 FM062200 VRB05KT P6SM SCT200 KRBG 061151Z 0612/0712 00000KT 1/2SM FG VV002 FM061500 VRB02KT 2SM BR BKN003 BKN070 OVC200 FM061700 VRB02KT P6SM FEW060 BKN080 OVC120 WS020/17030KT FM062100 VRB03KT P6SM -RA OVC060 FM070300 18007KT P6SM -RA BKN035 OVC050 WS020/17035KT KRBL 061141Z 0612/0712 00000KT P6SM SCT040 OVC070 FM061800 18008G15KT P6SM -RA FEW025 OVC050 FM062200 17012G20KT 5SM -RA BR OVC015 FM070300 14018G28KT 4SM RA BR SCT007 OVC015 FM070600 16020G40KT 2SM -RA BR BKN007 OVC015 KRCA 061101Z 0611/0717 16006KT 9999 BKN040 620402 520001 QNH3014INS BECMG 0613/0614 16006KT 9999 SCT030 QNH3010INS TX01/0617Z TNM04/0708Z KRDD 061141Z 0612/0712 02004KT P6SM BKN040 OVC050 FM061800 19008KT P6SM -RA FEW015 OVC050 FM062200 18012G20KT 4SM -RA BR OVC015 FM070300 15018G28KT 1SM RA BR FEW007 OVC015 FM070700 16022G30KT 3SM -RA BKN007 OVC015 KRDG 061120Z 0612/0712 19004KT P6SM BKN120 FM061700 22007KT P6SM BKN080 FM062100 25008KT P6SM BKN050 FM070100 30010KT P6SM SCT050 KRDM 061120Z 0612/0712 16009KT P6SM SCT150 BKN200 FM070300 18008KT P6SM -RA OVC050 FM070900 17007KT 5SM -RA BR OVC025 KRDR 061000Z 0610/0716 VRB06KT 9999 SCT020 QNH3031INS BECMG 0612/0613 VRB06KT 9999 FEW020 SCT150 QNH3022INS BECMG 0619/0620 19009KT 9999 OVC010 620109 QNH3013INS BECMG 0623/0624 20009KT 9999 OVC007 620076 QNH2998INS TEMPO 0708/0712 VRB06KT 0600 FZFG 620007 TX01/0704Z TNM18/0612Z KRDU 061132Z 0612/0712 22005KT P6SM BKN150 FM061700 23008KT P6SM OVC090 FM070000 VRB04KT P6SM OVC050 FM071000 05005KT P6SM SCT060 KRFD 061121Z 0612/0712 36014G23KT P6SM SCT013 BKN020 TEMPO 0612/0613 SCT020 FM061500 36012G18KT P6SM BKN020 FM061700 35010KT P6SM SCT025 FM062300 VRB02KT P6SM SKC KRHI 061127Z 0612/0712 31007G13KT P6SM OVC025 FM062000 29005KT P6SM SCT025 FM062200 25003KT P6SM SCT120 BKN250 FM070600 22004KT 6SM -SHSN BKN030 FM071000 21004KT P6SM BKN050 KRIC 061120Z 0612/0712 20004KT P6SM SCT150 FM061500 21010KT P6SM BKN150 FM062000 28012KT P6SM BKN060 FM070400 34007KT P6SM SCT080 KRIL 061129Z 0612/0712 00000KT 6SM BR SCT005 OVC015 FM061400 00000KT P6SM FEW050 SCT120 FM070600 00000KT P6SM FEW100 FEW250 KRIV 061201Z 0612/0718 12004KT 9999 BKN200 QNH3012INS BECMG 0617/0618 14009KT 9999 FEW020 BKN200 QNH3012INS WND 100V180 BECMG 0620/0621 17009KT 9999 SCT030 SCT080 BKN200 QNH3010INS TEMPO 0621/0701 20010G15KT WND 150V250 BECMG 0700/0701 14009KT 9999 VCSH BKN040 OVC100 620903 540607 QNH3014INS TEMPO 0706/0712 8000 -RA BR BKN025 OVC050 BECMG 0711/0712 16009KT 9000 -RA BR BKN025 OVC050 620903 540508 QNH3014INS TEMPO 0714/0718 6000 -RA BR BKN020 OVC040 TX18/0622Z TN07/0614Z KRIW 061134Z 0612/0712 VRB05KT P6SM FEW200 FM071000 VRB04KT P6SM SCT150 KRKD 061120Z 0612/0712 25007KT P6SM SKC FM061800 26007KT P6SM OVC100 FM062100 24005KT P6SM OVC050 FM070000 00000KT P6SM OVC015 TEMPO 0700/0704 2SM -SN OVC012 FM070600 34005KT P6SM OVC025 FM070900 33004KT P6SM SKC LTD TO CLD VIS AND WIND KRKS 061134Z 0612/0712 24008KT P6SM BKN009 OVC030 FM061600 25008KT P6SM SCT030 BKN100 FM062000 23007KT P6SM BKN150 KRME 061327Z 0613/0712 11004KT 4SM -SN BR OVC035 TEMPO 0614/0617 1SM -SN BR OVC015 FM061700 16006KT 2SM -SN BR OVC008 TEMPO 0617/0621 1SM -SN BR OVC005 FM062200 32005KT 5SM BR OVC025 KRNH 061123Z 0612/0712 32009KT P6SM SCT015 FM061800 24004KT P6SM SCT022 SCT250 FM070000 18003KT P6SM OVC070 KRNO 061132Z 0612/0712 VRB03KT P6SM VCFG OVC010 FM061900 14007KT P6SM FEW030 BKN180 FM070000 18012G22KT P6SM SCT060 BKN100 KROA 061141Z 0612/0712 30006KT P6SM OVC120 FM061900 28006KT 6SM -SHRA OVC040 FM070400 30005KT P6SM BKN035 FM070800 33004KT P6SM BKN050 KROC 061120Z 0612/0712 17006KT 6SM -SN OVC050 FM061300 22008KT 1 1/2SM -SN OVC025 FM061700 32010KT 4SM -SHSN OVC007 FM062000 32012KT P6SM VCSH BKN012 FM070300 28010KT P6SM VCSH BKN025 KROG 061130Z 0612/0712 36005KT P6SM BKN050 FM061500 36012KT P6SM SCT025 TEMPO 0617/0621 BKN025 FM070000 04005KT P6SM SCT035 KROW 061120Z 0612/0712 VRB05KT P6SM SCT250 KRSL 061137Z 0612/0712 36015G22KT P6SM OVC015 FM061600 36010KT P6SM BKN025 FM061700 01009KT P6SM SCT250 FM062000 VRB04KT P6SM SKC FM070300 16006KT P6SM SKC FM071000 20008KT P6SM SKC KRST 061130Z 0612/0712 34013KT P6SM SCT020 TEMPO 0612/0613 BKN020 FM061500 32006KT P6SM FEW025 FM070200 19007KT P6SM BKN080 KRSW 061122Z 0612/0712 07003KT P6SM BKN250 FM062100 27007KT P6SM FEW250 FM070000 VRB03KT P6SM SKC KRUT 061312Z 0613/0712 23004KT P6SM -SN OVC035 FM061330 20004KT 4SM -SN BR OVC029 FM061430 19003KT 1 1/2SM -SN BR OVC025 FM061700 VRB03KT 3/4SM -SN BR SCT008 OVC015 FM062100 VRB03KT 2SM -SN BR OVC012 FM070000 31005KT P6SM BKN015 OVC025 KRVS 061130Z 0612/0712 35012G20KT P6SM SCT050 TEMPO 0614/0618 BKN025 FM062100 01010KT P6SM SCT035 FM070000 01005KT P6SM SCT250 KRWF 061123Z 0612/0712 31007KT P6SM SCT015 FM061800 21006KT P6SM SCT015 SCT200 FM070000 16008KT P6SM SCT110 KRWI 061132Z 0612/0712 00000KT P6SM SKC FM061300 VRB04KT P6SM OVC130 FM061800 22008KT P6SM OVC080 FM062300 22005KT P6SM OVC050 FM071000 01004KT P6SM BKN050 KRWL 061329Z 0613/0712 25018KT P6SM BKN008 FM061500 24012G22KT P6SM SCT200 KRYY 061130Z 0612/0712 VRB03KT P6SM BKN120 FM061400 VRB03KT P6SM SCT060 OVC100 FM061600 19004KT P6SM VCSH SCT060 BKN100 FM062000 19005KT P6SM -RA OVC060 FM070100 VRB03KT P6SM OVC035 KSAC 061141Z 0612/0712 00000KT P6SM BKN050 FM061700 16010KT P6SM OVC050 FM062300 16012G18KT P6SM OVC050 FM070300 15017G23KT 6SM -RA FEW025 OVC050 FM070600 16020G30KT 4SM -RA BKN025 OVC050 KSAF 061120Z 0612/0712 01008KT P6SM SCT250 FM062100 31006KT P6SM BKN250 FM070200 36008KT P6SM SCT250 KSAN 061122Z 0612/0718 VRB04KT P6SM BKN250 FM062100 29007KT P6SM OVC100 FM070200 VRB04KT P6SM VCSH OVC050 KSAT 061139Z 0612/0718 32005KT P6SM SCT250 FM061400 35012G22KT P6SM FEW250 FM062300 36008KT P6SM FEW250 FM070300 02006KT P6SM SKC KSAV 061128Z 0612/0712 VRB03KT P6SM SCT045 BKN120 FM061600 VRB05KT P6SM BKN040 FM062100 VRB03KT P6SM BKN130 KSAW 061121Z 0612/0712 32011G23KT P6SM -SHSN BKN020 FM061400 32012G22KT P6SM BKN022 FM062000 32009KT P6SM BKN027 FM062200 29005KT P6SM SCT027 FM070400 VRB04KT P6SM BKN090 FM070900 22006KT P6SM VCSH OVC045 KSBA 061146Z 0612/0712 VRB03KT P6SM SKC FM062000 14008KT P6SM VCSH SCT025 BKN050 FM070000 12012KT P6SM -SHRA SCT022 OVC045 FM070500 10012KT 5SM -RA BR OVC020 FM071100 10008KT 4SM -RA BR OVC015 KSBD 061122Z 0612/0712 VRB06KT P6SM BKN250 FM070200 VRB04KT 5SM -RA BKN035 KSBN 061123Z 0612/0712 34014G22KT P6SM OVC015 FM061600 35012G20KT P6SM SCT020 FM062300 35004KT P6SM SKC KSBP 061146Z 0612/0712 VRB03KT P6SM BKN021 FM061600 14006KT P6SM SCT025 OVC050 FM061800 15012KT P6SM VCSH SCT025 BKN050 FM062200 19015KT P6SM -SHRA SCT020 OVC040 FM070200 14015G22KT 5SM -RA BR OVC020 FM071000 14008KT 4SM -RA BR OVC015 KSBY 061120Z 0612/0712 20005KT P6SM SKC FM061600 21012G18KT P6SM BKN150 FM062200 26010KT P6SM BKN060 FM070600 34011KT P6SM SCT070 KSCK 061141Z 0612/0712 12003KT 6SM BR OVC100 TEMPO 0613/0616 4SM BR FM061800 14011KT P6SM OVC100 FM062200 14013G22KT P6SM VCSH FEW050 OVC100 FM070400 14017G25KT 6SM -RA BR FEW025 OVC050 FM070600 14025G35KT 4SM -RA BR SCT025 OVC050 KSDF 061120Z 0612/0718 20006KT P6SM -RA OVC050 FM061700 26005KT 6SM -RA OVC035 FM062000 35008KT 6SM -RA OVC027 TEMPO 0620/0623 BKN017 FM070000 36009KT P6SM BKN035 FM070400 03006KT P6SM SKC KSDL 061120Z 0612/0712 VRB03KT P6SM BKN200 KSDY 061120Z 0612/0712 VRB06KT P6SM SCT050 FM061500 VRB06KT P6SM FEW025 BKN050 FM070600 VRB06KT P6SM BKN028 KSEA 061126Z 0612/0718 03005KT P6SM BKN080 FM061800 08005KT P6SM BKN050 OVC080 FM070000 13005KT P6SM OVC050 FM070200 13006KT P6SM -RA OVC050 FM070600 10005KT P6SM -RA OVC020 KSEZ 061128Z 0612/0712 05010KT P6SM BKN200 KSFB 061128Z 0612/0712 VRB02KT P6SM BKN250 FM061600 19006KT P6SM FEW040 SCT250 FM062000 23006KT P6SM SCT040 BKN250 FM070000 27005KT P6SM SCT250 KSFF 061131Z 0612/0712 00000KT 1/4SM FG VV002 FM061500 VRB02KT 1/2SM FG SCT003 BKN200 FM061900 VRB04KT P6SM SCT150 OVC200 FM070400 15004KT P6SM OVC050 FM070900 13004KT 6SM -RA BR OVC030 KSFO 061140Z 0612/0718 12006KT P6SM BKN030 BKN050 WS020/16030KT FM061500 13009G16KT P6SM BKN025 OVC050 WS020/16035KT FM061800 14014G24KT 6SM BR BKN030 OVC035 WS020/16040KT FM062200 15018G30KT 6SM BR VCSH OVC025 WS020/16040KT FM070200 16020G35KT 5SM -RA BR OVC022 WS020/16050KT FM071200 16018G32KT 6SM -SHRA BR BKN025 KSGF 061135Z 0612/0712 35006KT P6SM OVC150 FM061600 01010KT P6SM BKN120 FM070000 01006KT P6SM SKC FM071100 00000KT P6SM SKC KSGJ 061120Z 0612/0712 VRB05KT P6SM SKC FM061800 11007KT P6SM FEW250 FM070000 VRB03KT P6SM SKC KSGR 061304Z 0613/0712 27007KT 5SM BR BKN003 OVC013 FM061400 28007KT P6SM BKN020 FM061500 30010G18KT P6SM SCT250 FM061900 33012KT P6SM SKC FM070900 36007KT P6SM SCT040 KSGU 061125Z 0612/0712 15006KT P6SM SCT070 SCT120 FM070200 VRB05KT P6SM SCT050 SCT100 KSHR 061120Z 0612/0712 VRB04KT P6SM FEW120 KSHV 061153Z 0612/0712 19008KT P6SM OVC015 TEMPO 0613/0615 27006KT SCT020 FM061500 29008KT P6SM BKN025 FM061800 35007KT P6SM OVC030 FM062100 02010KT P6SM BKN035 FM070000 05006KT P6SM OVC050 KSJC 061140Z 0612/0712 14007KT P6SM FEW030 OVC150 FM061600 15010G17KT P6SM SCT030 OVC150 FM061800 15015G25KT P6SM FEW008 BKN035 OVC150 FM070000 16020G30KT P6SM VCSH FEW007 BKN035 OVC100 FM070300 16022G32KT P6SM -RA FEW007 BKN030 OVC050 FM070900 15018G28KT P6SM -SHRA FEW007 BKN030 BKN050 KSJS 061122Z 0612/0712 VRB04KT P6SM OVC100 FM061400 VRB04KT P6SM -RA SCT040 OVC060 FM062100 VRB03KT P6SM OVC040 FM070300 36006KT P6SM OVC015 KSJT 061120Z 0612/0712 35010KT P6SM SKC FM070100 03006KT P6SM SKC KSKA 061100Z 0611/0717 08006KT 4800 BR FEW002 QNH3003INS BECMG 0617/0619 11006KT 9999 NSW SCT006 BKN060 QNH2987INS BECMG 0709/0710 21006KT 8000 -RA BKN005 OVC020 620354 QNH2979INS TX03/0621Z TNM02/0611Z KSKF 061000Z 0610/0716 VRB06KT 8000 BR FEW250 QNH3000INS BECMG 0614/0615 35012G18KT 9999 NSW SKC QNH3002INS BECMG 0623/0624 35008KT 9999 SCT250 QNH3014INS BECMG 0714/0715 01006KT 9000 BR BKN014 QNH3020INS TX22/0620Z TN13/0610Z KSLC 061125Z 0612/0718 30003KT 2SM BR OVC005 FM061400 14003KT 1SM BR OVC004 FM061800 14003KT 3SM BR OVC008 FM062000 22005KT 4SM HZ SCT006 OVC020 FM070300 15006KT 3SM BR BKN010 OVC030 KSLE 061133Z 0612/0712 00000KT 3SM BR OVC200 FM061500 00000KT 1 1/2SM BR OVC004 FM061800 01003KT 2SM BR OVC090 FM062100 01003KT P6SM -RA OVC060 FM070600 VRB02KT 4SM -RA BR BKN020 OVC040 KSLI 061300Z 0613/0719 VRB06KT 9999 SCT050 QNH3009INS BECMG 0623/0624 VRB06KT 9999 BKN050 QNH3011INS TEMPO 0704/0719 8000 -RA OVC040 TX20/0621Z TN13/0613Z KSLK 061133Z 0612/0712 20004KT 1 1/2SM -SN BR OVC023 FM061500 VRB03KT 1SM -SN BR OVC018 FM062000 VRB03KT 2SM -SN BR SCT009 OVC015 FM062200 VRB03KT 3SM -SN BR OVC018 FM070100 VRB02KT P6SM VCSH OVC015 KSLN 061137Z 0612/0712 36018G25KT P6SM OVC015 FM061600 36011KT P6SM BKN025 FM061700 36011KT P6SM SCT250 FM062000 02007KT P6SM SKC FM070000 VRB05KT P6SM SKC KSME 061122Z 0612/0712 VRB03KT P6SM VCSH SCT050 OVC080 FM061800 VRB03KT P6SM SCT040 OVC060 FM070300 VRB03KT P6SM OVC018 KSMF 061141Z 0612/0712 11006KT P6SM OVC060 FM061700 15009KT P6SM OVC050 FM062300 17014G20KT P6SM OVC050 FM070300 16018G24KT P6SM -RA OVC050 FM070600 16025G40KT 4SM -RA BKN025 OVC050 FM070900 17020G35KT 4SM -RA OVC025 KSMN 061120Z 0612/0712 00000KT P6SM BKN070 KSMO 061146Z 0612/0712 VRB03KT P6SM SKC FM062000 20008KT P6SM SCT035 BKN070 FM070300 08005KT P6SM VCSH SCT025 BKN050 FM070600 VRB03KT P6SM -SHRA SCT022 OVC045 KSMX 061146Z 0612/0712 VRB03KT 4SM BR SKC FM061600 15006KT P6SM BKN050 FM061900 16010G20KT P6SM VCSH SCT022 BKN045 FM062200 19015G25KT P6SM -SHRA SCT020 OVC040 FM070300 16012G22KT 5SM -RA BR OVC020 FM071100 14008KT 4SM -RA BR OVC015 KSNA 061122Z 0612/0712 VRB05KT P6SM OVC200 FM070100 VRB04KT P6SM -RA BKN035 KSNS 061140Z 0612/0712 13013G20KT P6SM FEW040 OVC200 FM061700 13022G30KT P6SM SCT035 BKN050 BKN150 FM062000 15024G34KT P6SM FEW035 SCT050 BKN100 FM070400 13025G34KT P6SM -SHRA BKN040 OVC070 KSNY 061203Z 0612/0712 18007KT 1SM BR OVC002 FM061700 23012KT P6SM SKC KSOA 061120Z 0612/0712 01007KT P6SM SKC FM061500 01010KT P6SM SKC FM070100 VRB03KT P6SM SKC KSPI 061135Z 0612/0712 35010KT P6SM OVC080 FM061230 36012G24KT P6SM OVC012 FM061600 01013G26KT P6SM BKN020 FM061900 01012G23KT P6SM BKN035 FM062300 01006KT P6SM FEW250 KSPS 061120Z 0612/0712 35018G28KT P6SM SCT250 FM062100 36014KT P6SM SCT040 SCT250 FM070000 03007KT P6SM BKN250 KSRQ 061122Z 0612/0712 09004KT P6SM BKN250 FM061800 21007KT P6SM SCT250 FM062100 27008KT P6SM FEW250 FM070000 VRB03KT P6SM SKC KSSC 060800Z 0608/0714 18006KT 9999 BKN150 QNH3019INS BECMG 0614/0615 VRB06KT 9999 BKN110 QNH3022INS BECMG 0618/0619 VRB06KT 9999 BKN040 QNH3018INS TEMPO 0619/0622 9000 -SHRA OVC030 BECMG 0701/0702 VRB06KT 9999 BKN120 QNH3016INS TX17/0620Z TN01/0610Z KSSF 061139Z 0612/0712 00000KT 5SM BR FEW250 FM061300 32006KT P6SM FEW250 FM061500 35010G20KT P6SM FEW250 FM062300 36008KT P6SM FEW250 FM070300 02006KT P6SM SKC KSSI 061120Z 0612/0712 VRB03KT P6SM FEW250 FM061800 15008KT P6SM FEW040 BKN200 FM070000 VRB04KT P6SM BKN250 KSTC 061123Z 0612/0712 31010KT P6SM SCT015 FM061700 29005KT P6SM SCT020 BKN250 FM062300 15005KT P6SM OVC050 KSTJ 061120Z 0612/0712 01014G25KT P6SM BKN015 FM061600 02009KT P6SM SCT200 FM070000 VRB05KT P6SM SCT250 FM070900 19006KT P6SM SKC KSTL 061132Z 0612/0718 33007KT P6SM SCT020 BKN090 FM061400 36016G26KT P6SM BKN020 FM061900 01013G23KT P6SM SCT025 FM070000 03006KT P6SM SKC FM070600 VRB04KT P6SM SKC KSTS 061140Z 0612/0712 11005KT 6SM BR VCSH FEW007 OVC025 WS020/15030KT FM061800 12012G22KT 6SM BR VCSH OVC020 WS020/16040KT FM062000 14015G27KT 5SM -RA BR OVC022 WS020/16045KT FM062300 16018G34KT 5SM -RA BR OVC025 WS020/16045KT FM070100 16018G32KT 3SM RA BR OVC015 WS020/16050KT FM070800 16015G25KT 5SM SHRA BR BKN020 OVC030 WS020/16040KT KSUA 061128Z 0612/0712 VRB03KT P6SM SCT050 BKN250 FM061600 12008KT P6SM SCT250 FM062300 VRB04KT P6SM SCT040 BKN250 KSUN 061120Z 0612/0718 32010KT P6SM OVC012 FM070500 31008KT P6SM OVC060 FM070900 30006KT P6SM VCSH OVC030 FM071300 30006KT 4SM -SN OVC015 LTD TO CLD VIS AND WIND TIL 061300 KSUS 061132Z 0612/0712 33007KT P6SM SCT020 BKN090 FM061400 36016G26KT P6SM BKN020 FM061900 01013G23KT P6SM SCT025 FM070000 03005KT P6SM SKC FM070600 VRB03KT P6SM SKC KSUU 061300Z 0613/0717 14009KT 3000 BR BKN010 OVC040 QNH3003INS TEMPO 0613/0616 0400 FG VV002 BECMG 0617/0618 14010G15KT 9000 BR BKN020 OVC050 QNH3000INS BECMG 0620/0621 14015G25KT 9999 NSW BKN010 QNH2997INS BECMG 0702/0703 14020G30KT 6000 -SHRA BKN007 OVC010 QNH2998INS BECMG 0709/0710 14012G18KT 9999 NSW BKN005 OVC010 QNH2998INS TX17/0623Z TN12/0613Z KSUX 061120Z 0612/0712 35007KT P6SM BKN018 FM061700 VRB03KT P6SM SCT020 FM070100 16007KT P6SM SKC KSVN 061300Z 0613/0719 04006KT 9999 SCT050 BKN100 QNH3016INS BECMG 0619/0620 04009KT 9999 BKN050 OVC100 QNH3016INS TX12/0619Z TN06/0710Z KSWF 061142Z 0612/0718 24006KT P6SM FEW040 BKN120 FM061500 24008KT P6SM BKN050 TEMPO 0615/0618 -SN OVC040 FM061900 25010G18KT P6SM OVC040 TEMPO 0619/0622 -SHRASN OVC030 FM062200 29012G20KT P6SM SCT040 FM070300 30009KT P6SM SKC NOT SKED KSYM 061122Z 0612/0712 20004KT P6SM OVC070 FM061300 22005KT P6SM -RA OVC050 FM062200 VRB04KT P6SM VCSH OVC028 FM070200 01006KT P6SM BKN030 FM070300 02006KT P6SM BKN040 KSYR 061327Z 0613/0712 16005KT 3SM -SN BR OVC035 TEMPO 0614/0618 1SM -SN BR OVC015 FM061800 30010KT 3SM -SN BR OVC015 TEMPO 0619/0621 2SM -SN BR OVC008 FM062200 32005KT 6SM BR OVC025 FM070200 00000KT 5SM -SHSN BR BKN015 TEMPO 0704/0708 1SM -SHSN BKN009 KSZL 061306Z 0613/0717 01012G18KT 9999 BKN015 QNH3018INS BECMG 0616/0617 04012KT 9999 SCT020 QNH3018INS BECMG 0621/0622 05009KT 9999 FEW030 QNH3016INS TX06/0621Z TNM02/0706Z KTCC 061120Z 0612/0712 VRB04KT P6SM FEW250 FM061800 21007KT P6SM BKN250 FM070300 23005KT P6SM SCT250 KTCL 061136Z 0612/0712 15003KT P6SM -RA OVC120 FM061500 17006KT 6SM -RA OVC060 FM061700 15004KT 4SM -RA BR OVC040 FM062200 14003KT P6SM VCSH OVC020 FM070400 VRB02KT 5SM BR OVC007 KTCM 061301Z 0613/0719 VRB06KT 1600 BR OVC002 620709 QNH2991INS TEMPO 0613/0618 0400 FG VV001 BECMG 0617/0618 VRB06KT 4800 BR SCT010 BKN040 620609 QNH2984INS TEMPO 0618/0624 3200 BR BKN010 OVC040 BECMG 0623/0624 VRB06KT 6000 BR VCSH BKN018 OVC040 610609 QNH2983INS BECMG 0702/0703 VRB06KT 8000 -RA BR BKN015 OVC030 620609 QNH2978INS BECMG 0708/0709 18009KT 6000 -RA BR BKN009 OVC015 620509 QNH2976INS TX11/0622Z TN06/0615Z KTCS 061143Z 0612/0712 32006KT P6SM SKC FM061700 03005KT P6SM SCT250 FM062300 34005KT P6SM BKN250 KTEB 061131Z 0612/0718 19005KT P6SM BKN100 FM061700 20012G20KT P6SM SCT050 OVC080 FM062100 25010G18KT P6SM BKN050 FM070000 28011G19KT P6SM BKN050 FM070300 32010G18KT P6SM SCT050 FM070500 32007KT P6SM SKC KTEX 061129Z 0612/0712 VRB03KT P6SM FEW100 FEW180 FM061500 VRB04KT P6SM FEW080 FEW200 FM062000 26006KT P6SM FEW060 FEW180 FM070300 14004KT P6SM FEW070 FEW200 KTIK 061000Z 0610/0716 35015G30KT 9999 SCT140 510009 510909 QNH2997INS BECMG 0613/0614 35010G25KT 9999 SKC QNH3016INS BECMG 0617/0618 36012KT 9999 SKC QNH3029INS BECMG 0703/0704 VRB06KT 9999 FEW200 QNH3025INS TX12/0621Z TN03/0615Z KTIX 061128Z 0612/0712 33004KT P6SM BKN250 FM061500 24004KT P6SM FEW040 SCT250 FM062000 10007KT P6SM FEW035 SCT250 FM062300 VRB04KT P6SM SCT040 BKN250 NOT SKED TIL 061200 KTLH 061120Z 0612/0712 19006KT P6SM BKN250 FM070800 18006KT P6SM VCSH BKN050 KTMB 061122Z 0612/0712 VRB03KT P6SM SCT250 FM061600 12006KT P6SM FEW250 FM070000 VRB03KT P6SM FEW250 KTOI 061136Z 0612/0712 00000KT P6SM BKN200 FM061600 16006KT P6SM BKN100 FM061900 18006KT P6SM VCSH OVC080 FM062100 VRB04KT 6SM SHRA BKN070 FM070400 00000KT P6SM VCSH OVC025 KTOL 061142Z 0612/0712 26010KT P6SM OVC100 FM061500 33010KT P6SM BKN035 FM061800 34010KT P6SM SCT035 BKN200 FM070200 VRB03KT P6SM SKC KTOP 061320Z 0613/0712 35012G20KT P6SM BKN017 TEMPO 0613/0616 SCT018 FM061600 01010KT P6SM FEW020 FM062300 VRB04KT P6SM SKC KTPA 061122Z 0612/0718 VRB04KT P6SM BKN250 FM061800 24007KT P6SM SCT250 FM070000 VRB03KT P6SM SKC FM071500 05004KT P6SM SCT080 SCT250 KTPH 061222Z 0612/0712 01005KT P6SM VCFG SCT025 SCT250 TEMPO 0612/0615 BKN025 FM061800 16008KT P6SM SCT250 FM070600 15006KT P6SM BKN100 KTRI 061130Z 0612/0712 00000KT P6SM OVC110 TEMPO 0618/0621 4SM -SHRA OVC035 FM062100 24005KT P6SM OVC035 PROB30 0621/0624 4SM -SHRA OVC025 FM070600 00000KT 6SM BR BKN025 FM070900 00000KT 4SM BR OVC015 KTRK 061132Z 0612/0712 00000KT 1/4SM FZFG OVC003 FM061900 19006KT P6SM FEW010 SCT070 BKN150 FM062300 18012G22KT P6SM SCT050 BKN090 FM070500 20016G26KT P6SM VCSH SCT035 BKN060 KTRM 061122Z 0612/0712 VRB06KT P6SM SKC KTTD 061133Z 0612/0712 09020G30KT P6SM SCT150 OVC200 FM062000 09017G27KT P6SM SCT050 OVC080 FM070200 09015G25KT P6SM -RA OVC050 KTTN 061120Z 0612/0712 21006KT P6SM BKN120 FM061800 22011KT P6SM BKN090 FM062200 26009KT P6SM BKN060 FM070200 31010KT P6SM SCT050 KTUL 061130Z 0612/0712 35014G22KT P6SM SCT050 TEMPO 0614/0618 BKN025 FM062100 01010KT P6SM SCT035 FM070100 01005KT P6SM SCT250 KTUP 061129Z 0612/0712 16006KT 6SM -SHRA OVC080 FM061600 16005KT 5SM -SHRA VCTS OVC040CB FM061800 09004KT 4SM BR VCSH OVC010 FM070000 03005KT P6SM OVC010 FM070600 03006KT P6SM OVC007 KTUS 061120Z 0612/0712 15006KT P6SM BKN250 FM061800 09004KT P6SM BKN250 FM062300 35006KT P6SM BKN250 FM070300 15005KT P6SM BKN250 KTVC 061130Z 0612/0712 33010G18KT P6SM VCSH OVC016 FM061500 33013G23KT P6SM OVC023 FM062100 32011G22KT P6SM BKN030 FM070000 31009KT P6SM OVC040 FM070300 28005KT P6SM BKN040 FM070500 VRB04KT P6SM BKN045 FM070700 23005KT P6SM OVC050 KTVF 061128Z 0612/0712 VRB06KT P6SM SKC FM061600 19007KT P6SM BKN025 FM061900 19010KT P6SM OVC015 FM070700 18005KT 6SM BR OVC004 KTVL 061132Z 0612/0712 VRB03KT 3SM BR SCT003 FM061700 19010KT P6SM FEW010 SCT070 BKN150 FM062300 20012G22KT P6SM SCT050 BKN090 FM070500 19018G28KT P6SM VCSH SCT035 BKN060 KTWF 061123Z 0612/0712 12008KT 6SM BR SCT015 OVC035 TEMPO 0612/0615 1/4SM FZFG VV002 FM061500 09010KT 4SM BR OVC040 FM061800 10008KT P6SM BKN150 KTXK 061256Z 0613/0712 00000KT P6SM FEW016 SCT024 OVC035 TEMPO 0613/0615 VRB06KT BKN025 FM061500 32006KT P6SM BKN025 FM062100 36009KT P6SM BKN035 FM070600 03004KT P6SM OVC050 KTYR 061153Z 0612/0712 23008KT P6SM SKC TEMPO 0612/0615 29013G19KT BKN015 BKN080 FM061500 32013G18KT P6SM BKN015 FM062100 34013KT P6SM BKN035 FM070300 35010KT P6SM BKN250 KTYS 061130Z 0612/0712 VRB03KT P6SM VCSH BKN110 TEMPO 0615/0618 -SHRA OVC035 FM062200 04004KT P6SM OVC035 PROB30 0623/0702 4SM -SHRA OVC025 FM070200 00000KT P6SM BKN030 KUAO 061133Z 0612/0712 00000KT 6SM BR SCT150 OVC200 FM062000 02002KT P6SM SCT050 OVC080 FM070100 01003KT P6SM -RA OVC050 FM070800 01003KT P6SM -RA SCT025 OVC040 KUES 061258Z 0613/0712 34010KT P6SM BKN023 FM061800 33009KT P6SM SCT035 FM062100 32008KT P6SM SKC FM071100 21005KT P6SM BKN120 KUIN 061132Z 0612/0712 35017G27KT P6SM BKN013 FM061700 01013G23KT P6SM SCT020 FM070000 03005KT P6SM SKC FM070600 VRB04KT P6SM SKC KUKI 061208Z 0612/0712 14010G18KT P6SM OVC025 TEMPO 0612/0616 15006KT 4SM -SHRA BR OVC015 FM061600 16010KT P6SM -SHRA BKN030 OVC050 FM062100 15012G22KT 2SM RA BR OVC015 FM070400 17010G16KT 4SM RA BR OVC015 KUNV 061159Z 0612/0712 00000KT P6SM OVC070 FM061500 26012G20KT P6SM BKN040 OVC080 FM062100 29013G21KT P6SM OVC030 FM070400 30012KT P6SM SCT030 KUTS 061304Z 0613/0712 26006KT P6SM SCT011 BKN017 FM061400 31010G24KT P6SM SCT020 FM062200 34012KT P6SM SCT200 FM070500 34006KT P6SM BKN040 FM070800 34005KT P6SM BKN035 KVAD 060900Z 0609/0715 09003KT 9999 SCT250 QNH3017INS BECMG 0614/0615 25009KT 9999 BKN120 BKN250 QNH3020INS BECMG 0623/0624 23006KT 9999 BKN030 QNH3016INS TX21/0619Z TN04/0611Z KVCT 061244Z 0613/0712 VRB04KT 2SM BR OVC003 TEMPO 0613/0614 1/2SM FG OVC003 FM061400 33006KT 6SM BR OVC015 FM061500 34010KT P6SM FEW250 KVEL 061129Z 0612/0712 00000KT 1/2SM FG OVC002 FM061400 00000KT 1SM BR BKN010 BKN025 FM061500 00000KT 3SM BR SCT015 BKN030 FM061700 VRB03KT P6SM SCT015 BKN030 FM070200 00000KT P6SM BKN030 KVGT 061128Z 0612/0712 33005KT P6SM BKN250 FM061500 VRB05KT P6SM BKN200 FM062100 12006KT P6SM FEW200 FM070300 VRB05KT P6SM FEW250 KVIS 061120Z 0612/0712 10006KT P6SM SCT120 BKN200 FM070400 12004KT P6SM SCT050 BKN120 PROB30 0706/0710 -RA BKN050 FM071000 14009KT P6SM BKN050 OVC120 TEMPO 0710/0712 -RA BKN030 OVC050 KVLD 061120Z 0612/0712 19005KT P6SM BKN200 FM071000 00000KT P6SM BKN050 KVNY 061146Z 0612/0712 VRB03KT P6SM SKC FM061900 13006KT P6SM SCT035 BKN070 FM070300 10005KT P6SM VCSH SCT025 BKN050 FM070800 14005KT P6SM -SHRA SCT022 OVC045 KVOK 061224Z 0612/0715 33009KT 9999 FEW003 BKN025 620251 QNH3019INS BECMG 0617/0618 33009KT 9999 FEW220 QNH3032INS BECMG 0623/0624 VRB06KT 9999 SCT005 QNH3025INS TXM01/0612Z TNM05/0702Z KVPS 061000Z 0610/0716 08005KT 9999 SCT150 BKN200 QNH3010INS BECMG 0612/0613 15009KT 9999 FEW025 BKN100 BKN200 QNH3007INS BECMG 0616/0617 17009KT 9999 BKN020 BKN100 OVC200 QNH3005INS BECMG 0620/0621 18009KT 9000 -SHRA BKN020 OVC090 QNH3004INS BECMG 0702/0703 15006KT 9999 VCSH BKN015 OVC040 QNH3005INS BECMG 0707/0708 06009KT 6000 BR BKN010 OVC030 QNH3008INS TX21/0620Z TN07/0611Z KVQQ 061120Z 0612/0712 VRB03KT P6SM FEW250 FM061700 22005KT P6SM SCT250 FM070000 VRB03KT P6SM SCT250 KVRB 061128Z 0612/0712 32003KT P6SM SCT250 FM061600 12008KT P6SM SCT250 FM062300 VRB04KT P6SM SCT040 BKN250 KVTN 061138Z 0612/0712 VRB04KT 5SM BR OVC004 FM061500 18007KT P6SM BKN010 FM061800 21012KT P6SM SCT250 FM070000 22008KT P6SM FEW250 FM070600 24005KT P6SM FEW250 KWJF 061146Z 0612/0712 VRB03KT P6SM BKN035 FM061800 10006KT P6SM BKN035 FM062200 17007KT P6SM SCT035 BKN060 FM070600 26005KT P6SM -SHRA SCT025 OVC050 KWMC 061130Z 0612/0712 10005KT P6SM FEW005 SCT250 FM061700 06005KT P6SM BKN250 KWRB 061300Z 0613/0719 VRB06KT 9999 SCT100 BKN200 QNH3014INS BECMG 0620/0621 11005KT 8000 -SHRA SCT060 OVC100 QNH3015INS BECMG 0701/0702 VRB06KT 9000 -SHRA BKN030 QNH3018INS BECMG 0710/0711 VRB06KT 8000 BR SCT025 QNH3022INS TX13/0619Z TN03/0613Z KWRI 061000Z 0610/0716 26007KT 9999 SCT120 BKN220 QNH3015INS BECMG 0613/0614 23010KT 9999 BKN100 QNH2997INS BECMG 0618/0619 24012G20KT 9999 BKN070 QNH3002INS BECMG 0623/0624 28009KT 9000 -SHRA BKN050 QNH3012INS BECMG 0702/0703 30010KT 9999 NSW FEW050 QNH3020INS TX09/0618Z TNM01/0710Z KWRL 061134Z 0612/0712 VRB03KT P6SM FEW200 KWWR 061120Z 0612/0712 35014KT P6SM OVC015 FM061900 01009KT P6SM SCT040 SCT250 FM062200 07006KT P6SM BKN250 FM070300 13005KT P6SM BKN250 KWYS 061134Z 0612/0712 19009KT P6SM BKN010 OVC020 TEMPO 0614/0617 1SM BR BKN005 FM062200 21007KT P6SM SCT015 BKN025 PROB30 0709/0712 4SM -SN BR BKN040 KXNA 061130Z 0612/0712 36005KT P6SM BKN050 FM061400 35012KT P6SM SCT025 TEMPO 0617/0621 BKN025 FM070000 02005KT P6SM SCT035 KXWA 061135Z 0612/0712 16015KT P6SM OVC045 FM061700 22006KT P6SM SCT150 FM070600 16005KT P6SM BKN090 FM070900 19006KT P6SM OVC050 KYIP 061128Z 0612/0712 30013KT P6SM OVC025 TEMPO 0612/0616 SCT025 OVC040 FM061600 33015G25KT P6SM BKN025 OVC040 FM062200 33013KT P6SM SCT025 BKN040 FM070700 28005KT P6SM SCT035 BKN250 KYKM 061120Z 0612/0712 VRB02KT 4SM BR OVC018 TEMPO 0612/0616 3SM BR OVC011 FM062000 VRB02KT 6SM BR OVC020 FM062300 VRB03KT P6SM OVC050 FM070600 VRB02KT 3SM -RA BR OVC015 KYNG 061142Z 0612/0712 20007KT P6SM OVC100 FM061500 25010KT P6SM OVC100 FM061700 29010KT P6SM SCT015 OVC025 FM062200 32008KT P6SM OVC040 FM071100 VRB03KT P6SM BKN060 KZZV 061132Z 0612/0712 23004KT P6SM OVC100 WS020/26035KT FM062000 31010G18KT P6SM OVC025 FM062300 35006KT P6SM SKC L 061040Z 0612/0712 03009KT CAVOK= LTAJ 061040Z 0612/0712 03012KT 9999 SCT020 BKN080 BECMG 0617/0619 VRB02KT BECMG 0622/0624 CAVOK BECMG 0710/0712 FEW040 BKN100 LATI 061100Z 0612/0712 15005KT 9999 SCT040 BKN070 TX17/0612Z TN08/0705Z TEMPO 0619/0704 15015KT RA FEW030CB BKN050 PROB40 TEMPO 0622/0703 4000 TSRA SCT025CB BECMG 0706/0708 34008KT FEW050 SCT100 LBBG 061100Z 0612/0712 26010KT CAVOK LBGO 061106Z 0612/0712 VRB04KT 0300 FZFG VV002 TEMPO 0612/0616 0800 FZFG BKN003 PROB40 0613/0615 1500 BR SCT003 BKN010 BECMG 0708/0710 5000 BR SCT010 BECMG 0710/0712 10008KT 9999 SCT030 BKN050 LBPD 061102Z 0612/0712 VRB04KT CAVOK BECMG 0618/0620 6000 NSC TEMPO 0702/0708 1500 BR BKN010 PROB30 0703/0707 0500 FZFG BKN002 BECMG 0708/0710 10010KT 9999 SCT030 BKN050 LBPG 060500Z 0606/0618 28004KT 9999 SKC TEMPO 0606/0608 VRB04KT 3000 BR SCT010 BECMG 0610/0612 12006KT 8000 FEW033 BY LBSA LBSF 061100Z 0612/0712 VRB04KT 0800 FZFG BKN002 OVC003 TEMPO 0612/0617 1500 BR SCT002 OVC005 PROB30 0613/0616 3000 BR SCT003 BKN007 BECMG 0617/0619 0400 FZFG OVC002 TEMPO 0706/0712 1500 RA BKN010 OVC020 PROB30 0706/0708 FZRA LBWN 061100Z 0612/0712 21010KT CAVOK LCEN 061040Z 0612/0712 28015KT 9999 FEW025 BKN080= LCLK 061130Z 0612/0712 04012KT 9999 FEW030 BECMG 0616/0619 34009KT BECMG 0707/0710 04012KT LCPH 061130Z 0612/0712 30010KT 9999 FEW030 BECMG 0616/0619 04007KT BECMG 0706/0709 14010KT LCRA 061016Z 0612/0706 05007KT 9999 FEW050 LDDU 061125Z 0612/0712 09006KT 9999 BKN030 TX14/0612Z TN11/0706Z PROB40 TEMPO 0612/0618 12009KT PROB40 TEMPO 0616/0709 4000 RA BKN012 PROB30 TEMPO 0620/0706 12012KT 3000 TSRA BKN012 FEW017CB LDOS 061131Z 0612/0712 15006KT 3000 BR BKN005 TX03/0613Z TN00/0705Z PROB40 0612/0617 6000 NSW SCT015 BECMG 0620/0622 1500 BR PROB40 0623/0708 0300 FG VV002 BECMG 0709/0711 3000 LDPL 061125Z 0612/0712 30004KT 9999 BKN025 TX11/0613Z TN06/0706Z PROB40 TEMPO 0612/0707 BKN010 PROB30 TEMPO 0614/0617 SHRA FEW020TCU BKN025 PROB30 TEMPO 0618/0707 2000 BR BKN005 LDRI 061130Z 0612/0712 VRB02KT 9999 BKN035 TX11/0613Z TN08/0706Z PROB30 TEMPO 0612/0706 BKN010 PROB40 TEMPO 0612/0622 14008KT RA LDSP 061125Z 0612/0712 10006KT 9999 BKN035 TX13/0612Z TN10/0706Z PROB40 TEMPO 0615/0700 4000 RA PROB30 TEMPO 0618/0700 3000 TSRA FEW020CB BKN023 LDZA 061125Z 0612/0712 23004KT 3000 BR OVC003 TX02/0613Z TN00/0705Z PROB30 0613/0616 23007KT 6000 NSW BKN015 BECMG 0617/0619 1500 BR PROB40 0620/0709 0200 FG VV001 BECMG 0709/0711 3000 LDZD 061125Z 0612/0712 14006KT 9999 BKN030 TX12/0612Z TN07/0704Z PROB40 TEMPO 0613/0712 5000 -RA BKN014 PROB30 TEMPO 0615/0619 4000 SHRA FEW020CB FEW023TCU BKN025 BECMG 0710/0712 28007KT LEAL 061100Z 0612/0712 35006KT 9999 FEW020 TX17/0613Z TN08/0706Z TEMPO 0612/0618 07010KT LEAM 060800Z 0609/0709 36009KT 9999 FEW040 TX18/0614Z TN12/0706Z BECMG 0609/0611 06016KT TEMPO 0610/0617 06022G34KT BECMG 0618/0621 35008KT LEAS 060800Z 0609/0709 22008KT CAVOK TX13/0614Z TN07/0705Z PROB30 TEMPO 0612/0618 28010KT LEBB 061100Z 0612/0712 12005KT CAVOK TX15/0613Z TN06/0706Z PROB40 0612/0618 30010KT TEMPO 0703/0707 3000 BR PROB40 TEMPO 0703/0706 0600 BCFG VV001 LEBL 061100Z 0612/0712 21007KT 9999 FEW020 TX17/0613Z TN08/0706Z LEBZ 061100Z 0612/0712 08007KT CAVOK TX19/0615Z TN02/0708Z LECH 061100Z 0612/0712 05008KT 9999 BKN020 TX16/0613Z TN03/0706Z BECMG 0619/0621 25006KT LECO 060800Z 0609/0709 VRB05KT 9999 SCT040 TX13/0614Z TN09/0705Z PROB40 TEMPO 0700/0709 3000 -RADZ BKN010 BKN014 PROB40 TEMPO 0700/0708 1500 BCFG BKN005 BKN010 LEDA 060800Z 0609/0709 VRB04KT 9999 SCT040 TX12/0613Z TN02/0706Z TEMPO 0622/0709 4000 BR BKN009 PROB40 TEMPO 0700/0708 0100 FG VV001 LEGE 061100Z 0612/0712 02005KT 9999 SCT030 TX17/0613Z TN04/0706Z TEMPO 0612/0618 18008KT PROB40 TEMPO 0622/0708 3000 BR BKN008 LEGR 060800Z 0609/0709 VRB02KT 9999 FEW040 TX16/0615Z TN02/0707Z LEHC 060800Z 0609/0709 VRB04KT 9999 SCT030 TX12/0614Z TN02/0706Z PROB40 TEMPO 0700/0708 4000 BR BKN009 LEIB 060800Z 0609/0709 VRB04KT 9999 FEW020 TX17/0613Z TN09/0706Z PROB40 TEMPO 0610/0618 06010KT PROB30 TEMPO 0623/0708 3000 BR LEJR 061100Z 0612/0712 04009KT CAVOK TX22/0614Z TN04/0703Z LELC 061100Z 0612/0712 04010KT 9999 SCT020 SCT040 TX18/0614Z TN12/0706Z PROB40 TEMPO 0620/0706 BKN014 TEMPO 0700/0706 34008KT LELL 060800Z 0609/0709 VRB05KT 9999 BKN040 TX16/0613Z TN05/0706Z LEMD 061100Z 0612/0718 VRB04KT 9999 SCT040 TX14/0615Z TN02/0706Z LEMG 061100Z 0612/0712 13008KT 9999 FEW025 TX19/0612Z TN09/0706Z BECMG 0618/0621 29006KT LEMH 060800Z 0609/0709 VRB04KT 9999 FEW020 TX16/0613Z TN08/0706Z PROB30 TEMPO 0623/0708 3000 BR BKN009 LEMI 061100Z 0612/0712 03009KT 9999 SCT020 SCT030 TX17/0614Z TN10/0706Z PROB30 TEMPO 0612/0614 BKN014 PROB30 TEMPO 0620/0706 BKN014 TEMPO 0702/0706 33010KT LEPA 061100Z 0612/0712 VRB05KT 9999 FEW015 TX18/0613Z TN07/0707Z LEPP 060800Z 0609/0709 VRB05KT CAVOK TX13/0615Z TNM00/0707Z PROB40 TEMPO 0703/0709 3000 BR PROB30 TEMPO 0703/0709 0350 FG VV001 LERS 060800Z 0609/0709 VRB05KT 9999 BKN040 TX17/0613Z TN04/0706Z LESA 061100Z 0612/0712 08007KT 9999 SCT030 TX12/0615Z TNM00/0706Z PROB30 TEMPO 0612/0614 0300 FG VV001 TEMPO 0622/0712 2000 BCFG BKN005 PROB40 TEMPO 0623/0709 0300 FZFG VV001 PROB40 TEMPO 0709/0712 0300 FG VV001 LESO 061100Z 0612/0712 VRB05KT CAVOK TX14/0613Z TN08/0706Z LEST 061100Z 0612/0712 VRB05KT 9999 SCT025 TX12/0615Z TN06/0706Z TEMPO 0618/0711 3000 BR TEMPO 0618/0710 1500 BCFG BR BKN005 PROB40 TEMPO 0620/0709 0350 FG VV001 TEMPO 0706/0712 3000 -RADZ BKN005 BKN010 LESU 060800Z 0609/0709 VRB03KT 9999 SCT060 TX15/0614Z TN00/0706Z LETO 061100Z 0612/0712 VRB04KT 9999 SCT040 TX13/0615Z TN01/0706Z LEVC 061100Z 0612/0712 30005KT 9999 SCT025 TX15/0613Z TN06/0706Z PROB40 TEMPO 0612/0618 04010KT LEVD 061100Z 0612/0712 VRB04KT 9999 FEW040 TX11/0615Z TNM00/0706Z TEMPO 0622/0712 1500 BCFG BKN005 PROB40 TEMPO 0623/0712 0300 FZFG VV001 LEVT 061146Z 0612/0712 VRB05KT 9999 FEW040 TX13/0614Z TN01/0707Z PROB30 TEMPO 0612/0614 1500 BCFG BKN003 PROB30 TEMPO 0612/0617 24010KT TEMPO 0700/0710 1500 BCFG BKN003 PROB40 TEMPO 0700/0709 0600 FG VV001 LEVX 061100Z 0612/0712 20005KT CAVOK TX15/0614Z TN05/0706Z PROB40 TEMPO 0615/0618 29010KT TEMPO 0700/0709 BKN010 PROB40 TEMPO 0703/0709 1500 BCFG BKN005 PROB30 TEMPO 0703/0709 0600 BCFG BKN001 TEMPO 0709/0712 3000 -RADZ BKN005 BKN010 LEXJ 060800Z 0609/0709 24008KT CAVOK TX13/0615Z TN09/0705Z LEZG 061100Z 0612/0712 29008KT 9999 BKN050 TX14/0613Z TN04/0706Z BECMG 0612/0614 10008KT BECMG 0618/0620 27008KT LEZL 060800Z 0609/0709 05008KT CAVOK TX19/0615Z TN07/0707Z LFBC 061102Z 0611/0709 14003KT 6000 BKN003 TEMPO 0611/0612 0800 FG BKN002 BECMG 0613/0615 SCT005 BKN010 TEMPO 0620/0709 2000 DZ BKN005 BKN030 LFBD 061100Z 0612/0718 20005KT 5000 BR BKN004 TX12/0712Z TN06/0619Z BECMG 0612/0614 8000 NSW BKN010 PROB40 TEMPO 0614/0617 SCT010 BECMG 0618/0620 3000 BR BKN003 TEMPO 0700/0710 1500 RADZ OVC002 PROB40 TEMPO 0620/0710 0800 FG VV/// BECMG 0713/0715 9999 NSW OVC030 LFBE 061100Z 0612/0712 16005KT 2000 BR OVC002 BECMG 0612/0614 8000 NSW BKN004 TEMPO 0614/0618 BKN007 BECMG 0618/0620 0300 FG VV/// BECMG 0703/0705 1500 -DZ OVC002 LFBG 060800Z 0609/0709 12005KT 3000 BR OVC007 PROB40 TEMPO 0609/0610 0500 FG VV/// BECMG 0610/0612 18005KT 8000 NSW TEMPO 0620/0709 3000 -RA LFBH 061100Z 0612/0712 24015KT 9999 OVC015 TEMPO 0615/0621 25015G25KT -RA TEMPO 0621/0624 3000 RADZ OVC005 BECMG 0700/0702 25005KT BKN030 LFBI 061100Z 0612/0712 20010KT 5000 OVC005 TEMPO 0612/0619 2000 BR OVC002 TEMPO 0619/0712 2000 -RADZ OVC003 PROB40 TEMPO 0701/0710 VRB02KT 0500 FG VV/// LFBL 061100Z 0612/0712 18005KT CAVOK PROB40 0618/0622 0500 BCFG BECMG 0620/0622 0500 FG VV/// TEMPO 0622/0710 2000 -DZ OVC002 BECMG 0710/0712 4000 BR OVC003 LFBM 060800Z 0609/0709 VRB03KT 0600 FG VV/// BECMG 0609/0611 6000 NSW BKN005 BECMG 0612/0614 CAVOK LFBO 061212Z 0612/0718 VRB03KT 0400 FG VV/// BECMG 0612/0613 0800 PROB40 0613/0618 2000 BR OVC002 PROB30 0613/0617 6000 NSW SCT004 BECMG 0618/0620 0400 PROB40 0619/0706 0200 BECMG 0706/0708 4000 BR OVC004 BECMG 0708/0710 8000 NSW BKN007 BKN040 BECMG 0712/0714 BKN016 LFBP 061100Z 0612/0712 14005KT CAVOK BECMG 0700/0703 BKN040 PROB30 0703/0706 2000 BR BKN010 BECMG 0706/0708 -RA BKN025 LFBT 061100Z 0612/0712 VRB02KT CAVOK BECMG 0700/0703 BKN050 PROB30 0703/0706 2000 BR BKN010 BECMG 0710/0712 -RA BKN030 LFBU 061320Z 0613/0712 18008KT 3000 BR OVC002 TEMPO 0614/0618 8000 NSW BKN007 TEMPO 0622/0712 1500 DZRA OVC002 LFBZ 061100Z 0612/0712 14005KT CAVOK BECMG 0614/0616 26007KT BECMG 0620/0623 BKN040 PROB30 0623/0705 BKN005 BECMG 0705/0707 -RA BKN020 TEMPO 0710/0712 BKN008 LFCR 061100Z 0612/0712 VRB03KT CAVOK BECMG 0617/0619 0800 BCFG PROB40 0618/0708 0400 FG VV/// BECMG 0708/0710 4000 BR OVC008 BECMG 0710/0712 OVC003 LFJL 061209Z 0612/0712 20012KT 8000 BKN016 TEMPO 0612/0619 4000 -RA BKN012 BECMG 0619/0621 OVC012 TEMPO 0621/0706 1500 -RADZ BKN006 PROB40 TEMPO 0621/0703 23015G25KT TEMPO 0706/0712 1000 RADZ OVC003 LFKB 060800Z 0609/0709 VRB05KT 9999 BKN090 TX16/0612Z TN09/0705Z TEMPO 0609/0624 FEW025TCU BKN030 LFKC 060800Z 0609/0709 20005KT 9999 BKN040 TEMPO 0609/0624 SCT020 FEW025CB BKN030 PROB40 TEMPO 0609/0624 TSRA LFKF 060800Z 0609/0709 24008KT 9999 BKN040 TEMPO 0609/0624 SCT020 FEW023CB BKN025 PROB40 TEMPO 0609/0624 TSRA LFKJ 060800Z 0609/0709 VRB05KT 9999 BKN030 TEMPO 0609/0624 SCT020 FEW025CB BKN028 PROB40 TEMPO 0609/0624 TSRA LFKS 060800Z 0609/0709 27005KT CAVOK= LFMO 060800Z 0609/0709 VRB02KT 3000 BR NSC BECMG 0609/0610 CAVOK BECMG 0619/0621 3000 BR TEMPO 0622/0708 0800 FG VV/// LFLB 061100Z 0612/0712 18004KT 4000 BR BKN006 BECMG 0612/0614 CAVOK BECMG 0701/0703 BKN055 PROB30 TEMPO 0704/0709 -RA LFLC 060800Z 0609/0709 36005KT CAVOK BECMG 0609/0611 18005KT PROB30 TEMPO 0702/0709 -RA BKN040 LFLL 061100Z 0612/0718 16005KT CAVOK TEMPO 0703/0713 -RA OVC035 BECMG 0713/0715 NSW BKN030 LFLP 061004Z 0610/0709 VRB02KT CAVOK PROB30 TEMPO 0610/0612 4000 BR BECMG 0701/0703 BKN050 PROB40 TEMPO 0705/0709 -RA BKN040 LFLS 060800Z 0609/0709 09010KT CAVOK PROB30 TEMPO 0609/0612 0400 FG BKN004 BECMG 0612/0615 09003KT BECMG 0700/0703 BKN050 TEMPO 0702/0709 -RA BKN035 LFLX 061203Z 0612/0718 22010KT 9999 BKN014 TEMPO 0612/0624 RA BKN008 PROB40 TEMPO 0612/0624 22013G25KT 4000 BR BKN003 TEMPO 0700/0718 4000 -RADZ BR BKN008 PROB40 TEMPO 0700/0718 1200 BR BKN004 LFLY 061100Z 0612/0712 14005KT CAVOK TEMPO 0703/0712 -RA OVC035 LFMD 060800Z 0609/0709 35005KT 9999 BKN040 BECMG 0609/0611 CAVOK TEMPO 0611/0617 16010KT LFMH 060800Z 0609/0709 VRB02KT CAVOK BECMG 0615/0618 14006KT PROB40 TEMPO 0701/0709 -RA BKN045 LFMI 060800Z 0609/0709 03006KT CAVOK BECMG 0609/0610 VRB03KT TEMPO 0610/0616 FEW045 BECMG 0619/0621 06006KT BECMG 0622/0624 5000 BR NSC PROB30 TEMPO 0700/0705 2000 MIFG BKN020 BECMG 0706/0708 VRB03KT CAVOK LFMK 060800Z 0609/0709 VRB05KT CAVOK PROB40 TEMPO 0621/0706 4000 BR OVC010 BECMG 0706/0709 28015KT OVC050 LFML 060800Z 0609/0715 VRB03KT CAVOK TX14/0613Z TN06/0706Z TEMPO 0609/0615 26006KT FEW040 TEMPO 0621/0701 SCT023 BECMG 0701/0703 BKN023 BECMG 0705/0707 CAVOK BECMG 0708/0710 27008KT LFMN 060800Z 0609/0715 34010KT 9999 BKN040 BECMG 0609/0611 CAVOK TEMPO 0611/0617 12010KT PROB30 TEMPO 0618/0624 BKN020 PROB40 TEMPO 0707/0710 BKN014 BECMG 0710/0712 09010KT PROB40 TEMPO 0710/0715 BKN025 LFMO 060800Z 0609/0709 VRB02KT 3000 BR NSC BECMG 0609/0610 CAVOK BECMG 0619/0621 3000 BR TEMPO 0622/0708 0800 FG VV/// LFMP 060800Z 0609/0709 VRB05KT CAVOK TEMPO 0611/0615 08010KT PROB30 TEMPO 0621/0706 4000 BR BKN010 BECMG 0706/0709 CAVOK LFMT 060800Z 0609/0709 VRB05KT CAVOK PROB30 TEMPO 0621/0706 4000 BR BECMG 0706/0709 NSW LFMU 060800Z 0609/0709 VRB05KT CAVOK TEMPO 0612/0615 18010KT PROB30 TEMPO 0621/0706 4000 BR BECMG 0706/0709 NSW LFMV 060800Z 0609/0709 VRB03KT 5000 BR NSC BECMG 0609/0610 CAVOK BECMG 0617/0619 5000 BR NSC PROB40 TEMPO 0700/0708 1500 MIFG NSC PROB30 TEMPO 0703/0708 0800 FG VV/// LFMY 060800Z 0609/0709 VRB03KT CAVOK BECMG 0707/0709 32012KT LFOA 060800Z 0609/0709 24005KT 0300 FG VV/// PROB40 TEMPO 0609/0611 1200 BR OVC002 BECMG 0611/0613 3000 BR OVC003 TEMPO 0614/0624 5000 -RA BKN006 BKN015 PROB40 TEMPO 0700/0709 24010G20KT 1200 DZRA OVC003 LFOB 061100Z 0612/0712 21015KT 8000 OVC008 TEMPO 0612/0621 21017G27KT 2000 DZRA OVC004 BECMG 0620/0623 26011KT BKN030 TEMPO 0706/0712 BKN008 LFOC 061230Z 0612/0709 21015KT 3000 -RADZ BR OVC004 BECMG 0613/0615 21020G30KT BECMG 0623/0701 22012KT PROB30 TEMPO 0704/0709 0900 FG VV/// LFOE 060800Z 0609/0709 21015KT 5000 -RA OVC005 BECMG 0609/0611 21010G20KT BECMG 0611/0613 22020G30KT 7000 NSW BKN012 TEMPO 0616/0620 4000 -RA BKN008 OVC015 BECMG 0621/0623 23012KT PROB40 TEMPO 0704/0708 SCT007 LFOH 061100Z 0612/0712 21020G30KT 9999 SCT007 OVC012 TEMPO 0612/0618 3000 DZRA OVC004 BECMG 0617/0619 27020G33KT SCT020 BECMG 0620/0622 26011KT LFOJ 060800Z 0609/0709 21013KT 1500 BR OVC002 BECMG 0610/0612 4000 -RA OVC009 BECMG 0613/0615 21020G30KT BECMG 0623/0701 22012KT PROB40 TEMPO 0620/0709 3000 BR OVC003 LFOK 061300Z 0613/0712 22013KT 6000 OVC006 TEMPO 0613/0624 2000 RADZ OVC003 TEMPO 0614/0624 22017G27KT FM070000 22010KT 2000 BR OVC004 TEMPO 0700/0710 0800 DZ FG OVC001 LFOP 061100Z 0612/0712 21015G25KT 8000 OVC007 TEMPO 0612/0620 2000 DZRA OVC004 BECMG 0619/0621 27015G25KT BKN020 BECMG 0621/0623 27011KT TEMPO 0706/0712 BKN008 LFOT 061100Z 0612/0712 20008KT 9999 BKN008 PROB40 TEMPO 0612/0624 3000 -RA BR BKN004 PROB40 TEMPO 0615/0624 21013G25KT TEMPO 0700/0712 3000 -RADZ BR BKN003 PROB30 TEMPO 0700/0712 0600 FG VV/// LFPB 061100Z 0612/0712 20010KT 4000 -DZRA BKN007 PROB40 TEMPO 0612/0621 20015G30KT BKN005 PROB30 TEMPO 0612/0615 2500 RA BECMG 0621/0624 6000 NSW BKN040 PROB30 TEMPO 0710/0712 BKN012 LFPG 061100Z 0612/0718 20010KT 4000 -DZRA BKN005 TX10/0712Z TN03/0612Z PROB40 TEMPO 0612/0621 20015G30KT BKN004 PROB30 TEMPO 0612/0615 2500 RA BECMG 0621/0624 6000 NSW BKN040 PROB30 TEMPO 0710/0715 BKN010 LFPV 061102Z 0611/0709 21008KT 4000 -RA BR OVC003 TEMPO 0613/0620 20010G25KT BECMG 0700/0702 6000 NSW NSC BECMG 0707/0709 BKN005 LFQQ 061100Z 0612/0718 19015KT 9999 OVC008 TEMPO 0612/0619 19017G27KT 3000 RADZ OVC004 TEMPO 0619/0621 24020G30KT 2000 SHRA BKN004 BKN020TCU FM062100 27019G29KT 9999 BKN030 BECMG 0621/0623 26011KT BECMG 0716/0718 20011KT LFRB 061100Z 0612/0718 23015KT 9999 OVC006 TEMPO 0612/0618 22015G25KT 2000 -RADZ OVC003 BECMG 0618/0619 25005KT NSW SCT008 BKN012 PROB40 TEMPO 0621/0706 3000 BR BKN008 BECMG 0708/0711 SCT010 BKN016 LFRD 061100Z 0612/0712 20015G27KT 9999 BKN010 TEMPO 0612/0615 3000 RA BKN005 BECMG 0613/0616 25015G25KT 9999 BKN030 BECMG 0618/0620 25010KT LFRH 061100Z 0612/0712 24017G27KT 9999 BKN008 OVC012 TEMPO 0612/0616 3000 RADZ BKN003 BECMG 0618/0620 27010KT BECMG 0700/0702 NSW BKN015 OVC025 LFRI 061100Z 0612/0712 22011KT 8000 SCT010 BKN040 TEMPO 0612/0614 4000 RA BKN008 TEMPO 0617/0622 3000 RA BKN004 TEMPO 0622/0710 2000 BR BKN003 BECMG 0700/0703 VRB05KT LFRL 061100Z 0612/0712 23015KT 4000 -RADZ OVC003 TEMPO 0612/0614 23020G30KT 2000 RA OVC002 PROB30 TEMPO 0612/0614 0800 -DZ FG VV/// BECMG 0614/0616 9999 NSW BKN008 PROB40 TEMPO 0616/0621 RA LFRM 061100Z 0612/0712 22010KT 8000 SCT010 BKN040 TEMPO 0612/0620 24015G25KT TEMPO 0612/0620 3000 RADZ BKN004 TEMPO 0621/0710 2000 BR BKN003 BECMG 0702/0704 VRB05KT LFRN 061100Z 0612/0712 20015G27KT 9999 BKN010 TEMPO 0612/0617 3000 RA BKN005 BECMG 0616/0618 25010KT 9999 BKN030 BECMG 0621/0624 25005KT BECMG 0700/0703 0500 FG TEMPO 0703/0710 0500 FG VV/// BECMG 0709/0712 9999 NSW LFRQ 061100Z 0612/0712 23015KT 9999 BKN006 BKN013 TEMPO 0612/0620 22015G25KT 3000 -RADZ OVC003 BECMG 0620/0622 25005KT NSW SCT008 BKN014 PROB40 TEMPO 0622/0706 3000 BR BKN008 BECMG 0708/0711 SCT010 BKN016 LFRS 061100Z 0612/0718 22010KT 8000 SCT010 BKN040 TEMPO 0612/0618 24015G25KT TEMPO 0617/0621 3000 RA BKN004 TEMPO 0621/0710 2000 BR BKN003 BECMG 0702/0705 VRB05KT BECMG 0715/0718 21010KT LFRZ 061100Z 0612/0712 24012KT 8000 SCT010 BKN040 TEMPO 0612/0618 24017G28KT TEMPO 0615/0620 3000 RA BKN004 TEMPO 0621/0710 2000 BR BKN003 BECMG 0703/0705 VRB05KT LFSB 061110Z 0612/0712 17006KT 9999 FEW025 BKN270 PROB40 TEMPO 0623/0708 5000 -RA BKN020 OVC040 BECMG 0709/0712 BKN015 LFSI 061041Z 0610/0709 23010KT 9999 -RA OVC012 BKN070 BECMG 0610/0612 20015G25KT 4000 RA BKN010 BKN015 BKN025 TEMPO 0612/0617 BKN005 BECMG 0622/0624 24010G20KT 2000 DZRA BKN003 BKN005 BKN010 LFSO 060800Z 0609/0709 20010KT 4000 BR OVC003 BECMG 0609/0611 6000 NSW BKN010 BECMG 0612/0614 SCT015 BECMG 0615/0618 21015G25KT 4000 -RA BKN010 BKN040 BECMG 0700/0702 23010KT 6000 NSW BKN005 TEMPO 0702/0709 3000 -DZ BKN003 LFST 061100Z 0612/0712 20010KT 8000 NSC PROB40 TEMPO 0612/0613 3000 BR OVC003 BECMG 0619/0622 OVC045 TEMPO 0622/0709 4000 -RA LFSX 060800Z 0609/0709 13005KT 0400 FZFG OVC001 BECMG 0609/0611 1500 BR OVC003 BECMG 0611/0613 8000 NSW BKN007 BECMG 0621/0623 4000 RA BKN015 LFTH 060800Z 0609/0709 36006KT 9999 BKN030 BECMG 0613/0615 VRB02KT CAVOK LFTW 060800Z 0609/0709 VRB05KT CAVOK PROB40 TEMPO 0621/0708 4000 BR OVC010 BECMG 0708/0709 NSW NSC LFVP 061100Z 0612/0621 27010KT 9999 BKN015 SCT031 BKN085 TEMPO 0615/0621 -SHRASN BKN015 BECMG 0616/0619 28020G30KT LGAV 061100Z 0612/0712 36013KT 9999 FEW020 BECMG 0622/0624 VRB05KT BECMG 0701/0703 22008KT LGEL 061100Z 0612/0712 35010KT 9999 SCT020 BECMG 0620/0622 VRB05KT LGIR 061100Z 0612/0712 33015KT 9999 FEW018 BKN025 BECMG 0700/0702 27010KT FEW018 LGKO 061100Z 0612/0712 34013G25KT 9999 FEW020 BECMG 0618/0620 34012KT LGKR 061100Z 0612/0712 16010KT 9999 SCT018 BKN030 BKN080 TEMPO 0612/0712 5000 RA PROB40 TEMPO 0615/0706 3000 TSRA SCT015 FEW018CB BKN025 BKN070 BECMG 0622/0624 22012KT LGKV 061100Z 0612/0712 VRB03KT 9999 FEW025 BECMG 0701/0703 FEW010 SCT030 BKN080 TEMPO 0703/0709 5000 RA SCT008 BKN025 OVC070 LGPZ 061100Z 0612/0712 03008KT 9999 BKN020 BKN070 BECMG 0615/0617 10010KT PROB40 TEMPO 0621/0706 5000 RA FEW018TCU BKN020 BKN070 PROB40 TEMPO 0621/0706 3000 TSRA SCT015 FEW018CB BKN025 BKN070 LGRP 061100Z 0612/0712 30012KT 9999 FEW016 BECMG 0616/0618 24008KT LGSA 061100Z 0612/0712 03010KT 9999 FEW020 SCT080 LGSR 061100Z 0612/0712 36020KT 9999 SCT020 TEMPO 0612/0618 BKN025 LGTS 061100Z 0612/0712 VRB03KT 9999 SCT035 BECMG 0621/0623 FEW010 BKN030 TEMPO 0700/0707 5000 RA SCT008 BKN025 PROB30 TEMPO 0700/0703 4000 SHRA SCT010 FEW018TCU BKN025 LHBP 061115Z 0612/0712 12005KT 5000 BR OVC010 TEMPO 0612/0616 1400 -FZDZ BR OVC002 BECMG 0616/0618 VRB03KT 1500 -FZDZ BR OVC004 TEMPO 0618/0706 0500 FZDZ FZFG VV001 LHPA 061115Z 0612/0712 VRB03KT 5000 BR OVC010 TEMPO 0612/0616 18006KT 6000 NSW OVC015 BECMG 0617/0620 VRB03KT 1000 BR OVC005 TEMPO 0621/0709 0800 FZFG FZDZ OVC003 PROB30 TEMPO 0623/0707 0300 FZFG FZDZ OVC001 BECMG 0710/0712 21006KT 3000 BR OVC010 LIBC 061100Z 0612/0712 VRB05KT 0600 FG BKN040 BECMG 0612/0614 3000 BR LIBD 061326Z 0613/0712 VRB05KT 0400 FG BKN002 BECMG 0618/0621 26010KT 6000 LIBP 061100Z 0612/0712 VRB05KT 7000 BKN020 LIBR 061147Z 0612/0712 15010KT 7000 BKN015 BKN040 TEMPO 0612/0615 3000 SHRA BECMG 0621/0624 28008KT LICA 061100Z 0612/0712 VRB06KT 7000 SCT018 BKN040 TEMPO 0612/0618 SHRA LICC 061100Z 0612/0712 26010KT CAVOK LICD 061100Z 0612/0712 VRB05KT 9999 FEW030 LICJ 061100Z 0612/0712 28008KT 9999 SCT030 BECMG 0616/0618 19010KT LICR 061100Z 0612/0712 35010KT 9999 SCT030 LICZ 061100Z 0612/0712 28007KT 9999 FEW030 SCT090 TEMPO 0619/0706 5000 BR LIEA 061100Z 0612/0712 22010KT 9999 SCT030 TEMPO 0618/0621 RA BECMG 0704/0706 28008KT LIEE 061100Z 0612/0712 VRB05KT 9999 SCT030 LIEO 061100Z 0612/0712 26010KT 9999 SCT020 LIMC 061100Z 0612/0718 VRB05KT 7000 SCT060 TEMPO 0703/0708 3000 BCFG LIME 061100Z 0612/0712 VRB05KT 7000 SCT060 LIMF 061100Z 0612/0712 VRB05KT 7000 SCT060 LIMJ 061100Z 0612/0712 03008KT 9999 BKN040 LIML 061100Z 0612/0712 VRB05KT 6000 SCT050 TEMPO 0702/0708 0800 FZFG LIMP 061100Z 0612/0712 VRB05KT 4000 BR SCT050 LIMZ 061100Z 0612/0712 VRB05KT CAVOK LIPB 061100Z 0612/0712 VRB04KT CAVOK LIPE 061100Z 0612/0712 VRB04KT 6000 SCT025 BECMG 0618/0620 2000 BR BECMG 0707/0709 6000 LIPH 061100Z 0612/0712 VRB04KT 9999 FEW040 LIPO 061100Z 0612/0712 VRB05KT 6000 SCT050 TEMPO 0702/0708 0800 FZFG LIPQ 061100Z 0612/0712 VRB04KT 9999 SCT040 LIPY 061100Z 0612/0712 VRB04KT 8000 SCT030 BECMG 0617/0620 3000 BR BECMG 0707/0709 7000 LIPZ 061100Z 0612/0718 VRB06KT 9999 SCT030 LIRA 061100Z 0612/0712 15008KT 9999 SCT040 TEMPO 0619/0703 4000 SHRA LIRF 061100Z 0612/0718 12010KT 9999 SCT040 TEMPO 0616/0706 4000 SHRA BECMG 0709/0711 23012KT LIRN 061100Z 0612/0712 VRB05KT 9999 SCT030 TEMPO 0621/0706 SHRA LIRP 061100Z 0612/0712 12010KT 9999 SCT030 BKN050 TEMPO 0612/0712 5000 RA BR BKN025 BKN040 LIRQ 061100Z 0612/0712 VRB05KT 9999 BKN030 TEMPO 0614/0621 4000 SHRA LIRZ 061100Z 0612/0712 VRB05KT 9999 SCT040 TEMPO 0618/0624 SHRA LJLJ 061100Z 0612/0712 28005KT 9999 FEW040 SCT250 PROB40 TEMPO 0613/0703 BKN035 BECMG 0618/0620 30003KT LJMB 061100Z 0612/0712 VRB02KT 5000 BR BKN008 BECMG 0612/0614 19005KT CAVOK BECMG 0618/0620 36003KT 7000 PROB40 0622/0709 0400 FZFG VV001 LKCV 061100Z 0612/0712 16008KT CAVOK TEMPO 0612/0614 8000 SCT013 BECMG 0700/0702 21014KT BKN025 BECMG 0704/0706 24017G27KT TEMPO 0702/0712 6000 RA OVC014 PROB40 0702/0707 4000 RASN OVC010 LKKB 061100Z 0612/0712 18010KT CAVOK BECMG 0622/0700 21015KT SCT020 TEMPO 0700/0712 23017G32KT 7000 RA BKN015 LKKV 061100Z 0612/0718 25010KT CAVOK TEMPO 0620/0715 24012G26KT BECMG 0622/0700 6000 OVC011 TEMPO 0700/0718 2500 -RA BR OVC004 LKMT 061100Z 0612/0718 22018KT 9999 BKN013 TEMPO 0612/0718 21022G32KT TEMPO 0612/0700 SCT017 BECMG 0700/0702 BKN010 TEMPO 0702/0712 RASN BKN009 TEMPO 0712/0718 BKN017 LKNA 061100Z 0612/0712 16008KT 0700 FZFG OVC002 PROB30 TEMPO 0612/0615 2000 BR OVC004 BECMG 0705/0707 23014KT TEMPO 0705/0710 23014G25KT 0400 FZRA FZFG VV001 BECMG 0709/0711 2500 BR OVC008 LKPD 061100Z 0612/0712 12004KT CAVOK BECMG 0701/0703 23014G30KT BKN030 TEMPO 0702/0712 6000 RA OVC020 LKPR 061100Z 0612/0718 20010KT CAVOK BECMG 0700/0702 22014KT 9999 BKN015 TEMPO 0702/0708 7000 RA BKN009 TEMPO 0702/0718 23020G30KT BECMG 0708/0710 BKN025 TEMPO 0710/0718 SCT030 LKTB 061100Z 0612/0718 18006KT 9000 OVC013 TEMPO 0612/0618 OVC016 BECMG 0621/0623 4000 BR OVC007 TEMPO 0623/0708 1500 BR OVC003 PROB40 TEMPO 0704/0710 FZRA BECMG 0710/0712 24007KT 7000 BKN016 BECMG 0713/0715 BKN030 LLBG 061112Z 0612/0712 33010KT 9999 SCT040 BECMG 0616/0618 03005KT BECMG 0622/0624 15005KT BECMG 0707/0709 32008KT TX20/0612Z TN11/0704Z LLER 061113Z 0612/0712 35008KT 9999 SCT040 PROB30 0618/0706 7000 -RA BKN025 TX23/0612Z TN12/0704Z LLHA 061119Z 0612/0712 35010KT 9999 SCT040 TEMPO 0612/0618 -RA BKN035 BECMG 0618/0620 VRB04KT PROB30 0620/0707 RA BKN030 BECMG 0707/0709 34010KT TX19/0612Z TN12/0704Z LLHZ 061115Z 0612/0712 33010KT 9999 SCT040 BECMG 0617/0619 VRB04KT BECMG 0707/0709 32008KT TX20/0612Z TN12/0704Z LLIB 061116Z 0612/0712 33010KT 9999 FEW040 BECMG 0618/0621 VRB04KT BECMG 0706/0709 32008KT PROB30 0709/0712 17005KT TX18/0612Z TN07/0704Z LMML 061100Z 0612/0712 29010KT 9999 FEW018 PROB30 0621/0706 9000 BKN012 LOWG 061115Z 0612/0712 VRB02KT 9999 BKN009 TX06/0712Z TNM03/0705Z TEMPO 0612/0618 FEW012 TEMPO 0621/0708 0300 FZFG VV002 BECMG 0708/0710 CAVOK LOWI 061115Z 0612/0712 VRB02KT CAVOK TX07/0613Z TNM03/0701Z BECMG 0618/0620 27005KT 9999 SCT060 BKN080 PROB40 TEMPO 0702/0707 27010KT -FZRA SCT040 BKN060 LOWK 061115Z 0612/0712 VRB02KT 9999 BKN008 TX01/0613Z TNM03/0705Z PROB30 TEMPO 0700/0708 4000 BR BKN005 TEMPO 0710/0712 SCT015 LOWL 061115Z 0612/0712 VRB02KT 2000 BR OVC002 TX05/0712Z TNM03/0700Z PROB30 TEMPO 0612/0614 0800 FZBCFG TEMPO 0613/0617 10005KT 3000 BKN005 PROB40 0619/0703 0500 FZFG VV001 BECMG 0702/0704 26005KT 6000 -RA SCT005 BKN025 PROB40 TEMPO 0702/0706 3000 -FZRA BKN010 BECMG 0709/0712 27012KT 9999 NSW SCT015 BKN045 LOWS 061115Z 0612/0712 30003KT 8000 FEW003 SCT300 TX07/0712Z TNM02/0620Z PROB40 TEMPO 0612/0614 1200 BCFG SCT003 BECMG 0617/0619 15005KT CAVOK PROB30 TEMPO 0619/0701 VRB01KT 2500 BR NSC BECMG 0701/0703 9999 SCT060 BKN100 TEMPO 0703/0712 29005KT -RA BKN060 PROB30 TEMPO 0703/0706 -FZRA BECMG 0709/0711 30007KT LOWW 061115Z 0612/0718 16006KT 8000 OVC010 TX06/0713Z TNM02/0621Z TEMPO 0612/0617 4000 BR FEW005 BKN008 BECMG 0617/0620 2500 BR BKN005 TEMPO 0620/0624 1200 FZBCFG SCT001 OVC002 BECMG 0700/0702 VRB02KT 0700 FZFG VV002 TEMPO 0700/0706 0200 VV001 PROB30 TEMPO 0706/0708 2500 -FZRA BKN045 FM070800 25008KT 9999 -RA FEW003 SCT040 BKN100 TEMPO 0709/0715 27015KT 9999 BKN040 BECMG 0710/0712 NSW LPAZ 061100Z 0612/0718 03005KT 9999 FEW020 BKN030 TEMPO 0612/0718 SCT020 TEMPO 0612/0703 VRB05KT BECMG 0703/0706 27010KT LPBJ 061101Z 0612/0712 05010KT CAVOK BECMG 0619/0621 02005KT LPFR 061100Z 0612/0712 09012KT CAVOK BECMG 0617/0619 VRB03KT BECMG 0701/0703 02005KT BECMG 0710/0712 24008KT LPLA 061100Z 0612/0712 VRB05KT 9999 BKN030 TEMPO 0612/0712 SCT030 BECMG 0700/0702 22008KT LPMA 061100Z 0612/0712 01015KT 9999 SCT015 SCT030 TEMPO 0612/0618 01020G30KT PROB40 TEMPO 0612/0618 01025G35KT 5000 SHRA BKN013 FEW016TCU LPMR 061100Z 0612/0712 35005KT CAVOK BECMG 0619/0621 VRB02KT 3000 BR SCT004 PROB40 0700/0709 0500 FG BKN002 BECMG 0710/0712 34005KT 9999 NSW SCT020 LPMT 061100Z 0612/0712 02010KT CAVOK BECMG 0619/0621 01005KT LPOV 061100Z 0612/0712 35008KT CAVOK BECMG 0619/0621 VRB02KT PROB30 0700/0709 2000 BR SCT004 BECMG 0709/0711 BKN020 LPPD 061100Z 0612/0712 VRB05KT 9999 SCT020 TEMPO 0612/0712 FEW025 BKN035 BECMG 0703/0706 27010KT LPPR 061100Z 0612/0712 VRB03KT CAVOK BECMG 0612/0615 32008KT BECMG 0618/0621 VRB03KT 5000 BR FEW005 PROB30 TEMPO 0700/0709 1200 PRFG BKN002 BECMG 0709/0712 09007KT 9999 NSW BKN015 LPPS 061100Z 0612/0718 02018KT 9999 SCT015 BKN030 PROB40 TEMPO 0612/0618 02020G30KT 8000 SHRA BKN012 FEW018TCU BECMG 0700/0703 03010KT LPPT 061100Z 0612/0718 03012KT CAVOK BECMG 0617/0620 33008KT BECMG 0702/0705 VRB03KT BECMG 0709/0712 06007KT BECMG 0716/0718 33008KT LQBK 061302Z 0613/0712 06004KT 4000 BR SCT040 TX09/0712Z TN01/0706Z TEMPO 0616/0710 1500 BKN010 PROB30 TEMPO 0700/0708 0600 FG VV002 LQMO 061100Z 0612/0712 15005KT 9999 BKN050 TX12/0613Z TN06/0706Z TEMPO 0613/0706 4000 RA PROB40 TEMPO 0622/0703 4000 SHRA FEW010 FEW035TCU BKN040 LQSA 061100Z 0612/0712 VRB02KT 2000 BR SCT006 TX07/0712Z TNM00/0612Z TEMPO 0613/0616 5000 BECMG 0618/0620 1000 BKN004 PROB40 TEMPO 0623/0706 3000 RA BKN015 BKN030 PROB30 TEMPO 0703/0706 FZRA BECMG 0706/0709 6000 NSW SCT010 BKN030 LQTZ 061100Z 0612/0712 VRB02KT 0300 FZFG OVC001 TX08/0712Z TNM00/0612Z BECMG 0612/0613 3000 BR BKN005 TEMPO 0612/0618 7000 NSW SCT020 PROB40 TEMPO 0621/0706 0800 -RA FG BKN002 OVC008 LRBO 061100Z 0612/0712 22016KT 9999 SKC TEMPO 0615/0617 5000 BR BECMG 0616/0618 22006KT BECMG 0623/0701 3000 BR PROB30 TEMPO 0705/0708 0500 FG OVC003 BECMG 0708/0710 9999 LRBS 061100Z 0612/0712 25010KT CAVOK BECMG 0619/0621 3000 BR BKN005 PROB40 TEMPO 0622/0706 0800 FZFG OVC002 BECMG 0707/0709 CAVOK LRCK 061100Z 0612/0712 25008KT CAVOK TEMPO 0702/0706 3000 BR BKN010 LRCT 061100Z 0612/0712 VRB03KT 0300 FZFG VV002 TEMPO 0612/0616 2000 BR BKN005 LROP 061100Z 0612/0712 25010KT CAVOK BECMG 0619/0621 3000 BR BKN005 PROB40 TEMPO 0622/0706 0800 FZFG OVC002 BECMG 0707/0709 CAVOK LRSB 061100Z 0612/0712 VRB04KT CAVOK TEMPO 0700/0706 3000 BR LRTR 061100Z 0612/0712 VRB04KT 3000 BR BKN005 PROB40 TEMPO 0612/0615 0800 FZFG OVC002 BECMG 0616/0618 1500 BECMG 0618/0620 0600 FZFG OVC002 TEMPO 0620/0624 0350 FZFG VV001 BECMG 0700/0702 1500 BR BKN005 BKN040 TEMPO 0706/0710 3000 -RA BR BKN010 OVC040 LRTZ 061100Z 0612/0712 21012KT 9999 SKC TEMPO 0700/0706 3000 BR BECMG 0706/0708 SCT100 LSGG 061125Z 0612/0718 VRB03KT 9999 FEW030 TX06/0614Z TN02/0705Z TX08/0714Z BECMG 0618/0621 23010KT LSMA 060925Z 0610/0716 VRB03KT 2500 BR BKN003 BECMG 0610/0611 6000 SCT005 BECMG 0611/0613 CAVOK BECMG 0619/0622 9999 BKN060 PROB40 TEMPO 0701/0711 RA LSMD 060925Z 0610/0716 25005KT 0500 FZFG VV001 BECMG 0610/0612 4000 BR SCT003 BECMG 0612/0614 CAVOK BECMG 0619/0622 9999 BKN060 PROB30 TEMPO 0623/0710 RA LSME 060925Z 0610/0716 23007KT 6000 SCT003 PROB40 0610/0612 4000 BR BKN003 BECMG 0611/0614 CAVOK BECMG 0620/0623 9999 BKN060 PROB40 TEMPO 0701/0711 RA LSMM 060925Z 0610/0716 VRB03KT CAVOK BECMG 0619/0622 9999 BKN060 PROB40 TEMPO 0701/0711 RA LSMP 060925Z 0610/0716 VRB03KT 2500 BR OVC003 BECMG 0611/0613 6000 SCT025 BECMG 0615/0617 23010KT LSZH 061125Z 0612/0718 20007KT 9000 FEW001 TX06/0614Z TN04/0701Z TX09/0713Z BECMG 0612/0614 CAVOK BECMG 0620/0623 9999 BKN060 PROB30 TEMPO 0623/0710 RA PROB30 0716/0718 CAVOK LTAC 061040Z 0612/0712 VRB02KT 9999 SCT040 BECMG 0615/0618 CAVOK BECMG 0706/0708 SCT040 LTAG 061040Z 0612/0712 VRB02KT CAVOK= LTAP 061040Z 0612/0712 VRB02KT 9999 SCT040 BECMG 0618/0620 CAVOK LTAI 061040Z 0612/0712 34008KT CAVOK LTAJ 061040Z 0612/0712 03012KT 9999 SCT020 BKN080 BECMG 0617/0619 VRB02KT BECMG 0622/0624 CAVOK BECMG 0710/0712 FEW040 BKN100 LTAP 061040Z 0612/0712 VRB02KT 9999 SCT040 BECMG 0618/0620 CAVOK LTAT 061040Z 0612/0712 VRB02KT 9999 -RA BKN035 OVC090 BECMG 0612/0614 SCT040 BKN100 PROB30 TEMPO 0702/0706 4000 BR LTAU 061040Z 0612/0712 VRB02KT 9999 SCT040 BKN100 BECMG 0617/0620 CAVOK PROB40 TEMPO 0701/0705 2500 BR SCT010 BECMG 0706/0709 FEW040 BKN180 LTAZ 061040Z 0612/0712 VRB02KT 9999 SCT040 BKN100 BECMG 0616/0618 CAVOK PROB40 TEMPO 0701/0705 3200 BR BECMG 0706/0709 FEW040 BKN180 LTBA 061040Z 0612/0718 05005KT CAVOK BECMG 0705/0708 20012KT SCT035 BKN100 TEMPO 0714/0718 -SHRA BKN020 BKN080 LTBJ 061040Z 0612/0712 35012KT CAVOK TEMPO 0612/0615 36015G25KT BECMG 0618/0621 VRB02KT LTBR 061040Z 0612/0712 08012KT CAVOK BECMG 0615/0618 VRB02KT PROB40 0702/0706 3500 BR LTBS 061040Z 0612/0712 VRB02KT CAVOK LTBU 061040Z 0612/0712 01007KT 9999 SCT030 BECMG 0612/0615 CAVOK BECMG 0700/0703 4000 BR SCT012 PROB30 TEMPO 0703/0707 1200 BCFG BKN006 BECMG 0707/0709 9999 NSW BKN020 BKN080 LTCC 061040Z 0612/0712 04009KT 9999 -RA BKN035 OVC090 BECMG 0622/0624 SCT040 BKN100 BECMG 0704/0706 CAVOK TEMPO 0704/0707 1200 BCFG BKN010 LTCE 061040Z 0612/0712 07012KT 9999 SCT035 BKN070 BECMG 0616/0619 CAVOK LTCG 061040Z 0612/0712 VRB02KT 9999 SCT035 PROB40 0615/0618 4000 BR LTCJ 061040Z 0612/0712 03008KT 9999 -RA BKN035 OVC090 BECMG 0616/0618 SCT040 BKN100 TEMPO 0618/0621 -RA FEW015 BKN035 OVC080 TEMPO 0621/0624 -RA FEW015 BKN035 OVC080 BECMG 0702/0704 CAVOK PROB40 TEMPO 0704/0707 1200 BCFG BKN010= LTCS 061040Z 0612/0712 02016KT 7000 -RA SCT007 BKN025 BECMG 0618/0620 02006KT SCT030 BKN090 BECMG 0703/0705 CAVOK LTFC 061040Z 0612/0712 VRB02KT CAVOK TEMPO 0704/0708 4000 BR BKN010 LTFE 061040Z 0612/0712 VRB02KT CAVOK LTFJ 061040Z 0612/0712 VRB02KT CAVOK LTFM 061040Z 0612/0718 VRB02KT 9999 SCT032 BECMG 0618/0621 CAVOK BECMG 0709/0712 21012KT SCT025 BKN080 TEMPO 0715/0718 -SHRA BKN020 BKN080 LUKK 061120Z 0612/0712 21012KT CAVOK BECMG 0700/0702 19006KT 4100 BR PROB40 TEMPO 0702/0707 0300 FZFG VV/// BECMG 0708/0709 CAVOK LWOH 061130Z 0612/0712 VRB02KT 9999 SCT050 TEMPO 0620/0706 RA SCT020 OVC040 LWSK 061130Z 0612/0712 VRB02KT 9999 FEW050 TEMPO 0622/0706 RA SCT020 OVC040 LYBE 061100Z 0612/0712 16004KT 2000 BR OVC002 TX03/0712Z TNM01/0620Z BECMG 0612/0614 5000 BKN006 TEMPO 0618/0706 2000 OVC003 BECMG 0709/0711 7000 NSW SCT010 SCT030 LYBT 061100Z 0612/0712 15004KT 1500 BR OVC002 TX03/0712Z TNM01/0606Z BECMG 0613/0615 3000 BKN006 TEMPO 0618/0706 1500 BR OVC002 BECMG 0709/0711 6000 NSW SCT010 LYKV 061100Z 0612/0712 17004KT 9999 SCT040 TX10/0712Z TNM02/0701Z TEMPO 0702/0709 5000 -RA BR BKN015 BKN035 LYNI 061100Z 0612/0712 17005KT CAVOK TX09/0613Z TN01/0705Z TEMPO 0623/0713 5000 RA BKN013 BKN025 LYPG 061100Z 0612/0712 16005KT 9999 BKN040 OVC080 TX12/0613Z TN08/0705Z TEMPO 0615/0710 3000 RA BR PROB30 TEMPO 0620/0703 2000 TSRA FEW030CB BKN040 LYTV 061100Z 0612/0712 15008KT 9999 FEW030 SCT040 OVC080 TX15/0613Z TN07/0704Z TEMPO 0614/0709 4000 RA PROB40 TEMPO 0620/0706 VRB15G25KT 2000 TSRA FEW010 SCT027CB BKN033 LYUZ 061100Z 0612/0712 26004KT 8000 NSC TX07/0612Z TNM01/0606Z BECMG 0621/0623 BKN013 TEMPO 0701/0709 3000 -RA BR BKN010 LYVR 061100Z 0612/0712 05005KT 5000 BR SCT006 TX06/0712Z TNM01/0618Z BECMG 0612/0614 8000 NSW TEMPO 0616/0703 2000 BR BKN003 LZIB 061100Z 0612/0712 12010KT 6000 SCT007 OVC010 BECMG 0616/0618 06004KT BECMG 0618/0620 2400 BR OVC005 BECMG 0623/0701 1100 BCFG OVC003 TEMPO 0702/0708 0400 FZFG OVC001 LZKZ 061100Z 0612/0712 19010KT 2000 BR OVC005 BECMG 0618/0620 18005KT 0800 FZFG SCT001 OVC003 TEMPO 0700/0708 0200 FZFG OVC001 BECMG 0708/0710 20012KT 4000 BR SCT005 BKN009 LZTT 061100Z 0612/0712 14005KT CAVOK BECMG 0616/0618 VRB02KT 5000 BR SCT005 BECMG 0709/0711 26015KT 9999 BKN033 BKN060 MBGT 061040Z 0612/0712 03007KT 9999 VCSH SCT018 SCT040 BKN250 PROB30 TEMPO 0618/0622 06015KT 7000 SHRA SCT016 BKN030 MBPV 061040Z 0612/0712 03007KT 9999 VCSH SCT018 SCT040 BKN250 PROB30 TEMPO 0618/0622 06015KT 7000 SHRA SCT016 BKN030 MDBH 061000Z 0612/0712 13008KT 9999 FEW016CB SCT018 SCT300 PROB30 TEMPO 0612/0618 8000 -TSRA FEW014CB BKN016 BKN070 MDCY 061000Z 0612/0712 00000KT 9999 FEW016CB SCT018 PROB30 TEMPO 0612/0618 6000 TSRA FEW014CB BKN018 BECMG 0618/0620 06008KT MDJB 061000Z 0612/0712 00000KT 9999 FEW016 BECMG 0616/0618 18010KT PROB30 0618/0700 TSRA -7000 FEW014CB SCT016 MDLR 061000Z 0612/0712 00000KT 9999 FEW016CB SCT018 PROB30 0617/0621 6000 TSRA FEW014CB BKN018 SCT300 BECMG 0616/0618 13008KT MDPC 061000Z 0612/0712 00000KT 9999 FEW018 SCT070 BECMG 0613/0615 12005KT PROB30 0617/0623 8000 -TSRA FEW016CB SCT018 BKN070 MDPP 061000Z 0612/0712 06010KT 9999 SCT018 PROB40 0612/0618 7000 -RA FEW016CB BKN018 MDSD 061000Z 0612/0712 01005KT 9999 FEW016 BECMG 0616/0618 14006KT PROB30 TEMPO 0618/0700 7000 -TSRA FEW014CB BKN018 MDST 061000Z 0612/0712 11007KT 9999 SCT023 SCT300 TEMPO 0613/0615 2000 BR BKN010 PROB30 0617/0623 4000 TSRA FEW014CB BKN016 MHLC 060415Z 0606/0706 VRB02KT 9999 FEW026 SCT080 TX29/0620Z TN20/0612Z BECMG 0617/0619 06008KT SCT024TCU BKN080 TEMPO 0700/0706 6000 VCSH MHLM 060415Z 0606/0706 VRB02KT 9999 BKN025 TX30/0620Z TN21/0612Z BECMG 0615/0617 02010KT SCT026 BKN080 BECMG 0701/0703 8000 VCSH MHRO 060415Z 0606/0706 09014KT 9999 SCT022 TX28/0618Z TN23/0612Z BECMG 0700/0702 03012KT MHSC 060713Z 0613/0719 35009KT 9999 SCT040 QNH3012INS BECMG 0615/0616 36010G18KT 9999 FEW180 QNH3000INS BECMG 0700/0701 36006KT 9999 FEW060 QNH3008INS BECMG 0712/0713 35009KT 9999 SCT040 QNH3012INS BECMG 0715/0716 36010G18KT 9999 FEW040 QNH3006INS TX29/0620Z TN17/0711Z MHTG 060415Z 0606/0706 36004KT 9999 FEW008 BKN024 TX27/0620Z TN15/0612Z BECMG 0612/0614 SCT028 BECMG 0617/0619 36014KT BECMG 0701/0703 36004KT BKN026 MKJP 061115Z 0612/0712 36005KT 9999 FEW020 FEW022CB BECMG 0614/0616 14015KT BECMG 0701/0703 35005KT MKJS 061115Z 0612/0712 11005KT 9999 FEW020 BECMG 0613/0615 04015KT TEMPO 0619/0624 SHRA BKN020 BKN036 BECMG 0702/0704 14005KT FEW022 MMAA 061313Z 0613/0718 12010KT P6SM BKN010CB OVC080 TX30/0620Z TN26/0712Z TEMPO 0613/0615 4SM TSRA FM061600 20010KT P6SM SCT020CB BKN100 BKN230 FM061800 00000KT P6SM SCT015 BKN250 BECMG 0702/0703 00000KT FM071400 24010KT P6SM SCT230 MMAN 061323Z 0613/0706 32008KT P6SM SKC FM070200 36012KT P6SM BKN030 MMAS 060446Z 0606/0706 05006KT P6SM SKC FM061800 04010KT P6SM SCT250 FM070500 05006KT P6SM SKC MMBT 060452Z 0606/0706 25005KT P6SM SCT030 FM061800 18010KT P6SM SCT030 BKN250 FM070500 00000KT P6SM SCT030 MMCB 060452Z 0606/0706 34005KT P6SM SKC FM061800 06007KT P6SM SCT025 SCT250 FM070500 00000KT P6SM SKC MMCE 060507Z 0606/0706 04006KT P6SM SKC TEMPO 0611/0615 3SM BR BKN010 FM061800 12014KT P6SM SCT030 BKN080 FM070500 02008KT P6SM SCT010 MMCL 060513Z 0606/0706 00000KT P6SM SKC FM061800 26008KT P6SM SCT240 BECMG 0703/0705 03005KT SKC MMCM 060507Z 0606/0706 11005KT P6SM SKC FM061800 13010KT P6SM SCT020 BKN100 FM070500 09005KT P6SM SKC MMCN 060438Z 0606/0706 22005KT P6SM SCT100 FM061800 33010KT P6SM SCT100 BKN250 FM070500 30005KT P6SM SCT100 MMCP 060507Z 0606/0706 000000KT P6SM SKC BECMG 0611/0612 09010KT FM061800 34010KT P6SM SCT030 SCT250 FM070500 34006KT P6SM SKC MMCS 060551Z 0606/0706 32005KT P6SM SKC FM061800 12010KT P6SM SCT030 SCT240 BECMG 0703/0705 08005KT SKC MMCU 060551Z 0606/0706 17004KT P6SM SCT080 BKN200 FM061800 13008KT P6SM SCT030 SCT080 BKN220 BECMG 0703/0705 22006KT MMCV 061305Z 0613/0706 00000KT 1/2SM FG BKN005 FM061500 30005KT 2SM BR HZ BKN008 FM061800 02016KT 6SM HZ BKN015 FM070500 36010KT 6SM HZ SCT012 BKN020 BKN080 MMCZ 061029Z 0612/0718 00000KT P6SM SCT015 FM061800 05008KT P6SM SCT015 SCT250 FM070600 08006KT P6SM SCT015 BECMG 0711/0713 06008KT MMDO 060438Z 0606/0706 20005KT P6SM SKC FM061800 04010KT P6SM SCT080 BKN250 FM070500 04005KT P6SM SKC MMEP 061208Z 0612/0706 00000KT P6SM SKC FM061800 36008KT P6SM SCT025 FM070500 02004KT P6SM SKC MMGL 061011Z 0612/0718 00000KT P6SM SKC TX27/0621Z TN08/0612Z FM061800 12008KT P6SM SCT025 FM070600 09005KT P6SM SKC BECMG 0711/0713 13004KT MMGM 060438Z 0606/0706 00000KT P6SM SCT140 FM061800 28010KT P6SM BKN140 OVC250 FM070500 00000KT P6SM SCT120 MMHO 060513Z 0606/0706 34006KT P6SM SCT200 FM061800 24008KT P6SM SCT090 SCT220 BECMG 0703/0705 33005KT MMIA 060446Z 0606/0706 00000KT 6SM HZ SKC FM061800 24010KT P6SM SCT020 SCT250 FM070500 00000KT 6SM HZ SKC MMIO 060551Z 0606/0706 00000KT P6SM SKC FM061200 03005KT 5SM HZ SCT020 FM061800 36008KT P6SM SCT200 BECMG 0703/0705 04005KT MMLM 060438Z 0606/0706 30008KT P6SM SCT120 FM061800 31015KT P6SM BKN100 BKN250 FM070500 30005KT P6SM SCT120 MMLO 060446Z 0606/0706 06005KT P6SM SCT250 FM061800 04010KT P6SM BKN250 FM070500 05005KT P6SM SKC MMLP 060513Z 0606/0706 01004KT P6SM SKC FM061800 02010KT P6SM SCT090 SCT220 BECMG 0703/0705 33005KT MMLT 060438Z 0606/0706 00000KT P6SM SCT250 FM061800 03010KT P6SM BKN080 BKN250 FM070500 00000KT P6SM SCT250 MMMA 060535Z 0606/0706 12005KT 1/4SM FG VV003 FM061500 36012KT 3SM BR HZ SCT004 BKN008 FM061800 36016KT 6SM HZ SCT010 BKN018 BKN080 FM070500 03008KT 4SM HZ BKN015 MMMD 061029Z 0612/0718 08004KT P6SM SKC TX30/0621Z TN18/0612Z FM061800 04008KT P6SM SCT025 SCT250 FM070600 08004KT P6SM SCT250 BECMG 0711/0713 00000KT MMML 060513Z 0606/0706 31004KT P6SM SCT200 FM061800 03008KT P6SM SCT080 SCT220 BECMG 0703/0705 28005KT MMMM 061316Z 0613/0718 00000KT 3SM BR HZ SKC TEMPO 0613/0615 2SM BR FM061600 03008KT P6SM SCT030 FM070600 35004KT P6SM SKC BECMG 0711/0713 02004KT MMMT 060507Z 0606/0706 36008KT P6SM SKC TEMPO 0611/0615 2SM BR BKN010 FM061800 36016KT P6SM SCT020 BKN080 FM070500 36018KT P6SM SCT030 SCT080 MMMX 061003Z 0612/0718 08004KT P6SM SKC TX24/0621Z TN08/0612Z TEMPO 0613/0617 5SM HZ FU FM061800 03008KT P6SM SKC FM070600 01004KT P6SM SKC BECMG 0711/0713 01004KT MMMY 061031Z 0612/0718 28004KT P6SM SKC TX27/0621Z TN13/0612Z FM061800 36008KT P6SM SCT020 SCT200 FM070600 08005KT P6SM SCT200 BECMG 0711/0713 34005KT MMMZ 061023Z 0612/0718 04004KT 6SM HZ SKC TX29/0621Z TN18/0612Z TEMPO 0612/0615 2 1/2SM BR SCT015 FM061500 02005KT 5SM HZ SCT090 SCT240 FM070600 35005KT P6SM SKC BECMG 0711/0713 08004KT MMNL 060535Z 0606/0706 00000KT 5SM HZ SCT015 TEMPO 0611/0615 3/4SM BR HZ OVC005 FM061800 36014KT P6SM BKN012 BKN250 FM070500 02008KT 6SM HZ SCT020 BKN080 MMOX 060452Z 0606/0706 00000KT P6SM SKC FM061800 36014KT P6SM SCT030 BKN250 FM070500 35008KT P6SM SCT030 BKN080 MMPA 060535Z 0606/0706 08006KT 4SM HZ SCT010 TEMPO 0611/0615 1/2SM FG VV003 FM061800 36012KT 5SM HZ BKN015 OVC070 FM070500 36008KT 5SM HZ SCT015 BKN080 MMPB 060452Z 0606/0706 30005KT P6SM SKC FM061800 35012KT P6SM SCT030 BKN250 FM070500 34008KT P6SM SCT020 SCT250 MMPG 060535Z 0606/0706 10006KT P6SM SCT060 FM061800 02012KT P6SM SCT080 BKN250 FM070500 04005KT P6SM SKC MMPN 060446Z 0606/0706 00000KT P6SM SCT030 TEMPO 0611/0615 3SM BR HZ BKN015 FM061800 18010KT P6SM BKN030 FM070500 00000KT P6SM SCT030 MMPQ 060507Z 0606/0706 00000KT 4SM HZ SCT040 TEMPO 0611/0615 2SM BR HZ BKN010 FM061800 36012KT 5SM HZ BKN040 FM070500 36010KT 5SM HZ BKN030 MMPR 061011Z 0612/0718 00000KT P6SM SKC TX28/0620Z TN22/0612Z FM061800 22008KT P6SM SCT090 FM070600 26004KT P6SM SKC BECMG 0711/0713 00000KT MMPS 060452Z 0606/0706 08005KT P6SM SCT090 FM061800 24010KT P6SM SCT012 BKN100 BKN250 FM070500 34005KT P6SM SCT100 MMQT 060446Z 0606/0706 00000KT 6SM HZ SKC TEMPO 0611/0615 3SM BR BKN012 FM061800 04010KT P6SM SCT020 SCT250 FM070500 00000KT P6SM SKC MMRX 060535Z 0606/0706 12006KT 3SM BR HZ BKN010 TEMPO 0611/0615 1/4SM FG VV003 FM061500 36012KT 3SM BR HZ SCT004 BKN008 FM061800 36016KT 6SM HZ SCT010 BKN018 BKN080 FM070500 03008KT 5SM HZ BKN020 MMSD 060438Z 0606/0706 25005KT P6SM SCT250 FM061800 30010KT P6SM BKN250 FM070500 24005KT P6SM SCT250 MMSL 060438Z 0606/0706 30005KT P6SM SCT250 FM061800 24010KT P6SM BKN250 FM070500 30005KT P6SM SCT250 MMSP 061011Z 0612/0718 00000KT 6SM HZ SKC TX26/0621Z TN06/0612Z FM061800 02008KT P6SM SKC FM070600 15005KT P6SM SKC BECMG 0711/0713 13004KT MMTC 060551Z 0606/0706 00000KT P6SM SKC FM061800 03008KT P6SM SCT080 SCT220 BECMG 0703/0705 08005KT MMTG 060523Z 0606/0706 00000KT P6SM SCT080 TEMPO 0612/0615 3SM BR FM061800 03008KT P6SM SCT030 SCT090 BECMG 0703/0705 02005KT MMTJ 061023Z 0612/0718 00000KT P6SM OVC200 TX19/0621Z TN13/0612Z FM061800 23008KT P6SM SCT025 BKN220 FM070600 35005KT P6SM SCT220 BECMG 0711/0713 00000KT MMTM 061249Z 0613/0706 26005KT 1/4SM FG VV001 FM061500 15006KT 2SM BR BKN015 FM061800 12010KT P6SM SCT015 BECMG 0703/0705 12005KT MMTO 061003Z 0612/0718 08004KT 1/4SM FG VV002 TX21/0621Z TN03/0612Z FM061500 02005KT 3SM BR SCT015 FM061800 06008KT 6SM HZ SCT020 FM070600 08005KT P6SM SKC BECMG 0710/0712 08004KT 4SM BR MMTP 061029Z 0612/0718 00000KT P6SM SCT200 FM061800 24008KT P6SM SCT090 SCT220 FM070600 03005KT P6SM SCT220 BECMG 0711/0713 02004KT MMUN 061029Z 0612/0718 30004KT 6SM HZ SKC TX28/0619Z TN17/0612Z FM061800 06008KT P6SM SCT015 BKN250 FM070600 08010KT P6SM SCT250 BECMG 0711/0713 03005KT MMVA 060507Z 0606/0706 06006KT 6SM HZ SKC TEMPO 0611/0615 3SM BR HZ BKN008 FM061800 36012KT P6SM SCT012 SCT250 FM070500 36015KT 6SM HZ SCT015 SCT080 MMVR 060527Z 0606/0706 00000KT 3SM BR SCT010 TX28/0620Z TN20/0612Z TEMPO 0611/0615 1 1/2SM BR SCT006 FM061800 12008KT 6SM HZ SCT015 BECMG 0703/0705 36005KT MMZC 061011Z 0612/0718 00000KT P6SM SKC TX23/0621Z TN05/0612Z FM061800 03010KT P6SM SKC FM070600 06005KT P6SM SKC BECMG 0711/0713 08005KT MMZH 060452Z 0606/0706 00000KT P6SM SCT250 FM061800 23010KT P6SM SCT020 BKN080 FM070500 00000KT P6SM SCT250 MMZO 060455Z 0606/0706 00000KT P6SM SKC FM061800 25010KT P6SM SCT025 BECMG 0703/0705 26004KT SKC MNMG 060400Z 0606/0706 15006KT 9999 FEW022 BECMG 0614/0616 08010G22KT SCT022 MPDA 061100Z 0612/0624 22007KT 9999 SCT018 TEMPO 0613/0615 VRB02KT PROB30 0619/0623 19011KT 7000 SHRA SCT018CB SCT090 MPMG 061100Z 0612/0624 33008KT 9999 SCT018 PROB30 0619/0622 18006KT 7000 SHRA SCT016CB SCT090 MPPA 061100Z 0612/0718 34008KT 9999 SCT018 TEMPO 0612/0614 00000KT PROB30 0619/0622 19007KT 7000 SHRA SCT016CB SCT090 MPSM 061100Z 0612/0718 35007KT 9999 SCT020 PROB30 0619/0622 16007KT 7000 SHRA SCT016CB SCT090 MPTO 061100Z 0612/0718 29007KT 9999 SCT018 TEMPO 0612/0614 00000KT PROB30 0618/0622 18008KT 7000 SHRA SCT016CB SCT090 MRLB 061100Z 0612/0712 08010KT 9999 FEW040 TX32/0518Z TN21/0711Z TEMPO 0612/0615 25005KT TEMPO 0617/0702 10015KT BKN030 MRLM 061100Z 0612/0712 24005KT 9999 SCT020 SCT120 TX29/0620Z TN21/0710Z TEMPO 0612/0615 31006KT DZ TEMPO 0614/0619 02006KT 5000 RA BKN020 TEMPO 0622/0624 05004KT MROC 061100Z 0612/0712 11012KT 9999 FEW030 TX28/0518Z TN20/0709Z TEMPO 0615/0622 09010G20KT DZ BKN030 MRPV 061100Z 0612/0712 10014KT 9999 SCT030 TX26/0617Z TN19/0709Z TEMPO 0616/0720 RA BKN030 MSLP 060925Z 0612/0712 04010KT CAVOK TX34/0618Z TN23/0710Z FM061900 24008KT 9999 FEW060 FM070000 VRB02KT 9999 SCT065 FM070600 04004KT CAVOK MSSS 060925Z 0612/0712 35008KT CAVOK TX30/0619Z TN20/0711Z FM061800 9999 FEW037 TEMPO 0621/0701 18006KT FM070100 34006KT 9999 SCT060 FM070600 CAVOK MTCH 061249Z 0612/0712 VRB02KT 9000 FEW020 BECMG 0614/0618 03012KT PROB30 TEMPO 0700/0704 4500 SHRA SCT020CB BKN040 BECMG 0708/0712 VRB02KT 9000 FEW022 MTPP 061242Z 0612/0712 VRB02KT 8000 FEW022 BECMG 0614/0618 09014KT BECMG 0619/0623 27010KT PROB30 TEMPO 0700/0704 4500 SHRA SCT022CB SCT040 BECMG 0708/0712 VRB02KT 9000 FEW016 MUCC 061100Z 0612/0712 VRB03KT 9000 SCT020 BECMG 0615/0617 06010KT BECMG 0701/0703 VRB03KT MUCF 061100Z 0612/0624 VRB03KT 9000 SCT020 BECMG 0615/0617 36010KT MUCL 061100Z 0612/0624 04012KT 9000 SCT020 MUCM 061100Z 0612/0712 02010KT 9000 SCT020 BECMG 0701/0703 VRB03KT MUCU 061100Z 0612/0712 VRB03KT 9000 SCT020 BECMG 0615/0617 18007KT BECMG 0701/0703 36006KT MUGM 0607/0707 34007KT 9999 FEW025 FEW100 QNH2999INS BECMG 0616/0618 10012KT 9999 FEW030 FEW100 SCT250 QNH2996INS FM062300 VRB05KT 9999 FEW030 SCT250 QNH3000INS FM070300 35006KT 9999 SKC QNH3002INS T22/0610Z T31/0619Z FN00216 MUHA 061100Z 0612/0712 04005KT 9000 SCT030 MUHG 061100Z 0612/0712 VRB03KT 9000 SCT020 BECMG 0615/0617 05010KT BECMG 0701/0703 VRB03KT MUSC 061100Z 0612/0712 VRB03KT 9000 SCT020 BECMG 0615/0617 06008KT BECMG 0701/0703 VRB03KT MUVR 061100Z 0612/0712 VRB03KT 9000 SCT020 BECMG 0615/0617 09008KT BECMG 0701/0703 VRB03KT MWCB 061100Z 0612/0712 11012KT 9999 FEW020 BECMG 0618/0620 SCT018 MWCR 061100Z 0612/0712 11012KT 9999 FEW020 BECMG 0618/0620 SCT018 MYGF 061040Z 0612/0712 VRB02KT 9999 FEW030 BKN250 BECMG 0614/0616 12010KT SCT040 BKN200 BECMG 0701/0703 VRB02KT MYNN 061040Z 0612/0712 VRB02KT 9999 SCT035 SCT200 BECMG 0618/0620 09008KT SCT040 BKN200 BECMG 0702/0704 VRB02KT MZBZ 061100Z 0612/0712 32003KT 9999 FEW020 SCT045 BECMG 0615/0617 07008KT BECMG 0705/0707 VRB03KT NCRG 061121Z 0612/0712 09007KT 9999 SCT016 SCT050 NFFN 061106Z 0612/0712 11005KT 9999 FEW030 SCT050 BKN100 BECMG 0621/0623 30012KT PROB40 TEMPO 0700/0706 5000 TSRA BKN015 FEW018CB BECMG 0704/0706 09005KT NFNA 061105Z 0612/0712 10005KT 9999 -SHRA SCT025 SCT050 PROB30 TEMPO 0612/0620 5000 SHRA BKN015 PROB30 TEMPO 0701/0707 5000 SHRA BKN015 NFTF 061108Z 0612/0712 08005KT 9999 FEW008 SCT015 NFTV 061111Z 0612/0712 10005KT 9999 SCT017 NGFU 061126Z 0612/0712 06006KT 9999 -SHRA FEW020 TEMPO 0612/0619 3000 TSRA BKN015 SCT016CB PROB40 TEMPO 0619/0706 5000 TSRA BKN015 FEW016CB NGTA 061125Z 0612/0712 31005KT 9999 -SHRA SCT018 SCT040 OVC100 PROB40 TEMPO 0612/0620 5000 TSRA BKN015 FEW018CB PROB40 TEMPO 0702/0706 5000 TSRA BKN015 FEW018CB NIUE 061112Z 0612/0712 09005KT 9999 SCT020 NLWF 061100Z 0612/0712 07010KT 9999 SCT022 BKN030 PROB40 TEMPO 0612/0712 SHRA BKN014 FEW018TCU PROB30 0612/0618 07015G25KT 3000 SHRA BKN007 SCT016CB PROB30 0622/0703 09015G25KT 3000 SHRA BKN010 SCT016CB NLWW 061100Z 0612/0712 09010KT 9999 BKN020 BKN030 PROB40 TEMPO 0612/0706 SHRA BKN014 FEW017TCU PROB30 0612/0618 2000 SHRA BKN008 BKN017TCU FEW018CB NSFA 061118Z 0612/0712 VRB03KT 9999 -SHRA SCT020 BKN100 PROB40 TEMPO 0612/0618 5000 TSRA BKN015 FEW017CB PROB40 TEMPO 0623/0712 5000 TSRA BKN015 FEW018CB NSTU 061120Z 0612/0712 11011KT P6SM VCSH SCT019 SCT025 SCT120 NTAA 061100Z 0612/0718 VRB03KT 9999 FEW023 SCT050 TEMPO 0612/0718 20015KT 3000 SHRA FEW015CB SCT020 BKN045 PROB30 TEMPO 0612/0718 VRB20G35KT 1000 TSRA FEW010 SCT014CB BKN017 OVC035 NVSC 061000Z 0612/0712 07010KT 9999 SCT020 PROB30 INTER 0615/0618 8000 SHRA BKN018 NVSG 061000Z 0612/0712 06010KT 9999 SCT020 PROB30 INTER 0612/0618 9000 -SHRA BKN018 NVSL 061000Z 0612/0712 05010KT 9999 SCT020 PROB30 INTER 0612/0618 9000 -SHRA BKN018 NVSP 061000Z 0612/0712 06010KT 9999 SCT020 PROB30 INTER 0612/0618 9000 -SHRA BKN018 NVSS 061000Z 0612/0712 04510KT 9999 SCT018 BKN040 PROB40 INTER 0612/0618 8000 -SHRA BKN018 NVVA 061000Z 0612/0712 04510KT 9999 SCT018 OVC040 INTER 0612/0618 8000 SHRA SCT008 BKN016 OVC038 NVVV 061000Z 0612/0712 06010KT 9999 SCT018 BKN040 PROB40 INTER 0612/0614 9000 -SHRA BKN018 NVVW 061000Z 0612/0712 07010KT 9999 SCT018 BKN040 INTER 0612/0615 8000 SHRA FEW008 BKN016 OVC038 NWWD 060500Z 0606/0706 20010KT 9999 FEW020TCU BKN060 PROB40 TEMPO 0606/0608 4000 SHRA BECMG 0608/0610 VRB02KT SCT040 BECMG 0623/0701 21010KT NWWE 061028Z 0610/0706 CNL NWWK 060500Z 0606/0706 15012KT 9999 BKN060 PROB40 TEMPO 0606/0609 SHRA BECMG 0610/0612 VRB02KT BECMG 0623/0701 17014KT NWWL 061100Z 0612/0712 14008KT 9999 SCT013 BKN020 BKN030 PROB40 0612/0621 SHRA BKN013 PROB30 TEMPO 0615/0620 BKN007 FM062200 10008KT 9999 FEW025 SCT032 TEMPO 0622/0706 SHRA BKN010 SCT017TCU BKN020 BKN030 NWWM 061100Z 0612/0712 08010KT 9999 FEW030 SCT064 PROB30 TEMPO 0615/0621 SHRA BKN014 BECMG 0622/0624 16014KT TEMPO 0700/0706 4000 SHRA FEW020TCU NWWR 061100Z 0612/0712 11008KT 9999 SCT018 BKN030 PROB40 0612/0706 4500 SHRA BKN012 SCT018TCU BKN020 PROB30 TEMPO 0615/0620 BKN007 NWWV 061028Z 0610/0706 CNL NWWW 061100Z 0612/0712 VRB02KT 9999 FEW050 SCT064 BECMG 0622/0624 16014KT TEMPO 0700/0706 4000 SHRA FEW020TCU NZAA 061126Z 0612/0712 31004KT 9999 SCT030 FM062200 34015KT 9999 -SHRA SCT035 TEMPO 0701/0708 6000 SHRA PROB30 TEMPO 0702/0707 3000 TSRAGS FEW025CB NZCH 061126Z 0612/0712 03010KT 9999 SCT050 BECMG 0620/0622 03015G25KT TEMPO 0621/0702 6000 SHRA FEW030TCU PROB30 TEMPO 0621/0701 3000 TSRA FEW030CB BECMG 0700/0702 32015G25KT BECMG 0706/0708 02005KT NZFX 060900Z 0609/0709 VRB06KT 6000 -SN SCT025 BKN035 620352 510104 QNH2959INS TEMPO 0609/0617 1600 -SN BKN025 OVC035 620252 510104 BECMG 0617/0619 VRB06KT 3200 -SN BKN015 OVC025 620252 510104 QNH2941INS NZQN 061007Z 0611/0705 26010KT 9999 -SHRA SCT020 BKN050 BECMG 0612/0614 02005KT TEMPO 0618/0705 6000 SHRA FEW020TCU BECMG 0623/0701 27015G25KT NZSP 060854Z 0609/0709 02006KT 9999 FEW060 BKN120 QNH2940INS WND GRID 05006KT AFT 0607Z ALL WINDS GRID NZWD 060900Z 0609/0709 VRB06KT 8000 -SN SCT025 BKN035 620352 510104 QNH2951INS TEMPO 0609/0616 1600 -SN BKN015 BKN025 620252 510104 BECMG 0623/0701 VRB06KT 6000 -SN SCT015 BKN025 620352 510103 QNH2941INS NZWN 061126Z 0612/0712 34018G30KT 9999 -SHRA FEW012 BKN020 TEMPO 0612/0618 BKN012 FM062200 34025G40KT 9999 SCT012 BKN020 FM070900 34020G30KT 9999 -RA SCT010 BKN018 TEMPO 0709/0712 7000 RA BKN010 OAHR 061100Z 0612/0712 24012KT 9000 FEW080 BECMG 0614/0616 31004KT CAVOK BECMG 0622/0624 35003KT 9999 SCT030 BECMG 0703/0705 34006KT 8000 FEW030 OAIX 060826Z 0608/0713 VRB04KT 6000 HZ SKC QNH3029INS TEMPO 0608/0609 5000 HZ BECMG 0609/0610 VRB04KT 8000 HZ FEW200 QNH3027INS BECMG 0701/0702 VRB04KT 6000 HZ SKC QNH3033INS TEMPO 0702/0704 4000 HZ BECMG 0703/0704 VRB04KT 2800 HZ SKC QNH3027INS TEMPO 0704/0707 2400 HZ BECMG 0707/0708 VRB06KT 4000 HZ SKC QNH3024INS BECMG 0710/0711 VRB04KT 6000 HZ SKC QNH3024INS TX15/0610Z TNM02/0702Z OAJL 060800Z 0608/0714 VRB06KT 6000 HZ SKC QNH3022INS BECMG 0610/0611 VRB06KT 8000 HZ SKC QNH3020INS BECMG 0702/0703 VRB03KT 5000 FU HZ SKC QNH3025INS BECMG 0707/0708 VRB06KT 8000 HZ SKC QNH3017INS TX20/0609Z TN03/0702Z OAKB 061105Z 0612/0712 VRB02KT 8000 NSC BECMG 0613/0615 3000 FU PROB40 0616/0623 1200 BECMG 0700/0701 5000 TEMPO 0702/0705 3000 HZ BECMG 0707/0708 8000 NSW OAKN 060709Z 0607/0713 VRB06KT 9999 SKC QNH3017INS TX20/0610Z TN06/0702Z OAMS 061105Z 0612/0712 27008KT 8000 NSW FEW025 BECMG 0612/0614 22005KT 6000 NSW BKN025 TEMPO 0622/0704 VRB03KT 0800 FG VV002 BECMG 0704/0706 36005KT 4000 BR SCT005 BECMG 0706/0708 02008KT 6000 NSW SKC OBBI 061100Z 0612/0718 09008KT 9999 FEW030= OKBK 061045Z 0612/0718 15015G25KT 7000 SCT040 BKN080 TEMPO 0612/0700 3000 -TSRA/BLDU FEW025CB OEAB 061100Z 0612/0718 22010KT 9999 FEW020 TEMPO 0612/0618 5000 TSRA SCT020 FEW025CB BECMG 0618/0620 VRB03KT OEAH 061100Z 0612/0718 13010KT CAVOK BECMG 0620/0622 VRB03KT TEMPO 0622/0704 3000 BR OEAO 061100Z 0612/0718 36010KT CAVOK OEBA 061100Z 0612/0718 22014KT 9999 FEW030 TEMPO 0612/0618 5000 TSRA FEW025CB SCT030 BECMG 0618/0620 VRB03KT OEBH 061100Z 0612/0718 12010KT 9999 FEW030 BECMG 0618/0620 VRB03KT OEDF 060800Z 0612/0718 09015KT 8000 NSC BECMG 0618/0620 15010KT OEGN 061100Z 0612/0718 28012KT 7000 FEW030 SCT100 TEMPO 0612/0618 4000 TSRA BKN030 FEW035CB BECMG 0618/0620 VRB03KT OEGS 061100Z 0612/0718 19010KT 7000 FEW040 TEMPO 0612/0620 FEW035CB SCT040 OEGT 061100Z 0612/0718 24010KT 9999 SCT040 TEMPO 0612/0617 FEW035CB BECMG 0618/0620 VRB03KT TEMPO 0622/0704 3000 BR OEHL 061100Z 0612/0718 34010KT 9999 FEW040 BECMG 0620/0622 VRB03KT OEJN 061100Z 0612/0718 32012KT 9999 FEW040 BECMG 0621/0623 VRB03KT OEKJ 061100Z 0612/0718 18012KT CAVOK OEKK 060500Z 0606/0620 22010G20KT 8000 SCT040 SCT100 TEMPO 0608/0618 4000 DU BLDU OEKM 061100Z 0612/0718 22010KT 9999 FEW020 TEMPO 0612/0618 5000 TSRA SCT020 FEW025CB BECMG 0618/0620 VRB03KT OEMA 061100Z 0612/0718 27010KT CAVOK BECMG 0618/0620 VRB03KT OENG 061100Z 0612/0718 10012KT CAVOK BECMG 0618/0620 VRB03KT OEPA 061100Z 0612/0718 20012KT 9999 SCT040 TEMPO 0612/0620 6000 BKN040 FEW035CB BECMG 0620/0622 06010KT OERF 061100Z 0612/0718 33012KT 9999 FEW040 BECMG 0620/0622 VRB03KT OERK 061100Z 0612/0718 16014KT CAVOK OERR 061100Z 0612/0718 16012KT 9999 SCT040 PROB30 TEMPO 0612/0617 FEW035CB BECMG 0620/0622 VRB03KT TEMPO 0622/0704 3000 BR OERY 061100Z 0612/0718 18012KT CAVOK OESH 061100Z 0612/0718 10012KT CAVOK BECMG 0618/0620 VRB03KT OESK 061100Z 0612/0718 28010KT 9999 FEW040 BECMG 0620/0622 VRB03KT TEMPO 0622/0704 3000 BR OETB 061100Z 0612/0718 33012KT CAVOK BECMG 0620/0622 VRB03KT OETF 061100Z 0612/0718 25014KT 9999 SCT030 TEMPO 0612/0618 5000 TSRA FEW025CB BKN030 BECMG 0618/0620 VRB03KT TEMPO 0622/0704 3000 BR OETR 061100Z 0612/0718 27010KT 9999 SCT040 TEMPO 0612/0617 FEW035CB BECMG 0618/0620 VRB03KT TEMPO 0622/0704 3000 BR OEWD 061100Z 0612/0718 14012KT CAVOK BECMG 0620/0622 VRB03KT OEWJ 061100Z 0612/0718 33014KT CAVOK BECMG 0620/0622 02008KT OEYN 061100Z 0612/0718 29014KT CAVOK BECMG 0618/0620 VRB03KT OIAA 061100Z 0612/0718 08010KT 6000 FEW035CB SCT035 SCT090 TEMPO 0612/0618 3000 TSRA/BR SCT030CB SCT035 OVC090 TEMPO 0621/0706 1500 BR BKN015 SCT030CB SCT035 OVC090 TEMPO 0706/0712 12018KT 3000 TSRA/BR SCT030CB SCT035 OVC090 OIAW 061100Z 0612/0718 06004KT 6000 FEW030CB SCT035 BKN090 TEMPO 0612/0618 5000 SHRA FEW030CB SCT035 OVC090 TEMPO 0618/0703 3000 TSRA BR BKN015 SCT030CB SCT035 OVC090 PROB40 1000 BR TEMPO 0708/0716 12018KT 1500 TS SHRA SCT030CB SCT035 OVC090 OIBK 061100Z 0612/0718 08006KT 7000 FEW030 BECMG 0701/0703 08010KT FEW035TCU BKN100 TEMPO 0704/0710 08022KT 5000 SA TEMPO 0710/0718 14018KT 4000 TSRA SCT030CB FEW035 OVC080 OICI 061100Z 0612/0718 12008KT 4000 RA BR BKN025 FEW030CB OVC090 TEMPO 0615/0624 16016KT 2000 TSRA SCT025CB SCT030 OVC090 TEMPO 0709/0715 16018KT 2000 TSRA SCT025CB SCT030 OVC090 OIFM 061100Z 0612/0718 13005KT 6000 FEW035 SCT100 TEMPO 0615/0621 4000 RA FEW035CB SCT040 OVC100 BECMG 0621/0623 3000 BR/HZ BECMG BECMG 0709/0711 4000 RA BR FEW035CB SCT040 OVC100 OIIE 061100Z 0612/0718 30006KT 8000 FEW040 BKN100 BECMG 0619/0621 FEW030CB SCT035 BKN100 TEMPO 0621/0703 06012KT 5000 RA BR BKN020 FEW035CB OVC100 TEMPO 0710/0718 12018KT 3000 SNRA SCT030CB SCT035 OVC080 OIII 061100Z 0612/0718 18006KT 8000 FEW040 SCT100 BECMG 0619/0621 FEW030CB SCT035 BKN100 TEMPO 0621/0703 06012KT 5000 RA BR BKN020 FEW035CB OVC100 TEMPO 0710/0718 12018KT 3000 SNRA SCT030CB SCT035 OVC080 OIKB 061100Z 0612/0718 08006KT 7000 NSC BECMG 0715/0717 FEW030CB SCT035 BKN090 OIKK 061100Z 0612/0718 10008KT CAVOK OIMM 061100Z 0612/0718 10010KT 5000 DZ/BR BKN007 OVC080 BECMG 0616/0618 08006KT 2000 DZ/BR OVC003 TEMPO 0700/0703 0500 FG BECMG 0706/0708 6000 BKN030 OISL 061100Z 0612/0718 14006KT CAVOK BECMG 0701/0703 3000 BR BECMG 0706/0707 6000 FEW030 BKN100 TEMPO 0709/0718 14018KT FEW035TCU BKN100 OISS 061100Z 0612/0718 24006KT 7000 NSC BECMG 0621/0623 4000 HZ BR PROB40 0700/0703 2000 BR BECMG 0708/0710 7000 OITR 061100Z 0612/0718 35002KT 8000 FEW020 SCT030 OVC080 TEMPO 0618/0706 1000 SNRA BR BKN010 TEMPO 0706/0712 2500 SNRA BR BKN010 FEW025CB OVC070 OITT 061100Z 0612/0718 06006KT 8000 FEW030CB SCT035 BKN080 BECMG 0620/0622 3000 BR PROB40 0703/0706 0500 FG BKN005 BECMG 0706/0708 8000 FEW030CB SCT035 BKN100 TEMPO 0712/0718 24018KT 4000 RA SCT030CB SCT035 OVC100 OIZC 061100Z 0612/0718 10006KT 7000 FEW030 TEMPO 0612/0615 16016KT BECMG 0616/0618 4000 BR/HZ BECMG 0703/0705 14008T 7000 TEMPO 0706/0715 20018KT SCT030 BKN090 OIZH 061100Z 0612/0718 08006KT 7000 FEW040 TEMPO 0612/0614 08016KT TEMPO 0712/0718 14018KT FEW040TCU OJAI 061150Z 0612/0718 30012KT 6000 FEW030 SCT035 PROB30 0613/0619 29016KT 4000 -RA SCT020 SCT025 PROB40 0702/0706 VRB02KT 1500 BR OJAM 061150Z 0612/0718 29012KT 6000 FEW030 SCT035 PROB30 0613/0619 30016KT4000 -RA SCT020 SCT025 PROB40 0702/0706 VRB02KT 2000 BR OJAQ 061150Z 0612/0718 36010KT CAVOK PROB30 0613/0619 36016KT 6000 SCT040 OKAS 060700Z 0607/0713 12010KT 9999 SCT140 BKN190 QNH2995INS BECMG 0609/0610 15012G18KT 9999 VCSH SCT100 BKN160 QNH2997INS BECMG 0612/0613 13009KT 9000 -SHRA BKN090 BKN150 QNH2994INS BECMG 0615/0616 13010G15KT 9000 -SHRA VCTS BKN070CB BKN120 QNH2992INS BECMG 0701/0702 14012G18KT 8000 -TSRA SCT050CB BKN080 BKN100 QNH2993INS TX23/0611Z TN15/0702Z OKBK 061045Z 0612/0718 15015G25KT 7000 SCT040 BKN080 TEMPO 0612/0700 3000 -TSRA/BLDU FEW025CB OLBA 060400Z 0606/0712 34012KT 9999 SCT030 BECMG 0618/0621 12010KT BECMG 0700/0703 06010KT BECMG 0706/0709 36012KT FEW030 OMAA 061100Z 0612/0718 33012KT 8000 FEW040 BECMG 0620/0622 13005KT PROB30 0700/0705 4000 HZ BECMG 0711/0713 35012KT OMAD 061100Z 0612/0718 35010KT 8000 FEW040 BECMG 0620/0622 13004KT BECMG 0710/0712 01010KT OMAL 061100Z 0612/0718 03007KT 8000 FEW045 BECMG 0615/0617 09010KT BECMG 0704/0706 16010KT BECMG 0712/0714 28006KT PROB30 TEMPO 0712/0716 VRB15G25KT 4000 SHRA BLDU FEW040TCU BECMG 0716/0718 10010KT OMDB 061055Z 0612/0718 01012KT 9999 SCT040 PROB30 TEMPO 0612/0614 VRB15KT 4000 BLDU FEW040TCU BECMG 0613/0615 08008KT PROB40 0709/0714 36012KT OMDW 061055Z 0612/0718 35014KT 8000 FEW040 PROB30 TEMPO 0612/0614 VRB15KT 4000 BLDU FEW040TCU BECMG 0614/0616 06007KT PROB30 0701/0705 4000 HZ BECMG 0705/0707 13010KT BECMG 0710/0712 36012KT BECMG 0713/0715 09008KT OMFJ 061100Z 0612/0718 10006KT 7000 FEW025 PROB30 0612/0615 VRB12G24KT 5000 SHRA FEW030TCU BECMG 0614/0616 VRB03KT BECMG 0619/0621 29006KT BECMG 0704/0706 09008KT PROB30 0709/0715 VRB16G28KT 4000 TSRA FEW030CB OMRK 061055Z 0612/0718 10008KT 8000 SCT040 PROB40 0612/0615 36012KT PROB30 TEMPO 0612/0615 VRB15KT 4000 SHRA BLDU FEW040TCU BECMG 0613/0615 10008KT PROB30 0709/0714 01012KT PROB30 TEMPO 0709/0714 VRB15KT 4000 SHRA BLDU FEW040TCU OMSJ 061055Z 0612/0718 01012KT 9999 SCT040 PROB30 TEMPO 0612/0614 VRB15KT 4000 SHRA BLDU FEW040TCU BECMG 0613/0615 08008KT PROB30 0709/0714 01012KT OODQ 060500Z 0606/0706 04013KT 8000 SCT030 BKN040 PROB30 TEMPO 0612/0615 -RA PROB30 TEMPO 0617/0619 4000 TSRA FEW025CB PROB30 TEMPO 0702/0706 4000 TSRA FEW025CB OOMS 061100Z 0612/0718 04012KT 8000 NSC BECMG 0618/0620 VRB02KT BECMG 0706/0708 04013KT OOSA 061140Z 0612/0718 01012KT 9999 FEW025 BKN080 BECMG 0714/0716 VRB03KT OOSH 061100Z 0612/0718 09012KT 8000 SCT030 BECMG 0616/0618 VRB02KT BECMG 0706/0708 07012KT PROB30 TEMPO 0712/0718 TSRA FEW025CB BKN035 OPBW 060400Z 0606/0624 05004KT 3500 FU NSC TX25/0610Z FM061500 00000KT 2500 BR NSC OPDG 061000Z 0612/0706 05005KT 5000 FU FEW120 TN07/0701Z OPGD 060330Z 0606/0706 05005G15KT 6000 NSC BECMG 0619/0621 VRB03KT 5000 HZ NSC TEMPO 0700/0704 00000KT 4000 HZ NSC OPIS 060330Z 0606/0712 27010KT 6000 NSC TEMPO 0606/0610 30015G25KT 7000 TEMPO 0700/0704 24006KT 3000 HZ OPKC 060330Z 0606/0712 05010G20KT 6000 SCT100 FM061800 04010KT 5000 HZ NSC TEMPO 0700/0704 03008KT 4000 HZ NSC FM070600 05008G18KT 6000 NSC OPLA 060945Z 0612/0718 29003KT 4000 FU NSC TX23/0710Z TN07/0624Z FM062100 VRBO2KT 1500 BR TEMPO 0702/0704 0500 FG FM070600 29005KT 4000 FU NSC OPMT 061000Z 0612/0706 05005KT 3000 FU FEW120 TN08/0701Z= OPBW 061000Z 0612/0706 05005KT 3000 FU FEW120 TN09/0701Z PROB30 TEMPO 0702/0706 00000KT 1000 BR NSC OPNH 060330Z 0606/0712 34010KT 4000 FU NSC BECMG 0619/0621 36005KT 2500 FU NSC TEMPO 0700/0704 VRB03KT 1000 BR NSC FM070600 34010KT 4000 FU NSC OPPS 060325Z 0606/0712 21010KT 3000 HZ FEW100 SCT200 TEMPO 0609/0612 2000 SCT100 BKN200 TEMPO 0612/0615 SCT040 BKN100 TEMPO 0702/0706 1500 OPRK 061000Z 0612/0706 05005KT 4000 FU FEW120 TN08/0701Z PROB30 TEMPO 0702/0706 00000KT 2000 BR NSC OPSK 060330Z 0606/0706 04010KT 4000 HZ NSC BECMG 0619/0621 2500 BR NSC TEMPO 0700/0704 00000KT 0800 VV/// ORBI 061000Z 0612/0712 14008KT 8000 BKN030 BECMG 0620/0622 06008KT 6000 NSC TEMPO 0622/0712 -SHRA ORER 061000Z 0612/0712 VRB03KT 8000 NSC TEMPO 0620/0712 SHRA TEMPO 0700/0712 -TSSHRA FEW025CB ORMM 061000Z 0612/0712 07010KT SCT040 BKN090 TEMPO 0615/0706 4000 TSRA FEW030CB ORNI 061000Z 0612/0712 12012KT 6000 BKN040 BECMG 0702/0712 28010KT 4000 SCT030 BKN050 ORSU 061100Z 0612/0712 12010KT 8000 SCT045 BKN070 BECMG 0618/0620 BKN040 OVC065 TEMPO 0621/0704 6000 -RA BECMG 0704/0706 5000 RABR PROB 30 0708/0712 -SHRA FEW035TCU OSDI 060500Z 0606/0712 10010KT 9999 FEW030 SCT100 BECMG 0700/0702 VRB03KT 3000 BR PROB30 TEMPO 0702/0706 0200 FG BECMG 0707/0709 22010KT 9999 FEW030 SCT100 OSLK 060500Z 0606/0706 33008KT CAVOK OTBD 061113Z 0612/0718 06008KT 9000 NSC BECMG 0617/0619 VRB02KT PROB30 TEMPO 0621/0704 4000 HZ BECMG 0707/0709 15010KT OTBH 0608/0714 02012KT 9000 HZ FEW030 QNH3006INS BECMG 0614/0615 VRB06KT 9000 HZ FEW030 QNH3001INS BECMG 0702/0703 VRB06KT 6000 BR FEW030 QNH3002INS BECMG 0705/0706 VRB06KT 9000 HZ FEW030 QNH2997INS BECMG 0708/0709 18009KT 9000 HZ FEW030 QNH2994INS TX26/0611Z TN15/0702Z OTHH 061113Z 0612/0718 06008KT 9000 NSC BECMG 0617/0619 VRB03KT PROB30 TEMPO 0621/0704 4000 HZ BECMG 0707/0709 16012KT PAAQ 061125Z 0612/0712 VRB03KT 4SM -SN BR OVC015 FM061800 12006KT 3SM BR OVC010 FM070000 03009KT P6SM FEW030 BKN070 PABE 061128Z 0612/0712 05015KT P6SM BKN015 OVC035 TEMPO 0612/0616 SCT015 OVC035 FM062200 05020G28KT 1SM BLSN OVC007 FM070600 06020G28KT P6SM -SHSN OVC015 PABI 060600Z 0606/0712 09012KT 9999 SKC QNH2968INS BECMG 0611/0612 08015G25KT 9999 SKC QNH2958INS TEMPO 0707/0712 08025G35KT 510003 TXM20/0612Z TNM33/0615Z FOR MIL USE ONLY PABR 061127Z 0612/0712 03006KT 4SM -SN OVC020 FM061500 06006KT P6SM VCSH BKN015 OVC025 PABT 061127Z 0612/0712 VRB04KT P6SM SKC PACD 061129Z 0612/0712 14012G20KT 4SM -RA BR OVC003 FM062200 16012KT 4SM -RA BR BKN003 OVC007 FM070800 24020G30KT 3SM -RA BR OVC004 PACV 061123Z 0612/0712 VRB03KT P6SM VCSH SCT035 OVC050 FM070600 09007KT 3SM -SN OVC025 PADL 061128Z 0612/0712 02012KT P6SM OVC010 TEMPO 0612/0616 OVC008 FM061800 01018G26KT 2SM -SN BLSN OVC007 WS010/09030KT FM062200 03022G30KT 2SM -RA OVC008 WS010/09030KT FM070600 07022G30KT 3SM -RA OVC008 WS010/12025KT PADQ 061125Z 0612/0712 31008KT P6SM BKN015 FM061800 10012KT 3SM -RA BR BKN008 OVC015 FM070200 09012KT 2SM -RA BR OVC005 PADU 061129Z 0612/0712 VRB05KT P6SM -SHRA FEW008 SCT016 BKN040 TEMPO 0612/0614 4SM -RA BR SCT007 BKN015 FM070100 29015G23KT 4SM -SHRA BR FEW007 SCT015 BKN025 FM070900 24012G20KT P6SM FEW020 BKN050 PAED 061245Z 0612/0717 02009KT 4800 -SHSN BR OVC034 640346 QNH2972INS BECMG 0615/0616 36009KT 8000 BR SCT015 BKN030 620306 QNH2969INS BECMG 0621/0622 36009KT 9999 NSW FEW040 BKN050 620503 QNH2960INS BECMG 0702/0703 01009KT 9999 BKN150 621502 QNH2955INS BECMG 0705/0706 02009KT 9999 FEW100 BKN110 621107 QNH2938INS TXM08/0622Z TNM11/0612Z PAEI 061200Z 0612/0718 VRB03KT 9999 SKC QNH2977INS BECMG 0622/0623 VRB04KT 9999 FEW080 SCT120 QNH2965INS BECMG 0702/0703 08009KT 9999 SCT050 BKN100 QNH2949INS TXM18/0712Z TNM34/0616Z PAEN 061125Z 0612/0712 03008KT P6SM FEW006 BKN015 FM062000 02008KT 3SM BR OVC015 FM070300 02015KT P6SM VCSH SCT020 OVC035 PAFA 061127Z 0612/0718 00000KT P6SM FEW001 SCT200 PAFB 060800Z 0608/0714 05006KT 9999 FEW100 QNH2973INS BECMG 0702/0703 05009KT 9999 FEW040 SCT050 QNH2950INS TXM23/0705Z TNM36/0617Z PAGA 061127Z 0612/0712 00000KT P6SM VCFG SKC FM070000 04006KT P6SM FEW050 SCT100 PAGK 061125Z 0612/0712 VRB03KT P6SM FEW030 SCT200 FM061500 VRB05KT P6SM SCT020 OVC040 FM070800 VRB03KT P6SM SCT010 OVC030 PAGS 061137Z 0612/0712 14008KT P6SM FEW010 SCT025 OVC035 TEMPO 0612/0616 -SHRA BKN025 FM061600 14005KT P6SM VCSH OVC025 FM070200 VRB03KT P6SM -RA BKN015 OVC025 LTD TO CLD VIS AND WIND PAGY 061137Z 0612/0712 04003KT 6SM -SHSN SCT008 BKN015 OVC025 TEMPO 0612/0616 2SM -SHSN BR BKN008 FM061600 VRB06KT 5SM -SHSNRA BKN020 OVC030 FM070600 04005KT P6SM VCSH SCT008 OVC020 NOT SKED PAHN 061137Z 0612/0712 30010KT 4SM -SHSN BKN015 OVC020 TEMPO 0612/0616 1SM -SHSN BR BKN010 OVC020 FM070600 30007KT P6SM VCSH OVC020 NOT SKED PAHO 061125Z 0612/0712 04005KT P6SM SCT009 BKN040 TEMPO 0612/0616 BKN009 FM070000 07010KT P6SM VCSH SCT020 OVC035 FM070600 08012KT 5SM -SN OVC025 PAIL 061128Z 0612/0712 11011KT P6SM -SHSN BKN025 OVC035 TEMPO 0612/0615 SCT025 OVC035 FM061500 08010KT P6SM SCT025 OVC050 FM062100 08015G25KT P6SM OVC050 FM070000 08023G32KT P6SM -SHSN OVC035 PAJN 061137Z 0612/0712 09010KT P6SM -SHRASN FEW008 BKN030 OVC050 FM070000 08004KT P6SM VCSH SCT030 OVC060 PAKN 061128Z 0612/0712 VRB06KT 6SM BR BKN040 TEMPO 0612/0616 5SM BR FM061800 01018G26KT 2SM -SN BLSN OVC010 FM062100 09018G25KT P6SM OVC035 FM070200 10023G32KT P6SM -RA OVC025 PAKT 061139Z 0612/0712 VRB03KT P6SM BCFG FEW005 TEMPO 0612/0616 1SM BR VV003 FM061800 34005KT P6SM BKN140 NOT SKED PAKW 061139Z 0612/0712 04004KT P6SM BCFG FEW005 BKN150 FM061800 03004KT P6SM BKN120 NOT SKED PAMC 061127Z 0612/0712 VRB04KT P6SM VCFG FEW001 BKN050 OVC100 FM061800 VRB04KT P6SM SCT035 BKN050 OVC100 FM070300 VRB04KT P6SM VCSH SCT035 BKN050 OVC100 PANC 061125Z 0612/0718 36004KT 6SM -SN SCT010 OVC035 TEMPO 0612/0616 3SM -SN FM061600 VRB04KT 3SM BR VCSH FEW010 OVC025 FM062100 36006KT P6SM SCT020 OVC045 PAOM 061127Z 0612/0712 04012KT P6SM SKC FM061800 04015KT P6SM SCT200 FM070000 04018KT P6SM FEW100 SCT200 PAOR 061127Z 0612/0712 12004KT P6SM SCT100 PAOT 061127Z 0612/0712 06006KT P6SM SKC FM070600 06012KT P6SM FEW100 SCT200 PAPG 061139Z 0612/0712 23003KT P6SM BCFG BKN080 FM061600 VRB04KT P6SM SCT030 OVC050 FM070600 VRB03KT P6SM BCFG SCT005 BKN035 FM070900 VRB02KT 2SM BR BKN003 NOT SKED PAQT 061127Z 0612/0712 24006KT P6SM OVC012 PASC 061127Z 0612/0712 24015KT 4SM -SN OVC012 FM061500 27005KT P6SM BKN012 NOT SKED PASI 061139Z 0612/0712 11007KT P6SM VCSH SCT012 OVC035 TEMPO 0612/0615 5SM -SHRA BR BKN012 FM061500 12006KT P6SM VCSH SCT025 OVC050 FM061800 11007KT P6SM -SHRA BKN025 OVC040 PASN 061129Z 0612/0712 17015KT 2SM BR OVC004 TEMPO 0612/0616 1SM BR OVC003 FM062000 30006KT 3SM BR OVC005 PASY 060730Z 0607/0712 27020G30KT 9999 SCT030 BKN045 620459 510003 QNH2877INS TEMPO 0706/0712 8000 -SHRA SCT020 BKN030 620309 TX04/0616Z TN01/0623Z PATA 061127Z 0612/0712 08008KT P6SM SKC PAUN 061127Z 0612/0712 08025KT P6SM SKC FM061800 08025KT P6SM FEW100 SCT200 FM070000 08025KT P6SM FEW050 SCT100 BKN200 FM070600 08030KT P6SM VCSH SCT035 BKN050 BKN100 PAVD 061123Z 0612/0712 VRB03KT P6SM SCT030 OVC050 FM070000 VRB03KT P6SM VCSH SCT015 OVC030 FM070900 00000KT 2SM -SN OVC015 NOT SKED PAWG 061139Z 0612/0712 12007KT P6SM SCT008 BKN110 TEMPO 0612/0616 BKN008 FM061800 08006KT P6SM BKN070 FM070900 12005KT P6SM BCFG SCT005 LTD TO CLD VIS AND WIND 0612/0615 PAYA 061137Z 0612/0712 09005KT P6SM VCSH FEW006 SCT025 OVC100 TEMPO 0612/0616 2SM -SHSN BR BKN006 OVC025 FM061600 09004KT P6SM VCSH SCT015 OVC025 FM070000 08004KT P6SM SCT015 OVC100 FM070600 08005KT 5SM -RASN BR BKN020 OVC040 LTD TO CLD VIS AND WIND PGRO 060559Z 0606/0706 09015KT P6SM VCSH SCT015 BKN050 FM060800 08010KT P6SM VCSH SCT020 SCT050 PGSN 061125Z 0612/0712 07016KT P6SM VCSH SCT020 SCT050 PGUA 061000Z 0610/0716 08015KT 9999 VCSH SCT016 BKN020 QNH2984INS TEMPO 0611/0618 9000 -SHRA BKN016 TX29/0700Z TN25/0621Z PGUM 061125Z 0612/0718 09012KT P6SM VCSH SCT018 SCT040 PGWT 060559Z 0606/0706 09012KT P6SM VCSH SCT020 SCT050 PHHI 060700Z 0607/0713 07009KT 9999 SCT027 BKN120 QNH2990INS BECMG 0609/0610 06009KT 8000 -SHRA BKN025 OVC140 QNH2980INS TEMPO 0610/0615 09010G18KT BKN020 BECMG 0703/0704 08012KT 9999 NSW BKN024 BKN120 QNH2984INS TX26/0701Z TN20/0615Z LAST NO AMDS AFT 0609 NEXT 0615 PHJR 061122Z 0612/0712 VRB06KT P6SM SHRA SCT020 BKN060 FM061400 06005KT P6SM VCSH SCT025 BKN050 FM062200 11009KT P6SM SCT025 SCT045 FM070600 07005KT P6SM SCT025 SCT045 PHKO 061122Z 0612/0712 VRB06KT P6SM SHRA SCT030 BKN060 FM062200 20009KT P6SM VCSH SCT030 BKN045 FM070600 15006KT P6SM SCT035 SCT060 PHLI 061307Z 0613/0712 03008KT 3SM -SHRA SCT020 BKN030 FM061400 06008KT P6SM VCSH SCT020 BKN050 FM062000 06014KT P6SM SCT025 BKN035 FM070500 06009KT P6SM SCT025 BKN045 PHMK 061122Z 0612/0712 06008KT P6SM SHRA SCT020 BKN060 FM061800 05012G18KT P6SM VCSH SCT025 BKN050 FM070500 05005KT P6SM SCT025 SCT045 PHNG 0609/0709 07010KT 9999 FEW030 SCT050 QNH2985INS TEMPO 0609/0613 8000 -SHRA BKN030 BKN050 TEMPO 0613/0616 6000 RA BKN025 BKN045 FM061700 07010KT 9999 SCT030 SCT050 QNH2984INS TEMPO 0617/0623 07010G16KT SCT030 BKN050 T24/0612Z T26/0622Z PHNL 061209Z 0612/0718 05008KT 6SM SHRA SCT020 BKN040 OVC070 FM061400 06005KT P6SM VCSH SCT025 BKN050 FM061800 07012G19KT P6SM SCT030 BKN045 FM070600 06007KT P6SM SCT025 SCT045 PHNY 061122Z 0612/0712 05009KT P6SM SHRA SCT025 BKN060 FM061900 06010KT P6SM VCSH SCT030 BKN050 FM070500 05006KT P6SM SCT025 SCT045 PHOG 061122Z 0612/0712 04006KT P6SM -SHRA SCT020 BKN050 FM062200 06015G21KT P6SM VCSH SCT025 BKN050 FM070500 06008KT P6SM VCSH SCT020 SCT050 LTD TO VIS AND WIND TIL 061600 PHTO 061122Z 0612/0712 23005KT P6SM SHRA SCT018 BKN045 FM062200 VRB06KT P6SM SHRA SCT025 BKN030 FM070600 VRB06KT P6SM VCSH SCT025 BKN045 PKMJ 061125Z 0612/0712 08015KT P6SM VCSH SCT015 SCT050 BKN130 PKWA 061125Z 0612/0712 11015KT P6SM VCSH SCT018 BKN130 PLCH 061122Z 0612/0712 10010KT 9999 SCT020 PMDY 061305Z 0613/0712 12008KT 5SM BR FEW025 BKN035 BKN045 FM061500 12008KT P6SM SCT025 SCT045 PTKK 061125Z 0612/0712 05009KT P6SM VCSH FEW015 SCT120 PTPN 060559Z 0606/0706 34007KT P6SM SCT018 PTRO 061125Z 0612/0712 VRB04KT P6SM VCSH SCT016 SCT120 PTYA 061125Z 0612/0712 10008KT P6SM VCSH FEW016 SCT050 PWAK 060750Z 0607/0712 06012KT 2200 -SHRA BR BKN014 QNH2982INS BECMG 0607/0609 06009KT 9999 NSW BKN022 QNH2984INS BECMG 0610/0611 09012KT 9999 SCT025 QNH2998INS TX29/0611Z TN26/0619Z FOR MIL USE ONLY RCBS 061100Z 0612/0712 03015KT 9999 FEW015 SCT040 TEMPO 0619/0701 36009KT BECMG 0705/0707 05020G30KT RCCM 061100Z 0612/0706 02030G40KT 9999 FEW010 BKN018 BECMG 0701/0703 FEW010 SCT018 RCFG 061100Z 0612/0706 01020G30KT 9999 BKN024 BECMG 0616/0618 36015KT FEW020 SCT040 TEMPO 0703/0706 02020G30KT RCFN 061100Z 0612/0712 01009KT 9999 FEW020 BKN060 TEMPO 0621/0702 33005KT FEW015 BKN024 TEMPO 0702/0708 03013G23KT RCGI 061100Z 0612/0706 02025G38KT 9999 FEW015 BKN040 TEMPO 0620/0701 FEW010 BKN020 RCKH 061100Z 0612/0718 35005KT 9999 FEW015 BKN035 TEMPO 0612/0616 5000 RA SCT010 BKN017 BKN030 BECMG 0617/0619 35011KT BECMG 0700/0702 33005KT TEMPO 0703/0709 26005KT TEMPO 0710/0714 34011KT FEW010 BKN020 RCKW 061100Z 0612/0706 02010KT 9999 FEW016 BKN035 BECMG 0702/0704 04015G30KT RCLY 061100Z 0612/0706 VRB13G35KT 9999 FEW010 BKN020 TEMPO 0612/0618 5000 SHRA SCT008 BKN015 BKN030 BECMG 0623/0701 FEW015 BKN035 TEMPO 0701/0706 04015G30KT FEW010 BKN020 RCMQ 061100Z 0612/0712 02020KT 8000 -RA BKN006 BKN016 TX21/0706Z TN14/0621Z BECMG 0620/0623 02025G35KT SCT008 BKN016 BKN025 BECMG 0702/0704 9999 FEW010 BKN025 BKN050 BECMG 0706/0709 02020KT FEW012 SCT050 RCMT 061100Z 0612/0706 04024G34KT 9999 FEW015 BKN026 BECMG 0616/0618 03018KT FEW020 SCT040 TEMPO 0703/0706 05024G34KT RCNN 061100Z 0612/0712 36004KT 7000 -RA SCT008 BKN016 BKN040 TX18/0706Z TN14/0620Z BECMG 0701/0704 36010KT 9999 FEW012 BKN050 BECMG 0706/0709 FEW012 SCT060 BECMG 0710/0711 01004KT FEW012 BKN050 RCSS 061100Z 0612/0712 08011KT 9999 FEW015 BKN035 TEMPO 0612/0618 VRB05KT 5000 RA FEW010 BKN020 BKN035 BECMG 0618/0620 09005KT BECMG 0701/0703 08011KT RCTP 061100Z 0612/0718 06020KT 9999 FEW010 BKN017 TEMPO 0612/0618 05026G36KT 4500 RA SCT005 BKN009 BKN018 TEMPO 0620/0702 08014KT FEW008 BKN011 BKN020 BECMG 0702/0704 FEW012 BKN034 BECMG 0710/0712 07015KT RJAA 061105Z 0612/0718 36006KT 9999 FEW025 SCT045 BECMG 0703/0706 4000 -RA BR FEW005 BKN008 BECMG 0709/0712 9999 NSW FEW030 RJAH 061106Z 0612/0718 36005KT 9999 FEW020 BKN045 TEMPO 0703/0709 4000 -RA BR FEW005 BKN008 RJBB 061105Z 0612/0718 06010KT 9999 FEW025 BECMG 0712/0715 34014KT RJCB 061107Z 0612/0718 14005KT 9999 FEW030 BECMG 0700/0703 35005KT BECMG 0706/0709 15005KT TEMPO 0709/0715 1500 -SHSN FEW003 BKN005 BECMG 0712/0715 31010KT RJCC 061105Z 0612/0718 16004KT 9999 FEW020 SCT040 TEMPO 0706/0709 2000 -SHSN FEW005 BKN008 TEMPO 0709/0712 1500 -SHSN FEW003 BKN005 BECMG 0712/0715 33012KT TEMPO 0712/0715 3000 -SHSN RJCH 061115Z 0612/0718 29006KT 9999 FEW015 BKN040 BECMG 0706/0709 16008KT TEMPO 0706/0709 1500 SHRASN BR FEW003 BKN005 TEMPO 0709/0712 2000 -SHSNRA FEW003 BKN005 BECMG 0712/0715 29011KT TEMPO 0715/0718 3000 -SHSN RJCK 061112Z 0612/0718 27005KT 9999 FEW030 BECMG 0703/0706 20008KT TEMPO 0709/0712 3000 -SHSN BECMG 0712/0715 28010KT TEMPO 0712/0715 1500 -SHSN FEW003 BKN005 RJCM 061116Z 0612/0718 19007KT 9999 FEW040 BECMG 0715/0718 31008KT RJEC 061109Z 0612/0718 17011KT 9999 FEW015 BKN030 TEMPO 0709/0715 0800 SHSN VV005 BECMG 0712/0715 29010KT TEMPO 0715/0718 2000 -SHSN FEW003 BKN006 RJFF 061105Z 0612/0718 14004KT 9999 FEW020 BKN040 BECMG 0700/0703 34009KT RJFK 061106Z 0612/0718 01004KT 9999 FEW020 SCT030 BKN040 RJFM 061107Z 0612/0718 29008KT 9999 FEW020 SCT030 RJFO 061109Z 0612/0718 29006KT 9999 FEW020 SCT030 BKN040 RJFR 061107Z 0612/0718 32005KT 9999 FEW020 SCT040 RJFS 061108Z 0612/0718 34005KT 9999 FEW030 BKN050 BECMG 0700/0703 02011KT BECMG 0709/0712 35005KT RJFT 061109Z 0612/0718 06003KT 9999 FEW040 SCT050 BECMG 0703/0706 33005KT BECMG 0709/0712 07004KT RJFU 061106Z 0612/0718 36010KT 9999 FEW030 BKN045 RJGG 061105Z 0612/0718 35016KT 9999 FEW020 RJNK 061106Z 0612/0718 12004KT 9999 FEW020 BECMG 0700/0703 23005KT BECMG 0712/0715 02004KT RJNS 061106Z 0612/0718 36005KT 9999 FEW015 BKN040 BECMG 0700/0703 19005KT BECMG 0706/0709 30006KT RJNT 061105Z 0612/0718 18004KT 9999 FEW020 BKN050 RJOA 061105Z 0612/0718 05005KT 9999 FEW020 SCT045 BECMG 0700/0703 32005KT RJOB 061107Z 0612/0718 02004KT 9999 FEW020 BECMG 0709/0712 30005KT RJOC 061105Z 0612/0718 17005KT 9999 FEW020 BKN050 RJOH 061106Z 0612/0718 18004KT 9999 FEW020 BKN050 RJOI 0613/0713 32006KT 9999 FEW030 OVC180 521404 QNH3029INS FM061800 31006KT 9999 FEW030 OVC190 521404 QNH3027INS BECMG 0702/0703 32007KT 9999 SCT035 BKN200 620352 521404 QNH3021INS BECMG 0705/0706 32009G16KT 9999 SCT035 620352 500000 QNH3021INS FM070900 31007KT 9999 FEW030 600000 QNH3024INS T05/0621Z T12/0706Z RJOK 061107Z 0612/0718 35010KT 9999 FEW025 SCT050 RJOM 061107Z 0612/0718 12006KT 9999 FEW025 SCT070 BECMG 0700/0703 02008KT BECMG 0712/0715 12005KT RJOO 061106Z 0612/0718 32004KT 9999 FEW025 BECMG 0700/0703 07005KT BECMG 0706/0709 32005KT RJOT 061108Z 0612/0718 15005KT 9999 FEW025 BKN045 RJSA 061105Z 0612/0718 24008KT 9999 -SHSN FEW010 SCT020 BKN030 TEMPO 0612/0615 1500 -SHSN FEW005 BKN008 BKN015 TEMPO 0615/0621 3000 -SHSN TEMPO 0709/0712 1500 -SHSNRA FEW005 BKN008 BKN020 RJSF 061106Z 0612/0718 34005KT 9999 FEW020 SCT040 BECMG 0703/0706 16004KT BECMG 0715/0718 36008KT RJSI 061105Z 0612/0718 02003KT 9999 FEW020 BKN030 BECMG 0700/0703 19005KT TEMPO 0709/0715 3000 -SHSN BECMG 0712/0715 35008KT RJSK 061105Z 0612/0718 32006KT 8000 -SHSN FEW010 BKN020 BKN030 BECMG 0612/0614 14004KT TEMPO 0612/0700 1500 -SHSN FEW005 BKN008 BKN015 BECMG 0709/0712 30015KT TEMPO 0709/0712 3000 TSRASN BR FEW005 BKN008 BKN020 FEW020CB TEMPO 0712/0718 30015G25KT RJSN 061106Z 0612/0718 20008KT 9999 FEW020 BKN040 BECMG 0616/0618 18010KT TEMPO 0618/0621 3000 -SHSN BECMG 0709/0712 20008KT BECMG 0715/0718 33020KT RJSS 061105Z 0612/0718 24004KT 9999 FEW020 SCT040 BECMG 0700/0703 16005KT BECMG 0706/0709 24008KT RJTT 061105Z 0612/0718 01012KT 9999 FEW030 SCT050 RJTY 061300Z 0613/0719 VRB06KT 9999 FEW040 BKN060 BKN200 QNH3006INS BECMG 0622/0623 35010KT 8000 -RA BKN020 620204 QNH3009INS BECMG 0715/0716 VRB06KT 9999 NSW SCT020 QNH3008INS TX06/0703Z TN01/0713Z LAST NO AMDS AFT 0613 NEXT 0621 RKJB 061100Z 0612/0718 11006KT 9999 BKN030 TNM03/0622Z TX07/0705Z BECMG 0702/0703 33007KT FEW030 BECMG 0715/0716 05006KT 4200 BR RKJJ 061100Z 0612/0718 36006KT 9999 SCT030 TNM05/0621Z TX08/0706Z RKJK 060701Z 0607/0713 35009KT 9999 SCT030 QNH3050INS BECMG 0612/0613 02006KT 9999 FEW030 QNH3051INS BECMG 0615/0616 VRB06KT 9999 SCT030 QNH3050INS BECMG 0621/0622 VRB06KT 9999 BKN020 620203 QNH3050INS BECMG 0705/0706 VRB06KT 9999 BKN025 620252 QNH3049INS TX04/0707Z TNM04/0619Z RKNY 061100Z 0612/0718 26015G25KT CAVOK TN00/0621Z TX07/0706Z BECMG 0623/0624 26010KT BECMG 0702/0703 26015G25KT 9999 SCT030 BECMG 0711/0712 26010KT CAVOK RKPC 061100Z 0612/0718 01008KT 9999 SCT035 BKN200 TN05/0621Z TX08/0705Z BECMG 0618/0619 BKN035 BECMG 0703/0704 35015G25KT BECMG 0708/0709 35008KT BECMG 0712/0713 SCT035 RKPK 061100Z 0612/0718 33006KT 9999 FEW030 SCT200 TNM03/0620Z TX07/0706Z RKPS 060500Z 0606/0712 06006KT CAVOK TNM06/0622Z TX08/0705Z BECMG 0702/0703 24006KT 9999 RKPU 061200Z 0613/0719 35007KT CAVOK TNM05/0621Z TX08/0705Z BECMG 0623/0624 35015G25KT BECMG 0707/0708 35007KT RKSG 061100Z 0611/0717 16006KT 9999 SKC QNH3046INS BECMG 0617/0618 14005KT 9999 BKN025 620252 QNH3044INS BECMG 0618/0619 16006KT 4800 -SN OVC015 620154 QNH3041INS BECMG 0621/0622 VRB06KT 9000 HZ SCT030 QNH3039INS BECMG 0701/0702 VRB06KT 4800 -RASN OVC020 610205 QNH3034INS TEMPO 0702/0704 3200 -RASN OVC010 610106 BECMG 0705/0706 VRB06KT 9999 NSW FEW020 QNH3035INS TX03/0706Z TNM04/0616Z RKSI 061100Z 0612/0718 06005KT CAVOK TNM02/0617Z TX06/0706Z BECMG 0618/0619 14005KT 9999 BKN030 TEMPO 0622/0624 26006KT 4200 -SN TEMPO 0701/0703 4200 -SNRA BECMG 0704/0705 33009KT SCT030 BECMG 0717/0718 07005KT RKSM 061100Z 0612/0718 33006KT 9999 SCT030 BECMG 0614/0615 30006KT 9999 SCT015 BKN025 BECMG 0617/0618 27006KT 4800 -SN BR BKN015 BKN025 BECMG 0702/0703 30006KT 9999 NSW BKN030 TNM05/0621Z TX06/0706Z RKSO 061200Z 0612/0715 36009KT 9999 SKC QNH3042INS BECMG 0616/0617 18009KT 9999 BKN030 620304 QNH3038INS BECMG 0618/0620 15009KT 4800 -SN BKN020 620205 QNH3032INS TEMPO 0622/0701 3200 -RASN BKN010 620106 BECMG 0704/0705 12009KT 3200 -RASN BKN020 620205 QNH3032INS BECMG 0707/0708 12009KT 9999 NSW SKC QNH3032INS TX00/0706Z TNM08/0620Z RKSS 061100Z 0612/0718 33006KT CAVOK TNM04/0616Z TX07/0705Z BECMG 0617/0618 14008KT 9999 FEW010 BKN030 TEMPO 0622/0624 3500 -SN TEMPO 0701/0703 4200 -SNRA BECMG 0706/0707 33007KT CAVOK RKTH 061100Z 0612/0718 27010KT 9999 SCT030 SCT200 TNM02/0621Z TX08/0706Z BECMG 0617/0618 27013KT BECMG 0702/0703 27018KT RKTN 061100Z 0612/0718 31006KT 9999 SCT040 TNM05/0621Z TX08/0706Z RKTU 061100Z 0612/0718 30006KT 9999 SCT030 TNM07/0621Z TX04/0706Z BECMG 0621/0622 BKN030 BECMG 0708/0709 SCT030 ROAH 061110Z 0612/0718 02026KT 8000 -RA FEW010 BKN035 TEMPO 0612/0618 02028G38KT 4000 RA TEMPO 0618/0703 02027G37KT BECMG 0709/0712 02016KT RODN 061055Z 0610/0714 04015G20KT 4800 RA SCT015 BKN040 QNH3010INS TEMPO 0610/0614 03020G25KT 3200 RA BKN015 BECMG 0622/0623 02015G20KT 9000 -RA BKN020 QNH3007INS BECMG 0706/0707 02010G15KT 9999 NSW SCT020 BKN060 QNH3009INS TX20/0700Z TN16/0621Z ROIG 061118Z 0612/0718 02022KT 9999 FEW008 BKN020 TEMPO 0612/0616 03026G36KT 4000 SHRA TEMPO 0616/0709 02024G34KT ROTM 0613/0709 04015KT 9999 SCT020 BKN030 OVC055 611307 QNH3011INS TEMPO 0613/0615 04015G22KT 9000 SHRA BR BECMG 0622/0700 01015KT 9999 SCT030 SCT080 BKN110 QNH3012INS T15/0615Z T19/0703Z 1300 RPLB 061100Z 0612/0712 30008KT 9999 FEW020 SCT080 TX32/0706Z TN24/0621Z TEMPO 0612/0618 06010KT 9000 -SHRA FEW018CB SCT020 BKN080 RPLC 061100Z 0612/0718 32008KT 9000 SCT020 BKN100 TX31/0706Z TN24/0622Z TEMPO 0612/0618 8000 -SHRA FEW015CB SCT020 OVC100 RPLI 061100Z 0612/0712 02016KT 9999 FEW018 BKN100 TEMPO 0612/0618 01020G30KT 8000 -RA SCT018 OVC080 RPLL 061100Z 0612/0718 09006KT 9999 FEW025 SCT300 TX31/0706Z TN26/0621Z TEMPO 0612/0618 26006KT FEW025 BKN300 TEMPO 0618/0624 VRB03KT RPMD 061100Z 0612/0712 06005KT 9999 FEW016 SCT290 TEMPO 0612/0618 16006KT 8000 -TSRA FEW015CB SCT016 BKN090 RPMR 061100Z 0612/0712 16006KT 9999 FEW018 SCT080 TEMPO 0612/0618 34004KT -SHRA FEW017CB SCT018 BKN080 RPMZ 061100Z 0612/0712 26005KT 9999 FEW017 BKN300 TEMPO 0615/0621 VRB03KT TEMPO 0703/0709 24008KT FEW016CB SCT090 BKN300 RPVD 061100Z 0612/0712 04006KT 9999 FEW015 SCT220 TEMPO 0612/0618 22006KT 9000 -TSRA FEW014CB SCT015 BKN070 RPVM 061100Z 0612/0718 02006KT 9999 FEW020 SCT300 TEMPO 0612/0618 34006KT -SHRA FEW018CB SCT020 BKN100 TEMPO 0618/0624 VRB03KT FEW020 BKN300 RPVP 061100Z 0612/0712 36008KT 9999 FEW019 SCT240 TEMPO 0618/0624 29006KT FEW019 SCT080 BKN240 SAAR 061100Z 0612/0712 27010KT CAVOK TX32/0618Z TN18/0709Z BECMG 0615/0618 23010KT 9999 SCT040 BECMG 0621/0624 16010KT 9999 FEW030 0705/0708 12010KT 9999 SCT035 SCT080 SABE 061100Z 0612/0712 24010KT CAVOK TX28/0618Z TN16/0709Z BECMG 0615/0618 20010KT BECMG 0621/0624 15015KT BECMG 0704/0707 13010KT SACO 061100Z 0612/0712 36010KT CAVOK TX36/0618Z TN17/0709Z BECMG 0616/0619 02010G15KT 9999 FEW040 SADF 061100Z 0612/0712 23010KT CAVOK TX29/0619Z TN15/0709Z BECMG 0623/0701 12015KT BECMG 0706/0708 07005KT SAEZ 061100Z 0612/0712 26010KT CAVOK TX28/0618Z TN12/0709Z BECMG 0619/0621 18015KT BECMG 0702/0704 12005KT SAME 061100Z 0612/0712 16015KT CAVOK TX33/0620Z TN20/0710Z BECMG 0617/0619 VRB03KT CAVOK BECMG 0705/0707 18010KT SANR 061100Z 0612/0712 09005KT CAVOK TX34/0618Z TN18/0710Z BECMG 0615/0618 02010KT SANT 061100Z 0612/0712 36005KT CAVOK TX34/0618Z TN19/0710Z BECMG 0617/0620 05010KT 9999 SCT030 FEW045TCU SARE 061100Z 0612/0712 16005KT CAVOK TX31/0618Z TN16/0709Z BECMG 0706/0707 02005KT CAVOK SARF 061100Z 0612/0712 14005KT CAVOK TX31/0618Z TN16/0709Z SARI 061100Z 0612/0712 20005KT CAVOK TX29/0618Z TN14/0709Z BECMG 0706/0707 07005KT SARP 061100Z 0612/0712 16005KT CAVOK TX31/0618Z TN17/0709Z SASA 061100Z 0612/0712 23005KT 9999 SCT020 TX27/0618Z TN15/0710Z PROB40 BECMG 0615/0618 05010KT 9999 BKN025 BECMG 0622/01 36005KT 8000 RADZ SCT025 BKN040 SASJ 061100Z 0612/0712 18005KT 9999 SCT025 TX29/0618Z TN13/0710Z BECMG 0615/0618 05010KT 9999 SCT030 SAVC 061100Z 0612/0712 VRB05KT CAVOK TX23/0618Z TN14/0711Z BECMG 0703/0705 23020KT SAWE 061100Z 0612/0712 25020KT CAVOK TX15/0619Z TN06/0710Z BECMG 0615/0617 25025G35KT 9999 SCT020 FEW035 BKN100 TEMPO 0618/0622 25030G45KT BECMG 0703/0705 25020G35KT CAVOK SAWG 061100Z 0612/0712 23020KT 9999 FEW030 BKN200 TX19/0619Z TN08/0711Z TEMPO 0615/0702 23035G45KT SCT030 BKN070 BECMG 0703/0705 25020G35KT SAWH 061100Z 0612/0712 23030G45KT 9999 BKN035 BKN060 TX11/0619Z TN05/0711Z TEMPO 0612/0622 23035G50KT 8000 SHRA BKN025 SCT040 BECMG 0700/0702 23025G40KT SCT030 BKN040 SAZM 061100Z 0612/0712 18015G25KT CAVOK TX22/0618Z TN11/0710Z BECMG 0700/0703 23010KT SAZN 061100Z 0612/0712 27005KT CAVOK TX29/0620Z TN17/0709Z BECMG 0613/0615 VRB05KT BEMCG 0706/0709 25010KT SAZS 061100Z 0612/0712 VRB05KT CAVOK TX22/0618Z TN06/0710Z BECMG 0613/0615 30015KT BECMG 0623/0701 VRB05KT SBAC 061000Z 0612/0624 04014KT 9999 FEW030 TN27/0612Z TX31/0616Z BECMG 0618/0620 03010KT CAVOK RMK PFY SBAF 060630Z 0612/0624 05010KT 9999 BKN020 TX27/0618Z TN21/0624Z BECMG 0613/0615 11005KT BKN025 RMK PEL SBAN 061000Z 0612/0624 35005KT 9999 SCT005 SCT020 TN21/0612Z TX27/0616Z BECMG 0613/0615 SCT027 FEW033TCU PROB40 TEMPO 0618/0623 26005KT 4000 TSRA SCT035 FEW040CB RMK PFY SBAR 061000Z 0612/0712 09011KT 9999 SCT020 TX31/0615Z TN25/0709Z BECMG 0614/0616 09014KT FEW020 BECMG 0619/0621 09010KT SCT018 RMK PFY SBAT 060900Z 0612/0624 01005KT 8000 BKN025 TX29/0618Z TN26/0621Z BECMG 0617/0618 5000 TSRA SCT020 FEW030CB BECMG 0619/0621 35002KT 9999 NSW FEW030 FEW040TCU RMK PFV SBBE 060900Z 0612/0712 05007KT 9999 SCT017 TX33/0617Z TN24/0709Z BECMG 0614/0616 07010KT SCT030 TEMPO 0617/0620 36015KT 8000 SHRA BKN030 FEW035TCU BECMG 0621/0623 04010KT FEW030 BECMG 0700/0702 06005KT CAVOK BECMG 0709/0711 08007KT FEW025 RMK PFV SBBG 060400Z 0606/0706 29008KT CAVOK TN14/0608Z TX28/0617Z BECMG 0612/0614 23012KT BECMG 0622/0624 13006KT RMK PEL SBBI 060630Z 0612/0624 10005KT 9999 OVC003 TX23/0618Z TN15/0624Z BECMG 0613/0615 06005KT SCT009 BKN015 BECMG 0615/0617 BKN025 RMK PEL SBBR 061000Z 0612/0712 29008KT 9999 SCT027 TX29/0617Z TN21/0707Z BECMG 0613/0615 02010KT SCT030 FEW040TCU PROB40 TEMPO 0618/0623 10010KT 8000 TSRA FEW012 SCT033 FEW040CB BECMG 0700/0702 29005KT BECMG 0706/0708 SCT020 RMK PFY SBBU 060630Z 0612/0624 26005KT 9999 SCT025 TX26/0617Z TN21/0624Z RMK PEL SBBV 060900Z 0612/0712 08015KT 9999 SCT017 TX33/0618Z TN24/0709Z BECMG 0616/0617 10010KT BKN040 FEW045TCU BECMG 0620/0622 12007KT SCT040 BECMG 0703/0705 14005KT FEW040 BECMG 0705/0707 CAVOK BECMG 0710/0712 09005KT FEW020 RMK PFV SBBW 061000Z 0612/0624 00000KT 9999 FEW010 SCT020 TX32/0615Z TN26/0623Z BECMG 0614/0616 02010KT SCT020 FEW025TCU PROB40 TEMPO 0616/0620 5000 TSRA SCT020 FEW025CB RMK PFY SBCF 061000Z 0612/0712 34005KT 9999 BKN008 BKN018 TX28/0617Z TN19/0707Z BECMG 0612/0614 33010KT SCT027 BECMG 0615/0617 33010KT SCT030 FEW040TCU PROB40 TEMPO 0618/0623 08010KT 6000 TSRA SCT035 FEW040CB BECMG 0703/0705 3000 BR BKN008 PROB30 0707/0710 0400 FG BKN002 RMK PFY SBCG 060630Z 0612/0712 15005KT 9999 SCT008 BKN012 TX27/0617Z TN19/0708Z BECMG 0613/0615 SCT015 BKN020 PROB40 TEMPO 0618/0622 VCSH BKN025 FEW030TCU BECMG 0700/0702 SCT025 RMK PEL SBCJ 061315Z 0614/0624 07005KT 4000 BR BKN004 TN23/0614Z TX28/0618Z BECMG 0616/0618 8000 NSW SCT017 FEW030TCU BECMG 0621/0623 04005KT FEW020 RMK PGS SBCO 060630Z 0612/0624 10003KT CAVOK TN17/0612Z TX28/0617Z RMK PEL SBCP 060900Z 0612/0624 33010KT 9999 FEW020 TX28/0616Z TN21/0624Z BECMG 0615/0617 20015KT 5000 RA BKN015 RMK PGU SBCR 060630Z 0612/0712 24008KT 9999 SCT010 BKN020 TX33/0617Z TN21/0708Z PROB40 0612/0613 8000 BKN008 BECMG 0614/0616 14006KT SCT025 RMK PEL SBCT 060630Z 0612/0712 10005KT 9999 OVC003 TX24/0618Z TN14/0708Z BECMG 0612/0614 05007KT SCT008 BKN015 BECMG 0615/0617 11005KT BKN025 BECMG 0621/0623 06005KT BKN005 RMK PEL SBCY 060900Z 0612/0712 32005KT 9999 FEW020 TX32/0717Z TN25/0709Z BECMG 0615/0617 26007KT BKN020 FEW025TCU BECMG 0619/0621 05005KT SCT020 BECMG 0622/0624 33005KT RMK PGU SBDN 060630Z 0612/0624 24005KT 9999 SCT025 TX29/0618Z TN21/0624Z RMK PEL SBEG 060900Z 0612/0712 32005KT 9999 SCT017 TX31/0618Z TN24/0709Z BECMG 0613/0615 02007KT SHRA BKN020 FEW025TCU BECMG 0615/0617 11002KT NSW FEW020 FEW025TCU TEMPO 0617/0622 36010KT 6000 TSRA BKN017 FEW027CB BECMG 0700/0702 30005KT SCT025 BECMG 0702/0704 00000KT TS FEW020 FEW025CB BECMG 0705/0707 06003KT NSW FEW015 RMK PFV SBFI 060630Z 0612/0712 19005KT CAVOK TX28/0618Z TN14/0708Z PROB40 0708/0711 00000KT 0400 FG NSC RMK PEL SBFL 060630Z 0612/0712 18006KT 9999 SCT030 TX28/0618Z TN17/0708Z BECMG 0612/0614 06008KT BECMG 0700/0702 33006KT RMK PEL SBFN 061000Z 0612/0624 12014KT 9999 SCT020 TX30/0615Z TN27/0621Z BECMG 0615/0617 15011KT RMK PFY SBFZ 061000Z 0612/0712 09015KT 9999 SCT027 TX31/0616Z TN27/0708Z BECMG 0616/0618 08012KT FEW030TCU BECMG 0700/0702 SCT020 BECMG 0707/0709 10008KT SCT023 RMK PFY SBGL 060900Z 0612/0718 22010KT 7000 SCT017 BKN040 TN20/0708Z TX24/0718Z TEMPO 0612/0614 20010KT 4000 RA BKN012 BECMG 0614/0616 17015G25KT BKN015 BECMG 0620/0622 12005KT BKN017 BECMG 0709/0710 08005KT SCT017 RMK PGU SBGO 061000Z 0612/0712 34005KT 9999 SCT010 TX29/0617Z TN21/0707Z BECMG 0612/0614 SCT027 FEW045TCU PROB40 TEMPO 0618/0623 26010KT 8000 TSRA SCT040 FEW047CB BECMG 0700/0702 29005KT BECMG 0704/0706 SCT010 RMK PFY SBGR 061000Z 0612/0718 18008KT 9999 BKN013TN15/0708Z TX27/0717Z PROB30 0612/0613 6000 RA BKN009 BECMG 0613/0615 16006KT BKN013 PROB30 0617/0620 14006KT 6000 RA BKN011 BECMG 0620/0622 12005KT 8000 BKN009 BECMG 0702/0704 07005KT CAVOK PROB30 0707/0710 5000 BR BKN006 BECMG 0712/0714 9999 BKN021 BECMG 0715/0717 BKN030 RMK PGE SBGW 060630Z 0612/0624 30006KT 9999 BKN025 TX24/0618Z TN18/0624Z BECMG 0613/0615 24007KT RMK PEL SBIH 060900Z 0612/0624 08005KT 9999 SCT015 TX32/0618Z TN28/0621Z BECMG 0616/0618 12010KT SCT020 FEW025TCU BECMG 0620/0622 06002KT SCT018 RMK PFV SBIL 061000Z 0612/0624 09008KT 9999 FEW020 TX30/0615Z TN27/0623Z BECMG 0613/0615 08015KT FEW023 RMK PFY SBIZ 060900Z 0612/0624 04005KT 9999 SCT017 TX32/0618Z TN26/0621Z BECMG 0616/0618 01007KT SCT020 FEW025TCU BECMG 0619/0621 33002KT SCT040 RMK PFV SBJE 061000Z 0612/0624 07017KT 9999 SCT020 TN26/0612Z TX33/0616Z BECMG 0618/0620 08015KT CAVOK RMK PFY SBJP 061000Z 0612/0712 09011KT 9999 SCT023 TX31/0615Z TN23/0707Z BECMG 0613/0615 11011KT SCT027 BECMG 0619/0621 15008KT CAVOK BECMG 0622/0624 12005KT BECMG 0702/0704 9999 FEW020 BECMG 0705/0707 21003KT BECMG 0709/0711 09010KT SCT020 RMK PFY SBJV 060630Z 0612/0624 24006KT 9999 SCT012 BKN025 TX24/0618Z TN19/0624Z BECMG 0612/0614 11005KT SCT025 RMK PEL SBKG 061000Z 0612/0624 10012KT 9999 SCT023 TX32/0616Z TN25/0623Z BECMG 0612/0614 SCT040 BECMG 0618/0620 09015KT CAVOK RMK PFY SBKP 061000Z 0612/0712 14010KT 9999 BKN015TX23/0618Z TN16/0708Z PROB30 0612/0613 6000 RA BKN007 BECMG 0613/0615 17010KT BECMG 0615/0617 BKN040 BECMG 0617/0619 13012KT SCT017 BECMG 0622/0624 CAVOK RMK PGE SBLO 060630Z 0612/0624 22005KT CAVOK TX29/0617Z TN19/0624Z RMK PEL SBME 060900Z 0612/0624 21013KT 7000 SCT015 BKN040 TX27/0614Z TN21/0624Z BECMG 0614/0616 20015KT 5000 RA BKN012 RMK PGU SBMN 061000Z 0612/0624 08005KT CAVOK TN29/0612Z TX31/0617Z BECMG 0613/0615 9999 SCT020 FEW025TCU PROB30 TEMPO 0620/0624 TSRA SCT020 FEW025CB RMK PFY SBMO 061000Z 0612/0712 09008KT 9999 SCT027 TX31/0616Z TN22/0708Z BECMG 0615/0617 09015KT FEW040 BECMG 0619/0621 07005KT CAVOK BECMG 0703/0705 03005KT 9999 SCT020 RMK PFY SBMQ 060900Z 0612/0712 02007KT 9999 SCT017 TX34/0617Z TN25/0709Z BECMG 0615/0617 08013KT SCT025 BECMG 0620/0622 05010KT FEW020 BECMG 0704/0706 01005KT SCT015 BECMG 0709/0711 05007KT RMK PFV SBNF 060630Z 0612/0712 24005KT 9999 BKN025 TX28/0617Z TN18/0708Z BECMG 0612/0614 10005KT SCT025 BECMG 0622/0624 03005KT RMK PEL SBNT 061000Z 0612/0624 10015KT 9999 SCT027 TN29/0612Z TX31/0616Z BECMG 0619/0621 10010KT CAVOK RMK PFY SBPA 060630Z 0612/0712 26008KT CAVOK TX29/0617Z TN14/0708Z BECMG 0700/0702 20006KT RMK PEL SBPB 061000Z 0612/0624 07020KT 9999 FEW020 TN31/0612Z TX32/0616Z BECMG 0618/0620 06015KT CAVOK RMK PFY SBPJ 061000Z 0612/0712 22008KT 9999 FEW025 TX33/0617Z TN23/0708Z BECMG 0614/0616 27008KT SCT030 FEW035TCU PROB30 TEMPO 0616/0620 33010KT 9000 TS SCT027 FEW043CB BECMG 0700/0702 33005KT FEW040 BECMG 0704/0706 10005KT FEW015 RMK PFY SBPK 060630Z 0612/0712 28006KT CAVOK TX29/0617Z TN11/0708Z BECMG 0613/0615 24012KT BECMG 0622/0624 19008KT RMK PEL SBPL 061000Z 0612/0712 11015KT 9999 FEW020 TX37/0618Z TN25/0708Z BECMG 0612/0614 12010KT SCT027 BECMG 0617/0619 16005KT FEW045 BECMG 0620/0622 13003KT CAVOK BECMG 0703/0705 15010KT 9999 FEW020 RMK PFY SBPP 060630Z 0612/0712 17005KT 9999 SCT015 TX26/0617Z TN16/0708Z BECMG 0613/0615 15006KT CAVOK RMK PEL SBPS 061000Z 0612/0712 07015KT 9999 SCT023 TX30/0616Z TN22/0708Z BECMG 0614/0616 05015KT BECMG 0620/0622 04010KT FEW020 BECMG 0701/0703 36005KT BECMG 0709/0711 01010KT SCT020 RMK PFY SBRB 060900Z 0612/0624 28005KT 8000 SCT020 TX31/0617Z TN26/0624Z PROB40 0612/0616 5000 RA BKN017 BECMG 0617/0619 31005KT SCT025 FEW030TCU RMK PGU SBRF 061000Z 0612/0712 12010KT 9999 SCT025 TX30/0616Z TN27/0707Z BECMG 0616/0618 FEW023 BECMG 0620/0622 14010KT BECMG 0700/0702 09005KT SCT020 BECMG 0709/0711 09010KT SCT025 RMK PFY SBRJ 060900Z 0612/0624 21010KT 7000 SCT017 BKN040 TX25/0614Z TN21/0624Z BECMG 0614/0616 17015G25KT 5000 RA BKN012 RMK PGU SBRP 061000Z 0612/0624 30008KT 9999 BKN030TX29/0617Z TN24/0623Z PROB30 0612/0613 8000 RA BKN013 BECMG 0613/0615 27008KT BECMG 0616/0618 21008KT SCT035 BECMG 0620/0622 14010KT FEW040 RMK PGE SBSC 060630Z 0612/0624 04006KT 9999 BKN015 TX26/0618Z TN19/0624Z RMK PEL SBSG 061000Z 0612/0712 16008KT 9999 SCT033 TX32/0616Z TN22/0707Z BECMG 0616/0618 16015KT FEW030 BECMG 0619/0621 16006KT CAVOK BECMG 0701/0703 9999 FEW020 BECMG 0706/0708 23005KT FEW023 RMK PFY SBSJ 060900Z 0612/0712 22010KT 7000 SCT015 BKN030 TX24/0617Z TN19/0709Z TEMPO 0612/0614 4000 RA BKN012 BECMG 0614/0616 16015KT BKN015 BECMG 0621/0623 11007KT PROB40 0709/0712 4000 BR BKN015 RMK PGU SBSL 060900Z 0612/0712 07010KT 9999 SCT017 TX32/0617Z TN25/0708Z BECMG 0614/0616 05015KT SCT030 BECMG 0617/0618 02015KT BECMG 0620/0622 04010KT FEW025 BECMG 0700/0702 CAVOK BECMG 0709/0711 06008KT FEW017 RMK PFV SBSM 060630Z 0612/0624 23007KT CAVOK TN14/0612Z TX27/0617Z RMK PEL SBSN 060900Z 0612/0712 11005KT 9999 FEW017 TX34/0618Z TN26/0708Z BECMG 0613/0615 09005KT SCT017 BECMG 0616/0618 07010KT SCT020 FEW025TCU BECMG 0620/0621 12007KT BECMG 0622/0624 14005KT FEW020 BECMG 0700/0702 CAVOK BECMG 0704/0706 09005KT FEW015 RMK PFV SBSP 061000Z 0612/0624 19011KT 9999 BKN013TX19/0616Z TN16/0623Z PROB30 0612/0613 4000 DZ BR BKN006 PROB30 0617/0620 4000 RA BKN007 BECMG 0620/0622 16011KT 6000 BKN007 RMK PGE SBSV 061000Z 0612/0712 09008KT 9999 SCT023 TX30/0615Z TN24/0708Z BECMG 0614/0616 09015KT BECMG 0622/0624 08008KT BECMG 0704/0706 35005KT FEW020 BECMG 0709/0711 08010KT SCT020 RMK PFY SBTD 060400Z 0606/0618 21008KT CAVOK TN16/0608Z TX26/0618Z BECMG 0612/0614 22006KT RMK PEL SBTE 061000Z 0612/0624 09010KT 9999 SCT027 TN29/0612Z TX35/0617Z BECMG 0613/0615 SCT040 BECMG 0617/0619 22005KT CAVOK RMK PFY SBTF 060350Z 0606/0618 02010KT 9999 FEW005 TN24/0609Z TX29/0618Z BECMG 0610/0612 12005KT SCT008 BECMG 0616/0617 08007KT 8000 RA SCT015 FEW025TCU BECMG 0617/0618 03010KT TSRA SCT020 FEW030CB RMK PFV SBTT 060900Z 0612/0712 30015KT 8000 BKN015 TX31/0618Z TN24/0710Z TEMPO 0612/0616 5000 RA BECMG 0616/0618 SCT020 FEW025TCU PROB40 0619/0621 TSRA SCT020 FEW030CB BECMG 0622/0624 00000KT FEW010 RMK PGU SBUG 060630Z 0612/0624 28005KT CAVOK TN14/0612Z TX27/0617Z RMK PEL SBUL 061000Z 0612/0624 33008KT 9999 BKN015TX27/0616Z TN24/0623Z PROB30 0612/0613 BKN008 BECMG 0613/0615 27008KT SCT030 FEW050TCU PROB30 0617/0620 23010KT 8000 TSRA SCT025 FEW035CB BECMG 0620/0622 30005KT FEW045 RMK PGE SBUR 061000Z 0612/0624 32009KT 9999 BKN020TX27/0615Z TN22/0623Z PROB30 0612/0614 4000 RA BKN025 FEW035TCU BECMG 0614/0615 SCT025 FEW035TCU PROB30 0615/0619 27008KT 4000 TSRA SCT040 FEW060CB BECMG 0619/0620 36007KT SCT040 PROB30 0620/0624 TSRA BKN040 FEW060CB RMK PGE SBVH 060900Z 0612/0624 36005KT 8000 SCT020 TX30/0617Z TN24/0624Z BECMG 0614/0616 30005KT SCT035 FEW040TCU RMK PGU SBVT 061000Z 0612/0712 29005KT 6000 RA SCT008 BKN020 TX29/0616Z TN24/0708Z BECMG 0613/0615 05015KT PROB30 TEMPO 0620/0624 8000 SHRA BKN018 FEW025TCU RMK PFY SBYS 061000Z 0612/0624 35008KT 9999 SCT027 TX28/0617Z TN20/0623Z BECMG 0614/0616 33010KT SCT027 FEW040TCU PROB30 TEMPO 0618/0622 28010KT 8000 TSRA SCT030 FEW043CB RMK PFY SCAR 061011Z 0612/0712 11004KT CAVOK TX24/0618Z TN20/0706Z BECMG 0614/0616 20004KT BECMG 0615/0617 21014KT BECMG 0702/0704 14004KT OVC030 BECMG 0706/0708 35004KT SCAT 061125Z 0612/0712 35006KT 7000 -DZ BKN009 OVC013 TX21/0618Z TN14/0706Z BECMG 0613/0614 9999 NSW OVC015 BECMG 0615/0617 26012KT CAVOK BECMG 0700/0702 22004KT BKN017 BECMG 0706/0708 35004KT OVC011 SCBA 061012Z 0612/0712 30015KT 9999 FEW040 TX16/0619Z TN05/0710Z BECMG 0615/0617 30025KT CAVOK BECMG 0701/0703 31015KT FEW040 SCCF 061012Z 0612/0712 11015KT CAVOK TX26/0619Z TN06/0706Z BECMG 0613/0614 09004KT BECMG 0616/0617 27015KT BECMG 0619/0621 26025KT BECMG 0700/0702 26015KT BECMG 0704/0706 11015KT SCCI 061056Z 0612/0712 26028KT 9999 FEW030 SCT050 TN06/0709Z TX14/0618Z TEMPO 0616/0622 27029G41KT BECMG 0701/0703 25015KT 9000 SCT030 BECMG 0710/0712 26021G31KT 9999 NSW FEW030 SCT040 SCCY 061016Z 0612/0624 23010KT CAVOK TN07/0612Z TX19/0619Z BECMG 0617/0619 FEW030 SCDA 061012Z 0612/0712 21006KT CAVOK TX24/0618Z TN19/0706Z BECMG 0614/0616 24017KT BECMG 0622/0624 20012KT OVC035 BECMG 0704/0706 16004KT SCEL 061027Z 0612/0712 15004KT CAVOK TX31/0619Z TN13/0711Z BECMG 0614/0616 18008KT BECMG 0616/0618 21015KT BECMG 0700/0702 14005KT SCFA 061012Z 0612/0712 18004KT 9999 BKN012 TX21/0616Z TN16/0706Z BECMG 0614/0616 20014KT FEW017 BECMG 0622/0624 BKN015 BECMG 0702/0704 19004KT SCIE 061028Z 0612/0712 22008KT CAVOK TX19/0618Z TN11/0711Z BECMG 0613/0615 22008KT BECMG 0616/0618 21015KT BECMG 0700/0702 21008KT BECMG 0710/0712 23005KT SCIP 061018Z 0612/0712 09005KT 9999 FEW020 SCT040 TX25/0620Z TN19/0711Z TEMPO 0612/0614 05010KT 7000 -SHRA SCT015 BKN030 BECMG 0615/0617 05010KT SCT025 TEMPO 0618/0701 09015KT 7000 -SHRA SCT015 BKN030 BECMG 0702/0704 09010KT SCT020 SCJO 061015Z 0612/0624 19010KT 9999 BKN020 TN11/0612Z TX18/0619Z BECMG 0617/0619 SCT035 SCNT 061048Z 0612/0700 24015G25KT 9999 FEW020 SCT050 TN07/0700Z TX14/0618Z TEMPO 0615/0618 25020G30KT BKN025 BECMG 0622/0700 27007KT SCT023 SCPQ 061018Z 0612/0624 18010KT 9999 BKN010 BKN020 TN10/0612Z TX17/0619Z BECMG 0618/0620 SCT030 SCQP 061010Z 0612/0712 22005KT CAVOK TX21/0619Z TN07/0710Z TEMPO 0612/0615 19005KT BKN020 BECMG 0615/0617 20012KT FEW020 BECMG 0617/0619 CAVOK BECMG 0623/0701 26005KT BECMG 0705/0707 VRB03KT BECMG 0709/0711 BKN010 SCSE 061032Z 0612/0712 01004KT 9999 OVC010 TX18/0618Z TN12/ 0711Z TEMPO 0612/0614 VRB02KT 6000 SCT005 OVC008 BECMG 0614/0616 28010KT SCT010 BKN015 BECMG 0617/0619 FEW020 TEMPO 0619/0623 CAVOK BECMG 0701/0703 26004KT BECMG 0704/0706 BKN010 SCTE 061011Z 0612/0712 20010KT 9999 BKN015 TX17/0619Z TN08/0710Z BECMG 0614/0616 18015KT BKN025 BECMG 0617/0619 CAVOK BECMG 0702/0704 18010KT BKN015 SCVD 061013Z 0612/0624 16010KT 9999 BKN020 TN10/0612Z TX21/0619Z BECMG 0617/0619 FEW035 SCVM 061027Z 0612/0712 30004KT 4000 HZ OVC010 TX20/0619Z TN10/0711Z TEMPO 0612/0614 00000KT 2000 BR SCT005 OVC008 BECMG 0615/0617 9999 BKN015 BECMG 0617/0619 33013KT SCT020 BECMG 0619/0621 CAVOK BECMG 0700/0702 33006KT BECMG 0702/0704 VRB02KT SEGU 060430Z 0606/0706 22010KT 9999 BKN020 BKN080 BECMG 0612/0613 FEW020 SCT100 BECMG 0617/0618 13005KT BECMG 0619/0620 BKN020 BKN090 FM070000 21010KT CAVOK TX31/0619Z TN24/0611Z SELT 060430Z 0606/0706 00000KT 9999 FEW005 BKN030 BKN100 BECMG 0612/0613 19008KT SCT030 SCT100 BECMG 0617/0618 18014KT BKN030 TEMPO 0620/0622 SHRA BKN030TCU FM070000 03004KT 9999 FEW010 BKN030 TX19/0619Z TN06/0611Z SEMT 060430Z 0606/0706 21010KT 9999 OVC020 BECMG 0613/0614 22012KT SCT023 BECMG 0700/0701 21006KT BKN020 TX31/0620Z TN22/0610Z SEQM 060430Z 0606/0706 00000KT 3000 BR SCT004 BKN016 TEMPO 0608/0611 0800 FG FM061300 VRB03KT 9999 SCT030 SCT100 BECMG 0618/0619 36012KT BKN033 BKN100 TEMPO 0620/0623 TSRA FEW026CB BKN030TCU FM070000 03004KT 8000 BCFG SCT005 BKN020 TX24/0619Z TN11/0611Z SGAS 060500Z 0606/0706 18005KT CAVOK TX31/0618Z TN15/0609Z BECMG 0616/0619 15010KT 9999 SCT030 BECMG 0621/0700 21005KT CAVOK SGCO 060500Z 0606/0706 21007KT CAVOK TX33/0618Z TN17/0609Z BECMG 0615/0618 15010KT 9999 SCT030 BECMG 0621/0700 21007KT CAVOK SGEN 060500Z 0606/0706 21005KT CAVOK TX30/0618Z TN14/0609Z BECMG 0615/0618 15010KT 9999 SCT030 BECMG 0621/0700 18007KT CAVOK SGES 060500Z 0606/0706 24007KT CAVOK TX30/0618Z TN14/0609 PROB40 0608/0610 00000KT 7000 NSC BECMG 0611/0614 18010KT CAVOK BECMG 0615/0618 15010KT 9999 SCT030 BECMG 0621/0700 21005KT CAVOK SKBG 061030Z 0612/0712 18005KT 9999 SCT015 SCT090 BECMG 0615/0617 33007KT BECMG 0700/0702 VRB02KT TEMPO 0708/0712 4000 BCFG BKN008 TX27/0619Z TN19/0711Z SKBO 061030Z 0612/0712 02004KT 9999 FEW020 TEMPO 0612/0613 2000 BCFG SCT010 BECMG 0615/0617 11010KT PROB40 TEMPO 0621/0623 VCSH SCT018TCU BECMG 0623/0701 03004KT TX22/0618Z TN06/0711Z SKBQ 061030Z 0612/0712 35005KT 9999 FEW015 BECMG 0615/0617 01010KT BECMG 0623/0701 36004KT TX34/0617Z TN25/0710Z SKCC 061030Z 0612/0712 VRB02KT 9999 FEW023 SCT100 TEMPO 0615/0618 14015KT TEMPO 0618/0622 36010KT TX35/0618Z TN23/0711Z SKCG 061030Z 0612/0712 04004KT 9999 FEW020 TEMPO 0616/0621 33011KT TX33/0618Z TN25/0711Z SKCL 061030Z 0612/0712 19006KT 9999 FEW025 BKN200 BECMG 0616/0618 32010KT TEMPO 0621/0623 6000 RA SCT020TCU BECMG 0700/0702 03004KT TX32/0619Z TN19/0711Z SKLT 061030Z 0612/0712 23006KT 9999 SCT015 BKN080 TEMPO 0616/0619 04005KT TEMPO 0619/0622 5000 TSRA SCT015CB BECMG 0623/0701 00000KT TX33/0619Z TN22/0711Z SKPE 061030Z 0612/0712 07005KT 9999 FEW017 SCT090 BECMG 0614/0616 26008KT TEMPO 0621/0623 8000 RA SCT015CB BKN080 BECMG 0700/0702 08005KT TX27/0619Z TN18/0711Z SKRG 061030Z 0612/0712 VRB02KT 9999 BKN010 BECMG 0614/0616 09010KT SCT015 TEMPO 0621/0624 5000 DZ BKN020 BECMG 0701/0703 VRB02KT BKN015 TEMPO 0709/0712 5000 BR BKN008 TX23/0619Z TN13/0710Z SKSP 061030Z 0612/0712 04012KT 9999 FEW017 BKN200 TEMPO 0615/0618 8000 DZ SCT013TCU BKN090 TX31/0619Z TN27/0711Z SLAL 061055Z 0612/0712 00000KT 4000 BR BKN008 OVC070 TX22/0619Z TN12/0711Z BECMG 0614/0616 01010KT 9999 NSW SCT015 SCT070 TEMPO 0618/ 0620 FEW030CB BECMG 0703/0705 00000KT 5000 RA SCT003 BKN008 OVC070 SLCB 061055Z 0612/0712 00000KT 5000 BR FEW027 SCT070 TX28/0619Z TN14/0711Z BECMG 0613/0615 27010KT 9999 SCT025 BKN070 TEMPO 0615/0617 8000 RA BECMG 0616/0618 9999 NSW FEW030 SCT070 TEMPO 0619/ 0621 8000 TSRA FEW030 FEW033CB BKN070 SLCO 061055Z 0606/0706 30007KT 9999 SCT025 BKN080 TX32/0620Z TN23 /0710Z TEMPO 0617/0621 8000 SHRA FEW027CB SLET 061055Z 0612/0712 VRB02KT 9999 SCT017 BKN070 TX32/0619Z TN18/0710Z BECMG 0612/0615 34010KT SCT025 BKN080 TEMPO 0623/0701 FEW023 SCT070 SLLP 061055Z 0612/0712 13004KT 9999 FEW015 FEW017CB BKN070 TX14/0620Z TN04/0710Z TEMPO 0617/0622 05010G20KT 5000 TSRA BECMG 0701 /0703 11006KT 3000E VCFG FEW002 SCT010 BKN070 TEMPO 0705/0710 RA SLPS 061055Z 0612/0712 VRB02KT 9999 SCT020 TX35/0619Z TN20/0710Z BECMG 0701/0703 00000KT NSC BECMG 0709/0711 07008KT SCT015 SLTJ 061055Z 0612/0712 00000KT 9999 BKN025 BKN070 TX26/0619Z TN14/0711Z BECMG 0614/0616 16010KT SCT025 BKN070 BECMG 0700/0702 00000KT TEMPO 0704/0706 5000 TSRA FEW030CB SLTR 061055Z 0612/0712 14008KT 8000 SHRA SCT015 FEW023CB BKN080 TX34/0620Z TN23/0710Z BECMG 0614/0616 9999 NSW SCT017 SCT070 PROB40 TEMPO 0618/0622 34010KT FEW023CB SLVR 061055Z 0612/0712 VRB02KT 9999 SCT017 BKN070 TX32/0619Z TN18/0710Z BECMG 0612/0615 34010KT SCT025 BKN080 TEMPO 0623/0701 FEW023 SCT070 SMJP 061000Z 0612/0712 08006KT 9999 FEW018 TX32/0616Z TN23/0709Z TEMPO 0616/0621 08012KT 4000 SHRA FEW015CB SCT020 TEMPO 0618/0620 08018KT 2000 TSRA FEW010 FEW015CB BKN020 SMZO 061000Z 0612/0712 VRB02KT 9999 SCT030 TX30/0618Z TN24/0709Z TEMPO 0616/0620 08012KT 4000 SHRA FEW015CB SCT020 TEMPO 0616/0619 06018KT 6000 TSRA FEW010 FEW015CB BKN020 SOCA 061000Z 0612/0712 12006KT 9999 SCT023 FM061400 07012KT 9999 SCT035 FM062300 VRB02KT 9999 FEW020 PROB30 TEMPO 0612/0712 SHRA FEW012TCU PROB30 TEMPO 0707/0711 0800 FG BKN001 SPCL 061100Z 0612/0712 03004KT 9999 SCT020 BKN080 TX29/0620Z TN24/0711Z TEMPO 0618/0623 BKN020 BKN080 BECMG 0700/0701 BKN015 BKN080 SPGM 061110Z 0612/0712 VRB02KT 8000 SCT020 OVC090 TX28/0619Z TN21/0711Z TEMPO 0613/0615 6000 RA SCT015 OVC080 FM061800 35006KT 9999 FEW030 BKN100 SPHI 061100Z 0612/0712 18008KT 9999 BKN008 TX28/0619Z TN19/0711Z BECMG 0614/0616 CAVOK BECMG 0619/0621 19018KT BECMG 0703/0705 18008KT SPHO 061100Z 0612/0712 00000KT 9999 BKN090 TX21/0619Z TN11/0711Z TEMPO 0613/0616 FEW040 SCT100 TEMPO 0619/0701 11012KT RA FEW040TCU BKN080 TEMPO 0705/0710 RA SPHY 061100Z 0612/0712 23005KT 9999 SCT010 BKN040 TX17/0619Z TN08/0711Z TEMPO 0617/0623 FEW015 SCT020 SPJC 061100Z 0612/0712 19005KT 9999 SCT010 TX24/0619Z TN19/0711Z FM061800 17010KT CAVOK FM070400 16008KT 9999 BKN080 SPJI 061100Z 0612/0712 09003KT 9999 SCT015 BKN080 TX30/0620Z TN23/0711Z TEMPO 0612/0614 VRB02KT 5000 BR BKN015 OVC070 TEMPO 0618/0622 04005KT 5000 SHRA BKN012 FEW020TCU OVC100 SPJL 061115Z 0612/0712 VRB04KT 9999 BKN012 BKN080 TX18/0618Z TN02/0710Z FM061430 33005KT 9999 BKN020 FM061800 25007KT 9999 SCT020 BKN100 FM070100 VRB05KT 9999 BKN015 BKN080 SPJR 061110Z 0612/0712 VRB02KT 9000 SCT023 BKN043 TX20/0619Z TN11/2110Z TEMPO 0612/0615 7000 SCT020 OVC040 BECMG 0617/0619 13010KT 9999 SCT033 BKN047 TEMPO 0620/0623 8000 RA SCT017 OVC040 SPLO 061115Z 0612/0712 17008KT CAVOK TX26/0619Z TN16/0711Z FM062200 15004KT 9999 BKN030 SPME 061110Z 0612/0712 VRB02KT 8000 FEW011 SCT015 TX31/0619Z TN20/0711Z TEMPO 0612/0614 6000 OVC010 BECMG 0615/0618 33010KT 9999 SCT014 BECMG 0622/0701 27005KT SCT011 BKN015 SPMS 061100Z 0612/0712 35003KT 9999 SCT015 SCT100 TX32/0620Z TN23/0711Z TEMPO 0612/0616 VRB02KT 5000 RADZ BKN010 BKN080 TEMPO 0619/0621 27005KT 5000 SHRA BKN012 FEW020TCU SPNC 061110Z 0612/0712 06005KT 8000 SCT017 BKN100 TX24/0619Z TN15/0711Z BECMG 0615/0618 07014KT 9999 SCT040 BKN110 SPQT 061100Z 0612/0712 35004KT 8000 -RA BKN015 OVC080 TX30/0619Z TN23/0711Z BECMG 0613/0616 SCT015 BKN100 TEMPO 0620/0624 07012KT 3000 SHRA BKN010 FEW020TVU BKN080 TEMPO 0708/0712 27006KT 3000 RA BKN008 OVC070 SPQU 061100Z 0612/0712 05006KT 9999 FEW100 TX22/0618Z TN10/0710Z BECMG 0614/0616 25010KT FM070200 VRB03KT 9999 FEW013 BKN100 SPRU 061100Z 0612/0712 14006KT 7000 OVC006 TX25/0619Z TN19/0711Z BECMG 0614/0616 FEW150 FM061800 17010KT 9999 FEW120 FM070500 13006KT 7000 BKN050 SPSO 061100Z 0612/0712 13004KT 8000 NSC TX24/0619Z TN17/0711Z TEMPO 0612/0614 3000 BR FU BECMG 0614/0616 28010KT BECMG 0619/0621 22016KT BECMG 0704/0706 18006KT SPST 061110Z 0612/0712 00000KT 6000 SCT010 SCT020 BKN050 TX32/0619Z TN23/0711Z TEMPO 0612/0614 3000 BR SCT007 BKN015 BECMG 0615/0618 15008KT 9999 SCT020 BKN080 SPTN 061100Z 0612/0712 VRB02KT CAVOK TX25/0619Z TN16/0710Z BECMG 0616/0618 22010KT FM070100 21004KT 9999 BKN030 SPTU 061100Z 0612/0712 00000KT 9999 CAVOK TX32/0619Z TN24/0711Z TEMPO 0612/0614 BKN020 SCT060 TEMPO 0617/0621 RA FEW020TCU OVC060 SPYL 061225Z 0612/0712 15016KT CAVOK TX30/0619Z TN21/0711Z FM061800 21014KT CAVOK SPZO 061100Z 0612/0712 VRB02KT 9999 FEW020 SCT030 BKN100 TX20/0619Z TN09/0711Z BECMG 0615/0617 36012KT FEW040 SCT050 TEMPO 0619/0623 RA FEW040TCU BKN080 BECMG 0701/0702 00000KT SUAA 061130Z 0612/0712 33015KT CAVOK TX25/0618Z TN12/0709Z BECMG 0612/0616 24015KT PROB40 TEMPO 0612/0618 24015G25KT SUCA 061130Z 0612/0712 31015G25KT CAVOK TX26/0618Z TN14/0709Z BECMG 0612/0616 22012KT SUDU 060515Z 0606/0706 34008KT CAVOK TX28/0618Z TN11/0609Z BECMG 0617/0619 20012KT SULS 061130Z 0612/0712 33015KT CAVOK TX25/0618Z TN11/0709Z BECMG 0612/0616 24015KT TEMPO 0612/0618 24018G28KT SUMU 061130Z 0612/0712 33015KT CAVOK TX25/0618Z TN12/0709Z BECMG 0612/0616 24015KT PROB40 TEMPO 0612/0618 24015G25KT SURV 061130Z 0612/0712 31010KT CAVOK TX27/0618Z TN11/0709Z SUSO 060515Z 0606/0706 34005KT CAVOK TX29/0618Z TN14/0609Z SVBC 061000Z 0612/0712 00000KT CAVOK TX34/19Z TN23/08Z BECMG 0612/0616 07005KT FEW010 SVBM 061200Z 0612/0712 11008KT 9999 SCT013 TX33/0618Z TN21/0708Z BECMG 0620/0700 09004KT BKN013 SVJC 061000Z 0612/0712 09004KT CAVOK TX33/19Z TN23/09Z BECMG 0612/0616 09006KT FEW013 SVMC 061000Z 0612/0712 00000KT 9999 FEW013 TX34/19Z TN24/08Z BECMG 0614/0618 09006KT SCT013 SVMG 061000Z 0612/0712 08004KT CAVOK TX33/18Z TN23/08Z BECMG 0612/0616 09010KT FEW010 SVMI 061000Z 0612/0712 00000KT CAVOK TX33/18Z TN23/08Z BECMG 0612/0616 09006KT SCT016 SVSA 061000Z 0612/0712 00000KT 9999 FEW020 TX32/19Z TN21/08Z BECMG 0614/0618 15006KT SCT020 SVVA 061306Z 0612/0712 07003KT 9999 FEW020 TX32/0619Z TN22/0708Z TEMPO 0616/0620 09004KT FEW016 SCT100 SYCJ 061100Z 0612/0712 06010KT 9999 FEW019CB BKN021 TEMPO 0618/0622 8000 SHRA BKN015 BKN038 BECMG 0623/0701 05004KT 9999 SCT015 TEMPO 0708/0712 7000 SHRA BKN014 BKN036 SYEB 061100Z 0612/0624 07012KT 9999 FEW017CB SCT019 BKN080 SYEC 061100Z 0612/0712 07012KT 9999 FEW019CB BKN021 TEMPO 0617/0621 8000 SHRA BKN015 BKN038 BECMG 0623/0701 06005KT 9999 SCT015 TEMPO 0708/0712 5000 SHRA BKN012 BKN034 SYKA 061105Z 0612/0624 06012KT 9999 FEW018CB SCT019 BKN080 SYKM 061100Z 0612/0624 06012KT 9999 FEW019CB SCT020 BKN100 SYKT 061100Z 0612/0624 08012KT 9999 FEW017CB SCT018 BKN080 SYLT 061100Z 0612/0624 06012KT 9999 FEW018CB SCT019 BKN090 SYMB 061100Z 0612/0624 05012KT 9999 FEW020CB SCT021 SCT038 TAPA 061100Z 0612/0712 10011KT 9999 SCT020 PROB30 TEMPO 0702/0712 SHRA TBPB 061100Z 0612/0712 09017KT 9999 SCT020 PROB30 TEMPO 0703/0709 SHRA BKN015 TDPD 061100Z 0612/0712 10016KT 9999 SCT018 TEMPO 0612/0618 SHRA BKN015 PROB30 TEMPO 0703/0712 SHRA BKN015 TFFF 061100Z 0612/0712 10012KT 9999 FEW028 PROB30 TEMPO 0612/0616 4000 SHRA SCT020TCU SCT033 PROB30 TEMPO 0702/0712 4000 SHRA SCT018TCU SCT025 PROB30 TEMPO 0703/0712 VRB03KT TFFR 061100Z 0612/0712 09012KT 9999 FEW028 PROB30 TEMPO 0612/0621 4000 SHRA SCT020TCU SCT033 PROB30 TEMPO 0622/0712 VRB03KT TEMPO 0703/0712 4000 SHRA SCT018TCU SCT025 TGPY 060441Z 0606/0706 07010KT 9999 SCT019 FM 061200Z 10017KT 9999 FEW020 BECMG 0622/0624 08012KT FEW018 TIST 061140Z 0612/0712 09008KT P6SM VCSH FEW025 FM061400 11012KT P6SM FEW025 SCT035 FM062200 07010KT P6SM FEW025 TISX 061140Z 0612/0712 07007KT P6SM VCSH SCT025 FM061400 09012KT P6SM FEW025 SCT035 FM062200 05010KT P6SM FEW025 TJBQ 061140Z 0612/0712 10005KT P6SM FEW025 FM061400 06010KT P6SM SCT035 FM061700 05010KT P6SM VCSH SCT025 SCT040 FM062300 09007KT P6SM FEW025 NOT SKED 0702/0711 TJMZ 061140Z 0612/0712 07005KT P6SM FEW030 FM061430 26010KT P6SM SCT025 SCT040 FM061700 27010KT P6SM VCSH SCT025 BKN040 FM062300 07006KT P6SM FEW025 NOT SKED TJPS 061140Z 0612/0712 07005KT P6SM VCSH SCT030 FM061400 13012KT P6SM FEW030 FM061700 15015KT P6SM VCSH SCT030 SCT050 FM062330 10006KT P6SM FEW030 TJSJ 061140Z 0612/0712 10004KT P6SM VCSH SCT030 FM061500 06013KT P6SM FEW030 FM062200 09012KT P6SM FEW035 SCT050 TKPK 061140Z 0612/0712 07014KT P6SM VCSH SCT020 NOT SKED 0702/0711 TKPN 061100Z 0612/0712 10011KT 9999 SCT020 PROB30 TEMPO 0702/0712 SHRA TLPC 061100Z 0612/0712 09010G20KT 9999 SCT026 TEMPO 0616/0702 SHRA BKN018KT TLPL 061100Z 0612/0712 09018KT 9999 SCT026 TEMPO 0616/0702 SHRA BKN018KT TNCA 061115Z 0612/0712 09016KT 9999 FEW020 PROB30 TEMPO 0708/0712 8000 SHRA BKN015 TNCB 061118Z 0612/0718 09014KT 9999 SCT018 PROB30 TEMPO 0612/0617 6000 SHRA SCT015CB TNCC 061115Z 0612/0712 10014KT 9999 FEW020 PROB30 TEMPO 0708/0712 8000 SHRA BKN015 TNCM 061140Z 0612/0712 08014KT P6SM VCSH SCT018 TQPF 061100Z 0612/0712 10011KT 9999 SCT020 PROB30 TEMPO 0702/0712 SHRA TRPG 061100Z 0612/0712 10013KT 9999 SCT020 PROB30 TEMPO 0702/0712 SHRA TTCP 061000Z 0612/0712 09015KT 9999 SCT018 PROB40 TEMPO 0612/0616 09015G25KT 5000 SHRA BKN018 BKN038 BECMG 0700/0702 09005KT FEW016 TTPP 061000Z 0612/0712 09015KT 9999 SCT018 PROB40 TEMPO 0612/0618 09015G25KT 5000 SHRA BKN018 BKN038 BECMG 0700/0702 09005KT FEW016 TUPJ 061100Z 0612/0712 10009KT 9999 SCT020 TVSA 061100Z 0612/0712 07012KT 9999 SCT018 PROB30 TEMPO 0703/0712 SHRA BKN015 TXKF 061132Z 0612/0712 34015KT 9999 SCT045 BECMG 0621/0624 03007KT UAAA 061100Z 0612/0712 34003MPS 3100 BR FU BKN005 OVC011CB TX03/0708Z TNM02/0701Z TEMPO 0612/0614 26003MPS 1500 -SHRA BR TEMPO 0614/0618 32003MPS 0800 -SHRASN FZFG BKN003 OVC008CB TEMPO 0618/0705 0300 FZFG VV002 UACC 061100Z 0612/0712 24015MPS 3100 SN BLSN BKN011 BKN030 TXM01/0712Z TNM07/0615Z TEMPO 0612/0614 1500 SHSN BLSN BKN020CB TEMPO 0614/0704 23015G20MPS 0600 +SHSN BLSN BKN005 BKN020CB TEMPO 0704/0712 24012G17MPS 2000 SHSN BLSN BKN020CB UAII 061100Z 0612/0712 03003G08MPS 3100 BR SCT010 BKN030CB OVC100 TX08/0708Z TNM03/0701Z TEMPO 0612/0624 36005MPS 0200 SHRASN FZFG BKN003 OVC020CB TEMPO 0700/0704 06005MPS 0300 FZFG VV002 BECMG 0705/0707 33003G08MPS 6000 NSW UAKK 061100Z 0612/0712 24014MPS 4000 -SN BLSN BKN011 OVC020 TXM05/0712Z TNM10/0616Z TEMPO 0612/0616 2000 SHSN BKN011CB TEMPO 0616/0706 23016G21MPS 1000 SHSN BKN005 BKN011CB TEMPO 0706/0712 24015G20MPS 1000 SHSN BKN005 BKN011CB UATE 061101Z 0612/0712 16006MPS 9999 SCT005 BKN033 TX07/0709Z TNM02/0703Z UATG 061102Z 0612/0712 21010MPS 3100 BR BKN011 BKN030CB TX03/0709Z TNM02/0704Z TEMPO 0614/0701 0300 FZFG VV001 UATT 061100Z 0612/0712 24008MPS 3100 -SN OVC011 TX01/0711Z TNM05/0701Z TEMPO 0612/0618 24014MPS 1500 SN BLSN OVC005 TEMPO 0618/0706 23013MPS 2000 BLSN OVC003 UBBB 061112Z 0612/0712 15010KT 9999 BKN025 TX09/0612Z TN05/0702Z TEMPO 0612/0618 18006KT BKN015 TEMPO 0618/0704 VRB04KT 4000 BR SCT008 UBBG 061110Z 0612/0712 VRB04KT 8000 FEW040 SCT100 TX07/0612Z TN00/0703Z PROB40 TEMPO 0618/0703 3000 BR SCT007 BKN030 UBBL 061104Z 0612/0712 34006KT 5000 -RA SCT015 OVC025 TX05/0612Z TN02/0702Z TEMPO 0612/0618 30010KT SCT004 OVC020 TEMPO 0618/0704 VRB04KT 3000 BR BKN006 UBBN 061102Z 0612/0712 VRB04KT 8000 SCT020 BKN030 OVC060 TX06/0612Z TNM00/0703Z TEMPO 0612/0621 31008KT 3000 BR TEMPO 0621/0704 05008KT UBBQ 061105Z 0612/0712 VRB04KT 9999 SCT020 SCT060 TX05/0612Z TNM03/0702Z TEMPO 0612/0620 6000 BKN006 TEMPO 0620/0705 1500 BR SCT004 UCFM 061047Z 0612/0712 12003G08MPS 1000 BR FU BKN003 OVC020CB TEMPO 0612/0618 27007G12MPS 0300 SHSN FZFG BKN002 OVC015CB TEMPO 0618/0624 0200 FZFG VV001 UCFO 061042Z 0612/0712 17003G08MPS 1200 BR SCT010 BKN050CB TEMPO 0612/0618 28007G12MPS 0400 FG FU SCT002 TEMPO 0618/0624 1600 BR FU SCT004 BECMG 0703/0705 27005MPS 3000 BR FU UDSG 061107Z 0612/0712 06008KT 9999 SCT040 TEMPO 0612/0621 5000 BR UDYZ 061104Z 0612/0712 03006KT 6000 SCT040 TEMPO 0612/0622 VRB16KT 2300 -SHRA BR FEW005 BKN030CB TEMPO 0622/0707 0200 FZFG VV001 UEEE 061100Z 0612/0718 28003MPS 2100 BR NSC TXM37/0612Z TNM42/0623Z TEMPO 0612/0621 0300 FG VV002 FM062100 VRB01MPS 0300 FG VV002 TEMPO 0703/0715 3200 BR NSC UERP 061100Z 0612/0712 16005MPS 9999 SCT025 TEMPO 0618/0703 2500 -SN BR SCT020 BKN100 UERR 061100Z 0612/0712 VRB01MPS CAVOK TXM35/0706Z TNM42/0623Z TEMPO 0612/0618 0500 FG VV003 UGKO 061100Z 0612/0712 08010KT CAVOK TX12/0612Z TNM00/0622Z TEMPO 0612/0618 25012KT BECMG 0705/0708 08016G27KT UGSB 061100Z 0612/0712 32007KT 9999 FEW030 TX11/0711Z TN03/0701Z BECMG 0614/0617 13012KT BECMG 0708/0709 32007KT UGTB 061100Z 0612/0712 17005KT CAVOK TX09/0711Z TN00/0703Z BECMG 0615/0617 SCT020 BKN030 BECMG 0705/0708 NSC UHBB 061100Z 0612/0712 33003MPS 9999 SCT030 TEMPO 0612/0618 3100 -SN BKN020 TEMPO 0701/0709 36006G11MPS UHHH 061058Z 0612/0718 23006MPS 9999 SCT025CB TEMPO 0615/0622 18003MPS 3100 -SHSN SCT011 SCT020CB FM062200 24008MPS 3100 -SHSN SCT011 BKN020CB TEMPO 0622/0712 25008G13MPS 1500 SHSN BLSN UHMA 061045Z 0612/0712 03009G14MPS 9999 SCT030 TEMPO 0612/0709 07014G20MPS 5000 -SN BLSN SCT010 BKN020 TEMPO 0709/0712 35012G17MPS 5000 -SN BLSN SCT010 BKN020 UHMM 061252Z 0613/0718 01006G12MPS 9999 DRSN BKN020CB TEMPO 0613/0623 1500 SHSN BLSN VV011 FM070000 02003G08MPS 9999 SCT030 UHPP 061056Z 0612/0718 31003G12MPS 9999 SCT030CB TEMPO 0612/0712 29008G18MPS UHSS 061055Z 0612/0718 18003MPS 9999 BKN030CB FM070100 26006MPS 9999 BKN020CB TEMPO 0701/0718 1400 SHSN BKN004 BKN013CB UHWW 061100Z 0612/0712 01003MPS 9999 SCT025 BECMG 0613/0616 3500 -SHSN BR BKN013CB TEMPO 0616/0620 24003MPS FM070000 33003MPS 9999 BKN030CB TEMPO 0700/0712 34009G14MPS UIAA 061100Z 0612/0712 26003G08MPS 9999 NSC TEMPO 0618/0702 3100 BR FU UIBB 061100Z 0612/0712 13003MPS 9999 -SHSN FEW004 SCT016CB TEMPO 0612/0618 0700 FZFG BECMG 0618/0620 24005MPS TEMPO 0621/0706 1900 SHSN UIII 061100Z 0612/0712 16003MPS 9999 NSC TEMPO 0618/0702 0300 FZFG VV001 BECMG 0702/0703 30006MPS SCT015CB UIUU 061100Z 0612/0712 12003G08MPS 4000 BR FU NSC TEMPO 0612/0703 1400 BR FU UKBB 061100Z 0612/0712 21004G09MPS 9999 SCT030 TX05/0612Z TNM03/0705Z TEMPO 0620/0706 2000 BR BKN006 UKDD 061105Z 0612/0712 21005MPS 9999 BKN012 TX04/0712Z TNM00/0703Z TEMPO 0612/0617 20007G12MPS TEMPO 0617/0706 1100 BR OVC003 UKDR 061106Z 0612/0712 19006MPS 9999 SCT011 TX07/0711Z TN01/0704Z BECMG 0614/0616 2200 BR OVC007 TEMPO 0618/0707 0400 FG VV002 BECMG 0707/0709 3100 BR UKHH 061104Z 0612/0712 23006G12MPS 9999 SCT020 TX04/0612Z TNM00/0621Z PROB40 TEMPO 0612/0618 22009G15MPS BECMG 0620/0621 2100 BR SCT004 BECMG 0706/0708 6000 NSW SCT007 UKKK 061102Z 0612/0712 21003G08MPS 9999 SCT030 TX05/0612Z TNM03/0705Z TEMPO 0620/0706 2000 BR BKN007 UKKM 061101Z 0612/0712 21005MPS CAVOK TX06/0612Z TNM02/0705Z UKLL 061105Z 0612/0712 23004MPS 9999 BKN020 TX06/0612Z TNM03/0704Z BECMG 0620/0621 20004MPS TEMPO 0621/0709 2100 BR SCT004 BKN007 UKOO 061106Z 0612/0712 20007G14MPS 6000 SCT004 BKN007 TX10/0612Z TN00/0704Z TEMPO 0612/0615 22010G16MPS TEMPO 0615/0706 20003G08MPS 2100 BR ULAA 061100Z 0612/0712 26004MPS 5000 -SNRA BKN007 BKN011 TEMPO 0612/0614 24004G10MPS 3100 -SHSNRA BR BKN005 BKN010CB FM061400 25004MPS 3100 -SN BR BKN005 BKN011 TEMPO 0614/0624 VRB01MPS 0400 +FZDZ FZFG BKN002 TEMPO 0700/0709 20003MPS 1000 SHSN BR BKN003 BKN010CB ULLI 061057Z 0612/0712 21007G13MPS 5000 -RA BR BKN011 BKN020 TEMPO 0612/0620 3100 -SHRA BR BKN007 BKN015CB TEMPO 0620/0624 2100 -DZ BR BKN005 OVC011 BECMG 0700/0702 25007G13MPS TEMPO 0700/0712 3100 -SHRA BR BKN007 BKN015CB BECMG 0708/0710 21007G14MPS ULMM 061059Z 0612/0712 13003MPS 3100 -SHSN BR BKN011CB TEMPO 0612/0618 09003MPS 1600 SHSN BR BKN006 BKN011CB BECMG 0618/0619 9999 NSW BKN011 TEMPO 0619/0712 09003MPS 3100 -SHSN BR BKN006 BKN011CB UMGG 061101Z 0612/0712 22005G10MPS CAVOK TEMPO 0612/0620 21007G12MPS BECMG 0620/0622 22006MPS BECMG 0708/0710 9999 SCT013 UMKK 061059Z 0612/0712 21008G14MPS 5000 -RA BR OVC011 TEMPO 0612/0712 3100 -SHRA BR BKN005 BKN012CB BECMG 0710/0712 24008G13MPS UMMS 061108Z 0612/0712 21007G12MPS 6000 SCT012 TX02/0613Z TNM02/0703Z TEMPO 0612/0619 23010G15MPS TEMPO 0619/0708 23009G14MPS 2000 BR BKN003 UNAA 061049Z 0612/0712 24002MPS 3100 BR SCT011 FM061400 18003G10MPS 9999 SCT025CB TEMPO 0614/0615 3500 -SHSN TEMPO 0615/0712 24008G15MPS 3100 -SHSN BLSN BKN017CB UNBB 061059Z 0612/0712 23008G14MPS 3100 -SHSN DRSN SCT007 BKN020CB TEMPO 0612/0712 25013G18MPS 1000 SHSN BLSN SCT003 BKN011CB UNEE 061100Z 0612/0712 24007G15MPS 9999 BKN020CB TEMPO 0612/0618 1000 SHSN BKN004 BKN011CB FM061800 18008G13MPS 3100 -SHSN BKN011CB TEMPO 0620/0706 20013G18MPS 0500 +SHSN BLSN BKN002 BKN011CB TEMPO 0706/0712 1500 SHSN BKN005 BKN011CB UNKL 061052Z 0612/0712 20003G10MPS 9999 SCT020CB TEMPO 0612/0616 24008G15MPS 3100 -SHSN BKN015CB FM061600 23003G10MPS 3100 -SHSN BKN017CB TEMPO 0623/0712 25008G15MPS 1500 SHSN BKN012CB UNNT 061100Z 0612/0712 23008G15MPS 9999 DRSN BKN040CB TEMPO 0612/0619 3100 -SHSNRA BLSN BKN020CB BECMG 0619/0621 20008G15MPS 6000 -SHSN DRSN TEMPO 0621/0712 22013G18MPS 0600 +SHSN BLSN BKN005 BKN011CB UNOO 061058Z 0612/0712 22006G14MPS 2500 -SHSN BLSN BKN005 BKN020CB TEMPO 0612/0712 22016MPS 0400 +SHSN BLSN VV003 UOOO 061055Z 0612/0712 20010G15MPS 3100 -SHSN BLSN BKN011CB TEMPO 0612/0618 0900 SHSN BLSN BKN007CB TEMPO 0618/0624 1000 BR BECMG 0700/0702 18010G15MPS URFF 061048Z 0612/0712 22003MPS CAVOK TX08/0612Z TN00/0616Z= URKA 061109Z 0612/0712 14003G08MPS 9999 SCT030 TEMPO 0612/0618 22003G08MPS TEMPO 0618/0706 3100 BR SCT011 URKK 061052Z 0612/0712 14003G08MPS 9999 SCT040 TEMPO 0618/0708 3100 BR SCT011 URMM 061100Z 0612/0712 11003G08MPS 9999 SCT030 TX04/0712Z TNM06/0703Z TEMPO 0618/0706 VRB01MPS 3100 BR BKN011 URRP 061057Z 0612/0712 25003G10MPS 9999 SCT011 FM061500 23003G08MPS 3100 BR BKN011 PROB40 TEMPO 0615/0712 0300 FG OVC001 URSS 061055Z 0612/0712 VRB01MPS 9999 FEW030 TEMPO 0612/0614 28004G09MPS BECMG 0615/0616 05007MPS NSC BECMG 0709/0710 VRB01MPS TEMPO 0710/0712 27004G09MPS USCC 061100Z 0612/0712 23006G15MPS 6000 DRSN BKN015CB TEMPO 0612/0618 24008G20MPS 3100 -SHSN -FZRA BKN011CB USHH 061057Z 0612/0712 17007G14MPS 2500 -SN BLSN BKN005 OVC016 TEMPO 0612/0618 0800 +SHSN BLSN VV003 TEMPO 0618/0706 1200 SN FZRA BR BKN002 OVC010 BECMG 0621/0623 23003G08MPS FM070600 23005G10MPS 9999 BKN016 BECMG 0708/0710 27005G10MPS USNN 061100Z 0612/0712 18006G12MPS 9999 BKN015 OVC025 TEMPO 0612/0616 SCT005 BECMG 0616/0618 1500 SN BKN006 OVC010 FM070300 20003G09MPS 4000 -SHSN BKN011CB USPP 061056Z 0612/0712 25009G18MPS 8000 -SNRA BKN011 TEMPO 0612/0618 3100 -SN BECMG 0700/0702 24003G12MPS USRR 061055Z 0612/0712 18007G14MPS 1500 SN BLSN OVC005 TEMPO 0612/0703 0600 +SHSN BLSN BKN003 BKN015CB FM070300 24005G12MPS 3100 -SHSN BKN011 BKN017CB TEMPO 0703/0712 2100 -SHSN BKN005 BKN015CB USSS 061059Z 0612/0712 24007G15MPS 6000 -SHSN BKN011 BKN020CB TEMPO 0612/0621 26010G20MPS FM070000 25003G12MPS 9999 -SNRA BKN016 USTR 061055Z 0612/0712 23008G18MPS 3100 -SHSN OVC011 BKN015CB TEMPO 0612/0618 21009G20MPS 0400 +SHSN -FZRA VV003 TEMPO 0618/0703 1000 SHSN BLSN VV003 UTAA 061039Z 0611/0712 08016KT 4000 BR OVC005 SCT020CB TEMPO 0611/0614 1500 -RA BR OVC003 BECMG 0614/0615 12014KT 1000 -RA BR OVC003 TEMPO 0618/0706 0200 FG DZ VV001 BECMG 0706/0708 09016KT 3000 BR OVC005 UTAK 061030Z 0612/0712 07014KT CAVOR TEMPO 0612/0618 14016KT 6000 SCT020 BKN100 UTAM 061030Z 0612/0712 08010KT 3000 BR OVC007 SCT020CB TEMPO 0612/0618 04010KT 1000 BR -DZ OVC003 BECMG 0618/0621 1000 BR BKN003 TEMPO 0621/0705 VRB04KT 0600 FG -DZ OVC003 BECMG 0706/0708 4000 BR BKN010 UTAT 061037Z 0612/0712 09016KT 6000 SCT050 BKN100 TEMPO 0612/0618 04012KT TEMPO 0618/0624 2000 BR BKN010 TEMPO 0700/0706 VRB02KT 0700 FZFG VV002 UTAV 061030Z 0612/0712 02014KT 5000 BKN020 SCT030CB TEMPO 0612/0615 32012KT 2000 BR -RA OVC005 TEMPO 0615/0705 VRB04KT 0500 FG VV003 UTDD 061200Z 0613/0701 VRB02MPS 3100 HZ SCT050CB SCT090 TEMPO 0613/0701 27007MPS 2400 HZ PROB40 TEMPO 0613/0701 2100 -SHRA HZ UTFN 061100Z 0612/0712 34010KT 3000 BR SCT050CB TEMPO 0612/0618 24012KT 1100 -SHRA BR BKN015CB TEMPO 0618/0706 VRB02KT 0400 SHRA FG BKN002 OVC010CB UTNN 061100Z 0612/0712 VRB04KT CAVOK TEMPO 0706/0712 06010G20KT= UTNU 061102Z 0612/0712 05010G20KT 6000 NSC TEMPO 0612/0618 VRB04KT 2000 BR BKN015 UTNU 061102Z 0612/0712 05010G20KT 6000 NSC TEMPO 0612/0618 VRB04KT 2000 BR BKN015 UTSA 061101Z 0612/0712 VRB03KT 7000 NSC TEMPO 0612/0623 01012KT 3500 BR SCT008 BKN025 UTSB 061100Z 0612/0712 VRB03KT 7000 FEW010 SCT033 TEMPO 0612/0623 36012KT 3500 BR SCT007 OVC020 UTSS 061100Z 0612/0712 12010G20KT 5000 -SHRA BR SCT007 BKN050CB TEMPO 0612/0621 30016G26KT 2000 RA BR BKN003 OVC026 UTST 061100Z 0612/0712 VRB06KT 6000 SCT050CB SCT100 TEMPO 0612/0621 26012G22KT 2400 -SHRA BR SCT005 BKN050CB BKN100 TEMPO 0621/0705 0200 FG VV002 UTTT 061100Z 0612/0712 04008KT 5000 BR FEW040CB SCT010 SCT100 TEMPO 0612/0616 2000 BKN007 TEMPO 0616/0704 1000 BR BKN005 UUBW 061055Z 0612/0712 24008G15MPS 8000 BKN011 TX02/0612Z TNM01/0618Z TEMPO 0615/0706 -FZRA BKN004 UUDD 061057Z 0612/0718 24008G14MPS 9999 SCT011 TX02/0612Z TNM01/0618Z BECMG 0615/0617 FEW006 BKN011 TEMPO 0617/0706 2300 -SN FEW003 OVC006 PROB40 TEMPO 0617/0706 -FZDZ OVC002 BECMG 0706/0708 21008MPS UUDL 061100Z 0612/0712 24008G14MPS 9999 OVC016 TX02/0612Z TN01/0618Z TEMPO 0612/0618 3100 -RASN BKN011 UUEE 061207Z 0612/0712 23006G11MPS 9999 SCT011 TX02/0712Z TNM00/0615Z TEMPO 0612/0620 23011G16MPS BECMG 0620/0624 FEW004 OVC007 TEMPO 0700/0709 -RASN BECMG 0709/0711 BKN011 UUWW 061050Z 0612/0712 23008G15MPS 9000 BKN011 TX01/0612Z TNM01/0621Z TEMPO 0615/0709 -FZDZ OVC004 UUYY 061100Z 0612/0712 23003G08MPS 5000 -SHSN BKN011 BKN015CB TEMPO 0612/0615 25005G13MPS 1000 SHSNRA BKN006 BKN012CB TEMPO 0615/0712 25005G13MPS 3100 -SHRASN FEW006 BKN012CB UWGG 061051Z 0612/0712 22005MPS 9999 BKN012 TX03/0612Z TNM00/0621Z TEMPO 0612/0621 24007G14MPS 3500 -RASN BKN011 UWKD 061100Z 0612/0712 24005G12MPS 9999 OVC016 TX02/0612Z TNM01/0703Z TEMPO 0612/0618 26008G15MPS 5000 -DZ OVC011 UWKE 061045Z 0612/0712 24008G13MPS 3100 -SN BLSN OVC007 TEMPO 0612/0621 27010G16MPS 0700 +SN FZDZ OVC003 TEMPO 0621/0706 26009G14MPS 1000 SHSNRA BR BKN003 SCT020CB UWLW 061045Z 0612/0712 24005G11MPS 8000 OVC015 TEMPO 0612/0712 21007G14MPS 2100 -SNRA BR OVC007 UWOO 061049Z 0612/0712 22009G14MPS 3100 -SN BLSN BR OVC006 TXM00/0618Z TNM01/0613Z TEMPO 0612/0712 24011G18MPS 1000 FZDZ SNRA BR OVC003 UWUU 061055Z 0612/0712 20007G13MPS 9999 -SN OVC011 TX01/0615Z TNM01/0706Z TEMPO 0612/0712 23010G16MPS 2100 -SNRA OVC007 UWWW 061051Z 0612/0712 24007G13MPS 5000 BR BKN011 TX01/0612Z TNM02/0703Z TEMPO 0612/0706 23009G16MPS 2100 -SNRA BR BKN007 VAAH 061100Z 0612/0718 05006KT 4000 FUHZ FEW020 SCT080 BECMG 0701/0703 05008KT 2500 HZ BECMG 0704/0706 4000 FU SCT080 BECMG 0712/0714 4000 FU FEW080 VABB 061100Z 0612/0718 06005KT 3000 FU FEW020 SCT100 BECMG 0614/0616 2500 HZ BECMG 0617/0619 3000 HZ BECMG 0701/0703 2000 BR HZ BECMG 0704/0706 2500 HZ FEW020 BKN100 BECMG 0707/0709 3000 FU SCT100 BECMG 0714/0716 2500 HZ FEW020 SCT100 VABJ 060930Z 0612/0624 05005KT 6000 SCT090 SCT250 VAJM 060930Z 0612/0624 06010KT 5000 RAHZ FEW030 BKN080 BKN200 BECMG 0617/0618 05010KT 5000 BRHZ VANP 061100Z 0612/0718 07002KT 3000 HZ NSC BECMG 0618/0620 03003KT 2000 HZ BECMG 0700/0702 01004KT 1500 BR HZ FEW100 BECMG 0706/0708 08004KT 3500 HZ FEW100 BECMG 0712/0714 05003KT 2500 HZ FEW100 VAPO 060930Z 0612/0624 07008KT 6000 NSC BECMG 0615/0616 VRB02KT 4000 HZ VCBI 061100Z 0612/0718 05012KT 9999 FEW018 TX31/0708Z TN24/0700Z PROB30 TEMPO 0710/0714 6000 -TSRA/SHRA FEW012 SCT017 FEW020CB VCRI 061100Z 0612/0718 05012KT 9999 SCT018 TX30/0707Z TN24/0700Z PROB30 TEMPO 0612/0614 0705/0712 6000 -TSRA/SHRA SCT016 FEW020CB OVC080 VDPP 061100Z 0612/0706 09008KT 9999 SCT017 VDSR 061100Z 0612/0706 03007KT 9999 SCT017 VDSV 061100Z 0612/0706 05008KT 9999 SCT017 VEAB 060930Z 0612/0624 VRB02KT 3000 HZ NSC BECMG 0614/0615 2000 BR BECMG 0618/0619 1500 BR BECMG FM062300Z 0800 FG VEBD 060930Z 0612/0624 VRB02KT 6000 FEW040 BKN250 BECMG 0616/0618 4000 BR VEBN 061100Z 0612/0718 VRB02KT 2500 HZ FEW100 SCT200 BECMG 0619/0621 00000KT 1500 BR BECMG 0700/0702 0800 FG BECMG 0704/0406 VRB02KT 1500 MIFG BECMG 0708/0710 11004KT 3000 HZ VECC 061100Z 0612/0718 13005KT 3500 HZ SCT100 BECMG 0616/0618 00000KT 2800 HZ BECMG 0700/0702 1400 BR BECMG 0703/0705 16005KT 2600 HZ BECMG 0707/0709 4000 HZ BECMG 0714/0716 00000KT 2600 HZ VECX 060330Z 0606/0618 VRB02KT 2500 HZ BKN250 BECMG 0607/0609 3500 HZ BECMG 0610/0613 VRB02KT 2500 HZ BECMG 0614/0618 00000KT 2000 BR SCT100 VEGK 060930Z 0612/0624 VRB02KT 4000 BR BKN250 BECMG0613/0615 3000 BR BECMG0617/0619 2000 BR BECMG0620/0622 1000 BR BECMG0622/0624 0500 FG VEJT 060930Z 0612/0624 VRB02KT 6000 FEW250 BECMG 0613/0614 5000 BR BECMG 0616/0617 3000 BR VECX 060930Z 0612/0624 VRB02KT 3000 HZ SCT250 BECMG 0618/0620 2000 BR BECMG 0622/0624 1000 BR VEKU 060930Z 0612/0624 09005KT 6000 SCT250 VEPT 061100Z 0612/0718 04002KT 3500 HZ FEW100 BECMG 0616/0618 1800 BR NSC BECMG 0623/0701 1200 MIFG FG BECMG 0704/0706 2000 BR HZ FEW100 BECMG 0708/0710 4000 HZ BECMG 0716/0718 2000 BR VERP 061100Z 0612/0718 08004KT 4000 HZ NSC BECMG 0613/0615 VRB03KT 3000 HZ BECMG 0700/0702 VRB02KT 1000 MIFG BR BECMG 0705/0707 08004KT 4000 HZ BECMG 0713/0715 VRB03KT 3000 HZ VETZ 060930Z 0612/0624 07005KT 6000 FEW200 TEMPO 0622/0624 5000 BR FEW025 SCT200 VGEG 061100Z 0612/0718 33005KT 4000 HZ FEW018 BECMG 0620/0622 00000KT 3500 HZ NSC TEMPO 0623/0703 00000KT 2000 BR SCT012 BECMG 0704/0706 04005KT 3500 HZ SCT015 BECMG 0712/0714 33005KT 4000 HZ NSC VGHS 061100Z 0612/0718 06006KT 3500 HZ FEW015 BECMG 0622/0624 00000KT 2500 HZ NSC BECMG 0700/0702 00000KT 1800 BR NSC BECMG 0703/0705 04004KT 2500 HZ SCT100 BECMG 0705/0707 07006KT 3500 HZ NSC BECMG 0707/0709 06006KT 4000 HZ NSC VHHH 061100Z 0612/0718 02015KT CAVOK TX20/0706Z TN13/0623Z VIAG 060330Z 0606/0618 VRB02KT 1500 BR FEW030 SCT250 BECMG 0607/0608 34005KT 3000 BR BECMG 0612/0613 VRB02KT 2000 BR VIAR 061101Z 0612/0718 VRB02KT 3500 HZ NSC BECMG 0617/0619 2000 BR BECMG 0622/0623 00000KT 1000 BR BECMG 0700/0702 0400 FG BECMG 0704/0706 VRB02KT 1000 BR BECMG 0708/0710 29003KT 2000 HZ BECMG 0715/0717 00000KT 1500 BR VIAX 060930Z 0612/0624 VRB02KT 5000 BR SKC BECMG 0613/0614 3000 BR BECMG 0614/0615 1500 BR BECMG 0615/0617 0800 FG VICG 060930Z 0612/0624 32005KT 5000 HZ FEW250 BECMG 0618/0619 30005KT 4000 BR FEW250 BECMG 0620/0622 2000 BR VIDP 061100Z 0612/0718 32007KT 1200 FU SCT100 BECMG 0618/0620 VRB02KT 1000 BR BECMG 0700/0702 00000KT 0300 FG FEW030 SCT080 BECMG 0705/0707 25003KT 0800 MIFG BECMG 0708/0710 29006KT 1000 BR SCT100 BECMG 0715/0717 VRB02KT 1500 FU VIGR 060930Z 0612/0700 05005KT 2500 HZ BKN250 BECMG 0615/0616 VRB02KT 1500 BR BKN250 BECMG 0621/0622 VRB02KT 0800 FG BKN250 VIJO 060930Z 0612/0624 05005KT 6000 SCT100 BKN250 VIJP 061100Z 0612/0718 18003KT 1500 HZ FU SCT100 BECMG 0611/0613 VRB03KT 1200 FU HZ BECMG 0700/0702 VRB03KT 1000 FU BECMG 0702/0704 VRB02KT 800 MIFG BECMG 0706/0707 05003KT 1500 HZ BECMG 0711/0713 VRB03KT 1200 FU HZ VIJR 060930Z 0612/0624 04010KT 6000 FEW 100 BKN 250 BECMG 0323/0624 VRB02KT 5000 HZ SCT 250 VIJU 060330Z 0606/0618 VRB02KT 6000 FEW100 SCT250 BECMG 0612/0614 VRB02KT 4000 BR FEW250 VILH 060330Z 0606/0618 25006KT 6000 SCT150 VILK 061100Z 0612/0718 VRB02KT 2500 HZ FEW100 SCT200 BECMG 0618/0620 1500 BR MIFG BECMG 0621/0623 00000KT 0800 MIFG FG BECMG 0700/0702 0600 FG BECMG 0703/0705 VRB02KT 0800 MIFG BR BECMG 0705/0707 1500 BR BECMG 0708/0710 08004KT 3000 HZ VIPK 060930Z 0612/0624 VRB02KT 3500 BR FEW100 BECMG 0618/0621 VRB02KT 2500 BR FEW100 VISR 060330Z 0606/0618 VRB02KT 1200 BR FEW090 TEMPO 0612/0615 0800 FG VLLB 061100Z 0612/0712 36008KT 9999 FEW020= VLLN 061100Z 0612/0712 34006KT 8000 FEW020 FEW100 VLPS 061100Z 0612/0712 36008KT 9999 FEW020 FEW050 VLSK 061100Z 0612/0712 06006KT 8000 FEW020 FEW100 VLVT 061100Z 0612/0712 36006KT 5000 BR FEW050 VMMC 061102Z 0612/0718 36015KT CAVOK TEMPO 0618/0703 35020G30KT VNKT 061100Z 0611/0711 27006KT 7000 FEW015 BKN250 BECMG 0614/0615 10004KT 5000 BR FEW015 SCT030 BKN100 BECMG 0700/0702 VRB02KT 3000 BR FEW010 SCT100 PROB40 0701/0703 2000 BR BECMG 0704/0705 13002KT 5000 HZ FEW015 SCT100 BECMG 0707/0709 30002KT 6000 FEW020 SCT250 VOBL 061100Z 0612/0718 10010KT 6000 SCT012 SCT080 BECMG 0618/0619 4000 BR SCT010 SCT012 BECMG 0621/0622 1500 BR SCT008 SCT012 TEMPO 0700/0703 0800 FG BKN005 SCT012 BECMG 0703/0704 4000 BR SCT010 BECMG 0705/0706 6000 SCT012 VOCB 061100Z 0612/0718 VRB02KT 5000 HZ SCT015 BKN080 BECMG 0621/0622 3000 BR BECMG 0703/0704 05005KT 5000 HZ BECMG 0706/0707 6000 BECMG 0712/0713 VRB02KT 5000 HZ VOCI 061100Z 0612/0718 07005KT 5000 HZ SCT015 BKN080 TEMPO 0612/0617 3000 TSRA RA SCT008 SCT012 FEW025CB BKN080 BECMG 0617/0618 VRB03KT 4000 HZ SCT015 SCT080 TEMPO 0622/0702 2500 TSRA RA SCT008 SCT012 FEW025CB BKN080 TEMPO 0710/0715 07010KT 2500 TSRA RA SCT008 SCT010 FEW025CB BKN080 VOCL 061100Z 0612/0718 10005KT 5000 HZ SCT015 SCT080 TEMPO 0612/0617 3000 TSRA RA SCT008 SCT012 FEW025CB BKN080 BECMG 0617/0618 4000 BR SCT015 BKN080 TEMPO 0621/0702 07005KT 2500 TSRA RA SCT008 SCT010 FEW025CB BKN080 BECMG 0703/0704 5000 BR SCT015 SCT090 TEMPO 0710/0715 10005KT 3000 TSRA RA SCT008 SCT010 FEW025CB BKN080 VOHS 061100Z 0612/0718 10007KT 4000 SCT015 BECMG 0620/0622 12005KT 3000 BR TEMPO 0700/0703 1500 BR SCT010 SCT015 BECMG 0704/0706 12007KT 4000 HZ FEW010 SCT015 VOKN 061100Z 0612/0718 07010KT 5000 HZ SCT015 SCT080 TEMPO 0613/0617 2500 TSRA RA SCT010 SCT012 FEW025CB BKN080 BECMG 0617/0618 VRB03KT 4000 BR SCT015 TEMPO 0621/0702 08010KT 3000 RA BR SCT010 SCT012 FEW025CB BKN080 BECMG 0703/0704 5000 HZ SCT015 SCT080 TEMPO 0710/0715 2500 TSRA RA SCT008 SCT010 FEW025CB BKN080 VOMD 061100Z 0612/0718 05010KIT 4000 HZ SCT018 BKN100 BECMG 0618/0619 3000 BR TEMPO 0700/0703 1500 BR BECMG 0705/0706 5000 HZ TEMPO 0712/0715 SCT018 FEW025TCU/CB BKN100 VOML 061100Z 0612/0718 13010KT 6000 FEW015 BECMG 0620/0621 4000 BR SCT006 TEMPO 0700/0703 2000 BR SCT004 SCT012 BECMG 0704/0705 6000 FEW015 VOMM 061100Z 0612/0718 05010KT 5000 HZ SCT020 BKN100 TEMPO 0612/0618 SCT018 FEW025TCU/CB BKN100 BECMG 0621/0622 3000 BR BECMG 0703/0704 5000 HZ BECMG 0708/0709 6000 TEMPO 0709/0715 SCT015 FEW025TCU/CB BKN100 BECMG 0712/0713 5000 HZ VOTR 061100Z 0612/0718 05010KT 3000 BR SCT018 BKN100 BECMG 0703/0704 4000 HZ BECMG 0712/0713 3000 BR TEMPO 0712/0718 SCT018 FEW025TCU/CB BKN100 VOTV 061100Z 0612/0718 17005KT 4000 HZ SCT012 FEW025CB BKN080 TEMPO 0612/0618 3000 TSRA RA SCT008 SCT010 FEW025CB BKN080 BECMG 0617/0618 VRB03KT 3000 BR RA SCT012 SCT080 TEMPO 0622/0702 2000 TSRA RA SCT008 SCT012 FEW025CB BKN080 BECMG 0703/0704 05005KT 5000 HZ SCT012 BKN080 TEMPO 0709/0714 2000 TSRA RA SCT008 SCT010 FEW025CB BKN080 VOVZ 061100Z 0612/0718 09009KT 3200 HZ NSC BECMG 0616/0618 VRB02KT 3500 BR FEW018 TEMPO 0700/0702 2000 BR BECMG 0704/0706 09008KT 3000 HZ BECMG 0708/0710 4000 HZ VRMG 061100Z 0612/0718 10007KT 9999 FEW017TCU TEMPO 0612/0613 4000 SHRA FEW017CB BKN110 VRMH 061100Z 0612/0718 08014KT 9999 FEW017TCU BKN120 TEMPO 0612/0618 4000 TSRA FEW017CB VRMM 061100Z 0612/0718 09016KT 9999 FEW017TCU TEMPO 0612/0618 5000 -SHRA FEW017CB VTBD 061100Z 0612/0718 05008KT 9000 NSC VTBO 061100Z 0612/0712 05010KT 8000 NSC= VTCH 061100Z 0612/0712 06008KT 9999 FEW025 BECMG 0621/0623 1000 BR BKN008 BECMG 0701/0703 9999 NSW FEW025 VTBU 061100Z 0612/0712 04008KT 8000 NSC VTCC 061100Z 0612/0718 36008KT 9999 FEW035 VTCL 061100Z 0612/0712 06008KT CAVOK VTCN 061100Z 0612/0712 04005KT 9999 FEW040 VTCP 061100Z 0612/0712 03005KT CAVOK VTCT 061100Z 0612/0718 04008KT 9999 FEW040 VTPB 061100Z 0612/0712 03012KT 8000 NSC VTPH 061100Z 0612/0712 02010KT 9000 NSC VTPM 061100Z 0612/0712 08010KT CAVOK VTPO 061100Z 0612/0712 06005KT CAVOK VTPP 061100Z 0612/0712 07005KT CAVOK VTPT 061100Z 0612/0712 09010KT 6000 NSC VTSB 061100Z 0612/0712 03008KT 8000 FEW020 TEMPO 0703/0709 03015G25KT VTSC 061100Z 0612/0712 06008KT 9999 SCT020 SCT100 TEMPO 0612/0615 5000 RA SCT015 BKN100 TEMPO 0622/0704 5000 RA SCT015 BKN100 TEMPO 0706/0712 5000 RA SCT015 BKN100 VTSE 061100Z 0612/0712 03008KT 9999 FEW020 TEMPO 0703/0709 03015G25KT VTSF 061100Z 0612/0712 03005KT 9000 SCT020 BKN100 TEMPO 0612/0615 5000 RA SCT015 BKN100 TEMPO 0621/0703 5000 RA SCT015 BKN100 TEMPO 0706/0712 5000 RA SCT015 BKN100 VTSG 061100Z 0612/0712 04007KT 9999 FEW020 BECMG 0621/0623 5000 BR BECMG 0700/0702 9999 NSW VTSH 061100Z 0612/0712 06008KT 9999 FEW020 SCT100 TEMPO 0700/0706 5000 RA SCT015 BKN100 VTSK 061100Z 0612/0712 06008KT 9999 SCT020 SCT100 TEMPO 0703/0709 5000 RA SCT015 BKN100 VTSM 061100Z 0612/0712 02010KT 9999 FEW020 TEMPO 0703/0709 02015G25KT VTSP 061100Z 0612/0718 08010KT 9999 FEW020 BECMG 0614/0616 00000KT BECMG 0701/0703 08010KT BECMG 0714/0716 00000KT VTSR 061100Z 0612/0712 08004KT 9999 FEW025 BECMG 0701/0703 08015KT VTSS 061100Z 0612/0712 06006KT 9999 FEW020 SCT100 TEMPO 0700/0706 5000 RA SCT015 BKN100 VTST 061100Z 0612/0712 06010KT 9999 FEW020 VTUD 061100Z 0612/0712 06012KT CAVOK VTUI 061100Z 0612/0712 08012KT CAVOK VTUJ 061100Z 0612/0712 04011KT 9000 FEW035 VTUK 061100Z 0612/0712 04012KT CAVOK VTUL 061100Z 0612/0712 08010KT CAVOK VTUO 061100Z 0612/0712 04012KT 9000 FEW035 VTUQ 061100Z 0612/0712 04010KT 9000 FEW035 VTUU 061100Z 0612/0712 04013KT 9999 FEW035 VTUV 061100Z 0612/0712 05011KT 9999 FEW035 VTUW 061100Z 0612/0712 08012KT CAVOK VVCI 061100Z 0612/0712 01006KT 9999 FEW025= VVCR 061100Z 0612/0712 03015KT 9999 SCT015 SCT050 TEMPO 0612/0616 03025KT TEMPO 0622/0703 03015G30KT VVCR 060500Z 0606/0706 03015KT 9999 SCT015 SCT050 TEMPO 0606/0610 03015G32KT TEMPO 0700/0706 03015G30KT VVCT 061100Z 0612/0712 VRB03KT 9999 SCT015 BECMG 0701/0702 34010KT VVDN 061100Z 0612/0712 36008KT 7000 SCT013 BKN050 TEMPO 0614/0618 4500 RA TEMPO 0622/0701 4000 RA BR VVNB 061100Z 0612/0712 36007KT 6000 FEW025 VVPB 061100Z 0612/0712 34008KT 8000 SCT013 BKN050 TEMPO 0614/0618 4000 RA TEMPO 0621/0701 3500 RA BR VVPQ 061100Z 0612/0712 03008KT 9999 FEW017 TEMPO 0700/0706 03015G25KT VVTS 061100Z 0612/0718 01008KT 9999 SCT020 SCT040 VYMD 061100Z 0612/0712 32005KT 6000 FEW025 TEMPO 0612/0618 36006KT 5000 HZ SCT025 VYNT 061100Z 0612/0712 35005KT 5000 FEW020 TEMPO 0612/0618 32005KT 5000 FEW020 SCT110 VYYY 061100Z 0612/0712 04010KT 8000 FEW020 TEMPO 0612/0618 04005KT 6000 HZ BECMG 0622/0700 3000 BR WAAA 061100Z 0612/0718 08005KT 8000 SCT018 BECMG 0622/0700 9999 BECMG 0702/0704 30010KT WABB 061100Z 0612/0718 00000KT 9999 SCT018 BECMG 0622/0700 31006KT TEMPO 0701/0705 5000 RA FEW017CB WADD 061100Z 0612/0712 13010KT 9999 SCT016 BECMG 0614/0616 VRB05KT BECMG 0702/0704 14010KT WADL 061100Z 0612/0712 24004KT 7000 SCT016 BECMG 0614/0616 00000KT WALL 061100Z 0612/0718 00000KT 9000 SCT020 TEMPO 0620/0623 FEW018CB WALS 061100Z 0612/0624 36003KT 7000 SCT015 WAMM 061100Z 0612/0718 11002KT 9000 SCT022 BECMG 0700/0702 30010KT PROB30 TEMPO 0704/0708 5000 TSRA FEW016CB WAOO 060500Z 0606/0706 27006KT 9000 SCT018 TEMPO 0606/0610 4000 TSRA FEW016CB WAQA 061100Z 0612/0624 00000KT 8000 SCT012 WAQD 061100Z 0612/0624 00000KT 8000 SCT013 WAQJ 061100Z 0612/0624 00000KT 6000 BKN010 WAQQ 061100Z 0612/0624 00000KT 8000 SCT015 WAQT 061100Z 0612/0624 00000KT 8000 SCT015 TEMPO 0621/0623 1000 BR WARR 061100Z 0612/0712 10010KT 8000 SCT020 BECMG 0615/0617 25005KT 4000 HZ BECMG 0700/0702 09010KT 9999 NSW FEW020 PROB30 TEMPO 0708/0711 24010KT 4000 TSRA SCT018CB WATT 061100Z 0612/0712 10005KT 8000 FEW015CB SCT017 PROB30 TEMPO 0705/0709 32012KT 5000 TSRA WBGB 061100Z 0612/0712 VRB03KT 9999 SCT014 TEMPO 0612/0616 34005KT 3000 RA FEW005 WBGG 061100Z 0612/0712 VRB03KT 9999 SCT020 TEMPO 0612/0618 32007KT 5000 RA SCT018 WBGR 061100Z 0612/0712 35005KT 9999 SCT014 TEMPO 0612/0616 3000 TSRA FEW015CB TEMPO 0616/0620 5000 RA FEW004 WBGS 061100Z 0612/0712 VRB03KT 9999 SCT018 WBKK 061100Z 0612/0712 11005KT 9999 FEW014 FEW016CB TEMPO 0612/0615 5000 RA FEW013 SCT040 PROB30 TEMPO 0618/0622 4000 RA FEW013 FEW016CB SCT035 WBKL 061100Z 0612/0712 VRB03KT 9999 FEW013 TEMPO 0616/0620 5000 RA SCT012 FEW015CB SCT040 WBKS 061100Z 0612/0712 29005KT 9999 FEW016 PROB30 TEMPO 0619/0623 4000 RA FEW010 FEW016CB SCT030 WBKW 061100Z 0612/0712 34005KT 9999 FEW017 WBSB 061100Z 0612/0718 32003KT 9999 FEW005 SCT013 FEW014CB TEMPO 0612/0614 7000 SHRA TSRA BECMG 0703/0705 04010KT SCT015 FEW016CB WIDD 061100Z 0612/0712 02008KT 9999 SCT014= WIEE 061100Z 0612/0712 18002KT 8000 BKN020 TEMPO 0612/0614 2000 RA BKN018 WIHH 061200Z 0612/0712 35005KT 6000 SCT020 TEMPO 0612/0615 3000 TSRA FEW018CB BECMG 0616/0618 00000KT 5000 HZ FEW022 WIII 061100Z 0612/0718 02006KT 8000 SCT020 BECMG 0614/0616 VRB03KT 5000 HZ WIMM 061100Z 0612/0712 23004KT 5000 HZ FEW016CB SCT017 BECMG 0702/0704 33010KT 8000 BKN017 WIPB 060500Z 0606/0618 VRB05KT 9999 SCT010= WIPP 061100Z 0612/0712 33008KT 9999 SCT010 TEMPO 0621/0724 00000KT 1500 BR TEMPO 0706/0710 3000 -TSRA FEW010CB BKN010 WIPY 060500Z 0606/0618 VRB05KT 9999 SCT010 TEMPO 0608/0612 2000 TSRA FEW010CB BKN010 WITT 061100Z 0612/0712 05008KT 9000 SCT017 PROB30 TEMPO 0616/0620 3000 -RA FEW016CB BECMG 0623/0701 7000 BKN017 WMAP 061100Z 0612/0712 02009KT 9999 FEW020 BECMG 0700/0702 FEW018 TEMPO 0706/0710 02010G20KT FEW017CB WMBT 061100Z 0612/0712 VRB04KT 9999 FEW024 WMKA 061100Z 0612/0712 05006KT 9999 FEW030 BECMG 0700/0702 07007KT FEW020 WMKB 061100Z 0612/0712 04010KT 9000 FEW024 BECMG 0700/0702 9999 FEW020 WMKC 061100Z 0612/0712 07006KT 9999 FEW020 BECMG 0622/0700 FEW018 TEMPO 0701/0703 7000 -RA FEW010 SCT018 WMKD 061100Z 0612/0712 VRB06KT 9999 FEW024= WMKE 061100Z 0612/0712 VRB03KT 9999 SCT015 TEMPO 0619/0622 5000 RA FEW010 SCT015 BECMG 0700/0702 32006KT SCT014 WMKI 061100Z 0612/0712 VRB03KT 9999 FEW017CB PROB30 TEMPO 0612/0615 6000 -TSRA FEW017CB WMKJ 061100Z 0612/0712 VRB03KT 9999 FEW017CB BECMG 0614/0616 FEW023 PROB30 TEMPO 0702/0708 04010G20KT FEW018 WMKK 061100Z 0612/0718 06008KT 9999 FEW017CB PROB30 TEMPO 0612/0616 4000 TSRA FEW016CB SCT018 BECMG 0705/0706 23005KT PROB30 TEMPO 0709/0713 05007KT 4000 TSRA FEW017CB SCT018 WMKL 061100Z 0612/0712 03007KT 9999 FEW026 BECMG 0702/0704 06010KT FEW022 WMKM 061100Z 0612/0712 05005KT 9999 FEW017CB BECMG 0615/0616 FEW030 PROB30 TEMPO 0702/0707 03010G25KT FEW017CB WMKN 061100Z 0612/0712 05006KT 9999 FEW022 BECMG 0622/0700 FEW018 TEMPO 0700/0703 6000 RA FEW010 SCT018 WMKP 061100Z 0612/0712 05010KT 9999 FEW025 BECMG 0622/0700 03010G26KT 9000 FEW020 WMPA 060500Z 0606/0706 VRB05KT 9999 FEW017CB TEMPO 0610/0613 5000 TSRA FEW017CB WMSA 061100Z 0612/0712 VRB03KT 9999 FEW017CB TEMPO 0612/0615 21008KT 5000 TSRA FEW016CB SCT018 BECMG 0617/0618 4000 BR FEW010 BECMG 0700/0702 VRB02KT NSW FEW017CB WPDL 060622Z 0608/0620 34010KT CAVOK FM061200 15006KT CAVOK WSAP 061100Z 0612/0718 03013KT 9999 FEW015 SCT020 TEMPO 0706/0710 05015G25KT WSSL 061100Z 0612/0718 03013KT 9999 FEW015 SCT020 TEMPO 0706/0710 05015G25KT WSSS 061100Z 0612/0718 03013KT 9999 FEW015 SCT020 TEMPO 0706/0710 05015G25KT YAMB 061039Z 0612/0706 07007KT 9000 FU NSC FM061500 VRB03KT 9000 FU NSC FM062100 28006KT 9000 FU NSC FM070200 04014KT 9999 FU NSC FM070500 08014KT 9999 FU NSC YBAS 061127Z 0612/0712 12008KT CAVOK FM061600 29005KT CAVOK FM070000 13013KT CAVOK YBBN 061105Z 0612/0718 35008KT 8000 FU NSC FM061600 23005KT 8000 FU FEW010 FM062300 02012KT 9000 FU NSC FM070400 10014KT 9000 FU NSC FM070800 14012KT 9000 FU FEW015 SCT025 YBCG 061106Z 0612/0712 34007KT 8000 FU FEW010 FM061700 25006KT 8000 FU FEW010 FM070000 13014KT 8000 FU FEW025 FM070800 16010KT 9000 FU FEW015 SCT025 YBCS 061115Z 0612/0712 VRB03KT 9999 SCT018 FM062300 03010KT 9999 FEW030 FM070900 VRB03KT 9999 SCT018 YBHM 061038Z 0612/0700 35012KT 9999 SCT018 FM062300 01014KT 9999 FEW025 YBMA 061127Z 0612/0700 16008KT CAVOK YBRK 061121Z 0612/0712 34008KT 9999 FEW030 FM061500 34006KT 9999 BKN025 FM062200 36012KT 9999 SCT030 YBRM 061126Z 0612/0712 29008KT CAVOK FM061800 25008KT 9999 FEW014 FM070300 27014KT 9999 FEW035 YBTL 061115Z 0612/0712 35008KT 9999 FEW014 SCT020 FM062300 01014KT 9999 SCT030 YCFS 061139Z 0612/0712 33005KT 8000 FU NSC FM061500 24006KT 6000 FU NSC FM061900 19012KT 8000 FU NSC FM070000 16016G28KT 9999 -FU NSC FM070600 15010KT 9999 -FU SCT020 FM071000 VRB03KT 8000 FU BKN020 PROB40 0612/0700 2000 +FU PROB30 0700/0710 4000 FU PROB40 0710/0712 2000 +FU YCIN 061249Z 0614/0702 23008KT CAVOK YFRT 061306Z 0614/0702 10014KT CAVOK FM061900 05012KT CAVOK FM062200 03018G28KT CAVOK YGEL 061115Z 0612/0706 25003KT CAVOK FM062200 28008KT 9999 BKN018 FM070000 29010KT 9999 SCT025 FM070400 27016KT 9999 SCT030 PROB30 0614/0623 0300 FG NSC YGLA 061245Z 0612/0700 36010KT 9999 SCT015 TEMPO 0612/0620 9999 NSW BKN014 YHID 061115Z 0612/0712 11010KT 9999 SCT015 FM062300 09014KT 9999 SCT025 YLHI 061139Z 0612/0712 34005KT 9999 SCT005 BKN008 FM070000 34015G25KT 9999 -SHRA SCT010 BKN020 BECMG 0707/0709 26005KT 9999 BKN008 TEMPO 0612/0616 9999 BKN005 TEMPO 0616/0703 5000 SHRA BKN005 TEMPO 0703/0706 3000 SHRA BKN005 PROB30 TEMPO 0704/0709 VRB25G35KT 2000 TSRA BKN003 SCT030CB YMAV 061110Z 0612/0712 25010KT 9999 FEW030 BKN040 FM061800 27008KT 9999 SCT030 FM062200 24012KT CAVOK FM070300 18014KT CAVOK FM071000 18008KT 9999 SCT018 BKN022 YMHB 061100Z 0612/0712 28015KT 9999 SCT025 BKN045 FM062000 28015G25KT 9999 -SHRA BKN030 FM070300 24018G30KT 9999 -SHRA BKN030 FM070900 23013KT 9999 NSW SCT025 BKN035 YMLT 061102Z 0612/0712 32012KT 9999 SCT040 FM070000 28018G30KT 9999 SCT040 FM070300 24018G30KT 9999 SCT040 FM070800 23014KT 9999 SCT050 YMML 061107Z 0612/0718 22010KT 9999 FEW040 FM061300 24010KT 9999 BKN030 FM061900 26008KT CAVOK FM070000 21012KT CAVOK FM070600 17014KT CAVOK FM070900 15010KT 9999 SCT015 BKN020 FM071300 17005KT 9999 BKN015 YPAD 061128Z 0612/0718 14010KT CAVOK FM061600 VRB05KT CAVOK FM070000 22012KT CAVOK FM070900 15008KT CAVOK FM071400 08008KT CAVOK YPCC 061111Z 0612/0712 15010KT 9999 SCT018 FM070200 13014KT 9999 SCT025 YPDN 061130Z 0612/0718 29010KT 9999 FEW040 FM061500 34005KT 9999 SCT020 FM070100 30012KT 9999 FEW040 YPEA 061113Z 0612/0706 26008KT CAVOK FM061800 32003KT 9999 BKN007 FM062300 30013KT 9999 BKN014 FM070100 28017KT 9999 -SHRA SCT030 PROB30 0619/0623 0500 FG BKN001 YPGV 060620Z 0608/0620 01010KT 9999 FEW030 FM061300 VRB03KT 9999 FEW020 YPJT 061115Z 0612/0706 26010KT CAVOK FM061600 33003KT 9999 BKN007 FM062300 31012KT 9999 BKN014 FM070100 30017KT 9999 -SHRA SCT030 INTER 0705/0706 4000 SHRA SCT012 BKN030 YPKG 061116Z 0612/0712 02010KT CAVOK FM062100 27010KT CAVOK FM070400 29014KT CAVOK PROB30 INTER 0704/0710 VRB25G40KT 6000 TSRA FEW140CB YPKU 061253Z 0614/0702 VRB05KT CAVOK YPLM 061119Z 0612/0712 23012KT CAVOK FM070600 24017KT CAVOK YPPD 061115Z 0612/0712 30008KT CAVOK FM070200 31016KT CAVOK YPPH 061117Z 0612/0718 26009KT CAVOK FM061400 30005KT CAVOK FM061600 33005KT 9999 BKN007 FM062300 31013KT 9999 BKN014 FM070100 28018KT 9999 -SHRA SCT030 FM071000 25014KT 9999 NSW SCT030 FM071500 22007KT 9999 SCT030 INTER 0706/0710 4000 SHRA SCT012 BKN030 YPTN 061118Z 0612/0712 12005KT CAVOK FM061500 36010KT CAVOK FM070300 09008KT CAVOK YPWR 061032Z 0612/0706 13014KT CAVOK FM062300 07010KT CAVOK FM070200 35010KT CAVOK YPXM 061129Z 0612/0712 13008KT 9999 -SHRA BKN003 FM070400 12010KT 9999 BKN006 PROB30 TEMPO 0615/0703 VRB20G35KT 1000 TSRA BKN001 SCT018CB YSCB 061059Z 0612/0712 30010KT CAVOK FM061600 VRB03KT CAVOK FM062300 30012KT CAVOK FM070200 28015G25KT CAVOK FM070900 09012G22KT 9999 -FU NSC YSDU 061100Z 0612/0706 18005KT CAVOK FM070000 20012G22KT CAVOK YSNF 061139Z 0612/0712 03006KT 9999 SCT010 TEMPO 0612/0712 9999 BKN008 YSRI 061051Z 0612/0712 VRB03KT 8000 FU SCT015 BKN025 FM062300 05010KT 8000 FU NSC FM070400 10015KT 8000 FU FEW030 PROB40 0612/0700 3000 FU PROB30 0700/0712 5000 FU YSSY 061100Z 0612/0718 16015KT 8000 FU SCT015 FM061800 33006KT 8000 FU SCT020 FM062200 10008KT 8000 FU FEW030 FM070100 04013KT 8000 FU NSC FM070600 09013KT 8000 FU FEW030 FM070900 11008KT 8000 FU SCT020 PROB30 0612/0718 5000 FU YSTW 061059Z 0612/0706 20007KT CAVOK FM061400 15005KT CAVOK FM062200 24008KT CAVOK YTNK 060621Z 0608/0620 11013KT CAVOK YTRE 061257Z 0614/0702 30005KT 4000 FU NSC FM061500 24005KT 4000 FU NSC BECMG 0622/0700 17012KT 9000 -FU NSC PROB30 0614/0700 2000 +FU PROB30 0700/0702 4000 FU YWGT 060049Z 0602/0614 25012KT CAVOK FM060800 20010KT CAVOK YWLM 061051Z 0612/0712 18012KT 7000 FU SCT010 BKN015 FM061800 17010KT 8000 FU SCT010 BKN020 FM070000 14015KT 9000 FU SCT020 FM070200 11015KT 9000 FU NSC PROB40 0612/0700 4000 FU PROB30 0700/0712 5000 FU ZBAA 060920Z 0612/0712 32004MPS 6000 NSC TX04/0707Z TNM09/21Z ZBHH 060910Z 0612/0712 08004MPS CAVOK TXM01/07Z TNM16/22Z ZBSJ 060731Z 0612/0712 18004MPS 3500 HZ NSC TX06/0706Z TNM05/21Z TEMPO 0620/0624 2000 BR ZBTJ 060851Z 0612/0712 23004MPS 5000 HZ NSC TX06/0707Z TNM06/22Z ZBYN 060904Z 0612/0712 09004MPS 3000 HZ NSC TX08/0707Z TNM08/22Z ZGGG 060902Z 0612/0712 02005MPS CAVOK TX21/0707Z TN13/0622Z ZGHA 060835Z 0612/0712 35004MPS 6000 NSC TX18/0707Z TN03/0622Z ZGKL 060910Z 0612/0712 05004MPS CAVOK TX21/0708Z TN03/0622Z= ZGNN 060905Z 0612/0712 36003MPS CAVOK TX22/0707Z TN08/0622Z ZGNN 060905Z 0612/0712 36003MPS CAVOK TX22/0707Z TN08/0622Z ZGOW 060903Z 0612/0712 02004MPS 6000 FEW020 SCT050 TX20/0706Z TN09/0622Z ZGSZ 060915Z 0612/0712 02006G11MPS 8000 FEW040 TX21/0706Z TN13/0622Z ZHCC 060905Z 0612/0712 21003MPS 3000 BR NSC TX12/0707Z TN00/0622Z ZHHH 060806Z 0612/0712 12003MPS 3000 BR NSC TX13/0707Z TN02/0622Z ZJHK 060904Z 0612/0712 04005MPS 9999 SCT030 TX19/0706Z TN16/0621Z ZJSY 060900Z 0612/0712 08004MPS 9999 FEW020 TX24/0706Z TN18/0621Z ZLLL 060901Z 0612/0712 35003MPS 6000 NSC TX05/0708Z TNM14/23Z ZLXY 060902Z 0612/0712 06003MPS 3000 HZ NSC TX09/0708Z TNM05/22Z ZMUB 061040Z 0612/0718 VRB02MPS 6000 SCT100 TNM26/0623Z TXM08/0707Z ZPPP 060704Z 0612/0712 06004MPS CAVOK TX10/0708Z TNM02/23Z ZSAM 060901Z 0612/0712 04004G09MPS 8000 SCT040 TX17/0706Z TN10/0621Z ZSFZ 060907Z 0612/0712 02005MPS 3500 BR BKN015 TX13/0706Z TN09/0621Z ZSHC 060916Z 0612/0712 03004MPS 6000 SCT030 TX09/0706Z TN00/0621Z ZSNB 060830Z 0612/0712 36004G09MPS 4000 BR SCT030 TX10/0706Z TN02/0621Z ZSNJ 060905Z 0612/0712 09003MPS 3000 BR NSC TX11/0706Z TNM01/21Z ZSOF 060901Z 0612/0712 12003MPS 3000 HZ NSC TX12/0707Z TNM02/22Z ZSPD 060914Z 0612/0712 01005MPS 6000 SCT020 TX12/0706Z TN04/0621Z ZSQD 060904Z 0612/0712 22003MPS CAVOK TX06/0706Z TNM04/21Z ZSSS 060906Z 0612/0712 36004MPS 5000 BR SCT023 TX12/0705Z TN04/0619Z ZUCK 060911Z 0612/0712 03003MPS 6000 SCT050 TX16/0707Z TN05/0623Z BECMG 0619/0620 3000 BR BECMG 0703/0704 6000 ZUGY 060902Z 0612/0712 02003MPS 6000 BKN040 TX14/0707Z TNM02/22Z ZUUU 060810Z 0612/0712 20003MPS 5000 BR SCT050 TX13/0707Z TN07/0618Z ZWSH 060903Z 0612/0712 32004MPS 6000 SCT040 TX04/0709Z TNM05/00Z BECMG 0702/0703 12005MPS ZWWW 060904Z 0612/0712 34003MPS 3500 FU NSC TXM03/09Z TNM10/23Z BECMG 0613/0614 22003MPS 2000 FU BECMG 0616/0617 1400 BR TEMPO 0618/0624 -SN BR BKN020 BECMG 0703/0704 34003MPS 3500 BR ZYCC 060709Z 0612/0712 26004MPS 6000 NSC TXM08/06Z TNM17/21Z ZYHB 060902Z 0612/0712 28004MPS 6000 FEW033 TXM11/06Z TNM23/21Z ZYTL 060916Z 0612/0712 26005MPS 6000 BKN026 TX04/0706Z TNM01/22Z BECMG 0615/0616 33004G10MPS ZYTX 060708Z 0612/0712 22006MPS CAVOK TXM04/06Z TNM17/19Z BECMG 0615/0616 32005MPS

Airline NOTAMS

OopsThere are no NOTAMs. You can resume flight ops normally